ENHM 171520Z 13016KT CAVOK 17/12 Q1021 W15/S4 UUOK 171500Z 01003MPS CAVOK 15/M02 Q1026 NOSIG RMK 12CLRD70 KIWI 171453Z AUTO 00000KT 10SM CLR 19/08 A3000 RMK AO2 SLP159 T01890083 58004 KJMR 171513Z AUTO 00000KT 10SM CLR 13/10 A2997 RMK AO2 KIXA 171515Z AUTO 04008KT 10SM SCT018 BKN037 OVC065 21/17 A3001 RMK AO2 PPIT 171456Z AUTO 03014KT 10SM CLR 08/07 A2928 RMK AO2 SLP914 T00830072 56014 KJMS 171456Z AUTO 03006KT 10SM CLR 14/09 A2997 RMK AO2 SLP152 T01440094 53013 UUOO 171500Z VRB02MPS CAVOK 14/M02 Q1025 NOSIG RMK 12090070 KIXD 171453Z 19004KT 4SM BR OVC005 20/19 A2994 RMK AO2 SLP130 T02000189 51006 ENHV 171450Z 27012KT 9999 -RA SCT012 BKN025 09/06 Q1019 KM63 171456Z AUTO 02003KT 10SM SCT045 BKN060 BKN080 19/18 A3011 RMK AO2 SLP137 P0006 60006 T01890177 50010 PPIZ 171515Z AUTO 31008KT 10SM UP FEW006 BKN015 OVC032 03/02 A2953 RMK AO2 TSNO P0000 $ KIYA 171515Z AUTO 00000KT 10SM CLR 27/23 A2999 RMK AO2 LTG DSNT S T02700229 ENKB 171520Z 24004KT 220V290 6000 VCFG BKN002 12/11 Q1023 FDSM 171100Z 09005KT CAVOK 34/07 Q1013 NOSIG KJNX 171515Z AUTO 04008KT 10SM SCT020 BKN031 OVC043 25/19 A2998 RMK AO2 OYMB 171500Z 05006KT CAVOK 35/06 Q1009 KIZA 171455Z AUTO 00000KT 10SM CLR 13/11 A2983 RMK AO2 ENLA 171520Z AUTO 11026KT 9999NDV SCT011/// BKN018/// BKN043/// 15/14 Q1017 W///S4 KJOT 171515Z AUTO 00000KT 10SM CLR 16/09 A3005 RMK AO2 T01640093 FDST 171500Z AUTO 04009KT //// // ////// M20/M42 Q//// KJQF 171455Z 00000KT 4SM BR OVC007 19/17 A3006 LBGO 171500Z VRB02MPS 9999 FEW050 BKN100 22/11 Q1017 NOSIG KIZG 171454Z AUTO 00000KT 10SM CLR 17/09 A3000 RMK AO2 SLP162 T01670094 58003 ENKR 171520Z 00000KT CAVOK 12/04 Q1019 RMK WIND 775FT 24007KT ENLK 171450Z 00000KT 9999 FEW015 BKN025 12/09 Q1025 KN03 171515Z AUTO 25003KT 10SM SCT036 SCT044 SCT050 16/08 A3007 RMK AO2 ENMH 170950Z 26008KT CAVOK 12/01 Q1019 KLAA 171453Z AUTO 27008KT 10SM CLR 19/09 A3000 RMK AO2 SLP115 T01940089 51006 ENNA 171520Z 27006KT 160V320 9999 BKN048 13/03 Q1020 RMK WIND 1800FT 28022KT ENML 171520Z 11004KT CAVOK 17/13 Q1022 ENNE 171450Z 07007KT 9999 FEW020 12/09 Q1025 W11/S/ KLAF 171454Z 00000KT 10SM CLR 14/12 A3005 RMK AO2 SLP175 T01390117 58009 ENOA 171450Z 15012KT CAVOK 16/10 Q1022 W///S3 ENMS 171520Z 33006KT CAVOK 13/09 Q1023 RMK WIND 412FT 36006KT KLBB 171453Z 19004KT 10SM FEW090 OVC100 21/19 A3009 RMK AO2 SLP148 60000 T02060189 53003 ENNK 171450Z 26014KT 9999 FEW020 BKN030 11/08 Q1025 KJTC 171515Z AUTO 00000KT 10SM -RA FEW031 FEW065 SCT090 14/14 A3026 RMK AO2 KLAL 171450Z 27004KT 10SM -RA SCT050 OVC060 23/23 A2999 KLAM 171515Z AUTO 00000KT 10SM SCT120 13/12 A3029 RMK AO2 T01340116 KLAN 171453Z 24006KT 10SM CLR 15/07 A3005 RMK AO2 SLP178 T01500072 58008 ENNM 171450Z 26004KT CAVOK 16/11 Q1023 KLBE 171450Z 00000KT 10SM SCT030 17/12 A3008 KLBF 171453Z AUTO 00000KT M1/4SM FG VV001 13/12 A2995 RMK AO2 SLP133 T01280122 58001 KJSO 171515Z AUTO 00000KT 10SM SCT012 27/22 A3002 RMK AO2 T02700229 ENNO 171450Z 13005KT 070/170 9999 FEW050 19/07 Q1023 KLAR 171453Z AUTO 18008KT 10SM CLR 15/02 A3023 RMK AO2 SLP142 T01500022 51005 LATI 171520Z 31008KT 9999 FEW040 SCT096 25/13 Q1013 NOSIG VMMC 171500Z 14010KT 9999 FEW012 SCT025 28/26 Q1013 NOSIG KLAS 171456Z 15004KT 10SM FEW120 28/14 A2987 RMK AO2 SLP086 T02780139 53011 KJST 171454Z AUTO VRB03KT 9SM CLR 14/09 A3008 RMK AO2 SLP185 T01390089 50000 KLBL 171515Z AUTO 25013KT 10SM CLR 23/17 A2999 RMK AO1 ENOL 171520Z 32008KT 9999 7000SW VCFG FEW002 SCT200 15/11 Q1023 NOSIG KJSV 171515Z AUTO 09003KT 5SM HZ OVC008 23/20 A3000 RMK AO2 KLAW 171453Z 25004KT 10SM CLR 27/21 A2997 RMK AO2 SLP136 T02720206 50001 KLAX 171453Z 00000KT 10SM FEW010 25/18 A2974 RMK AO2 SLP069 FU FEW010 T02500183 53008 KLCG 171515Z AUTO 00000KT 10SM CLR 18/13 A2994 RMK AO2 T01790133 KLCH 171453Z 00000KT 10SM CLR 26/23 A2998 RMK AO2 SLP159 T02610233 51005 KLCI 171515Z AUTO 26004KT 10SM CLR 16/07 A2999 RMK AO1 KN38 171515Z AUTO 24005KT 10SM SCT043 15/08 A3008 RMK AO2 ENQA 171520Z AUTO VRB02KT 9999NDV /// 19/10 Q1023 W///S/ KLBT 171503Z AUTO 03005KT 10SM BKN015 BKN080 24/20 A2995 RMK AO2 T02390200 KLCK 171515Z AUTO 00000KT 10SM OVC042 15/10 A3005 RMK AO2 T01540103 ENQC 171520Z AUTO 22001KT 9999NDV NCD 19/11 Q1022 W///S4 ENOV 171450Z 08004KT 030V170 CAVOK 19/08 Q1022 RMK WIND 2175FT 31008KT KLBX 171453Z AUTO A2997 RMK AO2 SLP150 6//// 53010 PWINO $ KLCQ 171515Z AUTO 33003KT 10SM SCT013 25/23 A2996 RMK AO2 VLVT 171500Z 09004KT 4000 TS FEW023CB BKN040 28/25 Q1005 CB OVER AD NOSIG KLDJ 171515Z AUTO 12005KT 10SM CLR 23/06 A3007 RMK AO2 T02250056 KKLS 171515Z AUTO 00000KT 10SM CLR 15/11 A2980 RMK AO1 ENRA 171450Z 34003KT CAVOK 14/08 Q1024 KLEB 171453Z 00000KT 10SM SCT002 13/09 A3001 RMK AO2 SLP161 T01330089 58005 KJVL 171445Z 00000KT 10SM SKC 15/09 A3002 OYRN 171500Z 12006KT 9999 FEW025 31/28 Q1003 KLDM 171514Z AUTO 27005KT 10SM CLR 17/10 A3002 RMK AO2 T01660104 KLEE 171453Z 22006KT 10SM SCT014 27/22 A2998 RMK AO2 SLP150 T02670222 51006 OYSH 171500Z 21008KT 9999 BKN030 28/05 Q//// KJWG 171455Z AUTO 21011G14KT 10SM CLR 25/22 A2997 RMK AO2 T02520218 ENQR 171520Z AUTO 16009KT 9999NDV /// 16/11 Q1022 W///S3 KN60 171452Z AUTO VRB03KT 14/08 A2997 RMK AO1 SLP154 T01440083 52011 UUWW 171500Z 01005MPS CAVOK 11/02 Q1027 NOSIG ENSB 171450Z 26026KT 9999 VCSH FEW015 SCT025 M01/M06 Q1001 RMK WIND 1400FT 25027G40KT OYSN 171500Z 04009KT 9999 FEW025CB SCT030 25/02 Q1021 NOSIG ENRM 171520Z 03011KT CAVOK 13/09 Q1024 ENSD 171520Z 07005KT CAVOK 15/06 Q1022 RMK WIND 1138FT 29004KT UWGG 171500Z 32002MPS 9999 OVC047 07/00 Q1026 NOSIG 36090070 RMK QFE762 KJVW 171515Z AUTO 11005KT 10SM CLR 28/25 A2999 RMK AO2 LCEN 171450Z 34012KT 9999 FEW025 SCT030 28/18 Q1007 NOSIG ENSE 171520Z AUTO 17011KT 9999NDV SCT051/// 17/12 Q1022 W///S3 OYSQ 171500Z 19026G36KT 9999 FEW018 30/23 Q1005 ENRO 171520Z 26003KT 200V310 CAVOK 19/07 Q1022 ENSF 171520Z AUTO 16014KT 9999NDV NCD 17/12 Q1028 W///S3 ENSG 171450Z VRB02KT CAVOK 18/02 Q1022 RMK WIND 3901FT /////KT ENSH 171450Z 22005KT 9999 VCSH FEW008 BKN034 11/07 Q1025 KJXI 171515Z AUTO 00000KT 10SM CLR 26/23 A3000 RMK AO2 KLFI 171458Z AUTO 08011KT 10SM FEW026 BKN100 23/16 A3001 RMK AO2 SLP169 T02310164 53003 $ KLGA 171451Z 06005KT 10SM FEW050 SCT250 19/08 A3005 RMK AO2 SLP176 T01890078 58001 ENRS 171520Z 28002KT 9999 FEW005 SCT070 11/09 Q1025 KLFK 171522Z AUTO 00000KT 4SM BR OVC002 24/23 A3000 RMK AO2 T02440228 KLGB 171453Z 00000KT 10SM CLR 27/17 A2973 RMK AO2 SLP068 T02720172 53009 ENSK 171450Z 16006KT 9999 VCSH FEW012 SCT021 BKN030 11/08 Q1024 KLGC 171455Z AUTO 00000KT 10SM SCT019 26/22 A2999 RMK AO2 T02630215 EPBC 171500Z 12012KT CAVOK 21/07 Q1022= ENTC 171520Z 28011KT 9999 FEW008 BKN025 08/06 Q1023 TEMPO 4000 RADZ BKN012 RMK WIND 2600FT 32020KT ENSL 171520Z 12030KT 9999 BKN048 15/13 Q1019 W14/S4 KLGD 171515Z AUTO 00000KT 10SM CLR 15/01 A2987 RMK AO1 LBPD 171500Z 29004MPS 9999 SCT055 BKN080 19/14 Q1017 NOSIG KLEW 171515Z AUTO 27006KT 10SM CLR 17/07 A2999 RMK AO1 KJXN 171456Z VRB03KT 10SM CLR 14/07 A3005 RMK AO2 SLP177 T01440067 58007 ENSN 171450Z 11004KT CAVOK 17/07 Q1024 KLEX 171454Z AUTO VRB04KT 10SM CLR 18/11 A3005 RMK AO2 SLP172 T01830111 56006 OYSY 171500Z 01011KT CAVOK 38/01 Q1005 ENSO 171450Z 33008KT CAVOK 18/08 Q1022 KJYG 171515Z AUTO 22003KT 10SM CLR 18/11 A2996 RMK AO2 KJWY 171515Z AUTO 21003KT 10SM CLR 27/21 A3000 RMK AO2 T02650214 ENRY 171520Z 10006KT CAVOK 18/07 Q1024 ENSR 171450Z 29009KT 9999 VCSH BKN050 14/05 Q1021 RMK WIND 1119FT 25016KT ENSS 170950Z 06004KT CAVOK 11/05 Q1019 RMK WIND 500FT VRB02KT KLFT 171502Z 00000KT 10SM SCT008 27/23 A2999 RMK AO2 T02670228 KLHB 171515Z AUTO 00000KT 10SM 26/24 A2999 RMK AO2 T02550236 ENST 171450Z 04010KT CAVOK 12/08 Q1024 RMK WIND 300FT 04010KT KJYL 171455Z AUTO 00000KT 10SM BKN012 27/23 A2995 RMK AO2 T02650232 KJYM 171515Z AUTO 00000KT 10SM CLR 15/07 A3004 RMK AO2 T01510072 UUYY 171500Z VRB01MPS 9999 OVC040 05/M01 Q1022 NOSIG 01CLRD61 RMK QFE757/1010 EPCE 171500Z 11009KT 070V150 CAVOK 20/07 Q1021 RMK 199 042 1/1= KJYO 171515Z AUTO 11003KT 10SM BKN065 20/12 A3007 RMK AO2 OYTZ 171500Z 27008KT 9999 FEW030 25/16 Q1014 ENTO 171520Z 07004KT 030V100 CAVOK 17/07 Q1024 KJZI 171515Z AUTO 00000KT 10SM SCT022 SCT028 28/28 A2993 RMK A02 P000 KJYR 171455Z AUTO 06003KT 10SM CLR 17/14 A2994 RMK AO2 EPDA 171500Z 10009KT CAVOK 21/11 Q1020 RMK 212 051 1/1 = ENVA 171520Z 25004KT 200V280 3000W PRFG NSC 13/11 Q1022 TEMPO 9999 RMK WIND 670FT 29008KT FGBT 171500Z 28006KT 8000 FEW010 29/24 Q1010 NOSIG KLGU 171451Z AUTO 00000KT 10SM CLR 14/08 A3004 RMK AO2 SLP128 T01440083 53016 KLIC 171455Z AUTO 29005KT 10SM CLR 22/04 A3011 RMK AO2 SLP121 T02220044 51003 KLHM 171515Z AUTO 15008KT 10SM CLR 21/05 A2978 RMK AO1 ENVD 171450Z 27006KT CAVOK 11/04 Q1018 EPDE 171500Z 10010KT CAVOK 20/08 Q1022 RMK 195 048 3/3= EPBY 171500Z 10005KT 080V140 CAVOK 22/06 Q1020 KLHQ 171453Z AUTO 00000KT 10SM OVC043 17/12 A3006 RMK AO2 SLP178 T01720117 58005 ENVH 171520Z AUTO 10024KT 6000NDV BKN006/// 16/15 Q1017 W///S4 UWKD 171500Z 33006G09MPS CAVOK 07/00 Q1021 R29/CLRD70 NOSIG RMK QFE754/1006 UWKE 171500Z 33004MPS 9999 BKN021CB 04/01 Q1018 NOSIG RMK QFE746/0995 03210355 KMAE 171453Z AUTO 29004KT 8SM CLR 18/12 A2980 RMK AO2 SLP089 T01830117 53011 KLHW 171458Z AUTO 00000KT 10SM CLR 27/22 A2993 RMK AO2 SLP138 T02700218 51002 KLHX 171453Z AUTO 26008KT 10SM CLR 19/07 A3004 RMK AO2 SLP118 T01890072 51006 KMAF 171453Z 17006KT 10SM CLR 23/20 A3007 RMK AO2 SLP138 T02330200 51007 KLJF 171513Z AUTO 00000KT 10SM SCT050 SCT060 17/12 A2995 RMK AO2 LBSF 171500Z VRB02MPS 9999 FEW052 18/12 Q1018 NOSIG DXNG 171200Z 10004KT 9999 FEW004 25/21 Q1017 NOSIG KLHZ 171515Z AUTO 06008KT 10SM BKN022 OVC029 22/17 A3001 RMK AO2 KMAI 171453Z AUTO 09004KT 10SM SCT012 26/24 A2996 RMK AO2 SLP143 T02610239 50003 VOCB 171500Z 23013KT 6000 FEW015 25/21 Q1010 NOSIG VOBL 171500Z 28005KT 6000 SCT012 SCT080 29/23 Q1011 NOSIG KLIT 171453Z 13005KT 10SM SCT022 BKN250 22/17 A3002 RMK AO2 SLP164 T02220167 55000 KO22 171515Z AUTO 00000KT 10SM CLR 20/04 A2987 RMK AO1 KMAN 171515Z AUTO 00000KT 10SM CLR 18/08 A2986 RMK AO1 KMAO 171515Z AUTO 00000KT 10SM SCT017 23/18 A2997 RMK AO2 VOCI 171500Z 00000KT 5000 HZ FEW020 BKN090 26/24 Q1010 NOSIG KMBG 171452Z AUTO 00000KT 10SM CLR 16/12 A2994 RMK AO2 SLP136 T01560117 51011 UWKS 171500Z 32004MPS 9999 BKN026CB 06/M02 Q1023 NOSIG RMK QFE753 24000060 VNKT 171450Z 26006KT 8000 TS FEW020 FEW025CB SCT030 23/20 Q1012 NOSIG CB TO SE AND NE VOCL 171500Z 30003KT 6000 FEW015 27/23 Q1009 NOSIG KMCB 171453Z AUTO 13003KT 10SM CLR 25/22 A3000 RMK AO2 SLP153 T02500217 53007 KMBL 171515Z AUTO 27007KT 10SM CLR 16/08 A3001 RMK AO1 KMCD 171517Z AUTO 27014G18KT 10SM OVC110 16/10 A2993 RMK AO2 T01560100 KMCE 171453Z AUTO 33003KT 10SM CLR 19/12 A2979 RMK AO2 SLP086 T01890117 53012 EPGD 171500Z 11008KT 080V140 CAVOK 19/10 Q1022 KMCF 171518Z AUTO 23005KT 3SM RA BR OVC033 22/22 A2997 RMK AO2 KMCI 171522Z 12004KT 3SM -DZ OVC003 19/18 A2994 RMK AO2 SFC VIS 7 P0000 T01890178 KLKR 171515Z AUTO 05004KT 10SM -RA SCT008 BKN015 OVC019 21/21 A2999 RMK AO2 P0001 KMBS 171453Z 24007KT 10SM CLR 15/10 A3004 RMK AO2 SLP172 T01500100 58006 KLLJ 171455Z AUTO 00000KT 10SM CLR 12/06 A3006 RMK AO2 SLP139 T01170061 51005 KMCJ 171515Z AUTO 00000KT 10SM SCT015 29/24 A2994 RMK AO1 KMCK 171523Z AUTO 27003KT 5SM BR OVC002 13/13 A2996 RMK AO2 T01330133 LCLK 171500Z 22018KT 9999 FEW030 28/20 Q1007 NOSIG UWLW 171500Z 34006G10MPS 8000 OVC100 08/M01 Q1022 02CLRD60 NOSIG RMK QFE760 KLKU 171515Z AUTO 05003KT 10SM SCT034 21/13 A3005 RMK AO2 KMDD 162135Z AUTO 00000KT 10SM BKN043 BKN060 OVC090 28/17 A3010 RMK AO2 T02830174 KLKV 171515Z AUTO 00000KT 10SM CLR 10/M02 A2999 RMK AO1 KMCN 171453Z 06005KT 10SM CLR 28/19 A2996 RMK AO2 SLP140 T02780194 50002 KMCO 171453Z 28007KT 10SM FEW016 FEW030 BKN160 BKN250 26/22 A2997 RMK AO2 SLP145 60001 T02610222 51001 KMDH 171452Z 12004KT 6SM BR FEW080 BKN120 15/12 A3006 RMK AO2 SLP178 T01500117 53003 KLLQ 171453Z AUTO 00000KT 10SM CLR 24/20 A3000 RMK AO2 SLP156 T02390200 53001 KMDJ 171515Z AUTO 32008KT 10SM FEW027 SCT036 28/23 A3001 RMK A01 KMEB 171452Z AUTO 05007KT 10SM BKN016 BKN075 23/19 A2998 RMK AO2 SLP148 T02330194 51008 KLNC 171515Z AUTO 00000KT 10SM CLR 27/21 A2999 RMK AO2 T02650212 KLND 171453Z AUTO 00000KT 10SM SCT110 16/06 A3010 RMK AO2 SLP134 T01610061 50011 TSNO KMCW 171453Z AUTO 18006KT 10SM CLR 16/11 A2999 RMK AO2 SLP151 T01610111 58000 KLMO 171514Z AUTO 00000KT 7SM SCT120 22/07 A3010 RMK AO2 T02190073 KMCX 171455Z AUTO 00000KT 10SM CLR 14/12 A3004 RMK AO2 T01440117 KO54 171515Z AUTO 00000KT 10SM CLR 14/01 A2983 RMK AO1 KMEH 171456Z AUTO 00000KT 10SM CLR 11/03 A2987 RMK AO2 SLP102 T01060033 58011 KMDQ 171455Z AUTO 05004KT 10SM SCT027 22/10 A3001 RMK AO2 KMEI 171458Z 06005KT 10SM CLR 27/21 A3000 RMK AO2 SLP154 T02720206 51007 KMDS 171515Z AUTO 00000KT 10SM CLR 15/15 A2994 RMK AO2 KLMT 171453Z 15007KT 10SM BKN120 14/01 A2991 RMK AO2 SLP091 T01440006 53004 KLNK 171508Z 00000KT 5SM BR OVC004 17/15 A2995 RMK AO2 T01670150 KMDT 171456Z 00000KT 10SM CLR 20/09 A3006 RMK AO2 SLP180 T02000094 58002 LDDU 171500Z 25005KT 160V310 9999 FEW025TCU 22/16 Q1015 NOSIG KLNL 171515Z AUTO 29007KT 10SM CLR 16/07 A2996 RMK AO2 T01560067 UWOO 171500Z 36006MPS P5000 OVC046 07/M04 Q1016 26CLRD65 NOSIG RMK QFE751/1002 KMFD 171452Z 21007KT 10SM CLR 17/08 A3006 RMK AO2 SLP180 T01670083 58007 KMEM 171501Z 08006KT 10SM SCT029 BKN100 OVC250 22/14 A3002 RMK AO2 $ ENZV 171520Z 26009KT 9999 FEW050 18/11 Q1021 NOSIG KMDW 171451Z 00000KT 10SM FEW250 18/08 A3003 RMK AO2 SLP167 T01780078 57008 KMFE 171453Z 15009KT 10SM CLR 28/23 A2996 RMK AO2 SLP142 T02780233 51011 LBWN 171500Z 03007MPS 9999 FEW027CB BKN040 21/14 Q1016 NOSIG UWOR 171500Z 36006MPS 9999 BKN050 08/M00 Q1011 25CLRD65 NOSIG RMK QFE735/0980 KLNP 171515Z AUTO 05003KT 10SM OVC014 16/13 A3007 RMK AO2 KMDZ 171515Z AUTO 25006KT 10SM CLR 15/09 A2997 RMK AO2 T01460091 KMFI 171454Z AUTO 24007KT 10SM FEW080 14/09 A2998 RMK AO2 SLP157 T01390094 58002 KLNR 171456Z AUTO 00000KT 10SM OVC095 13/09 A3002 RMK AO2 SLP164 T01330089 58003 KMER 171445Z 00000KT 10SM SKC 18/12 A2979 EPIR 171500Z 10014KT CAVOK 20/09 Q1021 RMK 204 049 2/2= KLNS 171453Z 07003KT 10SM CLR 18/09 A3007 RMK AO2 SLP181 T01830094 58001 KO69 171515Z AUTO 30003KT 10SM OVC015 17/14 A2985 RMK AO1 DXSK 171500Z 28004KT 6000 -RA BKN010 BKN120 21/20 Q//// KLOL 171453Z AUTO 00000KT 5SM HZ CLR 16/01 A2996 RMK AO2 SLP107 T01610011 53007 KLPC 171515Z AUTO 00000KT 1/4SM OVC002 15/13 A2983 RMK AO1 KMGC 171515Z AUTO 00000KT 10SM CLR 17/08 A3004 RMK AO2 KLOM 171515Z AUTO 10003KT 10SM CLR 20/08 A3006 RMK AO1 KMEV 171515Z AUTO 00000KT 10SM CLR 20/01 A3002 RMK AO2 KMGE 171458Z 31003KT 10SM FEW020 24/17 A2999 RMK AO2A SLP147 T02410173 58002 $ KMGG 171514Z AUTO 00000KT 10SM SCT050 SCT060 17/13 A2996 RMK AO2 T01690125 KMEZ 171515Z AUTO 00000KT OVC003 22/21 A3004 RMK AO2 TSNO LCPH 171500Z 28011KT 9999 FEW025 28/21 Q1008 KLOR 171453Z AUTO 10SM FEW010 27/22 A2996 RMK AO2 SLP143 T02670222 50004 TSNO $ KMFR 171453Z 00000KT 5SM HZ CLR 17/08 A2977 RMK AO2 SLP069 FU ALQDS T01720083 53005 KMGJ 171454Z AUTO 17003KT 10SM CLR 17/08 A3006 RMK AO2 SLP179 T01720083 58003 TSNO KLOT 171515Z AUTO 21003KT 10SM CLR 16/09 A3004 RMK AO2 T01640088 EPLB 171500Z 10010KT CAVOK 19/08 Q1022 KLOU 171453Z 00000KT 10SM OVC033 16/11 A3006 RMK AO2 SLP178 T01610106 56005 EPKK 171500Z 09008KT CAVOK 21/10 Q1019 KMGM 171453Z VRB03KT 10SM CLR 28/21 A2997 RMK AO2 SLP147 T02830211 51003 KMFV 171515Z AUTO 36004KT 10SM BKN032 BKN041 22/13 A3003 RMK AO2 KMHE 171453Z AUTO 00000KT 10SM CLR 15/12 A2994 RMK AO2 SLP136 T01500122 51010 KMGN 171515Z AUTO 25008G14KT 220V280 10SM SCT120 17/11 A2996 RMK AO2 T01750111 FHAW 171450Z 15019KT 9999 FEW030 BKN048 27/16 Q1015 BLU VOHS 171510Z 26008KT 5000 HZ SCT015 SCT100 24/19 Q1008 NOSIG KLOZ 171513Z AUTO 09004KT 10SM OVC029 18/12 A3003 RMK AO2 T01780117 KO86 171515Z AUTO 00000KT 10SM CLR 13/00 A2988 RMK AO1 KLPR 171453Z AUTO 23006KT 10SM BKN050 17/11 A3006 RMK AO2 SLP181 T01720111 58006 TSNO $ KMGR 171515Z AUTO 06004KT 10SM CLR 28/23 A2996 RMK AO2 LCRA 171450Z 26013KT 9999 FEW030 27/19 Q1007 NOSIG KMIA 171453Z 30007KT 10SM FEW025 BKN300 30/22 A2999 RMK AO2 SLP156 T03000217 53007 EPKS 171500Z 10012KT CAVOK 23/10 Q1019 RMK 227 045 1/1= KMHK 171518Z 00000KT 6SM HZ OVC015 22/19 A2992 RMK AO2 T02220194 KLQK 171515Z AUTO 11005KT 10SM OVC015 21/19 A2998 RMK AO2 T02140186 KMIB 171458Z AUTO 10002KT 10SM CLR 12/08 A2998 RMK AO2 SLP163 T01220084 52018 $ EPMB 171500Z 12010KT CAVOK 21/07 Q1022 RMK 207 040 3/3= EPLK 171500Z 13011KT CAVOK 20/10 Q1020 RMK 195 055 1/1= EPKT 171500Z 09008KT CAVOK 20/10 Q1020 KMIC 171453Z VRB04KT 10SM CLR 17/10 A2994 RMK AO2 SLP139 T01720100 51002 EPLL 171500Z 12010KT 090V150 CAVOK 20/09 Q1020 KLRD 171456Z 17006KT 10SM OVC005 26/26 A2998 RMK AO2 53013 T02550255 SLP141 VOHY 171440Z 33004KT 5000 HZ SCT020 BKN100 27/19 Q1008 NOSIG KMIE 171453Z 33003KT 10SM CLR 15/10 A3006 RMK AO2 SLP177 T01500100 58006 KMGW 171453Z 00000KT 10SM CLR 18/11 A3008 RMK AO2 SLP181 T01780111 58003 KLRF 171523Z AUTO VRB02KT 10SM SCT018 22/18 A3002 RMK AO2 KMGY 171453Z AUTO 01004KT 10SM OVC035 14/11 A3007 RMK AO2 SLP180 T01440106 58004 KMHR 171445Z 11003KT 10SM FEW100 16/08 A2979 EPMI 171500Z 13011KT CAVOK 21/08 Q1020 RMK 206 045 1/1= KMHS 171456Z AUTO 00000KT 10SM CLR 14/03 A2989 RMK AO2 SLP118 T01440028 51002 KLRJ 171515Z AUTO VRB04KT 10SM CLR 18/13 A2994 RMK AO2 LEAB 171400Z 25005KT 200V300 9999 FEW045 24/11 Q1010 NOSIG KMHT 171453Z 01003KT 10SM FEW030 18/07 A3000 RMK AO2 SLP171 T01780072 58003 KLSB 171455Z AUTO 12012G16KT 10SM SCT025 BKN050 BKN075 20/17 A3007 RMK AO2 P0001 KMHV 171515Z AUTO 00000KT 10SM CLR 26/06 A2990 RMK AO1 EPMM 171500Z 12010KT CAVOK 20/07 Q1022 RMK 197 042 5/5= KLSE 171453Z 15005KT 10SM BKN085 14/10 A3000 RMK AO2 SLP159 T01390100 55003 KLRO 171515Z AUTO 01005KT 8SM SCT014 26/23 A2994 RMK AO2 KLSF 171458Z AUTO VRB01KT 10SM CLR 27/22 A2995 RMK AO2 SLP143 T02680217 58000 EPMO 171500Z 13009KT 090V170 CAVOK 20/07 Q1021 LEAG 171500Z AUTO 26013G23KT 230V300 CAVOK 26/17 Q1010 EPLY 171500Z 12008KT CAVOK 20/09 Q1021 RMK 204 047 2/2= UWSS 171500Z 35005MPS CAVOK 11/M03 Q1023 300///60 NOSIG QFE753 LEBA 171500Z 21012KT 9999 SCT020 SCT050 23/20 Q1009 KMIS 171520Z AUTO 07006KT 10SM SCT023 BKN030 SCT035 36/23 A2998 RMK A01 KNAK 171454Z AUTO 13005KT 10SM CLR 20/09 A3006 RMK AO2 SLP181 T02000094 50000 LEBB 171500Z 19009KT 150V230 9999 FEW070 31/11 Q1002 NOSIG LEAL 171500Z 15007KT 110V200 9999 FEW030 30/17 Q1007 NOSIG KNBC 171456Z 00000KT 10SM BKN010 BKN030 26/23 A2994 RMK AO2 SLP138 T02610228 51004 $ KMKC 171517Z 07004KT 3SM BR OVC006 19/18 A2993 RMK AO2 CIG 004V009 T01890178 KLRU 171515Z AUTO 00000KT 10SM OVC030 21/17 A3012 RMK AO2 T02080172 PWINO LEAM 171500Z 22022KT 9999 FEW030 26/17 Q1007 KMIV 171454Z AUTO 10005KT 10SM CLR 21/07 A3005 RMK AO2 SLP174 T02110067 58000 KMKE 171452Z 26005KT 10SM FEW250 16/06 A3003 RMK AO2 SLP168 T01610061 58006 KMIW 171453Z AUTO 12005KT 10SM OVC060 13/11 A2997 RMK AO2 SLP151 T01330111 55002 LEAO 171500Z 24008KT 180V280 9999 FEW025TCU SCT035 23/13 Q1010 LEBG 171500Z 18011KT 150V230 9999 FEW045 21/13 Q1007 KNBG 171455Z 05004KT 8SM SCT020 SCT110 BKN250 28/22 A2997 RMK AO2 SLP149 T2 SET T02830222 50007 $ KMKG 171455Z 22005KT 10SM BKN040 BKN055 16/10 A3003 RMK AO2 SLP170 T01610100 58007 KMJQ 171513Z AUTO 20004KT 10SM CLR 17/11 A2996 RMK AO2 KNCA 171456Z 08007KT 10SM FEW016 SCT026 26/21 A2994 RMK AO2 SLP140 T02610211 51002 KLUA 171515Z AUTO 03005KT 10SM OVC060 18/10 A3007 RMK AO2 KMKJ 171515Z AUTO 05007KT 10SM OVC015 17/13 A3009 RMK AO2 T01720129 KP28 171456Z AUTO 23007KT 25/19 A2992 RMK AO1 SLP117 T02500189 53000 LEAS 171500Z 25015KT 210V280 5000 +TSRA SCT010 SCT036TCU SCT046CB BKN077 17/15 Q1003 NOSIG KMLB 171453Z 24010KT 10SM CLR 28/23 A2995 RMK AO2 SLP141 60000 T02780228 55002 $ EPOK 171500Z 08011KT 020V120 CAVOK 18/11 Q1022 RMK 182 065 1/1= LEBL 171500Z 07009KT 9999 FEW016 FEW020TCU 27/21 Q1006 NOSIG KMKL 171515Z 09004KT 10SM BKN028 20/13 A3004 RMK AO2 KMLC 171453Z AUTO 17006KT 10SM CLR 26/21 A2998 RMK AO2 SLP143 T02610211 51005 KLUD 171515Z AUTO 26006KT 10SM CLR 27/20 A2999 RMK AO2 T02730204 KLSV 171458Z AUTO 04007KT 10SM CLR 27/16 A2988 RMK AO2 SLP094 T02730164 53009 $ KMKN 171515Z AUTO 19003KT 10SM 26/22 A3002 RMK AO2 T02560215 KMLE 171455Z AUTO 00000KT 10SM CLR 19/15 A2994 RMK AO2 T01890147 KLUF 171458Z 35004KT 10SM SCT100 BKN150 28/20 A2981 RMK AO2A SLP082 T02830197 53002 $ KMLF 171452Z AUTO 22010KT 10SM CLR 21/11 A3006 RMK AO2 SLP117 T02110106 51006 KMKO 171453Z AUTO 17009KT 9SM FEW007 23/21 A2999 RMK AO2 SLP150 T02330206 53007 KMJX 171515Z AUTO 00000KT 10SM FEW039 SCT047 20/10 A3005 RMK AO1 KMLI 171452Z 22003KT 10SM OVC090 16/11 A3002 RMK AO2 SLP167 T01560111 55002 $ UWUU 171500Z 36004MPS 9999 BKN040 05/01 Q1015 320///60 NOSIG RMK QFE749/0998 KMKS 171515Z AUTO 04003KT 10SM 26/23 A2994 RMK AO2 KMLJ 171515Z AUTO 29003KT 10SM CLR 27/22 A2995 RMK AO2 KLTS 171458Z 22005KT 10SM CLR 26/21 A2999 RMK AO2A SLP142 T02630205 51005 VOMM 171510Z 21002KT 6000 FEW020 SCT100 30/24 Q1004 NOSIG KLUK 171453Z 00000KT 8SM OVC038 16/12 A3008 RMK AO2 SLP184 T01560117 55006 KMKT 171515Z AUTO 19006KT 10SM BKN070 17/09 A2996 RMK AO1 KNBT 171456Z AUTO 06016G22KT 6SM HZ SCT023 SCT033 BKN055 24/21 A2994 RMK AO2 RAB1358E10 SLP143 6//// T02440206 53005 PNO KLUM 171455Z AUTO 18003KT 10SM SCT055 SCT070 BKN080 14/10 A2998 RMK AO2 T01440103 LECO 171500Z 18011G28KT 120V230 9999 FEW025CB SCT032 22/16 Q1000 TEMPO RA DXXX 171500Z 21017KT 9999 FEW014 FEW020CB 28/24 Q1010 TEMPO TS EPPO 171500Z 10012KT CAVOK 22/09 Q1019 KMLP 171453Z AUTO 17004KT 10SM CLR 16/03 A3001 RMK AO2 SLP066 T01560033 56001 KMKY 171515Z AUTO 00000KT 10SM CLR 28/23 A2998 RMK AO1 LEBZ 171500Z 17009KT 140V210 9999 SCT032TCU 23/17 Q1007 KMMH 171515Z AUTO 00000KT 10SM CLR 14/04 A3019 RMK AO1 KMMI 171515Z AUTO 06006KT 10SM OVC016 18/14 A3002 RMK EPPR 171500Z 10006KT CAVOK 21/07 Q1021 RMK 208 041 2/2= KMLS 171453Z AUTO 04007KT 10SM FEW110 13/09 A2991 RMK AO2 RAB05E16 SLP121 P0000 60000 T01280089 50006 KLVJ 171453Z AUTO VRB04KT 10SM FEW014 FEW018 29/25 A2998 RMK AO2 SLP151 T02940250 53007 KLWA 171515Z AUTO 20005KT 10SM CLR 17/10 A3003 RMK AO2 T01680100 EPRA 171500Z 12010KT CAVOK 19/09 Q1021 RMK 191 052 3/3= KLVK 171453Z 32003KT 8SM FEW008 17/14 A2982 RMK AO2 SLP093 T01670144 53007 KMLT 171453Z AUTO VRB06KT CLR 16/ A2995 RMK AO2 SLP149 6//// T0161 58003 PNO $ KMMK 171453Z AUTO 01004KT 10SM CLR 19/06 A3005 RMK AO2 SLP174 T01890056 58003 TSNO KLWB 171515Z AUTO 07003KT 10SM SCT024 BKN035 18/10 A3007 RMK AO2 T01810104 LEEC 171400Z 22014KT 9999 FEW025 26/18 Q1008 KLWC 171522Z AUTO 00000KT 3/4SM BR OVC004 20/19 A2993 RMK AO2 T02000189 KMLU 171453Z 03005KT 10SM CLR 26/22 A3000 RMK AO2 SLP157 T02610217 53005 KMML 171515Z AUTO 36005KT 10SM CLR 17/11 A2994 RMK AO1 KLVL 171515Z AUTO 06006KT 10SM SCT055 OVC090 22/16 A3002 RMK AO1 T02150159 LECV 171520Z 20009KT 9999 SHRA FEW020TCU BKN035 21/12 Q1010 KLWD 171453Z AUTO 15004KT 17/15 A2996 RMK AO2 SLP145 T01720150 52001 PWINO $ KLVM 171453Z AUTO 31006KT 10SM CLR 13/07 A3002 RMK AO2 SLP129 T01280067 51006 KLVN 171510Z AUTO 00000KT 10SM OVC050 15/11 A2996 RMK AO2 KMNE 171515Z AUTO 00000KT 10SM SCT014 27/22 A3000 RMK AO2 KP53 171456Z AUTO 28005KT 15/07 A2993 RMK AO1 SLP136 T01500072 50007 EPPW 171500Z 10016KT CAVOK 21/07 Q1020 RMK 213 039 2/2= KLUX 171515Z AUTO 08004KT 10SM OVC009 21/ A2999 RMK AO2 KMNH 171513Z AUTO 26006KT 10SM CLR 22/02 A3022 RMK AO2 KMNI 171515Z AUTO 36006KT 7SM OVC019 26/21 A2995 RMK AO2 KP58 171451Z AUTO VRB05KT 15/09 A2999 RMK AO1 SLP155 T01500094 57005 KLVS 171453Z AUTO 00000KT 10SM CLR 14/08 A3025 RMK AO2 SLP154 T01440083 51009 KP60 171456Z AUTO 00000KT 08/04 A3026 RMK AO1 SLP194 T00830044 53004 KP59 171451Z AUTO 11009G17KT 080V140 06/04 A2997 RMK AO1 SLP154 T00610039 53014 KMOB 171456Z 03004KT 10SM FEW200 27/22 A2998 RMK AO2 SLP149 T02720222 50002 KMMT 171458Z 06005KT 10SM SCT017 SCT120 25/19 A2996 RMK AO2A SLP146 50006 UWWW 171500Z 31005G08MPS 9999 SCT026 BKN100 OVC200 07/M05 Q1021 05CLRD60 15//99// NOSIG RMK QFE752/1003 KMMU 171445Z 06005KT 25SM FEW060 FEW250 20/08 A3007 EPSC 171500Z 12008KT CAVOK 22/11 Q1018 KMOD 171453Z 32005KT 10SM CLR 19/12 A2978 RMK AO2 SLP085 T01940117 53009 KMMV 171453Z AUTO 28004KT 10SM CLR 15/13 A2974 RMK AO2 SLP070 T01500128 56006 KLWM 171454Z 00000KT 10SM CLR 17/09 A3003 RMK AO2 SLP168 T01720094 58003 KMNM 171515Z AUTO 29005KT 10SM CLR 16/08 A2996 RMK AO1 KMNN 171453Z AUTO 00000KT 10SM OVC044 16/10 A3007 RMK AO2 SLP182 T01560100 58005 TSNO KNFE 171456Z AUTO 05009KT 10SM BKN085 OVC100 25/16 A3001 RMK AO2 SLP165 T02500161 53005 KNFG 171454Z 00000KT 7SM CLR 25/19 A2974 RMK AO2 SLP069 T02500189 53011 KNDZ 171456Z 04004KT 10SM SCT250 28/23 A2997 RMK AO2 SLP134 T02830228 50002 $ LEGA 171500Z 22006KT 9999 BKN030 BKN040 22/13 Q1012 KP68 171453Z AUTO 20006KT 18/06 A3010 RMK AO1 SLP111 T01830056 53007 KLWS 171456Z AUTO 00000KT 10SM CLR 17/03 A2982 RMK AO2 SLP089 T01670028 50001 KP69 171452Z AUTO 00000KT 12/11 A2989 RMK AO1 SLP113 T01220106 50004 KLWT 171454Z AUTO 12005KT 10SM CLR 16/08 A2995 RMK AO2 SLP117 T01560083 51001 KLXL 171517Z AUTO 00000KT 10SM CLR 15/10 A2994 RMK AO2 KNFL 171456Z 00000KT 4SM FU FEW120 FEW250 19/M01 A2995 RMK AO2 SLP116 VIS E 3 T01891006 53005 KLWV 171453Z AUTO 09003KT 8SM CLR 16/12 A3006 RMK AO2 SLP179 T01610117 58007 FGSL 171500Z 24010KT 9999 FEW009 FEW018CB BKN090 28/24 Q1011 NOSIG KNEW 171453Z 04003KT 10SM SCT015 27/22 A2999 RMK AO2 SLP148 T02720222 51008 KLXN 171455Z AUTO 00000KT 10SM CLR 15/14 A2994 RMK AO2 T01450137 LEGE 171500Z 09004KT 030V160 9999 FEW015 FEW030TCU 24/24 Q1008 EPSN 171500Z 11012KT CAVOK 22/09 Q1019 RMK 218 044 1/1= KMOP 171518Z AUTO 25007KT 10SM CLR 17/09 A3001 RMK AO2 T01740092 KLYH 171454Z 03006KT 10SM FEW050 OVC070 18/12 A3008 RMK AO2 SLP179 T01830117 50005 KMNZ 171515Z AUTO 20007KT 10SM OVC009 25/22 A3002 RMK AO2 T02540221 EPRZ 171500Z 10013KT CAVOK 20/09 Q1021 KMOR 171515Z AUTO 00000KT 10SM 19/14 A3001 RMK LDOS 171500Z 10014KT 9999 FEW033 22/08 Q1018 KLXT 171523Z AUTO 08004KT 2SM BR OVC005 19/18 A2995 RMK AO2 T01890178 KMOT 171454Z 16004KT 10SM CLR 12/07 A2998 RMK AO2 SLP157 T01220072 51018 KMQB 171515Z AUTO 16005KT 7SM BKN070 OVC100 14/12 A3005 RMK AO2 T01360122 LEHC 171500Z 08004KT 040V120 9999 FEW040 25/12 Q1008 LDPL 171500Z 05005KT 020V080 9999 BKN050 21/12 Q1015 NOSIG KLXV 171453Z AUTO 00000KT 10SM CLR 11/01 A3045 RMK AO2 SLP167 T01060006 52003 EPTM 171500Z 10012KT CAVOK 19/08 Q1021 RMK 193 049 3/3= KMQE 171454Z AUTO VRB03KT 18/07 A3001 RMK AO1 SLP171 T01780072 50000 KNFW 171452Z 15005KT 10SM FEW050 SCT150 BKN250 28/21 A3002 RMK AO2 SLP148 T02830211 51003 VISNO N $ KMPO 171453Z AUTO 25004KT 10SM FEW039 15/05 A3008 RMK AO2 SLP187 T01500050 58000 TSNO KMOX 171506Z AUTO 34005KT 10SM CLR 17/12 A2993 RMK AO2 KLXY 171515Z AUTO 21005KT 10SM OVC009 25/23 A2998 RMK AO2 T02520230 KNGP 171456Z 21009KT 10SM FEW014 FEW070 OVC250 28/26 A2995 RMK AO2 SLP141 T02830256 51007 LEGR 171500Z 24013KT 200V260 9999 FEW030 SCT045TCU BKN070 24/14 Q1011 KMQI 171455Z AUTO 06013KT 10SM SCT050 24/18 A2998 RMK AO2 T02440175 KMQJ 171514Z AUTO 00000KT 10SM CLR 16/08 A3006 RMK AO1 LEGT 171500Z 23009KT 9999 FEW045 FEW050TCU 24/11 Q1008 LEIB 171500Z 22007KT CAVOK 29/21 Q1007 NOSIG KNHK 171452Z 08007KT 10SM FEW040 FEW250 22/12 A3005 RMK AO2 SLP175 T02220122 50001 $ KMRB 171453Z 00000KT 10SM CLR 18/09 A3008 RMK AO2 SLP184 T01830094 58003 KMRC 171515Z AUTO 03003KT 2 1/2SM OVC003 14/14 A3004 RMK KNGU 171459Z 06011KT 10SM FEW029 FEW049 BKN060 BKN280 23/16 A3003 RMK AO2 SLP168 T02330156 51003 KP92 171453Z AUTO VRB03KT 28/23 A2999 RMK AO1 SLP153 T02780233 50012 KMPV 171451Z AUTO 21005KT 10SM FEW035 15/07 A3004 RMK AO2 SLP176 T01500072 58005 KLYV 171514Z AUTO 00000KT 10SM CLR 16/11 A2994 RMK AO2 KNID 171456Z 16003KT 10SM CLR 25/09 A2986 RMK AO2 SLP089 T02500094 53007 $ KMRF 171515Z AUTO 00000KT 10SM CLR 21/16 A3019 RMK AO1 KMPZ 171515Z AUTO 13005KT 7SM OVC065 15/12 A3000 RMK AO2 T01470124 KMRH 171458Z AUTO 04007KT 9SM FEW027 SCT036 BKN044 24/22 A2994 RMK AO2 RAB13E46 SLP138 P0025 60027 T02440222 50004 TSNO LDRI 171500Z 07003KT 010V120 9999 SCT043 22/11 Q1016 KMQS 171455Z AUTO 01003KT 10SM FEW030 18/10 A3008 RMK AO2 KMRJ 171515Z AUTO 20003KT 10SM SCT085 16/07 A3002 RMK AO2 EPWA 171500Z 12013KT CAVOK 20/07 Q1022 NOSIG KLZU 171445Z 29005KT 7SM CLR 24/16 A2998 RMK ATIS E RWY 25 ; YA KMRN 171455Z AUTO 02003KT 10SM OVC018 19/15 A3008 RMK AO2 T01910148 KNIP 171453Z 02004KT 10SM FEW025 FEW045 BKN250 28/22 A2994 RMK AO2 SLP134 T02780217 50000 KMQY 171456Z 01003KT 10SM OVC006 16/14 A3006 RMK AO2 53001 T01610138 SLP187 KLZZ 171515Z AUTO 00000KT 10SM OVC017 26/23 A3000 RMK AO2 T02560233 KOAJ 171515Z AUTO 06009KT 10SM BKN019 25/19 A2995 RMK AO1 LFBA 171500Z AUTO 14009KT 110V170 9999 TS FEW020/// ///CB 30/17 Q1004 KOAK 171453Z 28004KT 10SM OVC014 18/14 A2983 RMK AO2 SLP100 T01780139 53006 $ KMRT 171513Z AUTO 00000KT 10SM OVC039 15/09 A3007 RMK AO2 T01470091 KNJK 171456Z 31003KT 10SM FEW080 FEW110 SCT200 30/18 A2975 RMK AO2 SLP088 T03000178 53009 KMSL 171453Z AUTO 32003KT 10SM CLR 23/15 A3003 RMK AO2 SLP162 T02280150 56003 KMTC 171455Z 21004KT 12SM CLR 16/06 A3003 RMK SLP176 T01570060 58007 LFBC 171500Z AUTO 21012KT 9999 VCTS ///CB 29/14 Q1004 KNJM 171457Z 06008KT 10SM SCT025 SCT060 BKN200 26/21 A2994 RMK AO2 SLP143 60000 T02610206 51003 $ LFBD 171500Z AUTO 16005KT 130V190 9999 TS ///CB 29/13 Q1004 KMSN 171453Z 00000KT 10SM BKN090 15/08 A3002 RMK AO2 SLP167 T01500078 58005 KOBE 171515Z AUTO SCT020 27/23 A2999 RMK AO2 PWINO LFBE 171500Z AUTO 15007KT 100V200 9999 NSC 31/14 Q1004 KMSO 171453Z 00000KT 10SM CLR 11/07 A2996 RMK AO2 SLP137 T01110067 53006 VOTR 171510Z 31003KT 6000 SCT018 SCT100 32/22 Q1005 NOSIG KMSP 171453Z 22005KT 10SM FEW050 16/09 A2995 RMK AO2 SLP144 T01610094 51001 KMRY 171454Z 00000KT 8SM OVC002 15/13 A2984 RMK AO2 SLP115 T01500133 53005 $ LDSP 171500Z 22008KT CAVOK 24/13 Q1015 NOSIG LFBG 171500Z AUTO 15010KT 120V180 9999 ///CB 30/13 Q1004 KMTH 171453Z AUTO 36003KT 10SM SCT027 30/24 A3000 RMK AO2 SLP157 T03000239 51008 LFBH 171500Z AUTO 21010KT 9999 NSC 28/14 Q1004 LFAQ 171500Z AUTO 12012KT 9999 NSC 26/15 Q1008 LEJR 171530Z 21015KT 170V240 9999 FEW021TCU SCT027 26/19 Q1009 LFBI 171500Z AUTO VRB04KT 9999 NSC 28/15 Q1005 KMTJ 171453Z AUTO 00000KT 10SM CLR 16/07 A3020 RMK AO2 SLP157 T01610067 50007 KMSS 171453Z AUTO 23007KT 190V260 10SM BKN080 16/11 A3001 RMK AO2 SLP163 T01560106 58002 EPWR 171500Z 11010KT CAVOK 23/12 Q1018 LFAT 171500Z AUTO 07010KT 040V100 9999 FEW049 26/15 Q1008 VOTV 171510Z 29004KT 4000 HZ SCT015 SCT100 28/24 Q1009 NOSIG LELC 171500Z 20016G26KT 160V240 CAVOK 30/15 Q1006 NOSIG KNLC 171456Z 30006KT 9SM FEW090 FEW220 20/09 A2980 RMK AO2 SLP089 RH/50 T02000094 53009 LFBL 171500Z AUTO 18006KT 9999 NSC 27/13 Q1007 KMSV 171515Z AUTO 29005KT 10SM OVC050 14/07 A3008 RMK AO1 LFBM 171500Z AUTO 11008KT 070V160 9999 NSC 31/16 Q1004 KMTN 171445Z 14004KT 10SM SKC 21/13 A3008 KMTO 171453Z AUTO 17004KT 10SM CLR 16/12 A3004 RMK AO2 SLP171 T01560117 55008 KOCF 171450Z 00000KT 10SM FEW015 SCT025 24/22 A2997 LFBO 171500Z AUTO 13015KT 9999 NSC 29/17 Q1005 KMTP 171454Z AUTO 32005KT 18/10 A3005 RMK AO1 SLP175 T01830100 50003 KMSY 171453Z 01006KT 10SM SCT018 BKN150 BKN250 28/23 A2998 RMK AO2 SLP156 SCT V BKN T02830228 50008 LFBP 171500Z VRB02KT CAVOK 29/14 Q1004 NOSIG KOCH 171515Z AUTO 00000KT 10SM BKN006 24/22 A3000 RMK AO1 KMUI 171458Z AUTO VRB02KT 10SM CLR 19/08 A3007 RMK AO2 SLP185 T01890081 58003 $ LFCK 171500Z AUTO 13025KT 9999 NSC 24/18 Q1006 KNKT 171520Z 04010KT 10SM FEW017 BKN040 OVC048 24/22 A2996 RMK AO2 RAE15 P0001 T02440222 LFBT 171500Z AUTO 14005KT 080V180 9999 NSC 28/16 Q1006 LELL 171500Z 14005KT 100V170 9999 FEW040 28/20 Q1007 LFBU 171500Z AUTO 18004KT 090V230 9999 NSC 29/15 Q1005 LEMD 171500Z 20015KT 9999 FEW030TCU SCT070 25/10 Q1008 TEMPO SHRA KMTV 171515Z AUTO 03007KT 10SM BKN042 BKN075 21/15 A3007 RMK AO2 T02120147 LELN 171500Z 18013G24KT 140V220 9999 SCT030 20/11 Q1006 KMVE 171514Z AUTO 00000KT 10SM CLR 20/14 A2995 RMK AO2 KMTW 171456Z AUTO 25007KT 10SM CLR 16/08 A3000 RMK AO2 SLP181 T01610083 58008 LELO 171500Z 08007KT 030V160 9999 FEW030 SCT055 29/14 Q1004 KNKX 171455Z 34003KT 10SM FEW050 FEW150 27/19 A2975 RMK AO2 SLP067 T02720194 53011 KMUO 171458Z AUTO 10006KT 10SM SCT150 SCT230 19/07 A2988 RMK AO2 SLP094 T01940067 52012 $ LEMG 171500Z 09005KT 050V140 9999 FEW020 SCT050 25/16 Q1009 NOSIG LFBY 171500Z 22006KT 190V260 9999 SCT040 SCT100 31/15 Q1003 EPZG 171500Z 09012KT CAVOK 23/10 Q1017 LEMH 171500Z 20009KT 150V240 9999 FEW012 28/24 Q1008 KOCQ 171515Z AUTO 27005KT 10SM CLR 16/09 A2998 RMK AO1 T01550091 LFBZ 171500Z 16004KT 110V210 9999 FEW050 BKN140 28/15 Q1004 NOSIG LFCR 171500Z AUTO 13016KT 9999 NSC 23/15 Q1009 KMWA 171455Z 20005KT 10SM BKN150 15/13 A3007 KOEB 171515Z AUTO 25004KT 10SM CLR 16/07 A3004 RMK AO2 T01620072 KMUT 171515Z AUTO 17005KT 10SM OVC090 15/12 A3002 RMK AO2 KMVL 171454Z AUTO 00000KT 10SM CLR 14/08 A3002 RMK AO2 SLP167 T01440078 58004 KMWC 171445Z 24004KT 10SM SKC 16/07 A3003 KNMM 171523Z 03003KT 10SM SCT010 25/21 A3001 RMK AO2 T02500206 $ KMVN 171515Z AUTO 10003KT 10SM CLR 16/11 A3007 RMK AO1 KOCW 171515Z AUTO 09007G14KT 10SM SCT039 SCT048 24/19 A2997 RMK AO2 T02430185 KODO 171453Z AUTO 19006KT 9SM CLR 23/19 A3008 RMK AO2 SLP143 T02280189 51008 LEMO 171500Z 24012KT 180V240 9999 FEW015TCU SCT030 26/19 Q1009 NOSIG KMWH 171452Z 01004KT 10SM SCT150 BKN200 14/04 A2979 RMK AO2 SLP081 T01440044 53007 KMWK 171515Z AUTO 06009G20KT 040V100 10SM BKN035 OVC060 22/16 A3005 RMK AO2 T02230158 KMWL 171453Z AUTO 11004KT 7SM CLR 27/21 A2998 RMK AO2 SLP136 T02670211 50003 KMWM 171513Z AUTO 22006KT 10SM SCT032 SCT048 18/12 A2995 RMK AO2 KMWN 171452Z 14002KT 3SM BKN/// BKN/// BKN002 04/02 RMK VIS NW 70 TPS LWR BKN050 BBLO BKN NE-W LIMITING VIS TO 3SM KODX 171453Z AUTO 00000KT 10SM CLR 15/13 A2993 RMK AO2 SLP134 T01500133 50000 KMWO 171455Z AUTO 02004KT 10SM OVC037 15/11 A3009 RMK AO2 T01510112 KOEO 171455Z AUTO 21003KT 10SM SCT065 16/11 A2998 RMK AO2 T01590114 KMXF 171458Z AUTO 02003KT 10SM CLR 27/22 A2997 RMK AO2 SLP150 T02680219 50003 KOFF 171458Z AUTO 12004KT 10SM CLR 19/17 A2993 RMK AO2 SLP136 T01870173 50003 KMVY 171453Z VRB04KT 10SM CLR 20/12 A3001 RMK AO2 SLP162 T02000117 56001 KNOG 171456Z AUTO 21008KT 10SM CLR 27/24 A2998 RMK AO2 SLP130 T02720239 51010 $ LEPA 171500Z 22011KT 180V250 9999 FEW030 29/22 Q1007 NOSIG KMWS 171500Z 20001G02KT 22/15 RMK SNOW DEPTH M PTKK 171451Z 01009KT 15SM SCT014CB BKN120 OVC280 28/26 A2981 RMK CB ALQDS MOV S SLP098 8/371 T02760261 57017 KNPA 171456Z 04006KT 10SM FEW150 SCT250 28/23 A2996 RMK AO2 SLP147 T02780228 50002 KOGA 171515Z AUTO 00000KT 10SM CLR 16/14 A2997 RMK AO2 T01640141 KOGB 171513Z AUTO 00000KT 10SM SCT012 25/20 A2995 RMK AO2 T02500200 KMWT 171453Z AUTO 00000KT 5SM BR SCT005 OVC009 21/19 A3000 RMK AO2 SLP151 T02110189 KOFK 171456Z AUTO VRB03KT 10SM CLR 17/13 A2993 RMK AO2 SLP131 T01720128 58001 KOGD 171453Z 17007KT 10SM CLR 21/07 A3000 RMK AO2 SLP102 T02060067 53011 KMYF 171453Z 00000KT 10SM CLR 28/21 A2975 RMK AO2 SLP068 T02830206 53011 KMXO 171515Z AUTO 00000KT 10SM FEW095 16/10 A3001 RMK AO2 KOFP 171454Z AUTO 00000KT 10SM CLR 22/16 A3006 RMK AO2 SLP177 T02220156 58000 PTKR 172353Z 27012KT 15SM FEW017 SCT120 OVC300 29/25 A2979 RMK SLP087 60012 8/278 T02890246 10289 20250 52019 KNQA 171450Z 07004KT 10SM OVC027 19/15 A3003 LDZA 171500Z 02003KT 290V100 9999 FEW035 20/13 Q1017 NOSIG LFGJ 171500Z AUTO 13006KT 090V150 9999 NSC 26/14 Q1009 KMYL 171451Z AUTO 00000KT 10SM FEW120 12/07 A2998 RMK AO2 SLP117 T01170067 51005 LDZD 171500Z 28011KT 250V320 9999 FEW050 23/13 Q1015 NOSIG KMYP 171518Z AUTO 00000KT 10SM CLR 09/00 A3069 RMK AO2 LEPP 171500Z 15011KT 090V180 9999 SCT054 27/12 Q1006 ESCF 171520Z AUTO 12006KT 090V160 9999NDV NCD 18/11 Q1024 KMZG 171515Z AUTO 19009KT 10SM FEW021 30/25 A2996 RMK A01 KMZH 171513Z AUTO 00000KT 10SM CLR 15/10 A2993 RMK AO2 KMYR 171445Z 02007KT 10SM CLR 26/19 A2994 KNQI 171504Z 18011KT 10SM FEW011 SCT016 BKN250 30/26 A2995 RMK AO2 TCU DSNT SE T03000261 GABS 171500Z 25005KT 200V280 9999 SCT020 SCT090 BKN230 29/23 Q1013 NOSIG KNRB 171452Z 34005KT 10SM FEW020 BKN250 28/22 A2993 RMK AO2 SLP135 T02780222 50003 $ KMYV 171453Z AUTO 16006KT 10SM CLR 18/09 A2977 RMK AO2 SLP085 T01780089 53006 $ ESDF 171520Z 08010KT 9999 FEW030 18/12 Q1023 KMYZ 171515Z AUTO 03003KT 7SM OVC007 20/18 A2994 RMK AO2 FJDG 171455Z 15005KT 9999 FEW020 SCT050 BKN080 26/25 A2988 RMK SLP115 P0000 8/870 T02630248 52017 LERI 171500Z 17011G21KT 120V200 9999 FEW050 32/12 Q1006 NOSIG WIBB 171500Z 00000KT 2000 FU VV012 26/23 Q1009 KOJA 171515Z AUTO 24010G14KT 10SM CLR A2998 RMK AO2 LESA 171500Z 21011KT 9999 FEW030TCU SCT035 20/14 Q1008 KOJC 171458Z 00000KT 7SM BKN009 OVC012 19/19 A2993 RMK AO2 CIG 004V010 T01890189 $ LGAD 171450Z 29006KT 9999 FEW020 SCT180 26/14 Q1012 KPAE 171453Z 00000KT 10SM CLR 14/12 A2980 RMK AO2 SLP089 60000 T01440122 55004 KNSE 171456Z VRB03KT 10SM SCT250 27/22 A2997 RMK AO2 SLP134 T02670222 50003 $ KNQX 171453Z 30004KT 10SM FEW025 BKN250 29/23 A3000 RMK AO2 SLP156 T02940233 51009 $ KPAH 171453Z 15004KT 6SM HZ FEW008 18/14 A3004 RMK AO2 SLP172 T01830139 53002 $ FIMP 171500Z 11003KT 9999 BKN016 22/18 Q1020 KMZZ 171515Z AUTO 00000KT 7SM CLR 15/12 A3005 RMK AO2 T01490116 KNSI 171457Z COR 29017G22KT 10SM CLR 21/15 A2976 RMK AO2 SLP075 T02110150 52010 $ LERS 171500Z 15003KT 090V190 9999 FEW025CB SCT030TCU 26/15 Q1007 KNRS 171456Z 00000KT 7SM FEW015 FEW100 25/22 A2974 RMK AO2 SLP069 T02500217 53009 FIMR 171500Z 11013KT 9999 FEW018 SCT250 22/18 Q1019 LERT 171500Z 19011KT 9999 FEW014TCU 24/20 Q1009 NOSIG KOKB 171452Z AUTO 00000KT 8SM CLR 26/20 A2973 RMK AO2 SLP067 T02610200 53010 LFKB 171500Z 13011KT 100V160 9999 FEW016 BKN230 25/20 Q1012 NOSIG KOKC 171452Z 20009KT 10SM BKN250 26/21 A2996 RMK AO2 SLP130 T02610206 53002 LGAL 171450Z /////KT 9999 SCT030 BKN080 23/13 Q1013 LFKC 171500Z 32004KT 260V020 9999 FEW050 SCT110 26/20 Q1011 NOSIG LFJL 171500Z AUTO 09006KT 040V120 9999 NSC 26/14 Q1010 KNTD 171456Z 33003KT 9SM CLR 23/18 A2974 RMK AO2 SLP073 T02330178 51009 $ KPAM 171458Z AUTO 01005KT 10SM CLR 25/24 A2997 RMK AO2 SLP152 T02520241 51005 $ KPAN 171515Z AUTO 07004KT 9SM -DZ FEW090 18/17 A3011 RMK AO2 KPAO 171447Z VRB04KT 10SM BKN013 18/16 A2982 LESO 171500Z VRB01KT 9999 FEW050 29/14 Q1003 KPBF 171453Z AUTO 12005KT 10SM CLR 23/18 A3001 RMK AO2 SLP160 T02280183 51002 LFKF 171500Z AUTO 08009KT 040V120 9999 NCD 25/20 Q1012 KPBG 171453Z AUTO VRB04KT 10SM CLR 17/04 A3000 RMK AO2 SLP159 T01720044 50001 KPBH 171515Z AUTO 28003KT 10SM CLR 15/09 A2996 RMK AO2 T01450090 KPBI 171453Z 23005KT 10SM FEW032 SCT150 BKN250 29/23 A2997 RMK AO2 SLP148 T02940228 51006 LFJR 171500Z AUTO 10009KT 9999 NSC 26/17 Q1005 LFKJ 171500Z 30006KT 260V340 CAVOK 29/17 Q1010 NOSIG WIDD 171500Z 12004KT 7000 FEW015 267/25 Q1010 KOKK 171515Z AUTO 22004KT 10SM CLR 17/10 A3005 RMK AO1 LFLB 171500Z 00000KT 9999 FEW053 BKN110 25/18 Q1010 NOSIG LEST 171500Z 20010KT 170V250 9999 -RA SCT020 FEW025CB BKN030 19/16 Q1002 TEMPO 3000 RA KNUC 171456Z 24009KT 8SM CLR 22/18 A2977 RMK SLP077 T02170178 53009 LGBL 171450Z 12014KT 9999 FEW025 23/15 Q1013 NOSIG RMK FEW080 BLU LFLC 171500Z 06006KT 030V090 8000 TSRA BKN040 FEW046CB 20/16 Q1008 TEMPO SHRA PTPN 170355Z 25006KT 15SM BKN017TCU OVC300 29/25 A2978 RMK TCU ALQDS LAST KOKM 171515Z AUTO 19009G14KT 10SM CLR 26/22 A2996 RMK AO2 T02620220 LGAV 171450Z 03016KT 9999 SCT020 24/15 Q1013 NOSIG KOLE 171515Z AUTO 19006KT 10SM CLR 12/11 A3005 RMK AO2 LETO 171500Z 21013KT 9999 SCT040 SCT060 26/08 Q1008 NOSIG KOLF 171453Z AUTO 08007KT 10SM CLR 11/04 A2993 RMK AO2 SLP138 T01110044 58001 KOLG 171455Z AUTO 22004KT 10SM CLR 12/08 A2995 RMK AO1 ESGG 171520Z 13005KT 080V150 CAVOK 18/11 Q1022 KNUI 171453Z AUTO 03005KT 10SM CLR 22/12 A3004 RMK AO2 SLP171 T02220117 50002 KOMA 171452Z 16003KT 10SM R14R/5500VP6000FT FEW250 18/13 A2993 RMK AO2 SLP131 T01830133 50001 LFKS 171500Z AUTO 16008KT 9999 SCT015 BKN035 BKN120 24/20 Q1013 ESGJ 171520Z 07003KT CAVOK 17/12 Q1023 LEVC 171500Z 14017KT CAVOK 30/16 Q1006 WS R30 NOSIG KNTU 171456Z 04011KT 10SM SCT028 BKN055 BKN065 23/16 A3001 RMK AO2 SLP163 T02280156 51005 KPDC 171455Z AUTO 00000KT 10SM SCT095 13/10 A3001 RMK AO2 T01250095 LFMC 171500Z 10010KT 070V150 9999 SCT033 SCT050 BKN230 22/18 Q1012 LFLL 171500Z 19017KT CAVOK 28/12 Q1009 NOSIG KOLM 171454Z 00000KT 7SM SCT110 13/12 A2979 RMK AO2 RAB40E52 SLP086 P0000 60000 T01280122 55002 KPCM 171515Z AUTO 00000KT 3SM RA SCT037 BKN046 OVC050 23/ A3000 RMK AO2 P0003 KOKV 171515Z AUTO 00000KT 10SM BKN060 18/10 A3007 RMK AO2 LFMD 171500Z AUTO 08007KT 020V130 9999 FEW030 BKN098 25/17 Q1013 LEVD 171500Z 20016KT 170V240 9999 BKN030TCU 19/12 Q1008 LFLN 171500Z AUTO VRB02KT 9999 ///CB 23/17 Q1008 LFLP 171500Z AUTO VRB03KT 9999 NSC 25/14 Q1011 ESGP 171450Z 12005KT 100V160 CAVOK 19/11 Q1022 KOKZ 171515Z AUTO 00000KT 10SM CLR 26/21 A2997 RMK AO2 T02620206 KNUQ 171456Z 00000KT 10SM OVC013 18/15 A2983 RMK AO2 SLP104 T01830150 53007 KOMH 171515Z AUTO 35005KT 10SM SCT070 21/11 A3007 RMK AO2 LFMH 171500Z 17015KT 9999 FEW036TCU 26/13 Q1010 NOSIG PTSA 170350Z 19009KT 10SM SCT022 BKNK130 BKN300 31/24 A2978 LFMI 171500Z AUTO 14017KT 9999 NSC 25/17 Q1009 ESGR 171520Z AUTO 14004KT 100V180 9999 NCD 18/11 Q1023 KOLS 171454Z AUTO 23003KT 5SM RA BR FEW070 BKN095 OVC110 19/18 A2995 RMK AO2 SLP081 P0011 60027 T01940183 53002 KONA 171512Z AUTO 11004KT 10SM SCT060 BKN090 15/11 A2999 RMK AO2 KPEA 171515Z AUTO 14003KT 10SM SCT055 SCT070 16/13 A3000 RMK AO2 T01610132 LFLS 171500Z AUTO 22013KT 190V250 9999 NSC 26/14 Q1011 KOMK 171453Z AUTO 00000KT 10SM CLR 16/04 A2979 RMK AO2 SLP085 T01610044 53003 KPDK 171453Z VRB04KT 10SM CLR 24/17 A2998 RMK AO2 SLP137 T02440167 58003 KNY0 171515Z AUTO 24008KT 10SM CLR 14/09 A3004 RMK AO2 T01360091 LFMK 171500Z AUTO 08018KT 9999 SCT022 SCT031 26/20 Q1006 LFLU 171500Z AUTO 21010KT 9999 -RA BKN031/// BKN054/// BKN078/// ///TCU 21/19 Q1010 ESIB 171520Z AUTO 09006KT 9999NDV NCD 17/12 Q1023 KOLU 171515Z AUTO 00000KT 10SM CLR 18/13 A2995 RMK AO1 ESGT 171520Z 36007KT CAVOK 16/// Q1023 LFML 171500Z 12015KT 9999 SCT043 BKN063 26/17 Q1010 NOSIG KOLV 171450Z 07005KT 10SM BKN027 OVC250 19/17 A3004 KOMN 171450Z 28005KT 10SM SCT035 25/22 A2995 PTRO 171450Z 22008G15KT 15SM SCT016 BKN120 BKN300 28/24 A2984 LFLW 171500Z AUTO 13010KT 9999 NSC 22/15 Q1009 KPCW 171513Z AUTO 25005KT 10SM CLR 17/12 A3004 RMK AO2 $ KNUW 171456Z 11004KT 10SM FEW050 FEW110 BKN140 OVC210 15/13 A2979 RMK AO2 SLP092 60000 T01500128 56008 LFMN 171500Z 09013KT 9999 FEW016 BKN250 25/18 Q1013 NOSIG LFMO 171500Z AUTO 35005KT 290V020 9999 OVC050/// ///CB 21/19 Q1011 LFLX 171500Z 11006KT CAVOK 25/16 Q1007 NOSIG KOLY 171515Z AUTO 00000KT 10SM SCT022 16/11 A3006 RMK AO2 LFMP 171500Z 12010KT 9999 FEW020CB SCT280 28/19 Q1006 NOSIG LFLY 171500Z AUTO 18015KT 9999 NSC 28/12 Q1009 KOLZ 171515Z AUTO VRB04KT 10SM CLR 17/10 A3001 RMK AO2 KPCZ 171455Z AUTO 25007KT 10SM CLR 16/10 A3000 RMK AO2 T01630099 KOOA 171515Z AUTO 15004KT 10SM OVC075 15/13 A2999 RMK AO2 T01500133 LFOA 171500Z AUTO 16006KT 9999 NSC 24/15 Q1008 LEVS 171500Z 19010KT 130V230 9999 SCT030TCU BKN040 25/09 Q1008 LEVT 171500Z 24008KT 200V280 9999 SCT055 28/11 Q1005 KPDT 171453Z 14007KT 10SM CLR 17/02 A2978 RMK AO2 SLP069 T01670022 53000 LFMT 171500Z 13026KT 9999 FEW016 SCT026 BKN046 23/20 Q1008 RESHRA NOSIG LFOB 171500Z AUTO 13007KT 100V170 9999 FEW040 OVC180 25/17 Q1008 KONL 171515Z AUTO 00000KT 10SM CLR 17/16 A2994 RMK AO2 T01740158 LGEL 171450Z 01009KT 9999 FEW025 26/13 Q1012 LFOC 171500Z AUTO 15008KT 9999 NSC 24/16 Q1007 LFMU 171500Z AUTO 11018G29KT 080V140 9999 BKN010 BKN022 OVC031 24/20 Q1008 KONM 171515Z AUTO 00000KT 10SM -RA SCT004 SCT007 OVC013 17/16 A3017 RMK AO2 P0001 T01660160 LFMV 171500Z AUTO 13005KT 100V160 9999 -RA FEW035/// SCT048/// BKN054/// ///CB 24/19 Q1010 ETAD 171458Z AUTO 11007KT 9999 CLR 24/15 A2988 RMK AO2 SLP100 T02380150 57012 $ LFOE 171500Z AUTO 08009KT 060V120 9999 NSC 25/14 Q1007 LEVX 171500Z 19010G20KT 100V240 9999 SCT015 BKN026CB 20/18 Q1003 TEMPO 3000 SHRA SCT020CB KONO 171453Z AUTO 00000KT 10SM CLR 16/09 A2985 RMK AO2 SLP096 T01610094 53009 KPEO 171453Z AUTO 19006KT 10SM CLR 17/07 A3005 RMK AO2 SLP176 T01670072 58005 KPDX 171453Z 00000KT 10SM SCT120 OVC200 17/13 A2975 RMK AO2 SLP072 T01670133 56009 KNXF 171511Z AUTO VRB04KT 3SM BR CLR A2974 RMK AO2 $ RCKH 171500Z 06002KT 7000 FEW016 SCT048 BKN080 30/27 Q1013 NOSIG RMK A2993 KONP 171455Z AUTO 10003KT 7SM CLR 14/13 A2977 RMK AO2 LFMY 171500Z AUTO 11006KT 9999 FEW046/// OVC062/// ///CB 25/18 Q1010 KPEQ 171515Z AUTO 14004KT 10SM CLR 23/18 A3005 RMK AO2 T02310184 LFOH 171500Z AUTO 11008KT 080V150 9999 NSC 26/15 Q1007 LEXJ 171500Z 22009KT 170V250 9999 FEW050 31/10 Q1001 KPGA 171453Z AUTO 20004KT 10SM CLR 23/13 A3007 RMK AO2 SLP115 T02330128 53009 LFOJ 171500Z AUTO 18008KT 9999 NSC 24/16 Q1007 KONT 171453Z 00000KT 10SM CLR 29/19 A2979 RMK AO2 SLP064 T02890189 53012 LFOK 171500Z AUTO 13007KT 9999 NSC 26/15 Q1009 LFPB 171500Z AUTO 14007KT 100V170 9999 NSC 25/16 Q1007 KNYC 171451Z AUTO 00000KT 10SM CLR 19/07 A3008 RMK AO2 SLP178 T01890067 50000 LFPC 171500Z AUTO 14003KT 100V180 9999 NSC 25/16 Q1007 KPGD 171453Z 00000KT 10SM FEW120 27/23 A2999 RMK AO2 RAE01 SLP157 P0000 60000 T02720233 53004 WIHH 170900Z 04008KT 7000 NSC 32/18 Q1008 NOSIG KOPF 171453Z 30007KT 10SM CLR 30/22 A2999 RMK AO2 SLP156 T03000217 53006 PTTP 171450Z 09005KT 15SM SCT018 BKN300 24/24 A2985 RMK SLP107 8/101 T02420236 57010 KPEX 171514Z AUTO 30003KT 10SM CLR 15/11 A2995 RMK AO2 T01480108 KONX 171515Z AUTO 05008KT 10SM OVC080 24/15 A3000 RMK AO2 T02370148 VQPR 170920Z 14014KT 9999 FEW030CB SCT030 26/12 Q1012 NOSIG KNXP 171456Z AUTO 00000KT 10SM CLR 24/17 A2995 RMK AO2 SLP104 T02440172 51011 $ KNYG 171456Z 36006KT 10SM FEW020 SCT070 21/14 A3007 RMK AO2 SLP183 T02110139 58001 LFPG 171500Z 14008KT 9999 FEW041 SCT150 BKN260 25/15 Q1008 NOSIG LFOP 171500Z AUTO 11009KT 9999 FEW042 OVC150 25/16 Q1007 KONZ 171514Z AUTO 26007KT 10SM CLR 15/06 A3003 RMK AO2 KPEZ 171515Z AUTO 17003KT 10SM BKN008 BKN028 OVC060 26/24 A2998 RMK AO2 T02630235 ETAR 171458Z AUTO 06009KT 9999 CLR 25/12 A2986 RMK AO2 SLP110 60000 T02540124 56010 $ LFQA 171500Z AUTO 14008KT 9999 NSC 26/16 Q1008 LFOT 171500Z AUTO 15006KT 100V200 9999 NSC 26/15 Q1006 LFQB 171500Z AUTO 15003KT 070V180 9999 NSC 27/14 Q1008 KOPL 171515Z AUTO 00000KT 10SM SCT004 24/23 A2999 RMK AO2 T02390226 KNYL 171457Z 29005KT 10SM FEW060 SCT100 BKN200 29/22 A2976 RMK AO2 SLP074 T02890222 53007 KPHD 171453Z AUTO 09003KT 10SM CLR 17/11 A3006 RMK AO2 SLP181 T01670106 58009 KOPM 171515Z AUTO 18010KT 10SM SCT019 SCT024 29/24 A2995 RMK A01 LFPM 171500Z AUTO 11006KT 9999 NSC 26/16 Q1007 LFOV 171500Z AUTO 11008KT 9999 NSC 25/17 Q1006 KOPN 171515Z AUTO 32004KT 10SM CLR 27/21 A2999 RMK AO2 LFPN 171500Z AUTO 10007KT 9999 NSC 25/16 Q1008 ESKN 171520Z 12007KT CAVOK 17/09 Q1025 KPHF 171454Z 06010KT 10SM FEW029 BKN065 24/16 A3003 RMK AO2 SLP167 T02440161 51005 KQA4 171455Z 36013G18KT 9999 CLR 30/M06 A2987 RMK SLP045 WND DATA ESTMD ALSTG/SLP ESTMD Q1011 52017 LFPO 171500Z 12007KT 080V150 9999 FEW044 BKN230 25/15 Q1007 NOSIG LFQG 171500Z AUTO VRB02KT 9999 ///CB 20/17 Q1008 WIII 171500Z 11008KT 7000 FEW023 27/22 Q1012 NOSIG LEZG 171500Z 19009KT 160V240 9999 FEW040 SCT055 29/10 Q1006 NOSIG LGHI 171450Z 01007KT 9999 FEW020 26/13 Q1009 KPIA 171454Z 19006KT 10SM OVC090 15/11 A3005 RMK AO2 SLP175 60000 T01500111 53003 KORB 171513Z AUTO 00000KT 10SM OVC008 11/08 A2994 RMK AO2 KPIB 171515Z AUTO 00000KT 10SM CLR 27/21 A3000 RMK AO1 LFRB 171500Z 15012KT 9999 SCT030 SCT100 25/16 Q1003 NOSIG LFPT 171500Z AUTO 09007KT 060V120 9999 NSC 24/16 Q1007 GAMB 171500Z 22008KT 9999 FEW030 SCT250 32/22 Q1011 LEZL 171500Z 22020KT 9999 FEW030TCU SCT035 25/16 Q1008 NOSIG KPHL 171454Z 07005KT 10SM FEW044 FEW065 FEW250 21/09 A3006 RMK AO2 SLP179 T02110094 50000 KORC 171515Z AUTO 21004KT 10SM CLR 19/13 A2994 RMK AO2 LFRC 171500Z AUTO 07014KT 4400 BR BKN008 BKN180 20/16 Q1007 KORD 171451Z VRB04KT 10SM FEW250 16/07 A3003 RMK AO2 SLP168 T01560072 58007 $ KPGV 171510Z AUTO 07008KT 7SM SCT021 BKN034 BKN048 23/19 A3000 RMK AO2 LFPV 171500Z AUTO 11005KT 070V170 9999 NSC 26/15 Q1008 LFRD 171500Z AUTO 11006KT 9999 NSC 24/17 Q1005 KORE 171452Z AUTO VRB03KT 10SM CLR 16/08 A3003 RMK AO2 SLP170 T01610083 58005 KPIE 171511Z 11003KT 3SM VCTS +RA BR BKN012 BKN025 OVC090 23/23 A2997 RMK AO2 P0008 T02330228 KPHN 171515Z AUTO 20008KT 10SM CLR 15/09 A3003 RMK AO2 KORF 171451Z AUTO 06011KT 10SM FEW029 BKN065 OVC080 22/15 A3001 RMK AO2 SLP161 60003 T02220150 53003 TSNO RCMQ 171500Z 36004KT 4000 BR FEW006 SCT020 27/26 Q1014 NOSIG RMK A2995 KORG 171515Z AUTO 02003KT 10SM SCT008 SCT027 OVC065 27/27 A2999 RMK AO2 T02650265 KPHP 171455Z AUTO VRB04KT 10SM CLR 16/12 A2994 RMK AO2 SLP130 T01610117 53009 LFRG 171500Z AUTO VRB03KT 9999 NSC 26/17 Q1007 KPIH 171453Z 06004KT 10SM SCT120 15/10 A3001 RMK AO2 SLP121 60005 T01500100 53002 KORH 171454Z 30006KT 10SM CLR 16/07 A3003 RMK AO2 SLP170 T01560067 50001 LFQQ 171500Z 08008KT CAVOK 26/15 Q1009 NOSIG LFRH 171500Z AUTO 14012KT 9999 NSC 24/17 Q1004 LFRI 171500Z AUTO 19010KT 160V230 9999 NSC 27/14 Q1005 KOSA 171515Z AUTO 00000KT 10SM CLR 26/23 A3000 RMK AO1 T02550228 LFRJ 171500Z AUTO 13007KT 9999 SCT040 BKN110 25/17 Q1004 KOQT 171453Z AUTO VRB05KT 10SM CLR 19/12 A3003 RMK AO2 SLP159 T01940122 58007 KPHT 171515Z AUTO 00000KT 10SM CLR 17/13 A3006 RMK LFRK 171500Z AUTO 11010KT 9999 NSC 26/16 Q1006 LFSB 171500Z 35004KT 330V050 9999 FEW036 FEW040CB BKN150 BKN250 24/17 Q1010 NOSIG KOQU 171450Z 07006KT 15SM SKC 19/08 A3002 ESMK 171520Z 10011KT CAVOK 17/14 Q1022 KORL 171508Z 24008KT 10SM SCT020 SCT028 OVC039 27/22 A2996 RMK AO2 T02720222 KPIL 171453Z AUTO 20007KT 6SM HZ FEW014 29/25 A2995 RMK AO2 SLP142 T02890250 53010 KOSC 171513Z AUTO 25008KT 10SM CLR 17/09 A2997 RMK AO2 T01790095 ETEB 171458Z AUTO 09005KT 9999 CLR 22/14 A2994 RMK AO2 SLP142 T02180138 57010 LFRL 171500Z AUTO 10008KT 050V150 9999 SCT039 SCT046 BKN120 26/17 Q1003 LFSD 171500Z AUTO 14008KT 110V170 9999 NSC 27/14 Q1009 LFRM 171500Z AUTO 16004KT 120V200 9999 NSC 25/17 Q1006 LFRN 171500Z AUTO 12010KT 090V150 9999 NSC 25/17 Q1005 KPHX 171451Z 07009KT 10SM FEW100 SCT120 BKN140 28/19 A2980 RMK AO2 SLP071 60000 T02780194 53000 LGIO 171450Z AUTO 29004KT 240V340 //// // ////// 25/11 Q1013 RE// LFRO 171500Z AUTO 07007KT 030V120 9999 NSC 24/17 Q1004 KNZY 171452Z 33005KT 10SM FEW015 FEW100 27/21 A2972 RMK AO2 SLP065 T02670206 53010 $ LFSG 171500Z AUTO VRB03KT 9999 NSC 26/12 Q1010 ESNG 171520Z 02005KT 340V060 CAVOK 16/05 Q1021 KOSH 171453Z VRB05KT 10SM BKN085 16/09 A3000 RMK AO2 SLP156 T01560094 58005 LFRQ 171500Z AUTO 15012KT 9999 NSC 24/18 Q1003 PTYA 171452Z 20009KT 12SM FEW016 SCT130 BKN300 28/25 A2985 RMK SLP110 8/171 T02800251 403090248 50000 ESMQ 171520Z 09008KT CAVOK 17/13 Q1024 KPIR 171453Z AUTO 00000KT 10SM CLR 16/13 A2992 RMK AO2 SLP129 T01610133 51009 LGIR 171450Z 34009KT 9999 FEW020 27/20 Q1011 NOSIG LFSI 171500Z AUTO 14005KT 9999 NSC 26/15 Q1009 KORS 171515Z AUTO 00000KT 10SM FEW100 15/13 A2977 RMK AO2 LFRS 171500Z 19008KT 140V230 CAVOK 29/15 Q1004 NOSIG KQBB 170755Z AUTO VRB01KT 7SM CLR 43/18 A2981 RMK AO2 SLP091 T04310180 $ KPIT 171451Z VRB04KT 10SM FEW026 SCT055 SCT250 17/09 A3006 RMK AO2 SLP185 T01670089 58004 ESMS 171520Z 10013KT CAVOK 18/11 Q1021 KPKB 171453Z VRB03KT 7SM CLR 16/12 A3008 RMK AO2 SLP183 T01610122 58003 LFRT 171500Z AUTO 13008KT 090V170 9999 FEW029 24/17 Q1005 LGKC 171450Z 15006KT 9999 FEW014 26/18 Q1014 ESNK 171520Z 18005KT CAVOK 19/13 Q1023 ESMT 171520Z 14008KT CAVOK 20/07 Q1021 LHBC 171445Z 36004KT 9999 FEW033 BKN200 21/13 Q1019 LFSL 171500Z AUTO 11012KT 080V150 9999 TS ///CB 25/16 Q1007 ESNL 171450Z 21004KT 180V250 CAVOK 19/09 Q1022 KPKD 171453Z AUTO 36006KT 10SM CLR 14/09 A2995 RMK AO2 SLP145 T01390089 53007 TSNO LFRV 171500Z AUTO 17010KT 140V220 //// // FEW038 25/16 Q1004 LFSN 171500Z AUTO 15004KT 110V200 9999 NSC 26/15 Q1010 ESOE 171520Z 07004KT 020V100 9999 FEW035 18/12 Q1024 ESNN 171520Z 13008KT CAVOK 17/12 Q1024 LGKF 171450Z 33011KT 9999 FEW018 SCT160 26/17 Q1013 RMK FEW080 R14 21010KT QNH 1013.1 KQBF 171455Z AUTO VRB05KT 9999 FEW029 30/21 A2991 RMK AO2 SLP114 T02990207 56029 LFSO 171500Z AUTO 15003KT 090V190 9999 NSC 25/13 Q1010 ESNO 171520Z 18005KT CAVOK 17/12 Q1023 ESMX 171520Z 13006KT 080V170 9999 FEW039 19/09 Q1023 KOTG 171515Z AUTO 00000KT 10SM SCT050 17/11 A2995 RMK AO1 KS25 171515Z AUTO 08003KT 10SM CLR 14/05 A2994 RMK AO2 KOTH 171515Z 17006KT 10SM CLR 14/14 A2975 RMK AO1 LFRZ 171500Z AUTO 21012KT 9999 NSC 26/17 Q1004 LFTH 171500Z AUTO 08014KT 9999 SCT016/// BKN037/// BKN056/// ///CB 23/20 Q1012 ESNQ 171520Z VRB03KT CAVOK 10/05 Q1022 GANR 171500Z 26006KT 9999 FEW030 SCT150 SCT250 33/22 Q//// ESPA 171520Z 19009KT CAVOK 13/12 Q1021 ESNS 171520Z 22004KT CAVOK 17/11 Q1022 KQBK 171456Z AUTO 09005KT 9999 CLR 39/07 A2969 RMK AO2 SLP884 T03900072 53169 LFST 171500Z AUTO 05005KT 9999 FEW008 SCT120 24/16 Q1010 ESOK 171520Z 12004KT 080V150 9999 FEW031 16/09 Q1024 KOSU 171453Z VRB03KT 10SM OVC040 16/11 A3006 RMK AO2 SLP179 6//// T01610106 58004 PNO $ LGKL 171450Z 03013KT 9999 FEW030 28/12 Q1011 KQCC 171455Z AUTO VRB04KT 10SM CLR RMK AO2 SLPNO 53019 $ KQBL 171456Z AUTO 35002KT 10SM CLR 27/23 A2998 RMK AO2 SLP159 T02720229 53001 ESNU 171520Z 16007KT 9999 FEW009 15/12 Q1023 KOTM 171453Z AUTO 15/13 A2998 RMK AO2 SLP153 T01500128 53003 $ LGKO 171450Z 32018KT 9999 FEW018 24/16 Q1009 ESPE 171520Z AUTO 29007KT 9999NDV NCD 19/05 Q1021 LFSX 171500Z AUTO VRB03KT 9999 NSC 26/16 Q1010 LGKP 171050Z 29021KT 9999 FEW020 27/18 Q1009 ESNX 171520Z 27004KT CAVOK 17/05 Q1022 LHBP 171500Z VRB03KT CAVOK 21/11 Q1019 NOSIG KQAY 171455Z AUTO 34006G10KT 9999 CLR 39/05 A2965 RMK AO2 SLP038 T03930052 52006 $ KQAZ 171400Z AUTO 16006KT 4800 HZ CLR 36/15 A2987 RMK CDP03565 CLR ETGG 171420Z 10012KT 9999 BKN250 20/12 Q1018 BLU+ ESNZ 171520Z 36003KT 0150 R12/0325N R30/P1500D FG OVC000 11/08 Q1023 LGKR 171450Z 32011KT 9999 FEW025 BKN200 26/17 Q1012 ETHA 171420Z 06007KT 9999 FEW030 21/13 Q1013 BLU+BLU+ VRMM 171500Z 27014KT 8000 -RA SCT017TCU OVC090 25/24 Q1012 TEMPO 2000 SHRA WIMM 171500Z 00000KT 2000 FU BKN017 28/25 Q1010 KS39 171515Z 00000KT 10SM CLR 16/03 A2986 RMK AO2 CRANE OPERATIONS 1 MILE NE OF AIRPORT AT APPROXIMATELY 150 AGL LHDC 171445Z 00000KT 9999 FEW030 SCT200 22/13 Q1019 NOSIG KQCL 171055Z AUTO VRB04KT 9999 CLR 31/14 A2984 RMK AO2 SLP019 T03110136 $ ETHB 171420Z 09011KT 9999 FEW045 24/14 Q1013 BLU+BLU+ ETHC 171420Z 09012KT 9999 FEW045 24/12 Q1014 BLU+BLU+ KPMD 171453Z 28003KT 10SM CLR 24/10 A2988 RMK AO2 SLP087 T02440100 51005 KPKV 171515Z AUTO 24005KT 10SM CLR 29/26 A2996 RMK AO2 T02860256 LGLM 171450Z 36009KT 9999 FEW020 SCT030 BKN080 22/14 Q1013 LGKV 171450Z 00000KT 9999 FEW025 BKN080 23/13 Q1014 KOVE 171453Z AUTO 14004KT 10SM CLR 20/07 A2979 RMK AO2 SLP087 T02000067 53006 KPLN 171254Z AUTO 23006KT 10SM SCT110 13/11 A2996 RMK AO2 SLP147 T01330111 KOUN 171515Z AUTO 20011KT 10SM CLR 27/21 A2998 RMK AO2 LTG DSNT NW LFTW 171500Z AUTO 15018G29KT 9999 FEW040/// OVC054/// ///CB 24/18 Q1009 ETHE 171420Z AUTO 06006KT 7000 // ////// 24/14 Q1012 /// ESOW 171520Z 25003KT 220V290 9999 FEW045 18/10 Q1025 ETHF 171500Z 09005KT 9999 FEW043 23/14 Q1012 BLU+FCST CANCEL LGKZ 171450Z 18006KT 9999 SCT025 BKN070 20/10 Q1015 LGLR 171450Z 06013KT 9999 SCT035 25/13 Q1014 NOSIG RMK FEW080 BLU KQEA 171455Z AUTO 00000KT 9999 -RA FEW000 SCT050 BKN140 25/23 A2982 RMK AO2 RAB1255DZB1356E1410B1432E1436 SLP098 P0001 60006 T02500226 58012 KOWA 171515Z AUTO 19005KT 10SM CLR 17/11 A2997 RMK AO2 KPNA 171515Z AUTO 31015G26KT 10SM -VCTSRA SCT065 BKN085 OVC090 12/07 A3031 RMK AO2 LTG DSNT SE THRU SW KOWB 171456Z 13004KT 6SM HZ FEW002 BKN025 15/12 A3007 RMK AO2 51003 T01500116 SLP182 LGMK 171450Z 34018KT 9999 FEW018 23/15 Q1011 KPNC 171453Z AUTO 21011KT 7SM CLR 26/21 A2992 RMK AO2 SLP122 T02610206 54000 TSNO KOVL 171514Z AUTO 00000KT 10SM CLR 17/11 A2993 RMK AO2 ETHL 171420Z 04007KT 9999 FEW020 SCT280 19/15 Q1013 BLU+BLU+ KOWD 171453Z 00000KT 10SM CLR 19/08 A3001 RMK AO2 SLP160 T01940078 58004 ETIC 171458Z AUTO VRB02KT 9999 CLR 23/13 A2995 RMK AO2 SLP135 57010 KPNE 171454Z 06006KT 10SM CLR 21/07 A3007 RMK AO2 SLP183 T02110067 50001 ETHN 171500Z 08007KT 9999 FEW020 SCT230 21/14 Q1013 BLU+FCST CANCEL LFVP 171500Z 13007KT 9999 SCT023 17/11 Q1013 NOSIG KPMP 171453Z VRB05KT 10SM FEW075 BKN250 30/21 A2998 RMK AO2 SLP154 T03000211 51006 ETIH 171458Z AUTO 08004KT 9999 CLR 23/13 A2995 RMK AO2 SLP136 56012 KQEI 171520Z AUTO 15002KT 9999 BKN250 14/10 A3011 RMK A02 TSNO KOVS 171453Z AUTO VRB03KT 10SM OVC095 12/09 A3002 RMK AO2 SLP170 T01170094 58003 PWAK 171458Z AUTO 08016KT 9999 FEW021 28/25 A2990 RMK AO2 SLP131 60006 T02810252 57019 ETHS 171420Z 09012KT 9999 FEW040 23/13 Q1015 BLACKBLU+BLU+ ESSA 171520Z 15007KT 9999 SCT045 18/09 Q1025 NOSIG KOXB 171453Z AUTO 05010KT 10SM CLR 22/12 A3004 RMK AO2 SLP171 T02220117 50000 TSNO $ LGMT 171450Z 36007KT 9999 FEW020 SCT090 26/16 Q1010 KPOB 171458Z AUTO 05007KT 10SM OVC015 23/19 A2997 RMK AO2 SLP150 T02270193 51005 KPOC 170347Z 00000KT 10SM FEW120 30/13 A2980 RMK LAST ESSB 171520Z 16005KT 130V190 9999 FEW041 18/09 Q1025 KOXC 171450Z 33007KT 10SM SCT025 1708 A3006 ETIK 171458Z AUTO VRB04KT 9999 CLR 23/15 A2993 RMK AO2 SLP131 T02290150 56012 KQEL 171520Z AUTO 04001KT 6000 HZ FEW085 BKN250 15/12 A3012 RMK A02 TSNO KPNM 171501Z AUTO 25002KT 10SM CLR 17/12 A2995 RMK AO2 WIOO 171500Z 00000KT 5000 FU FEW012CB SCT012 26/24 Q1011 KPMV 171515Z AUTO 16003KT 10SM CLR 19/15 A2994 RMK AO2 T01900145 ESSD 171520Z 16004KT CAVOK 16/06 Q1025 KPOE 171455Z AUTO 00000KT 10SM OVC003 24/23 A3000 RMK AO2 SLP158 T02390228 53002 KQEN 171520Z AUTO 8000 OVC003 / / RMK A02 TSNO KPOF 171453Z AUTO 00000KT 8SM OVC022 14/11 A3005 RMK AO2 SLP175 T01440106 52009 KOWP 171515Z AUTO 18008KT 10SM CLR 28/22 A2995 RMK AO2 T02800215 KQEP 171520Z AUTO 17001KT 9999 CLR 16/12 A3001 RMK A02 TSNO KQFG 171455Z AUTO 12008G14KT 060V160 7000 FEW240 32/16 A2970 RMK AO2 SLP015 T03210161 53014 $ KQEQ 171520Z AUTO 04003KT 9999 BKN240 17/11 A2993 RMK A02 TSNO RCSS 171500Z 09010KT 050V110 9999 FEW025 29/23 Q1013 NOSIG RMK A2994 KOXI 171515Z AUTO 16003KT 10SM CLR 16/10 A3003 RMK AO1 T01580099 KQER 171520Z AUTO 22002KT / /CLR 15/10 A3007 RMK A02 TSNO KPNS 171453Z 05005KT 10SM CLR 26/22 A2996 RMK AO2 SLP148 T02560222 50003 KPPA 171515Z AUTO 25012G20KT 10SM CLR 24/16 A3006 RMK AO2 T02370155 LGPA 171450Z AUTO 34015KT //// // ////// 25/15 Q1011 RE// KQES 171520Z AUTO 14003KT 9999 FEW042 18/15 A3007 RMK A02 TSNO ESTA 171520Z 11013KT CAVOK 19/10 Q1021 KPNT 171455Z AUTO 00000KT 10SM CLR 16/11 A3003 RMK AO2 ESSL 171520Z 15006KT 110V190 9999 FEW043 19/10 Q1024 KQEV 171520Z AUTO 29001KT 9999 CLR 14/11 A3004 RMK A02 TSNO WIPP 171500Z 10005KT 9999 SCT015 27/23 Q1011 KQEW 171520Z AUTO 08001KT 9999 SCT044 SCT095 BKN110 18/15 A3004 RMK A02 TSNO FKKD 171500Z 26008KT 9999 SCT016 FEW020CB BKN120 30/24 Q1010 NOSIG LGNX 171450Z 33014KT 9999 SCT020 25/18 Q1011 RCTP 171500Z 07010KT 9999 FEW020 SCT050 30/23 Q1013 NOSIG RMK A2993 KPPF 171452Z AUTO 21009KT 8SM CLR 26/22 A2994 RMK AO2 SLP130 T02560217 51003 KQEX 171520Z AUTO 03002KT 9999 CLR 20/14 A3007 RMK A02 TSNO KQEY 171520Z AUTO 19001KT 9999 CLR 15/12 A3005 RMK A02 TSNO KQFQ 171455Z AUTO VRB03KT 8SM FEW070 15/14 A3004 RMK AO2 SLP170 T01540142 52004 $ ESSP 171520Z 14009KT CAVOK 18/10 Q1024 WIPT 171500Z 00000KT 6000 BKN018 26/25 Q1010 KOXR 171451Z 00000KT 6SM BR CLR 20/18 A2974 RMK AO2 SLP070 T02000178 51009 KOZA 171515Z AUTO 17007KT 10SM BKN012 24/20 A3008 RMK AO2 KQFT 171520Z AUTO 36002KT 9999 FEW021 BKN070 18/13 A3005 RMK A02 TSNO KPOU 171453Z 12003KT 10SM CLR 16/09 A3006 RMK AO2 SLP175 T01610089 58002 KQFU 171500Z AUTO 05001KT 9999 // CLR 17/13 A3007 RMK A02 TSNO ESTL 171520Z AUTO 12013KT 9999NDV NCD 19/10 Q1021 KPOV 171514Z AUTO 22003KT 10SM CLR 17/07 A3006 RMK AO2 T01650073 KOXV 171515Z AUTO VRB04KT 10SM OVC065 16/13 A2996 RMK AO2 KQFV 171520Z AUTO 36001KT 9999 CLR 13/11 A3009 RMK A02 TSNO ESUD 171520Z AUTO 15002KT 9999 NCD 16/10 Q1022 ESSV 171520Z 16007KT 130V200 CAVOK 18/08 Q1025 KQFW 171520Z AUTO 18002KT 9999 BKN070 16/11 A3007 RMK A02 TSNO FKKN 171500Z 22004KT 9999 -TSRA BKN016 FEW026CB BKN100 19/18 Q1015 KPPO 171455Z AUTO 24003KT 10SM CLR 15/10 A3005 RMK AO2 T01460096 KQFX 171520Z AUTO 19001KT 4800 HZ FEW020 16/13 A3005 RMK A02 TSNO KPOY 171455Z AUTO 17007KT 10SM CLR 20/03 A3003 RMK AO2 LTG DSNT S KPPQ 171515Z AUTO 15004KT 7SM OVC055 14/12 A3003 RMK AO2 T01420121 KPQI 171515Z AUTO 02008KT 10SM SCT023 BKN032 OVC041 12/06 A2993 RMK AO1 LFYR 171500Z AUTO 11003KT 9999 NSC 24/16 Q1007 FKKR 171500Z 28004KT 9999 FEW020 FEW023CB 31/21 Q1009 NOSIG KPRB 171453Z AUTO 00000KT 10SM CLR 16/08 A2984 RMK AO2 SLP097 T01610083 53006 KPQL 171453Z 36004KT 10SM CLR 26/22 A2997 RMK AO2 SLP151 T02610222 50003 KPRC 171453Z 00000KT 10SM BKN024 OVC060 18/15 A3010 RMK AO2 RAE07 SLP120 P0000 60000 T01830150 51007 KQGV 171455Z 33010G18KT 9999 CLR 38/03 A2969 RMK SLPNO QNH1005MB PA +679 53008 KPQN 171514Z AUTO 00000KT 10SM CLR 16/12 A2994 RMK AO2 KQGX 171458Z AUTO 34011KT 9999 CLR 35/27 A2962 RMK AO2 SLPNO T03450273 51007 $ KPRG 171515Z AUTO 00000KT 10SM CLR 16/12 A3007 RMK AO2 T01640121 LGPZ 171450Z 30011KT 9999 FEW020 25/16 Q1013 NOSIG KOZR 171458Z AUTO 05006KT 10SM CLR 26/22 A2997 RMK AO2 SLP149 T02620223 50004 $ LGSA 171450Z 34008KT 9999 SCT020 27/18 Q1012 VTBD 171500Z 20007KT 160V220 9999 FEW020 SCT120 BKN300 28/23 Q1008 NOSIG ESUT 171520Z AUTO 32006KT 9999 FEW160/// 15/07 Q1023 KPSC 171453Z 33004KT 10SM CLR 14/12 A2974 RMK AO2 SLP068 T01440117 50000 KRAC 171453Z AUTO VRB03KT 10SM CLR 16/08 A3004 RMK AO2 SLP172 T01610078 58008 ETND 171420Z 09011KT 9999 FEW045 24/13 Q1013 BLU+ KOZW 171515Z AUTO 26005KT 10SM CLR 14/07 A3004 RMK AO2 T01430067 KPRN 171456Z AUTO 08003KT 9SM CLR 28/22 A2997 RMK AO2 SLP144 T02780217 50006 ETMN 171420Z 10011KT 9999 SCT120 BKN210 23/13 Q1015 BLU+BLU+ KPSF 171454Z AUTO 31005KT 10SM FEW028 14/07 A3004 RMK AO2 SLP162 T01440072 58001 KPRO 171515Z AUTO 15003KT 10SM CLR 18/13 A2996 RMK AO2 T01790131 LGRP 171450Z 26017KT 9999 FEW018 28/20 Q1008 NOSIG KQHY 171456Z AUTO 04003KT 10SM CLR 27/23 A2998 RMK AO2 SLP159 60001 T02670229 53001 KQL5 171455Z 11009G15KT 8000 HZ CLR 32/19 A2966 RMK SLP006 T03210186 53017 ETNG 170550Z 09006KT CAVOK 12/12 Q1013 ETNH 171420Z 05017KT 9999 BKN320 21/11 Q1017 BLU+BLU+ KQIR 171458Z 09009KT 9999 CLR 37/19 A2962 RMK AO2A SLP031 T03660190 53005 LIBA 171455Z 08009KT 9999 FEW030 24/17 Q1014 RMK BKN BKN090 VIS MIN 9999 WIND THR29 08008KT BLU VTCC 171500Z 22006KT 9999 BKN035 28/21 Q1007 A2975 NOSIG KPRS 171515Z AUTO 03005KT 10SM CLR 26/17 A3004 RMK AO2 T02590165 LGSK 171450Z 03009KT 9999 FEW018TCU SCT020 22/17 Q1014 KPTB 171515Z AUTO 08007KT 10SM OVC060 22/12 A3004 RMK AO2 T02240120 KPSK 171515Z AUTO 12007KT 10SM BKN026 OVC038 18/13 A3009 RMK AO2 T01770127 KT20 171515Z AUTO 20007KT 10SM SCT014 OVC022 28/25 A2997 RMK AO2 T02750245 LIBC 171450Z 05005KT 010V100 9999 SCT020 SCT070 23/18 Q1015 KRAL 171453Z 00000KT 10SM CLR 29/18 A2978 RMK AO2 SLP067 T02890178 53011 ETNL 171420Z 09013KT 9999 BKN200 22/13 Q1018 BLU+BLU+ LIBD 171520Z 05006KT 010V070 9999 FEW030 22/16 Q1015 KRBD 171453Z VRB04KT 10SM CLR 27/22 A2998 RMK AO2 SLP143 T02720217 53001 LGSM 171450Z 34008KT 9999 SCT020 27/16 Q1009 KPSM 171458Z VRB02KT 10SM FEW040 19/09 A2999 RMK AO2A SLP159 T01870093 58001 KPSN 171515Z AUTO 00000KT 10SM OVC005 24/23 A3000 RMK AO2 T02450235 LHKE 171515Z 00000MPS CAVOK 21/10 Q1019 NOSIG RMK BLU LIBF 171450Z 01005KT CAVOK ///// Q//// VTCH 171200Z 17004KT 110V240 9999 FEW025 30/22 Q1001 A2957 ETNN 171420Z 08003KT 9999 FEW040 24/13 Q1011 BLU+BLU+ KPRX 171515Z 14003KT 10SM CLR 26/21 A3000 RMK AO1 KPSO 171515Z AUTO 00000KT 10SM CLR 14/06 A3030 RMK AO2 T01380064 LGRX 171450Z 24008KT 9999 FEW020 SCT180 26/17 Q1012 NOSIG LGSO 171450Z 33013KT 9999 SCT018 25/15 Q1012 LIBG 171450Z 04008KT 360V060 9999 FEW030 SCT040 24/16 Q1014 LGTG 171450Z 34005KT 9999 FEW025 24/14 Q1013 NOSIG RMK FEW080 BLU KRAP 171452Z 35006KT 10SM CLR 21/07 A2997 RMK AO2 SLP135 T02060067 51007 KPSP 171453Z 00000KT 10SM CLR 31/19 A2980 RMK AO2 SLP084 T03060194 53011 KRBG 171453Z AUTO 00000KT 10SM CLR 16/12 A2976 RMK AO2 SLP074 T01610117 53001 LIBH 171455Z 19006KT 9999 FEW022 27/19 Q1014 RMK BKN SCT180 QUK / QUL / VIS MAR 20 KM VIS MIN 9999 VTBS 171500Z 20007KT 9999 FEW020 SCT120 BKN300 28/23 Q1009 NOSIG LGSR 171450Z 34014KT 9999 FEW020 26/16 Q1011 NOSIG VTCL 171000Z 18006KT 9999 SCT025 BKN100 BKN200 31/25 Q1000 A2955 INFO VTBU 171500Z 25008KT 7000 -RA FEW018CB SCT035 BKN120 26/24 Q1010 A2983 CB NE LTG LICA 171450Z 09013KT 9999 FEW030 26/19 Q1014 KRAS 171515Z AUTO 19010KT 10SM SCT022 30/24 A2996 RMK AO2 T02970244 KRCA 171458Z AUTO 36005KT 10SM BKN200 19/07 A2997 RMK AO2 SLP134 T01880069 52007 $ ETNS 171420Z 08015KT 9999 BKN300 20/12 Q1017 BLU+BLU+ LICB 171450Z 12007KT 090V170 9999 FEW030TCU SCT040 28/19 Q1013 KPTK 171453Z 29006KT 10SM FEW250 14/06 A3004 RMK AO2 SLP172 T01390061 58007 KPUB 171453Z 25007KT 10SM CLR 21/04 A3007 RMK AO2 SLP125 T02060044 53004 ETNT 171420Z 11011KT 9999 FEW036 SCT300 24/15 Q1014 BLU+BLU+ VTCN 171400Z 17004KT 9999 BKN025 BKN100 27/24 Q1004 A2966 RWY/02 INFO/L LICC 171520Z 09010KT 9999 SCT020 25/20 Q1014 KPUC 171453Z AUTO 00000KT 10SM CLR 20/03 A3015 RMK AO2 SLP127 T02000033 51009 KRBL 171454Z AUTO 01003KT 10SM CLR 18/04 A2978 RMK AO2 SLP082 T01830039 53007 LICD 171450Z 13010KT 9999 FEW010 28/25 Q1012 VTCP 170800Z 20009KT 9999 SCT025 OVC300 31/24 Q1000 A2953 RWY19 INFO H KRCE 171515Z AUTO 23011G15KT CLR 26/21 A2998 RMK AO2 LIBN 171455Z 35008KT 9999 FEW040 23/16 Q1014 RMK BKN BKN120 VIS MIN 9999 WIND THR14 /////KT BLU KPTN 171515Z AUTO 08005KT 9SM BKN010 26/23 A3002 RMK AO1 KRBO 171515Z AUTO 21009KT 10SM BKN012 BKN019 29/25 A2996 RMK AO2 T02870252 ETNW 171420Z 09011KT 9999 FEW041 24/14 Q1014 BLU+BLU+ LICF 171455Z 22007KT 9999 SCT025 26/20 Q1013 RMK BKN SCT080 BKN200 QUK 2 QUL 0 VIS MAR 16 KM MON CLD CIME NC VIS MIN 9999 KPSX 171453Z AUTO 19003KT 10SM FEW023 SCT070 BKN085 28/25 A2996 RMK AO2 SLP144 60000 T02780250 53007 LIBP 171450Z 04006KT 9999 FEW030 SCT090 22/16 Q1016 LICG 171455Z 00000KT 7000 FEW004 SCT035 27/25 Q1013 KT35 171515Z AUTO 21003KT 10SM SCT008 OVC019 26/24 A2998 RMK AO2 T02610237 LGSY 171450Z 01015KT 9999 SCT020 SCT080 23/14 Q1012 NOSIG RMK SCT180 BLU LIBQ 170955Z 29006KT 9999 SCT004 14/12 Q1020 RMK SCT MON LIB VAL W CLD SCT NC VIS MIN 9999 VTCT 171400Z 09004KT 9999 SCT040 BKN080 OVC220 27/23 Q1004 A2966 LIBR 171515Z 33007KT CAVOK 22/18 Q1015 NOSIG LICJ 171520Z 05015KT CAVOK 26/21 Q1013 LGTS 171450Z 22007KT 8000 TSRA FEW008 FEW016CB FEW018TCU BKN080 18/17 Q1015 TEMPO TL 1520 6000 TSRA FEW016CB RMK CB NW 5KM KPTS 171455Z AUTO 24008KT 7SM SCT010 SCT075 25/23 A2992 RMK AO2 LTG DSNT E T02450232 KPUJ 171515Z AUTO 30004KT 10SM CLR 23/20 A3000 RMK AO2 KPTT 171515Z AUTO 25009KT 10SM CLR 25/17 A2994 RMK AO2 KPVB 171515Z AUTO 00000KT 10SM BKN090 16/10 A3003 RMK AO1 T01550095 LICL 171455Z 19006KT 9999 FEW020 27/26 Q1012 RMK SCT SCT200 QUK 1 QUL 0 VIS MAR 12 KM VIS MIN 9999 KPVC 171515Z 02005KT 10SM CLR 18/13 A3002 RMK AO1 KRCM 171415Z AUTO 10003KT 1 3/4SM -VCTSRA OVC002 17/16 A2994 RMK AO2 LTG DSNT E THRU S LIBV 171455Z 02008KT 9999 FEW040 22/12 Q1013 RMK BKN BKN180 VIS MIN 9999 WIND THR32 01007KT WIND THR14 36008KT BLU KPVD 171451Z 36006KT 10SM FEW050 FEW090 20/07 A3003 RMK AO2 SLP168 T02000072 50000 KRDD 171453Z 00000KT 10SM CLR 17/06 A2978 RMK AO2 SLP078 T01720056 53005 KPTV 171515Z 18004KT 10SM CLR 23/13 A2981 RMK AO1 ETOU 171458Z AUTO 09009KT 9999 CLR 25/13 A2988 RMK AO2 SLP116 T02470134 56015 GCGM 171500Z VRB05KT 9999 FEW035 26/16 Q1015 RMK CAB09 13004KT 060V200 KPTW 171454Z AUTO 06005KT 10SM CLR 19/09 A3008 RMK AO2 SLP184 T01890089 50001 KPVE 171515Z AUTO VRB03KT 10SM CLR 19/13 A3003 RMK KRBW 171515Z AUTO 00000KT 10SM OVC008 23/ A2995 RMK AO2 GCFV 171430Z 32011KT 260V350 9999 FEW045 30/15 Q1013 KPVF 171515Z AUTO 00000KT 10SM CLR 24/01 A2990 RMK AO1 LIBY 171455Z ///04KT 9999 SCT015 24/15 Q1014 RMK BKN SCT200 QUK 2 QUL 1 SW VIS MAR 20 KM VIS MIN 9999 KPVG 171515Z AUTO 07007KT 10SM FEW030 BKN039 BKN065 23/17 A3003 RMK AO1 KRDG 171454Z VRB03KT 10SM CLR 19/11 A3006 RMK AO2 SLP185 T01940111 58001 KQLQ 171455Z 09002KT 9999 CLR 22/M14 A3015 RMK AO2A SLP109 WND DATA ESTMD ALTSG/SLP DATA ESTMD T02151139 53011 LICR 171450Z 20009KT 9999 SCT035 28/20 Q1013 KRCR 171515Z AUTO 00000KT 10SM CLR 18/11 A3005 RMK AO2 GCHI 171500Z 36012KT 330V030 9999 FEW040 26/18 Q1015 LIEA 171520Z 31004KT 270V340 9999 FEW047 30/18 Q1010 KPWA 171453Z 22011KT 7SM CLR 26/21 A2996 RMK AO2 SLP128 T02610206 53001 KPVJ 171515Z AUTO 22006KT 10SM CLR 27/22 A2997 RMK AO2 T02700221 LIEB 171455Z 18003KT 9999 FEW025 25/20 Q1012 RMK BKN QUK 2 QUL 0 VIS MAR 30 KM MON W CIME INC NC VIS MIN 9999 LICT 171455Z 24005KT 180V280 9999 FEW025 27/22 Q1012 LIEC 171455Z 09010KT 9999 SCT020 26/18 Q1013 RMK BKN SCT070 BKN200 QUK 2 QUL 0 VIS MAR 25 KM VIS MIN 9999 KPWC 171514Z AUTO 34004KT 10SM CLR 14/10 A2998 RMK AO2 LIED 171455Z 15021KT 9999 -RA FEW020 SCT060 26/22 Q1011 RMK OVC BKN100 VIS MIN 9999 WIND THR35 16017KT WIND THR17 15018KT BLU KRCV 171220Z AUTO 00000KT 10SM CLR 09/02 A3033 RMK AO2 T00850022 KRDM 171456Z 14004KT 7SM CLR 14/03 A2985 RMK AO2 SLP087 T01440028 53001 KQND 171455Z AUTO VRB05KT 10SM FEW070 SCT170 32/14 A2980 RMK AO2 LTG DSNT N SLP076 T03150138 56021 $ LIEE 171520Z 15016KT 9999 FEW025 SCT060 25/21 Q1011 KPUW 171453Z AUTO 06004KT 9SM CLR 17/01 A2984 RMK AO2 SLP095 T01670011 58008 FLHN 171500Z 09009KT CAVOK 34/01 Q1013 NOSIG KRCX 171515Z AUTO 24003KT 10SM CLR 15/10 A2998 RMK AO2 T01470101 KPWG 171515Z AUTO 00000KT 10SM FEW010 OVC017 26/22 A3000 RMK AO1 LICZ 171455Z 10010KT 9999 SCT020 SCT070 27/22 Q1013 RMK BKN VIS MIN 9999 WIND THR28 09011KT A2993 BLU KRCZ 171455Z AUTO 07004KT 10SM BKN010 BKN015 OVC070 22/19 A2998 RMK AO2 T02150190 KRDR 171458Z AUTO 02013KT 10SM FEW009 12/10 A2998 RMK AO2 SLP160 T01190100 52015 ETSA 171420Z 01008KT 9000 FEW020 20/15 Q1013 BLU+BLU+ KPWK 171452Z 22003KT 10SM CLR 17/08 A3004 RMK AO2 SLP175 T01670078 58005 ETSB 171420Z 08006KT 9999 FEW030 SCT250 22/14 Q1012 BLU+BLU+ KRDU 171451Z 08009KT 10SM SCT021 BKN040 BKN080 BKN250 23/16 A3000 RMK AO2 SLP155 T02280161 51004 KPVU 171455Z 00000KT 15SM SKC 19/07 A3005 KPWM 171451Z 00000KT 10SM FEW040 17/08 A3000 RMK AO2 SLP159 T01720083 58003 KRFD 171454Z 20003KT 10SM BKN090 BKN250 14/09 A3005 RMK AO2 SLP177 T01440089 58005 KPXE 161729Z AUTO 35005KT 10SM CLR A3005 RMK AO2 LTG DSNT SW KPVW 171515Z AUTO 25004KT 10SM OVC120 21/19 A3009 RMK AO2 T02110193 ETSE 171220Z 10005KT 9999 FEW020 21/15 Q1014 BLU+ LIEO 171520Z 10011KT 050V140 9999 SCT020 27/20 Q1012 KREO 171452Z AUTO 21005KT 18/00 A2993 RMK AO1 SLP099 T01830000 53004 KT65 171515Z AUTO 19010KT 7SM SCT018 29/23 A2995 RMK AO2 T02920233 ETSH 171500Z 13011KT 9999 FEW050 25/11 Q1015 BLU+FCST CANCEL KRFI 171455Z AUTO 00000KT 10SM BKN003 24/24 A3000 RMK AO2 T02420236 ETSI 171420Z 12005KT 9999 FEW035 23/14 Q1013 BLU+BLU+ LHPA 171515Z 15003MPS 130V190 CAVOK 21/12 Q1018 NOSIG RMK BLU KPWT 171515Z AUTO 03004KT 10SM CLR 15/13 A2980 RMK AO1 ETSL 171420Z 03006KT 9999 FEW230 18/14 Q1013 BLU+BLU+ ETSN 171420Z 08005KT 9999 FEW032 22/14 Q1013 BLACKBLU+ LGZA 171450Z 32005KT 9999 FEW020 BKN180 27/10 Q1012 GCLA 171500Z 06007KT 010V100 9999 SCT040 28/19 Q1015 KRGK 171515Z AUTO 21003KT 10SM BKN060 17/10 A2996 RMK AO2 FLKK 171500Z 07006KT 9000 NSC 30/06 Q1016 KPYM 171452Z AUTO VRB05KT 10SM CLR 19/10 A3001 RMK AO2 SLP162 T01890100 58003 KT82 171515Z AUTO 00000KT 10SM SCT008 SCT017 BKN025 25/22 A3002 RMK AO2 T02480220 LHPP 171445Z 12012KT 9999 FEW040 21/09 Q1019 FMCH 171500Z 20004KT 9999 FEW020TCU SCT027 26/20 Q1015 NOSIG KRHI 171453Z AUTO 25006KT 10SM CLR 13/08 A2997 RMK AO2 SLP155 T01330078 58002 LHPR 171445Z 14007KT 9999 FEW043 21/12 Q1019 FLLI 171500Z 09009KT CAVOK 34/01 Q1013 NOSIG AGGH 171500Z 16003KT 9999 HZ FEW015 FEW016CB SCT300 24/23 Q1009 KRIC 171454Z 06009KT 10SM FEW040 SCT095 SCT300 23/14 A3004 RMK AO2 SLP174 T02330139 50000 KPYX 171455Z AUTO 24015KT 10SM CLR 23/17 A3000 RMK AO2 T02310165 KRHP 171515Z AUTO 32003KT 10SM SCT023 21/16 A2999 RMK AO2 T02120157 KPZQ 171514Z AUTO 25010G14KT 10SM OVC110 16/11 A2996 RMK AO2 T01550112 KQRH 171455Z AUTO 12005KT 8000 CLR 34/25 A2966 RMK AO2 SLP041 T03410251 53012 GCLP 171500Z 04019KT 9999 FEW025 SCT050 29/19 Q1013 NOSIG KSAA 171455Z AUTO 15010KT 10SM CLR 16/02 A3023 RMK AO2 LTG DSNT W KQSA 171458Z AUTO 09007KT 050V110 9999 CLR 28/06 A2983 RMK AO2 SLP009 T02780061 52014 $ KRIL 171453Z AUTO 00000KT 10SM CLR 14/07 A3019 RMK AO2 SLP176 T01390067 51007 KSAC 171453Z AUTO 17005KT 10SM CLR 18/14 A2979 RMK AO2 SLP087 T01780139 53007 TSNO KSAD 171451Z AUTO 10007KT 10SM OVC040 22/18 A2999 RMK AO2 SLP112 60000 T02220183 $ KRHV 171350Z 00000KT 4SM BR SCT010 OVC012 19/14 A2983 FMEE 171504Z 11012KT 9999 FEW026 22/17 Q1019 NOSIG KSAF 171453Z 00000KT 10SM BKN110 15/11 A3024 RMK AO2 SLP159 T01500106 53009 KQQY 171455Z AUTO VRB02KT 9999 BKN100 BKN130 30/21 A3005 RMK AO2 SLP149 P0005 60006 T03040210 51011 $ KU16 171358Z AUTO 00000KT 10SM -RA CLR 16/04 A2995 RMK AO2 SLP767 T01560039 PNO $ FMCZ 171500Z 07004KT 9999 FEW023 25/20 Q1015 NOSIG KSBA 171453Z 00000KT 9SM CLR 22/16 A2974 RMK AO2 SLP071 T02170161 53013 $ KQTC 170355Z AUTO 21/17 A2785 RMK AO2 SLP407 T02060165 PWINO TSNO $ KSBD 171448Z 00000KT 10SM SKC 27/14 A2981 KRKD 171515Z AUTO 24005KT 10SM CLR 18/08 A2997 RMK AO1 LHSM 171445Z 13005KT 9999 FEW037 21/12 Q1018 NOSIG KRIV 171458Z AUTO 31001KT 10SM CLR 28/19 A2982 RMK AO2 SLP081 T02780185 52009 ETWM 171420Z AUTO 10006KT 6000 // ////// 24/12 Q1013 /// KSAN 171451Z 32006KT 7SM FEW100 27/21 A2974 RMK AO2 SLP072 T02670211 53010 KRIW 171453Z AUTO VRB03KT 10SM CLR 14/07 A3009 RMK AO2 WSHFT 1424 LTG DSNT SE RAB01E15 SLP133 P0002 60002 T01390072 50005 LHSN 171515Z 05001MPS CAVOK 21/12 Q1019 NOSIG RMK BLU KQSN 171455Z 24007KT 9999 CLR 26/M14 A3000 RMK AO2A SLP049 WND DATA ESTMD ALSTG/SLP ESTMD T02621140 52011 $ KQTF 171455Z AUTO 33008G16KT 9SM CLR 26/19 A2983 RMK AO2 SLP098 T02550194 57014 PWINO $ FMEP 171500Z AUTO 12017KT 9999 NCD 23/16 Q1019 KQTH 171455Z AUTO 02008KT 9999 CLR 35/08 A2974 RMK AO2 SLP041 T03530079 52015 $ KSAR 171515Z AUTO 00000KT 10SM -RA SCT029 OVC070 14/12 A3010 RMK AO2 LTG DSNT SW T01400115 KSAT 171507Z 15007KT 10SM BKN010 BKN035 BKN250 27/24 A2998 RMK AO2 SHRA DSNT W-N T02720244 KSAV 171453Z 00000KT 10SM SCT028 SCT130 28/21 A2994 RMK AO2 SLP137 T02830211 53002 KSBM 171453Z AUTO 26006KT 10SM CLR 17/07 A3001 RMK AO2 SLP163 T01670072 58006 KSCD 171515Z AUTO 12003KT 10SM OVC011 25/23 A3000 RMK AO2 T02480227 LHUD 171445Z 13004KT 9999 SCT033 FEW036TCU BKN200 20/13 Q1019 RESHRA KQUD 171355Z AUTO 26004KT 10SM CLR 25/17 A3010 RMK AO2 SLP144 T02470168 GBYD 171500Z 02006KT 9000 -TSRA BKN010 BKN100 FEW020CB 23/22 Q1011 CB-NE/SW KSBN 171454Z 19005KT 10SM CLR 16/09 A3005 RMK AO2 SLP175 T01610089 58010 KSAW 171450Z 20004KT 10SM BKN095 OVC120 11/08 A2994 LJCE 171500Z AUTO 05002KT 9999 NSC 19/14 Q1018 KSBO 171515Z AUTO 00000KT 10SM CLR 28/23 A2995 RMK AO2 KSCF 171515Z AUTO 13004KT 10SM SCT017 BKN021 27/23 A3000 RMK A01 KRKP 171453Z AUTO 20006KT 10SM CLR 27/24 A2996 RMK AO2 SLP145 T02720239 51009 KSBP 171456Z 00000KT 3/4SM BR OVC002 14/14 A2983 RMK AO2 SLP099 T01390139 52014 KSCH 171446Z 30006KT 10SM CLR 16/08 A3004 KSAZ 171514Z AUTO 32003KT 10SM CLR 14/09 A2995 RMK AO2 KRKR 171455Z AUTO 00000KT 10SM SCT007 A2999 RMK AO2 LIMA 171450Z 33003KT 260V100 9999 FEW030 SCT045 19/15 Q1016 KRKS 171454Z AUTO VRB03KT 10SM BKN120 16/02 A3019 RMK AO2 SLP148 T01560022 53006 KSBS 171514Z AUTO 00000KT 10SM CLR 11/04 A3026 RMK AO1 T01110038 KSDA 171515Z AUTO 14006KT 10SM OVC015 19/16 A2995 RMK AO2 KSDB 171448Z AUTO 20009KT 10SM CLR 24/03 A3003 RMK AO2 SLP104 T02440033 52007 $ KSCK 171455Z 33005KT 10SM CLR 19/16 A2979 RMK AO2 SLP088 T01890156 53008 LIMC 171520Z VRB02KT 9999 SCT035 SCT070 22/15 Q1016 NOSIG LIME 171520Z 17004KT 130V230 9999 SCT035 22/14 Q1016 KRME 171453Z 00000KT 10SM CLR 14/09 A3006 RMK AO2 SLP180 T01440094 58002 LIMF 171520Z 30010KT 9999 SCT030 BKN070 19/16 Q1016 KSDF 171456Z 10004KT 10SM BKN034 17/11 A3006 RMK AO2 SLP176 T01670106 56005 KQVF 171455Z AUTO 18003KT 9999 CLR 26/21 A2997 RMK AO2 SLP148 T02630206 53005 LIMG 171450Z 13008KT 110V170 9999 SCT090 24/17 Q1014 KRMG 171453Z AUTO 00000KT 10SM FEW023 23/17 A2998 RMK AO2 SLP143 T02280167 58006 KSBY 171454Z 03007KT 10SM CLR 24/11 A3004 RMK AO2 SLP175 T02390111 58000 $ KQTZ 171455Z 30005KT 9999 CLR 36/04 A2972 RMK SLP062 WND DATA ESTMD ALSTG/SLP ESTMD 52003 LIMH 171455Z /////KT 0100 FG VV/// 00/M03 Q1024 RMK MON INVIS VAL INVIS VIS MIN 0100 LIMJ 171520Z 25003KT 210V300 9999 FEW030 SCT050 24/17 Q1014 KSEA 171453Z 31003KT 10SM BKN140 BKN250 16/13 A2979 RMK AO2 SLP094 T01560128 56004 FKYS 171500Z 04002KT 360V060 9999 TS BKN016 FEW023CB 22/20 Q1013 NOSIG LIMK 171455Z 35007KT 300V030 7000 BKN010 17/17 Q1017 RMK BKN VAL FOSCHIA VIS MIN 7000 LIML 171520Z 09005KT 060V130 9999 FEW035 23/14 Q1015 NOSIG KSDL 171453Z 06005KT 10SM BKN110 28/18 A2984 RMK AO2 SLP078 60000 T02780183 58001 KRNC 171515Z AUTO 35003KT 10SM 19/17 A3003 RMK KSDM 171453Z 00000KT 10SM CLR 31/17 A2975 RMK AO2 SLP068 T03060172 53010 KRND 171458Z 16006KT 10SM SCT008 BKN013 BKN020 27/23 A2998 RMK AO2A CIG 008V021 SLP144 52009 LIMN 171455Z VRB01KT 9999 FEW030 22/15 Q1015 RMK BKN BKN100 VIS MIN 9999 BLU KRMN 171515Z AUTO 10005KT 10SM CLR 21/13 A3009 RMK AO2 T02130133 KSEE 171515Z AUTO 00000KT 10SM CLR 28/19 A2977 RMK AO2 LIMP 171450Z 10008KT 060V120 9999 FEW025 24/15 Q1015 KSEG 171453Z AUTO 00000KT 10SM CLR 17/11 A3008 RMK AO2 SLP186 T01720106 58003 KRNH 171455Z AUTO 22005KT 10SM BKN070 17/10 A2996 RMK AO2 T01660102 LIMS 171455Z 12008KT 9999 FEW030 23/16 Q1015 KROA 171454Z 12005KT 10SM SCT038 BKN050 OVC070 18/10 A3009 RMK AO2 SLP181 T01780100 50003 LIMT 170555Z 01004KT 3000 BR SCT010 BKN012 13/12 Q1017 RMK OVC MON CIME INC VAL NEBBIA SCT VIS MIN 3000 KSFB 171500Z 27010KT 10SM SCT018 28/22 A2995 RMK AO2 T02780222 LIMU 171455Z 03011KT 9999 FEW026 24/18 Q1014 RMK BKN BKN200 QUK 2 QUL 1 SE VIS MAR 30 KM VIS MIN 9999 KROC 171454Z 26007KT 10SM FEW030 FEW140 17/09 A3004 RMK AO2 SLP175 T01720089 58005 LIMV 171455Z /////KT 7000 FEW010TCU 18/17 Q1016 RMK BKN BKN080 MON LIB VAL FOSCHIA VIS MIN 4000N KRNM 171453Z 00000KT 10SM CLR 28/15 A2981 RMK AO2 SLP072 T02830150 53009 KSEM 171515Z AUTO 00000KT 10SM CLR 28/21 A2997 RMK AO2 KQWM 171455Z 34014KT 9999 CLR 38/01 A2970 RMK SLP047 QNH1006 VTPH 171000Z VRB04KT 9999 BKN030 OVC100 29/24 Q1004 NOSIG KSFF 171453Z 07003KT 9SM CLR 13/08 A2984 RMK AO2 SLP097 T01330078 50002 KRNO 171455Z VRB03KT 10SM SCT100 BKN150 22/02 A2998 RMK AO2 SLP094 FU DSNT W-N T02220017 53005 LIMY 171455Z 36004KT 2000 BR BKN008 SCT013 16/14 Q1017 RERA RMK OVC VAL FOSCHIA VIS MIN 2000 KRMY 171514Z AUTO 26004KT 10SM CLR 15/07 A3004 RMK AO2 T01490065 KSDY 171515Z AUTO 00000KT 10SM CLR 13/07 A2997 RMK AO1 KRNP 171514Z AUTO 22005KT 10SM CLR 16/08 A3003 RMK AO2 T01590075 KSEP 171515Z AUTO 00000KT 10SM CLR 25/21 A3003 RMK AO2 T02470207 KROG 171457Z 22011G20KT 10SM CLR 23/20 A2999 RMK AO2 SLP145 T02330200 51002 LIMZ 171450Z 33008KT 7000 SCT010 BKN024 19/17 Q1016 LIPA 171455Z 02006KT 9999 FEW040 BKN055 22/15 Q1016 RMK BKN VIS MIN 9999 A3000 BLU KU68 171515Z AUTO 14005KT 10SM CLR 16/10 A3000 RMK AO2 PWINO GCRR 171500Z 12010KT 9999 SCT049 26/21 Q1013 LIPB 171450Z 19004KT 9999 FEW050TCU BKN120 23/17 Q1014 KRNT 171453Z 00000KT 9SM CLR 16/14 A2978 RMK AO2 SLP088 T01610144 58004 KSET 171454Z AUTO VRB03KT 8SM BKN036 OVC065 16/12 A3004 RMK AO1 SLP172 60001 T01560122 53010 FLSK 170800Z 08012KT 9000 NSC 26/04 Q1021 LIPC 171455Z 11008KT CAVOK 22/17 Q1015 FNBC 171500Z 30004KT 9999 BKN016 24/21 Q1012 VTPO 171000Z 21008KT 9999 SCT022 BKN300 32/23 Q1000 KSFM 171515Z AUTO 18003KT 10SM CLR 19/08 A3000 RMK AO1 KRPD 171515Z AUTO 20003KT 10SM CLR 15/10 A2998 RMK AO2 T01450102 KRNV 171515Z AUTO 09004KT 10SM CLR 26/20 A3000 RMK AO2 T02560200 VTPP 171500Z 17004KT 9999 SCT023 BKN100 OVC300 26/25 Q1006 A2971 LIPE 171520Z 09007KT 9999 FEW030 24/16 Q1015 LIPF 171455Z 31003KT 9999 FEW030 25/18 Q1015 KSGF 171513Z 18008KT 10SM VCTS BKN028 OVC033 19/18 A2997 RMK AO2 LTG DSNT ALQDS RAE11 TSE07 P0002 T01890183 KSFO 171456Z 23003KT 10SM BKN015 18/14 A2983 RMK AO2 SLP100 T01780144 53006 FNBG 171500Z 30009KT 9999 FEW020 24/19 Q1013 LIPH 171515Z /////KT 9999 FEW020 23/17 Q1016 KSGH 171456Z AUTO VRB04KT 8SM OVC035 14/11 A3009 RMK AO2 55003 T01380111 SLP189 KSEZ 171515Z AUTO 06004KT 10SM OVC090 20/15 A3009 RMK AO2 KSFQ 171515Z AUTO 07009KT 10SM SCT028 BKN038 OVC060 23/16 A3002 RMK AO2 T02270162 KRPH 171515Z AUTO 21005KT 10SM CLR 28/20 A2998 RMK AO2 T02800202 KQXR 171429Z AUTO 12011KT //// 14/05 A3012 LIPI 171455Z 13006KT 9999 FEW050 SCT060 23/11 Q1016 RMK BKN VIS MIN 9999 WIND THR06 16004KT 080V170 BLU KQXS 171429Z AUTO 18004KT //// 14/07 A3013 KROS 171514Z AUTO 00000KT 10SM CLR 16/11 A2995 RMK AO2 T01610109 KSGJ 171458Z 36003KT 10SM CLR 28/23 A2994 RMK AO2 SLP138 T02780228 50002 KRPJ 171515Z AUTO 21004KT 10SM BKN095 16/07 A3004 RMK AO2 T01620074 FNCA 171500Z 23006KT 9999 FEW020 BKN025 26/21 Q1012 LIPK 171450Z 09006KT CAVOK 23/16 Q1015 KRQB 171515Z AUTO 27008KT 10SM SCT022 16/12 A3001 RMK AO2 T01640115 EVLA 171520Z AUTO VRB02KT 9999 FEW049 19/12 Q1025 LIQC 171455Z ///03KT CAVOK 27/17 Q1015 RMK SCT SCT100 QUK 2 QUL 1 W VIS MAR 15 KM VIS MIN 9999 LIPL 171455Z /////KT 9999 FEW030 24/11 Q1015 RMK OVC SCT140 VIS MIN 9999 WIND THR31 12007KT BLU KSHD 171455Z AUTO 00000KT 10SM SCT048 BKN065 18/09 A3010 RMK AO2 T01780093 KROW 171521Z 00000KT 9SM FEW009 SCT022 BKN095 22/18 A3011 RMK AO2 T02170183 KRQE 170853Z AUTO 00000KT 10SM CLR 15/11 A3023 RMK AO2 SLP121 T01500111 56010 LIPO 171450Z 13007KT 9999 FEW035 SCT070 23/14 Q1015 KROX 171514Z AUTO 04010KT 10SM OVC012 10/07 A3001 RMK AO2 KSFY 171455Z AUTO 00000KT 10SM OVC100 15/10 A3003 RMK AO2 T01450097 LIPQ 171520Z 14008KT CAVOK 23/12 Q1016 KSFZ 171515Z 29005KT 10SM CLR 18/06 A3002 RMK AO1 VTSB 171500Z 00000KT 7000 FEW020 SCT300 25/25 Q1010 A2983 LIPR 171515Z /////KT CAVOK 22/16 Q1015 KSGR 171453Z 24004KT 10SM CLR 28/25 A2997 RMK AO2 SLP149 T02830250 51007 VTSC 170500Z 08007KT 030V110 9999 FEW018 SCT050 BKN200 31/26 Q1009 A2979 RWY20 INFO D LIPS 171455Z 15008KT 9999 SCT100 23/14 Q1016 RMK BKN SCT200 VIS MIN 9999 WIND THR26 13005KT WIND THR08 12004KT BLU LIRA 171515Z 23005KT 220V300 9999 FEW018TCU SCT060 25/18 Q1013 KSGS 171510Z AUTO 00000KT 10SM CLR 17/11 A2996 RMK AO2 T01660105 KSGT 171515Z AUTO 12004KT 10SM FEW024 22/18 A3002 RMK AO1 GCTS 171500Z 17007KT 140V230 9999 BKN042 26/20 Q1014 NOSIG LIPU 171450Z 08008KT CAVOK 23/14 Q1015 KSGU 171515Z AUTO 00000KT 10SM CLR 25/12 A2997 RMK AO1 KSHL 171515Z AUTO 21004KT 10SM CLR 17/12 A2993 RMK AO2 VTSF 171500Z 00000KT 9999 SCT018 BKN022 OVC300 25/25 Q1010 A2982 INFO Q / RWY 19 KSHM 171456Z AUTO VRB01KT 10SM CLR 24/03 A3018 RMK AO2 SLP138 T02380026 LIQN 171450Z VRB03KT 9999 FEW030 25/15 Q1015 VTSG 171400Z 00000KT 6000 NSC 25/23 Q1010 A2984 INFO I RWY32 LIRE 171455Z 25006KT 9999 FEW030TCU BKN070 24/20 Q1013 RMK BKN VIS MIN 9999 WIND THR31 25005KT BLU KSHN 171453Z AUTO 00000KT 9SM CLR 12/11 A2976 RMK AO2 SLP080 T01220111 56005 TSNO VTSH 170400Z 06004KT 7000 FEW020 BKN300 29/23 Q1009 A2980 LIQO 170855Z 06005KT CAVOK 20/15 Q1016 RMK SCT SCT070 VAL CLD SCT NC VIS MIN 9000SE LIRF 171520Z 25006KT 9999 FEW020 SCT035 25/19 Q1013 NOSIG LIPX 171515Z 11006KT 9999 FEW040 24/13 Q1016 KRQO 171515Z AUTO 22009KT 10SM CLR 26/20 A2997 RMK AO2 KSIF 171515Z AUTO 05005KT 10SM SCT034 OVC041 19/15 A3004 RMK AO2 T01920149 LIRG 171455Z VRB02KT 9999 FEW035 28/14 Q1013 LIPY 171450Z 02009KT CAVOK 23/15 Q1015 WMBA 171500Z 16002KT 7000 FEW033 SCT150 BKN280 28/25 Q1009 LIRH 171455Z 18004KT 9999 SCT030 25/15 Q1013 LIPZ 171520Z 14004KT CAVOK 22/14 Q1015 LIRI 171450Z 24004KT 9999 FEW030 25/16 Q1014 KSHR 171453Z AUTO 00000KT 10SM CLR 18/10 A2996 RMK AO2 SLP122 60000 T01830100 58001 FMMI 171530Z 09010KT 9999 FEW020 18/13 Q1022 NOSIG FMNA 170600Z 14018KT 9999 FEW020 26/17 Q1016 VTSM 171500Z 00000KT 9999 FEW020 SCT120 BKN300 28/24 Q1011 A2986 LIRL 171455Z 24006KT 9999 FEW020 27/19 Q1013 KSJC 171453Z 08003KT 9SM FEW008 BKN010 BKN013 17/14 A2982 RMK AO2 SLP098 T01670139 53005 KRRL 171515Z AUTO 26006KT 10SM BKN055 BKN065 14/09 A2997 RMK AO2 T01420093 LIRM 171455Z 26005KT 9999 FEW025 SCT080 28/20 Q1013 KTAD 171454Z AUTO 26011KT 10SM CLR 18/07 A3014 RMK AO2 SLP138 T01830072 53004 KSHV 171456Z 23003KT 10SM FEW180 BKN280 26/22 A2998 RMK AO2 SLP149 T02610222 51004 LIQW 171455Z 17002KT 9999 FEW025 25/12 Q1014 VTSP 171500Z VRB01KT 9999 FEW025 BKN300 25/23 Q1011 A2987 NOSIG LIRN 171520Z 19003KT 9999 SCT070 26/16 Q1013 VTSR 171400Z 15003KT 8000 SCT025 SCT150 26/24 Q1008 A2978 ILS DME RWY02 INFO T LIRP 171515Z 12005KT 9999 FEW035 SCT080 26/14 Q1013 NOSIG VTSS 171500Z 00000KT 6000 FEW020 BKN120 OVC300 25/25 Q1010 A2984 NOSIG LIRQ 171520Z VRB02KT 9999 FEW040 27/11 Q1013 VTST 171100Z 22003KT 9000 SCT020 BKN120 OVC300 28/25 Q1007 A2974 RWY08 INFO H LIRS 171455Z /////KT 9999 FEW030 25/18 Q1012 WMAU 171500Z 21004KT 7000 FEW010 SCT140 BKN270 27/25 Q//// QFF1010 KSKA 171458Z 09006KT 10SM FEW160 SCT200 BKN220 15/06 A2984 RMK AO2A SLP095 AO2A T01490055 53002 $ FMMS 170600Z 19006KT 9999 BKN040 25/18 Q1020 LIRT 170355Z 09005KT CAVOK 14/08 Q1018 RMK SKC MON INVIS VAL INVIS VIS MIN 9999 VTUD 171400Z 15007KT 9999 SCT045 28/25 Q1006 A2973 INFO P RWY30 KRRT 171514Z AUTO 04011G17KT 10SM OVC012 09/07 A3002 RMK AO2 LIRU 171450Z 25007KT 9999 SCT040 24/17 Q1013 FMMT 171500Z 10006KT 9999 BKN017 24/19 Q1018 NOSIG KRSL 171453Z AUTO 34005KT 10SM CLR 21/17 A2990 RMK AO2 SLP114 T02060172 51005 LIRV 171455Z 25005KT 9999 SCT024 24/16 Q1014 FMNM 171500Z 32008KT CAVOK 26/19 Q1013 NOSIG KTAN 171452Z AUTO 21003KT 10SM CLR 19/09 A3001 RMK AO2 SLP162 T01940094 58004 KSJN 171454Z AUTO 08006KT 10SM -RA SCT090 OVC120 17/15 A3017 RMK AO2 SLP141 P0001 60002 T01670150 51008 KRSN 171515Z AUTO 00000KT 10SM CLR 26/23 A3003 RMK AO2 T02640230 FMNN 171500Z 26006KT 9999 FEW020N SCT100 26/18 Q1013 LIRX 171455Z 12004KT 9999 SCT050 22/16 Q1013 RMK BKN SCT140 VIS MIN 9999 VIS MAR 15 KM KSKF 171508Z 16005KT 10SM BKN008 27/24 A2996 RMK AO2A $ VTUI 171500Z 16006KT 9999 FEW020CB SCT030 BKN100 28/25 Q1009 A2979 CB SW RWY23 INFO H KSIY 171453Z AUTO 02006KT 10SM CLR 17/01 A2983 RMK AO2 SLP090 T01670011 53003 LIRZ 171450Z 36003KT 290V060 9999 FEW045 26/12 Q1014 VTUK 171500Z 15003KT 9999 FEW030 SCT100 OVC300 26/24 Q1008 A2978 NOSIG VTUL 170900Z 17004KT 9999 FEW028 BKN120 BKN300 30/24 Q0999 A2952 NOSIG KSJS 171515Z AUTO 11003KT 7SM OVC004 14/13 A3005 RMK AO2 T01420133 KSJT 171451Z VRB03KT 10SM CLR 26/21 A3002 RMK AO2 SLP142 T02610206 50004 KRST 171454Z 23006KT 10SM CLR 16/10 A2998 RMK AO2 SLP156 T01560100 56002 KSLB 171515Z AUTO 00000KT 10SM CLR 18/15 A2995 RMK AO2 KSLC 171453Z 15011KT 10SM FEW100 FEW130 24/07 A2998 RMK AO2 SLP096 T02390067 51010 KTCC 171453Z AUTO 22011KT 10SM CLR 21/17 A3010 RMK AO2 SLP139 T02110167 51008 KRSV 171515Z AUTO 12006KT 10SM CLR 17/14 A3006 RMK AO2 T01720138 KRSW 171453Z 29005KT 10SM FEW025 28/21 A2998 RMK AO2 SLP150 T02830206 53004 KRTN 171453Z AUTO 09004KT 10SM CLR 14/11 A3019 RMK AO2 SLP155 T01390111 53004 KRUE 171453Z AUTO A3001 RMK AO2 SLPNO 50000 PWINO FZRANO $ KSLE 171456Z 00000KT 10SM CLR 17/13 A2973 RMK AO2 SLP067 T01670128 55004 KTBN 171510Z AUTO 14008KT 10SM -DZ FEW065 BKN110 17/17 A2997 RMK AO2 RAE1456DZB1456 KSJX 171516Z AUTO 25015G19KT 10SM CLR 18/11 A2996 RMK AO2 T01750107 VVCR 171500Z 22006KT 9999 FEW017 29/23 Q1011 NOSIG KSLG 171515Z AUTO 22010KT FEW008 23/19 A3000 RMK AO1 KRUG 171515Z AUTO 06014G18KT 10SM CLR 11/08 A2999 RMK AO2 GCXO 171500Z 31012KT 280V340 9999 FEW020 SCT035 24/14 Q1016 NOSIG KSLH 171518Z AUTO 25006KT 10SM OVC110 16/11 A2994 RMK AO2 T01590116 KTAZ 171515Z AUTO 18006KT 10SM OVC100 15/11 A3005 RMK AO2 VVCT 171030Z 24003KT 9999 SCT015 BKN040 26/23 Q1008 NOSIG KTBR 171515Z AUTO 09003KT 10SM CLR 27/22 A2994 RMK AO2 T02680216 KSLI 171458Z 00000KT 10SM CLR 25/19 A2974 RMK AO2A SLP074 T02500191 52009 FNGI 171500Z VRB02KT 9999 FEW013 37/06 Q1009 VTUU 171500Z 13002KT 8000 SCT022 BKN110 25/25 Q1010 A2982 NOSIG KRTS 171515Z AUTO 13006KT 10SM CLR 23/00 A3002 RMK AO2 LJLJ 171500Z 14005KT 100V170 9999 FEW035 SCT060 20/11 Q1018 NOSIG VTUV 170900Z 16008KT 9999 SCT022 BKN300 30/24 Q1003 A2963 INFO I RWY 18 KSLK 171451Z AUTO 23010KT 10SM FEW029 SCT034 12/04 A3000 RMK AO2 SLP165 T01220044 58000 LJMB 171500Z VRB01KT 9999 FEW030 BKN060 19/12 Q1018 LIVC 171455Z 00000KT 0100 -RA FG VV001 10/09 Q1022 RMK MON INVIS VAL INVIS VIS MIN 0100 VVDN 171500Z 21004KT 8000 -RA FEW015 FEW017CB BKN060 28/25 Q1010 NOSIG VTUW 171200Z 15005KT 8000 BKN018 BKN100 27/25 Q1005 A2969 RWY15 INFO K KTCL 171453Z 00000KT 10SM CLR 26/18 A2999 RMK AO2 SLP154 T02560178 50002 LIVD 171455Z 09004KT 9999 BKN025 16/10 Q1019 RMK BKN VIS MIN 9999 KTCM 171458Z AUTO 00000KT 10SM SCT130 BKN170 13/13 A2978 RMK AO2 CIG 140 RWY16 SLP088 T01310130 55006 $ LIVE 171455Z 17006KT 9999 SCT025 14/10 Q1018 RMK SCT VIS MIN 9999 KSLN 171453Z 31004KT 7SM CLR 24/19 A2991 RMK AO2 SLP119 T02390194 53005 LIVF 170755Z 00000KT 9999 FEW015 16/14 Q1017 RMK FEW MON W CLD SCT VAL W MAR CLD DIM ELEV VIS MIN 9999 KSMF 171453Z 17007KT 10SM FEW200 17/13 A2977 RMK AO2 SLP081 T01720128 53005 KTBX 171515Z AUTO 16009KT 10SM CLR 16/03 A3027 RMK AO2 KSLO 171515Z AUTO 12004KT 10SM SCT090 16/12 A3007 RMK AO2 T01570122 KTDF 171515Z AUTO 07009KT 10SM BKN022 BKN050 BKN075 21/16 A3004 RMK AO2 KRUQ 171455Z AUTO 06004KT 10SM OVC010 19/17 A3001 RMK AO2 T01860167 KSLR 171455Z AUTO 19005KT 10SM CLR 27/23 A3000 RMK AO2 T02650226 KTCS 171506Z AUTO 00000KT 10SM OVC008 18/16 A3015 RMK AO2 CIG 005V011 T01780161 TSNO KSNA 171453Z 00000KT 10SM CLR 29/15 A2974 RMK AO2 SLP068 T02940150 53011 KTEB 171451Z 30005KT 10SM CLR 19/06 A3005 RMK AO2 SLP174 T01940056 58001 EVRA 171520Z 10004KT 070V200 9999 BKN048 18/10 Q1026 NOSIG KRUT 171515Z 33006KT 260V330 10SM BKN038 15/06 A3001 RMK AO1 KSNC 171515Z AUTO 36008G14KT 10SM CLR 18/04 A3005 RMK AO2 LIVM 171455Z 12009KT 9999 FEW025 22/15 Q1015 RMK BKN SCT080 QUK 2 QUL 1 E VIS MAR 15 KM VIS MIN 9999 LKCV 171500Z 14012KT CAVOK 22/12 Q1016 NOSIG RMK BLU BLU KSMN 171515Z AUTO 00000KT 10SM CLR 11/07 A3002 RMK AO1 LIVO 171455Z 09003KT 9999 SCT030 18/12 Q1017 RMK SCT VIS MIN 9999 KSMO 171451Z 00000KT 9SM CLR 24/19 A2974 RMK AO2 SLP069 T02440189 53008 $ KRWF 171453Z AUTO 22003KT 10SM CLR 16/11 A2994 RMK AO2 SLP137 T01610106 51004 KSMP 171056Z AUTO 00000KT 10SM FEW090 OVC110 12/09 A2991 RMK AO2 SLP109 T01170089 $ LIVP 171455Z 21009KT 0500 FG VV/// 09/06 Q1020 RMK MON INVIS VAL INVIS VIS MIN 0500 KSMQ 171453Z AUTO 01004KT CLR 20/05 A3005 RMK AO2 SLP175 T02000050 58001 PWINO $ KSNH 171515Z AUTO 01004KT 10SM CLR 21/15 A3004 RMK LIVR 171255Z 15004KT 4000 BR SCT004 BKN010 09/07 Q1021 RMK OVC MON INC VIS MIN 4000 KRWI 171453Z AUTO 05010KT 10SM SCT024 BKN055 23/18 A2999 RMK AO2 SLP154 T02330178 50003 KTDR 171456Z AUTO M 10SM CLR 25/24 A2995 RMK AO2 LTG DSNT S SLP146 P0001 60001 T02480236 51005 $ KRVS 171453Z 19009KT 10SM CLR 26/21 A2995 RMK AO2 SLP145 T02560211 50002 KSMS 171515Z AUTO VRB04KT 10SM OVC011 22/20 A2997 RMK AO2 KSOA 171515Z AUTO VRB04KT 10SM BKN016 BKN090 26/21 A3008 RMK AO2 LIVT 171455Z 12006KT 9999 FEW040 24/12 Q1015 RMK FEW QUK 2 QUL 0 VIS MAR 20 KM VIS MIN 9999 KSNK 171515Z AUTO 17004KT 10SM BKN085 23/21 A3006 RMK AO2 T02290207 KRWL 171453Z AUTO VRB03KT 10SM CLR 16/03 A3020 RMK AO2 SLP138 T01560028 51006 KSNL 171515Z AUTO 24005KT 10SM CLR 28/24 A2998 RMK AO2 FNHU 171300Z 29005KT 9999 SCT016 29/11 Q1019 FMSD 171500Z 06029G39KT 9999 FEW016 23/18 Q1014 KRXE 171453Z AUTO 04004KT 10SM CLR 12/07 A3005 RMK AO2 SLP141 T01220067 51010 KSMX 171519Z 00000KT 1/2SM FG VV002 15/14 A2983 RMK AO2 T01500139 KTDZ 171453Z AUTO 24006KT 10SM CLR 14/07 A3007 RMK AO2 SLP181 T01440072 58004 TSNO KSNS 171519Z 00000KT 3/4SM BR OVC002 13/13 A2983 RMK AO2 RVRNO KSPA 171515Z AUTO 06006KT 10SM OVC015 23/18 A2999 RMK AO2 KSNT 171451Z AUTO 00000KT 06/01 A3016 RMK AO1 SLP146 T00560006 53004 KSPB 171453Z AUTO 13006KT 10SM CLR 15/13 A2973 RMK AO2 SLP067 T01500128 58012 KSPD 171456Z AUTO 00000KT 22/14 A3004 RMK AO1 SLP117 T02170144 52006 KRWV 171515Z AUTO 22003KT 26/24 A3001 RMK AO2 KTEW 171514Z AUTO 27003KT 10SM CLR 15/07 A3004 RMK AO2 T01460066 KSPF 171455Z AUTO 11004KT 10SM CLR 19/06 A3000 RMK AO2 KSPG 171522Z 00000KT 2SM -RA BR SCT019 BKN050 BKN070 24/22 A2995 RMK AO2 VIS 1/2V5 P0010 T02390222 KSNY 171453Z AUTO 31010KT 10SM CLR 19/07 A3003 RMK AO2 SLP130 T01890067 53004 KSOP 171515Z AUTO 06009KT 10SM OVC014 22/17 A2999 RMK AO1 KTFP 171515Z AUTO 21010KT 10SM CLR 31/24 A2995 RMK AO2 T03100235 KSPI 171452Z 19004KT 10SM OVC100 16/12 A3006 RMK AO2 SLP179 T01560117 51008 KTHA 171515Z AUTO 07005KT 18/14 A3004 RMK KSPL 171515Z AUTO 20007KT 7SM BKN018 30/25 A2996 RMK AO1 KRYN 171345Z 13003KT 10SM CLR 23/21 A2989 KSOW 171515Z AUTO 07005KT 10SM FEW004 SCT090 14/13 A3021 RMK AO2 KSQE 171515Z AUTO 33011KT 1 3/4SM BR SCT005 OVC037 25/23 A3001 RMK A01 KSQI 171515Z AUTO 00000KT 10SM CLR 18/12 A3003 RMK AO1 KSPR 171515Z AUTO 27007KT 3SM BR FEW009 FEW013 FEW017 25/23 A3000 RMK A01 KSPS 171452Z 23004KT 10SM CLR 27/21 A2997 RMK AO2 SLP135 T02670211 53004 MBGT 171500Z 11010KT 9999 SCT015 30/22 Q1016 FNMA 171200Z VRB02KT CAVOK 26/24 Q1016 EVVA 171520Z AUTO 10002KT CAVOK 19/11 Q1025 KSRB 171515Z AUTO 05004KT 10SM SCT026 19/14 A3003 RMK KRYT 171453Z AUTO 03003KT 10SM CLR 19/10 A3006 RMK AO2 SLP175 T01890100 58002 $ KSQL 171447Z VRB03KT 10SM BKN013 18/15 A2983 KRZL 171515Z AUTO 16004KT 10SM CLR 16/13 A3005 RMK AO2 KSRC 171456Z AUTO 00000KT 10SM OVC015 19/16 A3003 RMK AO2 PWINO TSNO 55001 T01880161 SLP172 $ FNKU 171500Z 29006KT 9999 NSC 25/16 Q//// KRYV 171515Z AUTO 22004KT 10SM CLR 15/09 A3002 RMK AO2 T01520094 KSPW 171453Z AUTO 00000KT 10SM CLR 16/11 A2995 RMK AO2 SLP144 T01610111 52002 KRYW 171515Z AUTO 00000KT 10SM BKN007 OVC013 26/23 A3001 RMK AO2 T02620227 KRZN 171515Z AUTO 26004KT 10SM CLR 17/10 A2995 RMK AO2 T01660098 LIYW 171458Z AUTO 01005KT 9999 SCT050 BKN060 BKN080 22/14 A3001 RMK AO2 DZB1357E1413 SLP161 P0000 60000 T02230144 56008 KTIF 171515Z 00000KT 10SM CLR 20/17 A2996 RMK AO2 T02040171 PWINO KRYY 171447Z 30005KT 10SM SKC 23/16 A3001 WMKA 171500Z 04001KT 7000 FEW012 SCT140 BKN280 26/25 Q1010 LJPZ 171500Z 10005KT 060V150 9999 FEW050 24/12 Q1015 WMKB 171500Z 11003KT 5000 HZ FEW025 SCT140 BKN270 28/26 Q1009 NOSIG KRZR 171515Z AUTO 04004KT 10SM OVC021 19/14 A3000 RMK WMKC 171500Z 19004KT 140V240 6000 FEW020 SCT140 OVC220 23/23 Q1010 WMKD 171500Z 28003KT 9999 FEW024 SCT160 BKN280 26/25 Q1011 NOSIG KRZT 171514Z AUTO 00000KT 10SM OVC042 15/10 A3006 RMK AO2 KTIK 171458Z AUTO 21011KT 10SM CLR 26/21 A2997 RMK AO2 SLP143 T02620206 50003 $ WMKE 171100Z 15004KT 9999 FEW020 BKN270 29/26 Q1007 KSSC 171523Z AUTO 05009KT 10SM BKN014 24/18 A2995 RMK AO2 $ FNLU 171500Z 30008KT 9999 FEW020 BKN090 24/19 Q1012 NOSIG GEML 171500Z 36006KT 330V070 CAVOK 26/18 Q1010 KTHV 171453Z AUTO 00000KT 10SM CLR 19/11 A3007 RMK AO2 SLP183 T01890106 58001 KW13 171515Z AUTO 12003KT 10SM BKN060 18/10 A3008 RMK AO1 T01760098 KSSF 171453Z 14005KT 8SM SCT007 OVC017 26/24 A2996 RMK AO2 SLP133 60004 T02610244 51009 FNMO 171500Z 31016KT 9999 BKN016 23/17 Q1015 WMKI 171500Z 03001KT 6000 FEW030 SCT140 BKN290 27/24 Q1010 KTIP 171510Z AUTO 00000KT 10SM SCT085 17/11 A3006 RMK AO2 T01700109 WMKJ 171500Z 00000KT 8000 FEW022 BKN280 26/25 Q1011 KSRQ 171453Z 28009KT 10SM FEW034 BKN055 27/22 A2996 RMK AO2 LTG DSNT N RAE49 SLP145 6//// T02720222 53002 PNO KSRR 171455Z AUTO 00000KT 10SM BKN003 OVC070 13/13 A3028 RMK AO2 P0002 WMKK 171500Z 14003KT 9999 FEW030 SCT140 BKN280 27/24 Q1010 NOSIG KSSI 171453Z AUTO 01004KT 10SM CLR 28/21 A2994 RMK AO2 SLP137 T02780206 51004 WMKL 171500Z 00000KT 3500 HZ FEW026 SCT140 BKN260 27/26 Q1010 WMKM 171500Z 03002KT 9000 FEW028 SCT140 BKN270 27/25 Q1011 LKKB 171500Z 12009KT 9999 SCT046 22/12 Q1016 NOSIG WMKN 171500Z 25002KT 9999 FEW024 BKN240 27/26 Q1010 KSTC 171453Z 00000KT 10SM CLR 17/11 A2995 RMK AO2 SLP149 T01720111 51005 KTKC 171513Z AUTO 00000KT 10SM CLR 18/13 A2995 RMK AO2 T01810128 KW22 171515Z AUTO 00000KT 10SM CLR 17/12 A3006 RMK AO2 WMKP 171500Z 21003KT 5000 HZ SCT025 SCT140 BKN270 29/26 Q1010 TEMPO 5000 HZ KTIW 171453Z 03003KT 10SM CLR 14/12 A2979 RMK AO2 SLP085 T01440122 56005 KSTE 171515Z AUTO 25007KT 10SM BKN070 14/08 A2999 RMK AO2 T01410075 KUBE 171455Z AUTO 24004KT 10SM CLR 14/09 A2996 RMK AO2 KTIX 171450Z 25010KT 7SM SCT017 BKN100 27/23 A2995 KSTF 171515Z AUTO 08005KT 10SM CLR 23/18 A3001 RMK AO2 KUAO 171453Z AUTO 01006KT 10SM CLR 16/13 A2974 RMK AO2 SLP071 T01610128 56005 LLBG 171520Z 31011KT CAVOK 32/19 Q1006 NOSIG KTKI 171453Z 20006KT 10SM CLR 27/22 A2998 RMK AO2 SLP146 T02670222 51002 KSTJ 171453Z 11003KT 10SM R35/3500VP6000FT OVC007 18/16 A2995 RMK AO2 SLP137 T01780161 51008 KSUA 171447Z 27008KT 7SM FEW022 SCT060 28/20 A2998 KW29 171513Z AUTO 09003KT 10SM 21/07 A3006 RMK AO1 KSTK 171510Z AUTO 19005KT 10SM CLR 17/11 A3001 RMK AO2 KSTL 171451Z 17008KT 9SM BKN034 BKN060 OVC200 16/11 A3005 RMK AO2 SLP172 T01610111 53009 KW31 171455Z AUTO 04004KT 10SM SCT070 BKN080 21/14 A3003 RMK AO1 T02090139 KSUE 171515Z AUTO 25006KT 10SM CLR 15/08 A2999 RMK AO1 KSTP 171453Z 13004KT 10SM CLR 16/11 A2996 RMK AO2 SLP144 T01610111 50000 KTLH 171453Z 05004KT 10SM FEW030 SCT250 28/22 A2995 RMK AO2 SLP142 60001 T02830222 50001 VVNB 171500Z 10011KT CAVOK 28/26 Q1007 NOSIG KSTS 171507Z 28003KT 10SM OVC009 16/13 A2982 RMK AO2 KTMA 171510Z AUTO 06003KT 10SM CLR 27/21 A2996 RMK AO2 T02700213 TSNO KTMB 171453Z 28008KT 10SM FEW030 31/23 A2999 RMK AO2 SLP155 T03060228 51007 LKKU 171500Z 18007KT 120V230 9999 FEW040 23/14 Q1018 RMK REG QNH 1013 KSVC 171515Z AUTO 05006KT 8SM -RA OVC023 17/16 A3018 RMK AO2 P0001 KTKV 171515Z AUTO 00000KT 10SM CLR 15/09 A2997 RMK AO2 T01500087 LKKV 171500Z 12008KT 9999 FEW043 19/11 Q1015 KSUN 171447Z 31010KT 10SM SCT120 15/03 A3006 LKLN 171500Z AUTO 10007KT 050V130 CAVOK 22/12 Q1015 KTME 171515Z AUTO 22004KT 9SM FEW015 SCT021 BKN027 28/28 A2998 RMK AO2 KW43 171515Z AUTO 10SM CLR 17/07 A3000 RMK AO2 FOGO 170700Z ///// 8000 DZ OVC006 20/19 Q//// KUDG 171515Z AUTO 11005KT 10SM OVC012 21/17 A2999 RMK AO1 KUCP 171456Z AUTO 00000KT 10SM CLR 17/11 A3007 RMK AO2 TSNO 58008 T01660105 SLP199 KSVH 171515Z AUTO 04006KT 10SM OVC014 19/16 A3001 RMK AO2 T01910157 FOGR 170600Z 00000KT 4000 BR FEW003 SCT008 OVC026 23/23 Q//// KSUS 171502Z 09007KT 10SM OVC033 14/11 A3001 RMK AO2 LKNA 171500Z 14008KT 080V180 9999 FEW035 19/12 Q1018 NOSIG RMK BLU BLU KSUT 171515Z AUTO 07003KT 10SM CLR 26/19 A2993 RMK AO2 T02630192 KTMK 171515Z AUTO 00000KT 7SM CLR 14/13 A2977 RMK AO2 KTNB 171455Z AUTO 11005KT 10SM SCT012 OVC018 16/12 A3009 RMK AO2 T01560123 KSUU 171458Z AUTO 24018KT 10SM CLR 17/15 A2977 RMK AO2 SLP088 6//// T01650151 53005 $ KSUW 171515Z AUTO 00000KT 10SM CLR 14/09 A2995 RMK AO2 T01420092 KSVN 171523Z AUTO VRB03KT 10SM SCT020 28/23 A2992 RMK AO2 KSUX 171452Z 17003KT 10SM CLR 18/13 A2993 RMK AO2 SLP135 T01780128 50002 KSWF 171445Z 00000KT 20SM SKC 16/10 A3008 KUCY 171515Z AUTO VRB03KT 10SM CLR 17/14 A3005 RMK VVPB 171500Z 19005KT 9999 -RA SCT025 BKN130 27/26 Q1009 NOSIG KTOA 171447Z 00000KT 20SM SKC 26/18 A2975 FNSA 171500Z 00000KT CAVOK 30/21 Q1017 KTOB 171513Z AUTO 20006KT 10SM SCT085 17/11 A2998 RMK AO2 LKMT 171500Z 09006KT 050V130 9999 FEW033 21/15 Q1019 NOSIG KTOC 171515Z AUTO 10006KT 10SM SCT016 SCT022 OVC042 24/19 A2997 RMK AO2 T02440193 KW63 171515Z AUTO 07006KT 10SM BKN025 BKN050 BKN080 22/16 A3002 RMK AO1 KSWO 171453Z 22009KT 10SM CLR 28/21 A2993 RMK AO2 SLP123 T02780206 50001 KTOI 171453Z AUTO 00000KT 10SM FEW010 27/22 A2998 RMK AO2 SLP148 T02720222 50001 KTPA 171510Z 18007KT 3SM RA BR FEW009 SCT044 BKN090 23/22 A2998 RMK AO2 P0010 T02330222 KUES 171445Z 22003KT 10SM SKC 14/08 A3003 LLET 171450Z 22011KT CAVOK 36/11 Q1006 KTOL 171452Z 25004KT 10SM CLR 14/08 A3006 RMK AO2 SLP179 T01440078 58004 KTNU 171515Z AUTO VRB04KT 10SM OVC065 15/13 A2998 RMK AO2 LKPD 171500Z 13013KT CAVOK 22/12 Q1017 NOSIG RMK BLU BLU KSWW 171515Z AUTO 20010KT 10SM CLR 26/21 A3008 RMK AO2 T02600210 VVPQ 171200Z VRB02KT 9000 FEW015 BKN040 24/22 Q1009 NOSIG KSYF 171515Z AUTO 00000KT 10SM CLR 18/11 A2999 RMK AO2 T01790106 FNSO 171500Z 21005KT CAVOK ///// Q1012 KTOP 171508Z 07003KT 1 1/2SM BR OVC005 20/19 A2993 RMK AO2 T02000194 KW75 171515Z AUTO 08006KT 10SM SCT029 SCT050 22/15 A3003 RMK AO1 T02230151 KTPH 171456Z AUTO 00000KT 10SM CLR 19/12 A3009 RMK AO2 SLP112 T01890117 53006 KTOR 171453Z AUTO 28005KT 10SM CLR 17/08 A3002 RMK AO2 SLP131 T01670083 51009 KSYI 171515Z AUTO VRB03KT 10SM OVC014 18/16 A3005 RMK LLHA 171450Z 35011KT CAVOK 29/21 Q1007 KW78 171515Z AUTO 04005G08KT 10SM SCT028 OVC080 22/15 A3003 RMK AO1 T02160147 KSXS 171456Z AUTO 05005KT 10SM CLR 26/22 A3000 RMK AO2 SLP158 T02590221 50005 KSXT 171509Z AUTO 19006KT 5SM HZ FEW002 16/05 A2984 RMK AO2 T01560050 FNUB 171500Z 02012KT 9999 FEW040 26/12 Q1021 KTPL 171515Z AUTO 24005KT 10SM SCT014 OVC022 27/21 A2999 RMK AO1 KW81 171515Z AUTO 05003KT 10SM BKN060 OVC085 23/13 A3004 RMK AO1 T02250134 FNSU 171500Z 22005KT 9999 FEW010 23/19 Q1015 KSYM 171510Z AUTO 00000KT 10SM CLR 17/12 A3006 RMK AO2 KUGN 171452Z VRB04KT 10SM CLR 17/07 A3002 RMK AO2 SLP166 T01670072 58007 KSYN 171511Z AUTO 22005KT 10SM BKN060 17/11 A2995 RMK AO2 T01700105 KTQE 171454Z AUTO 19004KT 10SM CLR 18/13 A2994 RMK AO2 SLP129 T01830133 53002 FNUE 171500Z 03007KT 9999 FEW030 SCT060 28/13 Q1015 FNUG 171500Z 18008KT 9999 NSC 25/15 Q1014 WMSA 171500Z 14003KT 7000 FEW026 BKN270 29/25 Q1010 KTQH 171455Z AUTO 17004KT 10SM SCT008 23/20 A3000 RMK AO2 KSYR 171454Z 26009KT 10SM SCT037 18/08 A3004 RMK AO2 SLP168 T01830083 58004 LKPR 171500Z 12011KT CAVOK 20/11 Q1015 NOSIG LLIB 171450Z 19006KT 160V220 CAVOK 33/10 Q1008 KSZL 171518Z AUTO 18003KT 10SM -DZ SCT002 BKN011 BKN021 OVC030 18/18 A2994 RMK AO2 DZE1457 CIG 009V016 $ GFLL 170200Z 28004KTS 9999 BKN010 FEW027CB 26/24 Q1012 RMK CB NE MBPV 171600Z 10008KT 9999 SCT013 31/24 Q1015 KW96 171515Z AUTO 07005KT 10SM CLR 22/15 A3003 RMK AO1 T02150150 KTRI 171512Z 02003KT 10SM SCT019 SCT025 BKN046 21/14 A3002 RMK AO2 T02060139 MDAB 171500Z 04005KT 9999 FEW017CB SCT019 BKN300 31/27 Q1016 CB/NE KSZT 171455Z AUTO 00000KT 10SM CLR 10/10 A2987 RMK AO2 KTRK 171355Z 00000KT 10SM BKN220 14/02 A3007 RMK NOSPECI FIRST 24HR MAX 0283 MIN 0105 KW99 171515Z AUTO 00000KT 10SM CLR 17/10 A3008 RMK AO2 T01720104 KTRL 171504Z AUTO 16005KT 3/4SM HZ CLR 28/23 A2998 RMK AO2 VIS M1/4V5 T02780228 $ KUIL 171453Z AUTO 00000KT 5SM BR FEW100 13/13 A2979 RMK AO2 SLP087 T01330128 53001 KTRM 171452Z AUTO 00000KT 10SM CLR 29/21 A2974 RMK AO2 SLP073 T02940211 53014 TSNO KVAD 171458Z AUTO VRB03KT 10SM CLR 27/22 A2996 RMK AO2 SLP146 T02720223 51004 $ KUIN 171454Z AUTO 14007KT 7SM OVC060 14/12 A3002 RMK AO2 RAB1359E25 SLP164 P0001 60001 T01440117 53006 KVAF 171515Z AUTO 18009KT 10SM FEW026 29/23 A2998 RMK A01 KTTA 171515Z AUTO 05006KT 10SM SCT022 BKN036 BKN075 23/19 A2998 RMK AO2 T02330186 LKTB 171500Z 17007KT 9999 FEW040TCU 21/13 Q1018 NOSIG KTTD 171453Z 00000KT 10SM CLR 16/12 A2973 RMK AO2 SLP067 T01560122 56011 KTTF 171510Z AUTO 29006KT 10SM CLR 14/08 A3003 RMK AO2 KUKF 171515Z AUTO 06005KT 10SM OVC021 18/13 A3010 RMK AO2 KVBG 171455Z 33003KT 3/4SM BR OVC002 16/15 A2984 RMK AO2 SLP094 T01560150 53011 $ KTSP 171515Z AUTO 00000KT 9SM CLR 19/07 A3000 RMK AO2 MDBH 171500Z 11010KT 9999 FEW020CB FEW022 BKN300 31/23 Q1016 CB/SE/S FOOG 171500Z 20010KT 8000 SCT010 BKN030 27/23 Q1012 VVTS 171500Z 07001KT 4900 BR FEW017 BKN040 26/23 Q1012 NOSIG KUKI 171456Z AUTO 19008KT 10SM OVC006 14/13 A2981 RMK AO2 SLP088 T01440128 53007 KVCB 171453Z AUTO 20004KT 10SM CLR 19/10 A2978 RMK AO2 SLP082 T01940100 53005 TSNO FOOL 171048Z 13007KT 6000 -DZ SCT010 BKN033 26/23 Q1014 NOSIG KTTN 171453Z 05004KT 10SM CLR 20/07 A3006 RMK AO2 SLP171 T02000067 50002 FOON 171500Z 00000KT 9999 BKN016 SCT023TCU FEW030CB 29/21 Q1010 KVAY 171454Z AUTO VRB03KT 10SM CLR 19/09 A3006 RMK AO2 SLP178 T01940094 50001 KTTS 171518Z AUTO 29009KT 10SM SCT019 SCT024 28/23 A2995 RMK AO2 KVBT 171515Z AUTO 23010G16KT 10SM CLR 24/20 A2999 RMK AO1 KUKT 171510Z AUTO 15004KT 10SM CLR 19/08 A3007 RMK AO1 KTUL 171453Z 18008KT 8SM SCT250 26/21 A2995 RMK AO2 SLP133 T02560211 53007 KTVC 171453Z 24007KT 10SM BKN250 16/09 A2998 RMK AO2 SLP154 T01610094 58002 KULM 171514Z AUTO 17005KT 10SM SCT050 16/13 A2994 RMK AO2 KTVF 171515Z AUTO 02011KT 10SM FEW002 14/08 A2996 RMK AO1 KVDF 171515Z AUTO 00000KT 2 1/2SM RA BKN048 BKN060 OVC070 24/22 A2998 RMK AO2 KTUP 171453Z 08005KT 10SM CLR 23/16 A3002 RMK AO2 SLP162 T02280156 53003 RJAA 171500Z 02009KT 9999 -SHRA FEW015 BKN020 BKN030 20/17 Q1011 NOSIG KTVI 171515Z AUTO 06004KT CLR 28/23 A2997 RMK AO2 PWINO KVDI 171515Z AUTO 00000KT 10SM CLR 28/22 A2995 RMK AO2 KTUS 171453Z 00000KT 7SM -RA SCT100 BKN120 23/21 A2992 RMK AO2 RAB13 SLP088 P0001 60001 T02330206 53009 KVCT 171452Z 21009KT 10SM FEW014 SCT017 29/25 A2997 RMK AO2 T02940250 KTVK 171515Z AUTO 16003KT 10SM FEW055 17/15 A2999 RMK AO2 KTVL 171453Z AUTO 00000KT 10SM CLR 11/00 A3010 RMK AO2 SLP139 T01110000 53001 KVCV 171515Z AUTO 15008KT 10SM CLR 24/16 A2992 RMK AO2 RJAF 170700Z 34009KT 9999 FEW030 SCT040 BKN150 21/13 Q1014 LKVO 171200Z 14015KT CAVOK 22/10 Q1017 KTWF 171453Z 16004KT 10SM CLR 19/07 A2995 RMK AO2 SLP093 T01890067 51010 MDCY 171500Z 06010KT 9999 FEW018CB FEW020 SCT300 30/25 Q1014 CB/NE/N RJAH 171500Z 36007KT 9999 -SHRA FEW020 BKN040 17/15 Q1011 KTVR 171453Z AUTO 00000KT 10SM CLR 27/22 A2999 RMK AO2 SLP161 T02670217 53005 TSNO KUNI 171515Z AUTO 33003KT 5SM HZ BKN042 19/11 A3004 RMK AO2 P0010 T01900107 RJBB 171500Z 03012KT 9999 FEW035 SCT050 BKN120 22/12 Q1013 NOSIG RJBD 171000Z 30005KT 9999 FEW030 SCT060 BKN110 25/14 Q1012 KVEL 171453Z AUTO 00000KT 10SM CLR 18/06 A3014 RMK AO2 SLP145 T01780056 51011 SABE 171500Z 04009KT CAVOK 17/08 Q1020 RJBE 171200Z 05009KT 9999 FEW040 BKN130 23/14 Q1013 KTWM 171514Z AUTO 19003KT 10SM CLR 14/09 A2991 RMK AO2 KUNO 171517Z AUTO 30009G16KT 2 1/2SM TSRA BR OVC005 16/14 A3011 RMK AO2 LTG DSNT ALQDS TSB02 PRESRR P0005 T01560144 SAAR 171500Z 07010KT CAVOK 21/12 Q1018 RJCA 170616Z 20008KT 9999 -SHRA FEW010 BKN040 BKN070 13/07 Q1009 RMK 1ST010 5CU040 7AC070 A2981 KVER 171515Z AUTO 12006KT 5SM BR OVC004 16/16 A2996 RMK AO2 LTG DSNT SW T01610161 RJAT 171050Z 33003KT 9000 -SHRA FEW008 BKN020 BKN200 18/18 Q1016 RMK 1ST008 5CU020 5CI200 A3000 RJCB 171100Z VRB01KT 9999 FEW040 SCT060 10/07 Q1010 KVES 171515Z AUTO 00000KT 10SM SCT039 14/12 A3006 RMK AO2 RJCC 171500Z VRB02KT 9999 FEW050 08/07 Q1010 EYKA 171520Z 08003KT CAVOK 18/09 Q1025 KTXK 171453Z 10003KT 2SM BR OVC002 22/22 A3000 RMK AO2 SLP155 T02170217 51005 KUNU 171515Z AUTO 24004KT 10SM SCT090 14/09 A3003 RMK AO2 T01440090 RJAW 171500Z 20011KT 9999 FEW015 SCT230 28/25 Q1011 RMK 1CU015 A2987 KUNV 171453Z 00000KT 10SM SCT050 14/10 A3008 RJCH 171100Z 02005KT 9999 FEW015 12/09 Q1012 RJCK 171100Z 28009KT 9999 -SHRA FEW030 SCT050 BKN070 13/06 Q1009 RJBT 170900Z 36004KT 340V040 9999 FEW025 SCT030 BKN150 20/13 Q1015 RJDC 171200Z 01006KT 9999 FEW030 BKN110 23/17 Q1014 RJCM 171100Z 19003KT 150V220 9999 FEW003 09/08 Q1009 RJCN 170900Z VRB01KT 9999 FEW020 11/11 Q1008 RJCO 170830Z 28010KT 9999 TS FEW025CB SCT050 15/08 Q1010 RMK 1CB025 3CU050 A2983 FBL TS 20KM N MOV E SADF 171500Z 05008KT CAVOK 18/09 Q1020 SACO 171500Z 02016KT CAVOK 23/08 Q1018 KUOX 171515Z AUTO 07005KT 10SM CLR 22/16 A3005 RMK AO2 PWINO PNO KTYQ 171515Z AUTO 00000KT 10SM CLR 16/11 A3006 RMK AO2 T01620110 FQCH 171500Z 11011KT CAVOK 30/11 Q1016 KTYR 171353Z 00000KT 7SM OVC004 24/23 A2999 RMK AO2 SLP147 T02440228 FQBR 171500Z 06014KT CAVOK 27/22 Q1011 RJEB 170700Z 21011KT 9999 -SHRA FEW040 BKN050 11/08 Q1008 KTYS 171506Z 00000KT 9SM FEW017 SCT025 19/14 A2999 RMK AO2 T01890139 RJCT 171053Z 33005KT 9999 -SHRA FEW060 SCT070 12/07 Q1010 RMK 2CU060 3AC070 A2984 W/E RJEC 171100Z VRB01KT 9999 FEW005 SCT035 BKN050 08/07 Q1010 KVGT 171453Z 00000KT 10SM CLR 27/13 A2990 RMK AO2 SLP111 T02720128 53009 RJCW 170919Z 06007KT 010V100 9999 -TSRA FEW010 FEW025CB BKN050 BKN/// 12/08 Q1008 RMK 2ST010 1CB025 5CU050 A2977 FBL TS 5KM W MOV E CB 5KM W AND SE MOV E KVIH 171506Z AUTO 12010KT 6SM BR BKN006 OVC110 14/14 A2998 RMK AO2 RAE1456 CIG 003V020 P0000 T01440139 KTZR 171455Z 00000KT 7SM OVC041 16/11 A3006 RJDT 171100Z 04005KT 330V070 9999 FEW020 BKN070 22/17 Q1014 MDJB 171500Z 00000KT 9999 SCT018 BKN300 30/26 Q1016 LLSD 171450Z 34013KT CAVOK 31/24 Q1005 RJFF 171500Z VRB02KT CAVOK 23/16 Q1014 KUSE 171515Z AUTO VRB03KT 10SM CLR 16/09 A3005 RMK AO2 RJFG 170900Z 28003KT 9999 FEW030 BKN/// 25/22 Q1013 KVJI 171515Z AUTO 00000KT 10SM BKN018 OVC046 21/15 A3003 RMK AO2 T02060150 RJFK 171200Z VRB01KT 9999 FEW020 20/16 Q1014 KVIS 171515Z AUTO 00000KT 7SM CLR 20/14 A2980 RMK AO1 KUTA 171515Z AUTO 13004KT 10SM CLR 21/17 A3003 RMK AO2 KY19 171515Z AUTO 06003KT 10SM CLR 13/09 A2999 RMK AO2 RJFM 171200Z 36006KT 330V030 9999 FEW020 SCT025 BKN070 25/20 Q1012 KWAL 171454Z 08011KT 10SM SCT030 BKN250 23/15 A3004 RMK AO2 SLP171 T02280150 51004 RJFO 171200Z 29004KT 9999 FEW030 BKN100 23/17 Q1013 KY23 171515Z AUTO 20004KT 10SM CLR 14/10 A2997 RMK AO2 T01410101 RJGG 171500Z 31012KT 9999 FEW030 BKN140 23/16 Q1011 NOSIG SAEZ 171500Z 07010KT 010V110 CAVOK 19/08 Q1020 RJFR 171500Z 34005KT CAVOK 23/18 Q1014 RJFS 171500Z 32007KT CAVOK 20/17 Q1013 RJFT 171200Z 08009KT CAVOK 22/17 Q1014 RJFU 171200Z 33010KT 9999 FEW035 BKN080 24/16 Q1013 EYPA 171520Z 14004KT 110V170 9999 BKN049 20/10 Q1025 KVLD 171453Z 00000KT 10SM FEW120 SCT200 28/22 A2996 RMK AO2 SLP151 T02780222 50006 RJFY 170852Z 22004KT 9999 VCVA FEW025 26/21 Q1012 RMK 1CU025 A2990 VOLCANIC ASH 10KM NW MOV SE KUTS 171520Z AUTO 00000KT 10SM SCT010 BKN030 27/24 A2999 RMK AO2 T02670239 KUVA 171455Z AUTO 16005KT 10SM BKN012 26/24 A2998 RMK AO2 60003 T02580241 KVKS 171515Z AUTO 00000KT 10SM CLR 28/22 A2999 RMK A01 KVLL 171515Z AUTO 29003KT 10SM CLR 16/05 A3005 RMK AO2 T01560052 GGOV 171500Z 03007KT 360V070 9999 SCT014 FEW020CB 27/23 Q1010 NOSIG KWDG 171455Z 22007KT 10SM BKN200 26/21 A2992 SBAA 171500Z 01010KT 9999 SCT025 ///// Q1013 MDLR 171500Z 09006KT 9999 FEW018CB SCT020 28/24 Q1016 CB/SE KY50 171456Z AUTO 00000KT 10SM BKN085 13/09 A3001 RMK AO2 TSNO 58005 T01270088 SLP163 KY49 171515Z AUTO 00000KT 10SM CLR 14/09 A2995 RMK AO2 T01420085 KVNC 171515Z AUTO RMK AO2 PWINO TSNO LMML 171515Z 12009KT 090V150 9999 FEW011 SCT017 27/22 Q1013 NOSIG KUUU 171453Z AUTO VRB05KT 10SM CLR 19/09 A3002 RMK AO2 SLP165 T01940089 50001 KY51 171515Z AUTO 20004KT 10SM OVC085 15/09 A3001 RMK AO1 T01470094 SBAF 171500Z 15004KT 7000 SCT015 OVC030 21/17 Q1021 RJKA 171000Z 32003KT 8000 FEW020 26/22 Q1012 KWDR 171515Z AUTO 00000KT 10SM SCT023 27/21 A3000 RMK AO2 T02660210 PWINO KVOA 171515Z AUTO 01006KT 10SM CLR 28/23 A2996 RMK A01 EYSA 171450Z 14008KT CAVOK 17/10 Q1026 SBAN 171500Z 34003KT 9999 SCT040 32/11 Q1020 SBBE 171500Z 07010KT 9999 BKN030 31/21 Q1013 KY63 171513Z AUTO 00000KT 10SM CLR 15/12 A2994 RMK AO2 T01540115 SBBG 162200Z 27003KT CAVOK 13/08 Q1018 FQIN 171400Z 05013KT CAVOK 26/20 Q1013 SBAQ 171500Z 18003KT 9999 FEW035 32/15 Q1019 SBBH 171500Z 09008KT CAVOK 30/11 Q1019 SBBI 171500Z 10008KT 9999 FEW016 BKN022 18/12 Q1023 SBAR 171500Z 12010KT 9999 SCT021 27/18 Q1017 SBCA 171500Z 04020KT CAVOK 24/11 Q1019 SBAT 171500Z 25003KT 9999 FEW025 33/23 Q1015 SBCB 171500Z 24007KT 9999 FEW015 OVC070 25/19 Q1020 SBCC 171500Z 06005KT 9999 SCT035 SCT100 31/17 Q1016 SBAU 171400Z 12014KT CAVOK 25/13 Q1018 KY70 171513Z AUTO 25004KT 10SM CLR 16/09 A3003 RMK AO2 T01610093 KVOK 171458Z 25004KT 10SM BKN075 14/13 A3000 RMK AO2A SLP165 57002 KVPC 171453Z AUTO 00000KT 10SM CLR 22/17 A2999 RMK AO2 SLP145 T02170167 58005 MDPC 171500Z 13005KT 9999 FEW018CB SCT020 SCT080 29/25 Q1016 CB/E/S/SW/NW KUXL 171515Z AUTO 00000KT 10SM CLR 28/25 A2999 RMK AO2 T02770247 SBAX 171500Z 24006KT CAVOK 31/12 Q1020 SBCF 171500Z 07009KT CAVOK 30/10 Q1019 SBCG 171500Z 30005KT CAVOK 32/16 Q1016 SBBQ 171500Z 09008KT 9999 BKN017 21/14 Q1024 SBCH 171500Z 12008KT CAVOK 23/15 Q1018 KVNY 171451Z 00000KT 10SM CLR 28/14 A2977 RMK AO2 SLP067 T02780144 51007 SBCI 171500Z 01006KT 9999 SCT030 35/20 Q1014 SBBR 171500Z 06007KT CAVOK 32/05 Q1019 SBCJ 171500Z 07005KT 9999 SCT017 27/21 Q1017 KUZA 171454Z AUTO VRB04KT 4SM BR BKN006 OVC011 19/18 A3001 RMK AO2 CIG 005V008 SLP152 T01940183 51008 SBBU 171500Z 12007KT CAVOK 28/18 Q1018 SBCM 171500Z 09006KT 9999 FEW020 BKN030 20/13 Q1021 FPST 171500Z 09004KT 9999 FEW017 SCT040 BKN033 28/23 Q1012 NOSIG SBBV 171500Z 11005KT 9999 BKN035 30/21 Q1013 SBBW 171500Z 07006KT 9999 FEW030 35/16 Q1015 FQLC 171500Z 08011KT 3000 FU NSC 24/07 Q1020 SAME 171500Z 09006KT CAVOK 22/03 Q1014 SBCO 171500Z 15008KT 9999 FEW021 BKN100 19/12 Q1020 SBCP 171500Z 18010KT 9999 SCT025 BKN090 26/17 Q1020 MDPP 171500Z 09008KT 9999 FEW022 32/24 Q1015 SBCR 171500Z 04005KT CAVOK 31/22 Q1014 SBCT 171500Z 07009KT 9999 BKN018 BKN030 17/13 Q1023 KVPS 171455Z 06004KT 10SM FEW010 FEW150 SCT220 26/22 A2997 RMK AO2A SLP154 T02640222 52003 $ FQMA 171500Z 09015KT CAVOK 27/19 Q1010 NOSIG KVRB 171453Z 26009KT 10SM FEW030 27/22 A2997 RMK AO2 SLP147 T02720222 53005 SBDN 171500Z 10010KT CAVOK 29/13 Q1017 SBCX 171500Z 04006KT 030V120 8000 NSC 17/16 Q1021 RJNG 171444Z 27005KT 9999 FEW030 BKN120 BKN/// 19/15 Q1011 RMK 1CU030 5AC120 A2986 SBCY 171500Z 25003KT CAVOK 31/21 Q1014 SBEG 171500Z 20006KT 9999 VCSH SCT020 FEW025TCU 31/22 Q1013 KWHP 171447Z 00000KT 10SM SKC 30/14 A2981 SBCZ 171500Z 00000KT 9999 OVC015 26/24 Q1015 KVPZ 171453Z AUTO 00000KT 10SM CLR 15/10 A3005 RMK AO2 SLP175 T01500100 58009 TSNO KVQQ 171450Z 32006KT 10SM SCT030 26/23 A2995 RJOA 171200Z 35008KT CAVOK 20/14 Q1015 SBEK 171500Z 22002KT CAVOK 31/22 Q1013 RJNK 171500Z 03008KT 9999 FEW100 BKN180 19/11 Q1013 RJOB 171200Z 01006KT 330V060 9999 FEW025 SCT045 BKN100 20/14 Q1014 EYVI 171520Z 09005KT CAVOK 18/08 Q1026 NOSIG SAOC 171500Z 34021G32KT CAVOK 23/07 Q1015 RJOC 171100Z 05012KT 9999 FEW025 SCT050 22/16 Q1015 KVQT 171515Z AUTO 09014G19KT 9SM FEW021 SCT035 BKN050 26/24 A3000 RMK A01 MDSD 171500Z 10006KT 9999 FEW018CB SCT020 BKN300 29/24 Q1015 CB/NE/E/SE KVSF 171454Z AUTO VRB03KT 10SM CLR 15/08 A3002 RMK AO2 SLP166 T01500083 58011 KWJF 171456Z 28004KT 10SM CLR 24/04 A2988 RMK AO2 SLP095 T02390044 50004 $ RJOH 171500Z 05009KT 9999 FEW045 BKN120 22/11 Q1014 KVSH 171515Z AUTO 00000KT 10SM OVC022 28/21 A2998 RMK AO1 SBFI 171500Z 01005KT CAVOK 27/14 Q1016 RJOI 171455Z 29004KT 9999 FEW025 BKN100 22/14 A2992 RMK SLP131 T02170139 402720211 58007 SBES 171500Z 21006KT 9999 FEW017 BKN070 23/18 Q1020 RJNS 171100Z 31003KT 9999 FEW020 SCT160 BKN/// 21/19 Q1012 RJOK 171100Z 06004KT 9999 FEW025 BKN040 BKN110 23/20 Q1012 RJNT 171200Z 08003KT 050V120 9999 FEW030 BKN050 BKN/// 21/12 Q1015 SANT 171500Z 23008KT 7000 NSC 22/08 Q1015 KVTA 171454Z AUTO 00000KT 10SM OVC045 17/11 A3005 RMK AO2 SLP176 T01720111 58006 SBFL 171500Z 03006KT 9999 SCT025 BKN035 22/12 Q1021 RJOM 171200Z 34002KT 9999 FEW020 BKN100 23/19 Q1013 SBFN 171500Z 11015KT 9999 SCT021 29/21 Q1015 RJNW 171000Z VRB02KT 9999 FEW030 SCT150 BKN180 17/11 Q1016 LOAN 171500Z 16011KT 25KM FEW050CU RMK FEW RJOO 171100Z 01006KT 330V040 CAVOK 22/13 Q1013 RJOP 171128Z 36010KT 310V060 9999 FEW030 SCT080 BKN120 24/16 Q1013 RMK 1CU030 3AC080 7AC120 A2993 RJNY 170241Z 06009KT 010V100 9999 FEW020 BKN150 BKN230 26/17 Q1012 RMK 1CU020 5AC150 A2991 FQNP 171500Z 08009KT 9999 FEW025 30/14 Q1014 RJOR 171200Z 10005KT 9999 FEW025 SCT060 BKN100 21/13 Q1015 RJOS 171044Z 04010KT 9999 FEW030 SCT080 BKN120 24/15 Q1013 RMK 1CU030 3AC080 7AC120 A2993 SBFS 171000Z /////KT 9999 FEW030 ///// Q1019 KVTI 171515Z AUTO 00000KT 10SM CLR 18/09 A3000 RMK AO2 T01750093 RJOT 171200Z VRB02KT 9999 FEW050 SCT080 21/16 Q1014 VYMD 171230Z 00000KT 8000 SCT020 FEW025CB 30/27 Q1000 SBGL 171500Z 25005KT 7000 SCT015 OVC035 23/16 Q1020 MDST 171500Z 12010KT 9999 SCT023 SCT300 28/24 Q1015 NOSIG SBGM 171500Z 31003KT 9999 BKN043 27/23 Q1014 FQPB 171500Z 08007KT CAVOK 26/20 Q1015 LOAV 171500Z 15014G24KT 20KM SCT030CU 21/11 Q1018 RMK SCT RJOW 171000Z VRB02KT 9999 FEW025 BKN110 23/17 Q1014 KWLD 171454Z AUTO 23011KT 10SM CLR 26/21 A2993 RMK AO2 SLP126 T02610206 53001 KVTN 171452Z AUTO 00000KT 10SM CLR 18/13 A2994 RMK AO2 SLP130 T01780128 51004 SBGO 171500Z 11009KT 9999 FEW040 35/08 Q1016 RJOY 171000Z 36012KT 9999 FEW035 SCT100 BKN120 24/08 Q1013 SBFZ 171500Z 06017KT 9999 FEW013 SCT019 BKN060 28/20 Q1014 KXBP 171515Z AUTO 28003KT 10SM CLR 28/20 A3000 RMK AO2 T02820204 SBGR 171500Z 08006KT 9999 BKN020 21/14 Q1022 KVUJ 171515Z AUTO 08007KT 10SM OVC007 20/19 A3003 RMK AO2 T02030190 SBGU 171400Z 10006KT 9999 FEW015 19/12 Q1021 SBIC 171500Z 21004KT 9999 SCT018 SCT090 30/24 Q1014 SARC 171500Z 14007KT CAVOK 21/12 Q1016 KWMC 171456Z AUTO 00000KT 8SM FEW110 13/M01 A2998 RMK AO2 SLP117 T01281011 53007 SBGW 171500Z 05006KT 350V080 9000 BKN022 BKN040 24/16 Q1020 SARE 171500Z 09007KT CAVOK 23/12 Q1016 SARF 171500Z 16006KT 9999 SCT030 22/14 Q1015 KVUO 171453Z AUTO 00000KT 10SM FEW120 17/13 A2974 RMK AO2 SLP071 60000 T01670128 56009 SBIH 171500Z 00000KT 9999 SCT019 33/25 Q1012 KVVG 171515Z AUTO 00000KT 5SM HZ 27/24 A2987 RMK A01 SARI 171500Z 05006KT CAVOK 25/15 Q1017 SASA 171500Z 09004KT 9999 FEW035 BKN200 22/07 Q1018 RJSA 171200Z 20006KT 9999 -SHRA FEW020 SCT030 BKN040 13/11 Q1013 SBHT 171500Z 11004KT 9999 BKN020 30/25 Q1013 RKJB 171500Z AUTO 09004KT 3000 NCD 19/18 Q1016 SBIL 171500Z 09008KT 9999 SCT020 SCT030 BKN070 26/21 Q1018 SARL 171500Z 09012KT CAVOK 20/12 Q1018 RJSC 171000Z 04003KT 9999 FEW030 SCT120 BKN150 17/09 Q1014 FQQL 171500Z 13005KT 080V160 CAVOK 27/21 Q1012 SBJF 171500Z 12003KT 0600 -DZ FG BKN001 BKN010 OVC070 18/17 Q1023 RJSF 171000Z 31003KT 9999 -SHRA FEW030 SCT040 BKN100 16/15 Q1015 SBIP 171500Z 00000KT 9999 SCT020 BKN035 26/18 Q1019 SARP 171500Z 14005KT CAVOK 22/13 Q1017 RJSI 171000Z 13004KT 090V180 9999 FEW050 SCT100 BKN150 15/11 Q1013 SASJ 171500Z 09010KT CAVOK 25/07 Q1015 SCBA 171500Z 30019G29KT 9999 -SHRA OVC040 06/01 Q1009 RJSK 171200Z 13004KT 060V200 9999 R28/P1800N -SHRA PRFG FEW002 BKN035 BKN050 15/14 Q1013 RKJK 171458Z AUTO 03005KT 10SM CLR 19/12 A3001 RMK AO2 SLP166 T01920115 402570185 50000 $ RJTE 170150Z 33010KT 300V360 9999 FEW020 SCT030 BKN230 26/20 Q1013 RMK 1CU020 4CU030 A2994 RJSN 171200Z 33005KT 9999 FEW040 SCT150 BKN180 21/10 Q1015 KVVV 171514Z AUTO 02006KT 10SM CLR 17/12 A2994 RMK AO2 RJTF 170700Z 09004KT 060V130 9999 FEW030 SCT045 BKN170 25/14 Q1012 RJSO 170630Z 29006KT 230V330 9999 -SHRA FEW010 SCT020 BKN035 15/13 Q1011 RMK 1ST010 3CU020 6CU035 A2986 SBKG 171500Z 11008KT 9999 BKN030 28/17 Q1018 SBJP 171500Z 11010KT 070V140 9999 BKN030 BKN070 28/18 Q1016 SCAP 171500Z 25008KT 200V280 CAVOK 11/03 Q1021 SBIZ 171500Z 13004KT 9999 BKN020 32/22 Q1013 SBJR 171500Z 03005KT 9999 SCT015 BKN030 23/20 Q1020 RJTI 170700Z 06010KT 030V100 9999 FEW030 BKN050 BKN180 24/13 Q1012 RJSR 171000Z 18007KT 9999 FEW005 SCT030 BKN040 15/13 Q1013 SCAR 171500Z 22005KT 9999 OVC021 17/11 Q1017 SCAS 171500Z 25012KT 7000 -SHRA FEW033 BKN036 09/05 Q1013 RJSS 171200Z 32004KT 290V010 9999 FEW030 BKN180 18/15 Q1014 RJTK 170343Z 35010KT 9999 -SHRA SCT020 BKN035 BKN200 25/17 Q1012 RMK 3CU020 5CU035 7CI200 A2989 SBLB 171500Z 17014KT 9999 SCT025 BKN070 25/20 Q1019 W///S2 SCAT 171500Z 30005KT 240V360 CAVOK 16/06 Q1020 SBJU 171500Z 15005KT 9999 FEW020 33/18 Q1018 SBJV 171500Z 08006KT 9999 SCT017 BKN030 20/15 Q1022 KVWU 171516Z AUTO 00000KT 10SM SCT110 13/10 A2996 RMK AO2 KXFL 171450Z 24004KT 7SM BKN013 26/22 A2995 SBLE 171500Z 12004KT 9999 SCT040 29/15 Q1018 RJTO 170800Z 04005KT 9999 FEW035 BKN160 24/19 Q1012 SCCF 171500Z 23006KT CAVOK 17/M06 Q1027 RJSY 171200Z 27011KT 9999 FEW010 BKN045 BKN090 20/11 Q1014 SBKP 171500Z 16010KT CAVOK 25/14 Q1019 SCCH 171500Z 00000KT 2000 BR OVC008 09/08 Q1019 RJTR 171129Z 03005KT 7SM SCT045 BKN200 23/15 A2992 RMK LAST SCCI 171500Z 26020KT 9999 FEW030 SCT100 06/01 Q0991 NOSIG SCDA 171500Z 21015KT 9999 SCT030 SCT150 17/10 Q1018 SBMA 171500Z 09005KT 9999 FEW020 32/21 Q1013 RJTT 171500Z 02013KT 9999 BKN025 21/16 Q1011 NOSIG RJTU 170620Z 16006KT 9999 FEW030 BKN060 BKN210 24/12 Q1013 RMK 1CU030 5SC060 7CC210 A2992 SAVC 171500Z 29034KT CAVOK 14/M03 Q1004 SBMD 171500Z 14006KT 9999 BKN020 ///// Q1014 SAVE 171500Z 23003KT CAVOK 09/M02 Q1015 SBME 171500Z 19008KT 9999 FEW030 OVC080 27/17 Q1020 SBLO 171500Z 09005KT 9999 FEW035 26/14 Q1019 SBLP 171500Z 24006KT CAVOK 36/10 Q1014 SBMG 171500Z 03005KT CAVOK 27/13 Q1017 RJTY 171506Z AUTO 02006KT 10SM OVC031 20/14 A2995 RMK AO2 SBLS 171500Z VRB04KT 9999 FEW035 30/11 Q1020 SBMK 171500Z 10009KT 060V150 CAVOK 33/07 Q1017 KVYS 171515Z AUTO 00000KT 10SM CLR 17/11 A3004 RMK AO2 T01690106 SBML 171400Z 13014KT CAVOK 26/14 Q1019 KWRB 171518Z 36002KT 10SM FEW030 28/22 A2996 RMK A02A SLP142 FQTT 171500Z 16008KT 4000 HZ NSC 36/12 Q1009 SAWE 171500Z 27025KT 9999 FEW011 07/02 Q0988 SBMN 171500Z 16006KT 9999 TS VCSH SCT020 FEW025CB SCT100 29/23 Q1014 SBNF 171500Z 12006KT 9999 FEW015 BKN050 22/16 Q1021 SBMO 171500Z 10011KT 9999 SCT025 27/19 Q1016 SCCY 171500Z 29003KT 9999 SCT035 BKN040 09/02 Q1010 SAWG 171500Z 23019KT 9999 BKN025 SCT100 10/01 Q0993 SAWH 171500Z 25025KT 5000 -RA OVC012 02/01 Q0986 SBMQ 171500Z 07012KT 9999 SCT027 34/24 Q1012 LOIH 171500Z 36003KT 35KM FEW060CU SCT300CI 22/17 Q1011 RMK SCT KXIH 171515Z AUTO 00000KT 10SM FEW024 BKN070 OVC075 28/24 A2997 RMK A01 SBMS 171500Z 12005KT 9999 BKN030 36/19 Q1013 SCFA 171500Z 20008KT 170V220 9999 SCT015 BKN022 15/10 Q1018 NOSIG KWRI 171458Z AUTO 04005KT 10SM CLR 20/11 A3004 RMK AO2 SLP175 T01960107 50001 SBMT 171500Z 15008KT 9999 SCT020 OVC028 21/13 Q1021 SCEL 171500Z VRB02KT 8000 OVC020 12/08 Q1019 NOSIG KWRL 171453Z AUTO 22003KT 10SM CLR 14/08 A3002 RMK AO2 SLP137 T01440083 52008 FQVL 171500Z 06008KT 020V090 CAVOK 23/19 Q1012 SBMY 171500Z 18004KT CAVOK 31/23 Q1014 SBOI 171500Z 10005KT 9999 BKN025 32/24 Q1012 SBPA 171500Z 10009KT 9999 SCT025 20/13 Q1020 SBPB 171500Z 07017KT 9999 FEW020 34/23 Q1012 SBNT 171500Z 11015KT 9999 SCT030 SCT070 29/19 Q1016 SBPC 171500Z 33007KT 9999 SCT020 29/12 Q1022 RKPC 171500Z 02004KT 9999 SCT030 BKN100 22/14 Q1015 NOSIG SCGE 171500Z 18004KT CAVOK 13/07 Q1018 SBPF 171500Z 05010G20KT CAVOK 19/13 Q1019 RKNY 171500Z AUTO 25006KT 3000 NCD 16/14 Q1018 LPAR 171500Z 21012KT 9999 FEW018 FEW020CB 25/17 Q1005 SBPJ 171500Z 31005KT 9999 SCT035 34/19 Q1013 LPBJ 171500Z 28013KT 9999 VCSH SCT025 FEW026CB 22/17 Q1007 RKPK 171500Z 05001KT 9000 BR BKN030 OVC070 19/17 A3000 SBPK 171500Z 08009KT 9999 BKN040 18/11 Q1021 SCFT 171500Z 26004KT 170V300 CAVOK 10/02 Q1016 MGCB 171500Z 27004KT CAVOK 21/18 QFE 871.8 FEW080 BKN200 KWST 171453Z AUTO VRB04KT 10SM CLR 19/07 A3003 RMK AO2 SLP169 T01890067 58002 SBPL 171500Z 17007KT CAVOK 33/19 Q1015 SBPN 171500Z 05005KT 7000 FEW030 34/19 Q1013 SBPP 171500Z 31008KT CAVOK 28/15 Q1017 SBPR 171500Z 09007KT CAVOK 30/13 Q1020 LPAZ 171500Z 34020KT 9999 FEW020 21/11 Q1018 SBPS 171500Z 09013KT 9999 SCT020 26/19 Q1018 SBRB 171500Z 26004KT 9999 FEW020 SCT100 27/21 Q1015 RKPU 170159Z 25010KT 2000 +RA BR FEW010 BKN020 OVC080 20/18 Q1016 NOSIG SCIC 171500Z 20004KT 3000 BR OVC006 11/10 Q1018 SAZM 171500Z 34010KT CAVOK 18/10 Q1019 SBPV 171500Z 10006KT 9999 SCT020 29/22 Q1013 KXLL 171515Z AUTO 00000KT 10SM CLR 18/08 A3007 RMK AO2 SAZN 171500Z 25007KT CAVOK 17/01 Q1016 SCIE 171500Z 00000KT 9999 BKN011 12/09 Q1019 SBRF 171500Z 13009KT 9999 SCT023 SCT060 28/22 Q1016 MGCP 171300Z 00000KT 9999 FEW024CB BKN080 26/24 QFE 1009.6 CB SW/W/WNW SBRJ 171500Z 36003KT 9999 FEW018 BKN030 OVC050 23/19 Q1020 KWVI 171523Z AUTO 00000KT 1 1/2SM BR OVC002 15/13 A2984 RMK AO2 VIS 3/4V2 T01500133 SAZS 171500Z 32006KT CAVOK 09/M02 Q1018 KXNA 171453Z 21013KT 10SM CLR 23/20 A2999 RMK AO2 SLP143 T02280200 51004 SBSC 171500Z 23004KT 4500 BR BKN012 OVC018 20/18 Q1020 FSIA 171500Z 14015KT 9999 -SHRA FEW009 BKN016 BKN070 26/23 Q1011 NOSIG SBQV 171500Z 13010KT 9999 SCT020 26/16 Q1021 KWVL 171515Z 22005KT 10SM CLR 18/07 A2994 RMK AO1 KWWD 171515Z AUTO 07006KT 10SM CLR 21/06 A3006 RMK AO1 SBRP 171500Z 29002KT 9000 FEW040 32/12 Q1016 SCIP 171500Z 01005KT 320V050 9999 SCT020 BKN030 19/14 Q1026 NOSIG RKSG 171458Z AUTO 11002KT 10SM FEW050 SCT160 17/14 A3004 RMK AO2 SLP175 T01690139 50005 $ SCIR 171500Z 15013KT 9999 SCT015 OVC030 11/06 Q1024 RKSI 171500Z 05011KT CAVOK 18/13 Q1017 NOSIG SBTA 171500Z /////KT 9999 SCT025 SCT100 ///// Q1020 KXMR 171458Z AUTO 27010KT 10SM CLR 29/23 A2994 RMK AO2 SLP142 60000 T02850225 50001 SBSJ 171500Z 07002KT 9999 BKN025 24/15 Q1021 SBTC 171500Z 06004KT 9999 FEW020 29/21 Q1018 SBSL 171500Z 09018KT 9999 FEW025 32/20 Q1013 SBSM 171500Z 11014KT CAVOK 17/11 Q1019 RKSM 171500Z 20001KT 9999 FEW200 17/14 A3004 SBSN 171500Z 11005KT 9999 SCT017 30/24 Q1013 SBTE 171500Z 12005KT 9999 FEW040 34/21 Q1012 SCJO 171500Z 15006KT 9999 OVC015 09/07 Q1020 SBTF 171500Z 27005KT 9999 FEW020 33/24 Q1014 RKSO 171458Z 06001KT 6SM BR FEW050 SCT170 17/17 A3003 RMK AO2A SLP172 T01700167 402470165 50003 $ SBSP 171500Z 14010KT 9999 SCT016 BKN021 19/13 Q1022 SBSR 171500Z 21003KT CAVOK 31/13 Q1018 SBUA 171500Z 32004KT 9999 SCT012 BKN017 31/24 Q1014 RKSS 171500Z 34003KT CAVOK 17/13 Q1017 NOSIG KWWR 171515Z AUTO 24013G20KT 10SM CLR 27/17 A2998 RMK AO2 SBTK 171500Z 24004KT 9999 SCT020 27/23 Q1011 MGES 171500Z 00000KT 9999 FEW016 SCT090 25/18 QFE 912.3 FEW200 SBST 171500Z 12004KT 9999 SCT024 BKN070 22/14 Q1020 LPFL 171500Z 16006KT 100V190 9999 FEW033 21/13 Q1021 RMK WIND RWY36 16006KT 110V200 POS MID 15007KT 110V190 SBSV 171500Z 06007KT 9999 SCT017 SCT070 28/21 Q1017 RKTN 171500Z 08002KT 9999 SCT040 OVC090 19/15 A3001 SBUF 171400Z 12009KT 9999 FEW018 31/17 Q1017 SBUG 171500Z 08010KT CAVOK 20/11 Q1018 LPFR 171500Z 23012KT 9999 FEW020 23/20 Q1008 SBTT 171500Z 16003KT CAVOK 31/21 Q1015 SBTU 171500Z 03006KT 9999 SCT020 31/23 Q1015 SBUL 171500Z 02009KT 9999 SCT030 30/11 Q1019 RKTU 171500Z 04002KT 9000 NSC 15/13 Q1016 NOSIG VYYY 171500Z 26004KT 7000 SCT018 FEW025CB 26/25 Q1006 SBVH 171500Z 31004KT 9999 BKN017 FEW020TCU 30/22 Q1017 SBUR 171515Z 19007KT 6000 FEW040 33/07 Q1018 SCMK 171500Z 36008KT 9999 OVC015 10/07 Q1017 KWYS 171510Z AUTO 00000KT 10SM CLR 07/04 A3018 RMK AO2 MGGT 171500Z 36006KT 9999 SCT016 BKN080 20/16 Q1027 A3033 SBUY 171500Z 09003KT 9999 SCT020 SCT100 30/23 Q1013 KXPY 171515Z AUTO 00000KT 10SM BKN019 BKN026 29/23 A3002 RMK A01 YABA 171500Z AUTO 17003KT 1900 // NCD 12/11 Q1018 LPHR 171500Z 31011KT 270V360 9999 FEW030 21/11 Q1020 KXSA 171515Z AUTO 05005KT 10SM SCT030 SCT042 BKN048 23/13 A3005 RMK AO2 T02300132 SBVT 171500Z 14008KT 8000 FEW015 OVC070 23/18 Q1019 MGHT 171500Z 00000KT 9999 SCT018 BKN100 21/15 QFE 820.2 WSAP 171500Z 23003KT 8000 FEW018 BKN300 29/25 Q1011 KYIP 171453Z 21003KT 10SM CLR 16/06 A3005 RMK AO2 SLP174 T01610061 58006 SBYA 171500Z 09002KT 9999 SCT018 29/24 Q1013 SCNT 171500Z 29017KT 260V330 9999 BKN030 OVC100 07/03 Q0993 MHAM 171500Z 04004KT 9999 FEW030 SCT250 29/25 SCON 171500Z 34004KT 9999 BKN020 10/06 Q1019 MHCA 171400Z 36002KT 9999 SCT028 25/22 HZ LPLA 171500Z /////KT 9999 VCSH FEW023 SCT026 BKN043 19/13 Q1019 RMK ESTMD WND 32015KT LQBK 171500Z 10004KT 9999 FEW035 20/14 Q1017 NOSIG KYKM 171453Z 28005KT 10SM CLR 16/09 A2977 RMK AO2 SLP077 T01560089 55001 KYKN 171515Z AUTO 00000KT 10SM CLR 16/13 A2993 RMK AO1 SCPQ 171500Z 35009KT 9999 SCT009 BKN020 08/05 Q1019 MHCH 171500Z 03010KT 9999 FEW030 SCT250 30/22 HZ SBYS 171500Z 10004KT CAVOK 28/15 Q1018 LPMA 171500Z 15004KT 110V200 9999 FEW016 SCT030 25/17 Q1013 RS08004KT 0516004KT 2321003KT SCRD 171500Z 34005KT 9999 FEW010 OVC016 11/08 Q1019 SCRG 171500Z 16007KT 3000 BR OVC020 10/09 Q1018 SCQP 171500Z 17005KT 130V210 9999 BKN009 09/07 Q1019 KXVG 171516Z AUTO 00000KT 10SM CLR 15/10 A2994 RMK AO2 MGMM 171400Z 00000KT 9999 SCT014 BKN090 25/24 Q1016 A3000 SCSE 171500Z VRB02KT 9999 FEW013 BKN033 15/10 Q1019 LOWG 171520Z 14008KT 9999 FEW035 19/12 Q1018 NOSIG KYNG 171451Z 16004KT 10SM FEW030 SCT250 16/08 A3006 RMK AO2 SLP180 T01610083 58005 LPMR 171500Z 22013KT 190V270 9999 SCT022 FEW024CB 23/17 Q1004 LOWI 171520Z 14009G22KT 070V200 9999 FEW070 SCT090 24/09 Q1012 NOSIG SCTB 171500Z 23003KT 1000 BR OVC010 10/09 Q1019 MGMT 171500Z 00000KT 9999 FEW020 BKN070 27/25 Q1009.2 FEW200 LPMT 171500Z 25011G22KT 210V270 9999 VCSH SCT022 FEW025CB 20/19 Q1006 RESHRA LOWK 171520Z 10006KT 050V160 9999 FEW040 20/12 Q1017 NOSIG LOWL 171520Z 10011KT CAVOK 23/10 Q1013 NOSIG SCTE 171500Z 10003KT 9999 OVC018 10/06 Q1020 NOSIG SCSN 171500Z VRB03KT 8000 OVC025 13/10 Q1020 LOWS 171520Z 05008KT 9999 FEW050 25/12 Q1012 NOSIG MGPB 171500Z 27004KT 9999 SCT018 28/25 Q1015 A2997 FEW200 LPPD 171500Z 34011KT 300V050 9999 FEW025 SCT040 19/09 Q1018 LOWW 171520Z 16012KT 9999 FEW042 21/13 Q1018 NOSIG LOWZ 171500Z 10005KT 50KM SCT060CU 23/13 Q1013 RMK SCT LOXT 171450Z 13011KT 090V170 35KM FEW040CU 22/12 Q1017 RMK FEW SCVD 171500Z VRB04KT 9999 SCT023 11/06 Q1020 LPOV 171500Z 22011KT 9999 SCT015 FEW018CB 22/20 Q1003 RETS LOXZ 171520Z 11006KT 30KM FEW030CU BKN060SC 17/10 Q1018 NOSIG RMK BKN LPPR 171500Z 20016KT 9999 SCT013 FEW020CB 22/18 Q1003 LPPS 171500Z 30012KT 9999 FEW015 24/18 Q1013 RMK T/DP FM BACK-UP LPPT 171500Z 24015KT 9999 SCT020 FEW024CB 23/17 Q1005 SCVM 171500Z 30004KT 9999 SCT020 OVC050 12/10 Q1020 YBAF 171500Z AUTO 24005KT 9999 // NCD 15/05 Q1015 MGQZ 171500Z 000000KT 9999 FEW022 BKN080 15/12 QFE 768.5 YBAS 171500Z AUTO 08005KT 9999 // NCD 17/00 Q1021 MGSJ 171500Z 00000KT CAVOK 28/25 Q1015 A2997 BKN070 MGRT 171500Z 00000KT CAVOK 27/23 1017 A3003 BKN080 VOL. STA. MARIA Y SANTIAGUITO EN ACTIVIDAD YBBN 171500Z 19006KT CAVOK 18/02 Q1015 NOSIG LRBC 171500Z 02004KT 350V160 9999 FEW060 22/03 Q1021 YBCG 171500Z AUTO 19007KT 9999 // NCD 19/03 Q1015 YBCK 171500Z AUTO 17006KT //// // ////// 15/M04 Q1019 YAMB 171500Z AUTO 22005KT 9999 // NCD 11/03 Q1015 LRAR 171500Z 02006KT 360V060 CAVOK 20/16 Q1019 LPST 171500Z 24014KT 210V270 9999 SCT020 23/17 Q1006 MHLC 171500Z 26004KT 9999 FEW026TCU SCT200 29/23 Q1014 A2996 NOSIG LRBM 171500Z 15004KT 110V190 CAVOK 23/04 Q1019 YBDG 171500Z AUTO 23010KT 9999 // NCD 06/03 Q1020 MHLE 171500Z 03004KT 9999 FEW024 BKN200 20/17 LRBO 170600Z 02020KT 9999 BKN200 17/07 Q1021 BLU BLU YBCS 171500Z 00000KT 9999 FEW025 15/11 Q1017 LRBS 171500Z 04007KT 360V070 CAVOK 23/03 Q1019 NOSIG YBCV 171500Z AUTO 14003KT 9999 // NCD 11/02 Q1019 SEGU 171500Z 22006KT 9999 FEW 023 BKN030 BKN100 25/19 Q1014 RMK A2997 NOSIG LRCK 171500Z 04014KT 010V070 9999 FEW037 21/13 Q1018 NOSIG MGTU 171500Z 14004KT CAVOK 29/23 BKHN080 LRCL 171500Z 12006KT CAVOK 21/04 Q1020 MHLM 171500Z 25002KT 9999 SCT025 BKN080 28/25 Q1015 A2997 NOSIG YBDV 171500Z AUTO 14004KT //// // ////// 15/M05 Q1022 LRCT 171400Z 18006KT 9999 SCT150 22/03 Q1019 BLU BLU LRCV 171500Z 06006KT CAVOK 20/09 Q1019 LQMO 171500Z 29005KT 250V350 9999 FEW040 BKN094 26/10 Q1013 BGBW 171450Z 07033KT 9999 SCT050 OVC070 08/M07 Q1010 ROAH 171500Z 02007KT 9999 FEW025 27/22 Q1012 SFAL 171500Z 31025G35KT 9999 FEW020 BKN200 XX/XX Q0994 GMAD 171500Z 27017KT 9999 SCT016 SCT200 28/15 Q1011 NOSIG MHNO 171500Z 01007KT 9999 FEW040 SCT250 26/19 Q1018 HZ GMAG 171500Z 32012KT 9999 FEW016 29/15 Q1010 NOSIG FTTA 171500Z 32008KT 9999 FEW050CB 31/21 Q1010 FTTC 171400Z 30004KT CAVOK 34/17 Q1010 FTTD 171400Z 36008KT 9999 FEW040 32/19 Q1011 HDAM 170700Z 28007KT 6000 HZ FEW026 BKN150 38/22 Q1007 YBHI 171500Z AUTO 20006KT 9999 // NCD 07/00 Q1024 KZPH 171515Z AUTO 20006KT 10SM BKN075 19/18 A2998 RMK AO2 MGZA 171500Z 00000KT 9999 SCT018 SCT090 27/22 QFE 990.5 SCT200 FTTJ 171500Z 35010KT 8000 TS SCT033 SCT040CB 31/17 Q1009 TEMPO 4000 TSRA YBHM 171513Z AUTO 31007KT 9999 // BKN014 21/19 Q1016 MHPL 171500Z 36007KT 9999 SCT026TCU 29/25 Q1015 TCU ALL HZ GMAT 171500Z 36011KT 9999 BKN016 27/17 Q1012 NOSIG YARG 171500Z AUTO 31006KT 9999 // NCD 28/12 Q1014 BGGH 171450Z 07010KT 9999 SCT050 BKN084 09/M00 Q1009 SELT 171500Z 17008KT 9999 FEW030 15/06 Q1033 LRIA 171500Z 04008KT 010V070 CAVOK 22/03 Q1021 YARM 171500Z AUTO 28007KT 9999 // NCD 04/M01 Q1017 FVBU 171500Z 09004KT 060V170 CAVOK 33/M06 Q1017 NOSIG RODN 171458Z AUTO 06004KT 9SM R05/5500FT CLR 24/23 A2992 RMK AO2 SLP137 T02420229 403100242 58003 FTTY 171300Z 08010KT CAVOK 41/10 Q1010 YCBA 171500Z AUTO 00000KT //// // ////// 05/M02 Q1021 YCBB 171500Z AUTO 23010KT //// // ////// 09/01 Q1019 SEMT 171400Z 21010KT 9999 OVC020 24/21 Q1015 WSSL 171500Z 07005KT 8000 FEW016 BKN300 28/25 Q1011 RMK 1430Z Q1010 LQSA 171530Z VRB02KT 9999 FEW040TCU SCT055 18/13 Q1018 NOSIG YBKE 171500Z AUTO 25005KT //// // ////// 09/M02 Q1021 MHSC 171458Z AUTO 01007KT 9999 SCT019 26/23 A3005 RMK AO2 SLP139 T02570232 50002 $ MHRO 171500Z 08010KT 9999 SCT022 31/25 Q1014 A2996 NOSIG YCAR 171500Z AUTO 19015KT 9999 // BKN021 21/16 Q1017 YCAS 171500Z AUTO 30006KT //// // ////// 14/05 Q1015 WSSS 171500Z 12007KT 6000 FEW020 BKN300 28/25 Q1011 NOSIG FVCZ 171500Z 13007KT CAVOK 34/05 Q1015 FVFA 170400Z 09004KT 060V120 CAVOK 19/06 Q1017 MHTE 171500Z 33006KT 9999 SCT028TCU SCT250 29/26 Q1013 TCU S SW HZ YCBP 171500Z AUTO /////KT //// // NCD 12/M04 Q1023 GMFF 171500Z 29015KT 270V340 9999 BKN033 SCT100 31/11 Q1012 NOSIG MHTG 171500Z 05010KT 9999 FEW014 SCT024 25/20 Q1020 A3012 NOSIG YBMA 171500Z AUTO 16007KT 9999 // NCD 23/M05 Q1019 YBKT 171500Z AUTO 21005KT //// // ////// 19/15 Q1015 MHSR 171500Z 36003KT 9999 SCT020BKN250 24/17 Q1021 HZ YBLN 171500Z AUTO 19007KT //// // ////// 14/12 Q1017 GMFK 171500Z 26028G46KT 4000 SA SCT026 SCT200 35/M02 Q1011 NOSIG GMFM 171500Z 27008KT 9999 SCT023 29/10 Q1012 NOSIG BGJN 171450Z 10017KT 9999 SCT160 BKN200 06/M06 Q1014 GMFO 171500Z 05005KT 350V160 8000 SCT026 SCT100 31/16 Q1010 NOSIG YBNA 171500Z AUTO 26005KT 9999 // SCT100 14/05 Q1015 MHTR 171500Z 00000KT 9999 SCT024TCU 29/25 Q1015 TCU ALL YBMK 171504Z AUTO 31004KT 6000 // NCD 15/15 Q1016 FVHA 171500Z 02006KT 340V050 CAVOK 29/03 Q1019 NOSIG YCEE 171500Z AUTO 00000KT //// // ////// 05/04 Q1025 SEQM 171500Z 30003KT 9999 FEW040 BKN300 19/05 Q1029 NOSIG RMK A3039 YCDO 171500Z AUTO 28005KT //// // ////// 06/00 Q1020 BGKK 171450Z 35005KT 320V020 9999 FEW200 07/M07 Q1026 YCCY 171500Z AUTO 18007KT //// // ////// 20/M03 Q1018 ROIG 171100Z 36005KT 9999 FEW020 BKN060 29/25 Q1012 LQTZ 171500Z 11008KT 9999 SCT035 21/14 Q1017 YCDU 171500Z AUTO 08007KT 9999 // NCD 06/05 Q1024 YCEM 171500Z AUTO 35004KT //// // ////// 07/05 Q1020 GLRB 171500Z 30006KT 2000 +RA BKN005 OVC011 FEW022 CB 23/23 Q1012 RMK CB S/SW/W SESG 171300Z 27012KT 9999 FEW035 36/M00 Q1009 YBNS 171500Z AUTO 28013KT 9999 // SCT044 BKN054 08/03 Q1016 YBOK 171500Z AUTO 01003KT 9999 // NCD 08/M00 Q1018 YCFL 171500Z AUTO 12008KT //// // ////// 22/18 Q1016 YAYE 171500Z AUTO 12006KT 9999 // NCD 18/02 Q1020 LROD 171500Z 30004KT 260V360 9999 FEW045 21/13 Q1019 YCFS 171500Z AUTO 28004KT 9999 // NCD 11/10 Q1015 SGAS 171500Z VRB05KT CAVOK 28/14 Q1014 HEBA 171500Z 34012KT 9999 SCT020 27/19 Q1010 NOSIG FVKB 171500Z 00000KT 5000 HZ 32/15 Q1010 YBPN 171500Z AUTO 00000KT 0200 // ////// 14/13 Q1016 LSGC 171520Z 02003KT 340V070 9999 FEW039 BKN120 20/15 Q1014 LSGG 171520Z 03005KT 310V110 9999 FEW050 BKN110 25/15 Q1011 NOSIG LROP 171500Z 07012KT 040V100 CAVOK 23/05 Q1018 NOSIG YCHK 171500Z AUTO 32009KT 9999 // NCD 26/M00 Q1016 YAYT 171300Z 01004KT CAVOK 41/M09 Q1006 HEAR 171500Z 34009KT CAVOK 30/22 Q1006 NOSIG HECA 171500Z 34012KT 9999 SCT025 32/19 Q1009 NOSIG HEAT 171500Z 27007KT CAVOK 35/17 Q1010 NOSIG HEBL 171500Z 06006KT CAVOK 38/12 Q1008 NOSIG HEAX 171500Z 32009KT 9999 SCT020 29/20 Q1010 NOSIG MHYR 171500Z 27004KT 9999 SCT025TCU 25/22 TCU ALL HZ YBRK 171500Z AUTO 36006KT 9999 // NCD 18/16 Q1015 YBRL 171500Z AUTO 00000KT //// // ////// 20/16 Q1015 LSGS 171520Z 07008KT 040V100 9999 SCT090 BKN120 24/10 Q1012 YBRM 171500Z AUTO 29004KT 9999 // NCD 23/23 Q1014 YCIN 171500Z AUTO 23006KT //// // NCD 23/20 Q1013 GMMB 171500Z 28014KT 240V310 9999 FEW016 SCT200 28/17 Q1012 NOSIG GMMC 171500Z 28012KT 9999 FEW016TCU 26/19 Q1010 FWCL 171500Z 09005KT 4000 HZ NSC 31/04 Q1015 NOSIG YBSG 171500Z AUTO 00000KT //// // NCD 19/12 Q1015 GMME 171500Z 28011KT 250V320 8000 FEW013 SCT020 27/16 Q1011 NOSIG GMMH 171500Z 32011KT 8000 FEW010 SCT016 23/20 Q1014 TEMPO CAVOK GMMI 171500Z 27009KT 8000 SCT020 BKN200 27/17 Q1012 NOSIG LRSB 171500Z 13004KT 9999 FEW063 20/04 Q1020 NOSIG LTAC 171450Z 36006KT 9999 SCT040 17/11 Q1012 NOSIG LTAD 171101Z 08007KT 9999 SCT040 BKN100 17/15 Q1013 RESHRA NOSIG RMK RWY29 07007KT SGEN 171500Z 09003KT CAVOK 23/13 Q1015 KZZV 171453Z AUTO 11004KT 10SM OVC048 17/09 A3005 RMK AO2 SLP176 T01670094 58006 GMML 171500Z 01015KT CAVOK 30/15 Q1012 NOSIG YBRY 171500Z AUTO 30008KT 9999 // NCD 26/M01 Q1017 YBTH 171500Z AUTO 28004KT 9999 // NCD 04/00 Q1018 ROMY 171100Z 05007KT 9999 SCT018 28/25 Q1012 LTAF 171450Z 21011KT 9999 SCT035 28/18 Q1007 NOSIG GMMN 171500Z 30015G29KT 260V340 9999 BKN016 SCT100 28/17 Q1012 NOSIG LTAG 171450Z 20009KT 9999 SCT030 28/19 Q1007 NOSIG LTAH 171223Z 33007KT 300V010 9999 FEW025CB BKN030 19/14 Q1012 RETSRA RMK RWY13 34005KT 300V020 SGES 171500Z 06011KT 030V100 CAVOK 27/14 Q1015 LTAI 171450Z 34008KT 9999 FEW015CB BKN030 24/18 Q1008 BECMG 18015KT -TSRA TEMPO 3000 TSRA YBSU 171500Z AUTO 29008KT 9999 // NCD 14/13 Q1015 YBTL 171500Z AUTO 00000KT 9999 // NCD 17/14 Q1016 LTBA 171450Z 35017KT 7000 -SHRA FEW020CB BKN030 BKN080 20/17 Q1012 NOSIG LTAJ 171450Z 23010KT 9999 FEW040 27/10 Q1009 NOSIG YBUD 171523Z AUTO 29005KT 5000 // NCD 15/14 Q1015 YCKN 171500Z AUTO 13006KT 9999 // NCD 22/17 Q1015 LTAL 171245Z 13003KT 9999 FEW025CB BKN027 20/12 Q1012 RETS LRTC 171500Z 06014KT 9999 FEW049 22/11 Q1019 LTBD 170333Z 06003KT 8000 NSC 18/17 Q1009 LRSM 171500Z 17006KT 140V200 CAVOK 24/04 Q1018 FVMV 171200Z 11012KT CAVOK 33/03 Q1018 LTAN 171450Z 00000KT 9999 -TSRA FEW030CB BKN035 14/12 Q1012 BECMG TL1550 NSW GMMW 171500Z 03013KT 9999 FEW028 27/18 Q1009 NOSIG LTBF 171450Z 36010KT 9999 SCT035 BKN100 21/14 Q1012 NOSIG LTBG 171414Z 04017KT 9999 FEW015 SCT035 BKN100 22/16 Q1011 RESHRA NOSIG RMK RWY18 04019KT LTAP 171450Z 02017KT 9999 SCT040 BKN100 20/13 Q1010 NOSIG GMMX 171500Z 23003KT 170V310 9999 BKN026 28/16 Q1012 NOSIG BGSF 171450Z AUTO 07013KT 9999NDV BKN150/// 08/M05 Q1012 LTBI 171309Z 08008KT 9999 FEW030CB BKN035 15/15 Q1012 RETSRA TEMPO 33015G25KT 4000 -TSRA RMK RWY09 11005KT 070V160 LTAR 171450Z 31012KT 9999 -SHRA BKN030 BKN090 14/09 Q1015 RETSRA GMMZ 171500Z 22014KT 9999 FEW040 33/M02 Q1013 NOSIG LTAS 171430Z 31004KT 9999 -SHRA FEW027CB SCT035 BKN100 20/15 Q1011 RMK RWY18 31003KT 240V360 LTBJ 171450Z 35019KT 9999 FEW025TCU SCT030 24/15 Q1009 TEMPO -TSRA LTCA 171450Z 19010KT 150V210 9999 FEW035 28/02 Q1009 NOSIG LTAT 171450Z 20010KT 9999 SCT040 29/04 Q1007 NOSIG LTBL 170906Z 35008KT 320V020 9999 -SHRA SCT033TCU BKN090 27/14 Q1010 NOSIG RMK RWY17 34007KT 300V050 LTAU 171450Z 15008KT 120V180 9999 -TSRA FEW027CB BKN030 21/10 Q1012 BECMG TL1550 NSW LTCC 171450Z 20014KT 9999 FEW040 29/03 Q1008 NOSIG LTCD 171450Z 19004KT 9999 SCT040 BKN100 23/06 Q1010 NOSIG LRTM 171500Z 12004KT 080V160 CAVOK 22/05 Q1019 LRSV 171500Z 09004KT CAVOK 19/09 Q1022 LTAW 171015Z 25009KT 9999 SCT035 23/12 Q1011 RMK RWY22 30009KT 210V340 YDBY 171500Z AUTO 25005KT //// // ////// 24/19 Q1014 LTCE 171450Z 10004KT 030V160 9999 FEW020CB BKN030 17/04 Q1016 TEMPO TL1600 -TSRA LTBO 171341Z 33006KT 310V010 9999 FEW025CB BKN035 BKN090 20/13 Q1011 RETSRA RMK RWY09 33007KT 300V360 BIBD 171427Z 00000KT CAVOK 10/// Q1022 LTCF 171450Z 09012KT 040V100 9999 -TSRA FEW025CB BKN035 12/10 Q1019 LTBP 171202Z 03012KT 9999 -SHRA FEW024TCU BKN030 BKN090 23/14 Q1011 RMK RWY26 05011KT 020V080 LTCG 171450Z 00000KT 9999 SCT033 BKN100 24/17 Q1011 NOSIG LTAZ 171450Z 36011KT 9999 SCT040 21/11 Q1011 RMK RWY29 34014KT 300V360 LTBQ 171450Z 10004KT 080V140 7000 -TSRA FEW023CB BKN029 BKN090 20/18 Q1012 TEMPO 4000 TSRA BR LTBR 171450Z 15009KT 4000 TSRA SCT022CB BKN028 17/16 Q1013 RETSRA BECMG TL1550 35012KT 9999 NSW RMK RWY07 12008KT LTCI 171513Z VRB02KT 9999 TS FEW025CB SCT035 18/07 Q1016 TEMPO -TSRA RMK RWY21 34003KT LRTR 171500Z 21003KT 120V270 9999 FEW040 21/12 Q1019 LTDA 171014Z 21017KT 180V240 9999 BKN030 31/13 Q1007 RMK RWY04 22020KT 200V260 LTBS 171450Z 33008KT 9999 FEW020TCU 29/14 Q1007 BECMG TL1520 23013KT LTCJ 171450Z 23013KT 9999 FEW040 30/07 Q1008 LSMA 171450Z 05005KT 9999 FEW130 23/15 Q1011 RMK BLU YCMM 171500Z AUTO 00000KT //// // ////// 02/02 Q1025 LTBT 171227Z 19001KT 9999 SCT035 BKN100 22/19 Q1009 RETSRA RMK RWY14 VRB03KT LTCK 171450Z 21012KT 9999 SCT040 25/00 Q1012 BIAR 171500Z 17004KT 9999 -RA BKN047 OVC060 07/05 Q1023 LTBU 171450Z 02018KT 9999 SCT025TCU BKN090 21/15 Q1013 RMK RWY23 02015KT LTBV 171235Z 29011KT 9999 FEW020CB SCT035 29/17 Q1010 RETS LSMD 171450Z AUTO VRB02KT ////NDV NCD 23/16 Q1011 RMK BLU LSME 171450Z VRB02KT 9999 FEW130 24/16 Q1011 RMK BLU BGTL 171458Z AUTO 00000KT 9999 OVC029 01/00 A2999 RMK AO2 SLP141 T00141004 50003 $ LTCO 171236Z 30010KT 9999 -SHRA FEW030CB BKN035 17/09 Q1016 RMK RWY34 32011KT HEGN 171500Z 15004KT CAVOK 36/17 Q1006 NOSIG LTBY 171025Z 01011KT 9999 -TSRA FEW027CB BKN030 18/14 Q1012 RETSRA RMK RWY27 35014KT LTBZ 171409Z VRB02KT 8000 -TSRA FEW025CB SCT035TCU BKN090 20/10 Q1012 RMK RWY13 36002KT LRTZ 170600Z 05012KT 9999 SCT015 BKN090 20/15 Q1017 BLU BLU YCMT 171500Z AUTO 00000KT //// // ////// 11/00 Q1017 YCNK 171500Z AUTO 28007KT //// // ////// 14/01 Q1015 LTCT 171242Z 12007KT 9999 FEW030CB SCT036 BKN070 24/12 Q1012 RERA YCNM 171500Z AUTO 21006KT //// // ////// 07/01 Q1019 YCOE 171500Z AUTO 27007KT //// // ////// 19/14 Q1015 LSMM 171450Z 24005KT 9999 SCT120 BKN180 20/14 Q1012 RMK WHT YBWP 171500Z AUTO 11001KT 9999 // NCD 20/16 Q1015 LSMP 171450Z VRB02KT 9999 BKN110 24/15 Q1011 RMK BLU RORS 171000Z 06013KT 9999 FEW018 SCT070 BKN/// 30/25 Q1011 LSMS 171450Z 09006KT 050V160 9999 SCT090 BKN120 24/11 Q1012 LTFA 171001Z 29014KT 260V320 9999 SCT040TCU BKN100 26/17 Q1009 RESHRA RMK RWY17 31015KT YCOM 171500Z AUTO 23006KT 9999 // NCD M00/M00 Q1014 LTFC 171512Z 32006KT 240V030 9999 -TSRA FEW025CB BKN030 19/12 Q1012 RMK RWY23 02011KT LTFD 171504Z 04015G25KT 8000 -SHRA SCT033 BKN100 22/13 Q1012 RMK RWY23 04014KT YBWX 171500Z AUTO 23011KT //// // ////// 22/19 Q1016 YCNY 171500Z AUTO 21005KT //// // ////// 18/02 Q1017 LTFE 171450Z 26017KT 9999 FEW020CB SCT030 28/17 Q1008 NOSIG LTFG 161729Z 10004KT 9999 TS FEW015CB BKN030 26/22 Q1009 LTFH 171450Z 03002KT 9999 SCT035 BKN100 22/16 Q1011 NOSIG BIEG 171500Z 10010KT 9999 OVC035 10/03 Q1024 LTFJ 171450Z 04014KT 9999 SCT035 BKN100 21/15 Q1012 NOSIG RMK RWY24 04012KT RPLB 171500Z 06004KT 9999 FEW020 26/23 Q1010 NOSIG RMK A2983 LTFK 171141Z 02017G28KT 9999 BKN020 BKN090 21/19 Q1013 RPLC 171500Z 15001KT 9999 FEW042 BKN300 26/24 Q1011 RMK NOSIG A2986 GMTA 171500Z 36004KT 9999 FEW023 28/19 Q1010 NOSIG ROTM 171458Z 02004KT 9000 BR FEW020 26/23 A2993 RMK SLP121 T02560228 403170256 50003 RPLI 171000Z 36010G20KT 9999 FEW019 29/26 Q1009 NOSIG RMK A2980 FWKI 171500Z 11009KT CAVOK 26/03 Q1017 NOSIG RPLL 171500Z 01005KT 330V060 FEW025 29/23 Q1010 NOSIG RMK A2983 RPMD 171500Z 01006KT 9999 FEW016 BKN090 OVC290 25/23 Q1009 RMK A2980 GMTN 171500Z VRB06KT 8000 BKN020TCU 28/13 Q1009 NOSIG HEMA 171500Z 05008KT CAVOK 35/08 Q1008 NOSIG GMTT 171500Z 24018KT 8000 SCT013TCU SCT016 FEW023CB 26/20 Q1010 NOSIG HEMM 171500Z 33014KT 9999 SCT020 28/21 Q1012 NOSIG BIHN 171514Z 30005KT 9999 HZ FEW025 OVC050 11/// Q1023 HELX 171500Z 24003KT CAVOK 39/15 Q1007 NOSIG RPMZ 171500Z 00000KT 9999 -SHRA SCT016 OVC100 25/24 Q1012 RMK A2988 NCAI 171500Z AUTO 05002KT //// ///// 21/18 Q1014 BIHU 171244Z 07010KT 9999 FEW012 OVC035 06/03 Q1025 RMK TEST SPECI TEST SPECI TEST SPECI TEST SPECI TEST SPECI MKJP 171500Z 19006KT 999 FEW024 30/23 Q1014 MKJS 171500Z 06011KT 9999 FEW026 30/25 Q1014 YCUN 171500Z AUTO 17005KT //// // ////// 16/09 Q1015 BIIS 171500Z 05005KT 9999 -SHRA SCT030 BKN040 09/04 Q1023 LUBL 171500Z 05006KT CAVOK 20/05 Q1021 LUBM 170930Z 05008KT 010V070 CAVOK 20/05 Q1023 R25/CLRD65 YDLQ 171500Z AUTO 23006KT //// // ////// 03/01 Q1021 YCWA 171500Z AUTO 29005KT 9999 // NCD 21/M02 Q1018 GOGG 171500Z 36004KT 9999 FEW016 OVC130 26/23 Q1011 BIKF 171500Z 08008KT 2000 DZRA SCT002 BKN009 OVC013 09/09 Q1021 GOGK 171500Z VRB02KT CAVOK 25/22 Q1011 BIKR 171039Z 10008KT 9999 BKN040 04/03 Q1025 RMK SPECI TEST SPECI TEST SPECI TEST SPECI TEST SPECI TEST SPECI TEST SPECI TEST SPECI TEST HEPS 171500Z 35014KT 9999 SCT025 28/23 Q1009 NOSIG GOGS 171500Z 36004KT 9999 SCT016 BKN130 26/23 Q1014 YCWR 171500Z AUTO 16004KT //// // ////// 07/02 Q1018 HESC 171500Z 26014KT CAVOK 28/04 Q1020 NOSIG HESH 171500Z 17005KT CAVOK 35/20 Q1007 NOSIG YDPO 171500Z AUTO 02003KT 9999 // NCD 05/00 Q1012 HESN 171500Z 04008KT CAVOK 40/02 Q1008 NOSIG LSZA 171520Z 25004KT 210V300 9999 FEW035 SCT050 BKN100 21/14 Q1016 NOSIG LSZB 171520Z 30004KT 9999 BKN110 23/16 Q1011 NOSIG LSZC 171520Z AUTO 07005KT 9999 NSC 21/17 Q1011 LSZG 171520Z 08005KT 9999 FEW040 BKN110 25/14 Q1011 NOSIG LSZH 171520Z 36005KT 320V030 CAVOK 23/14 Q1011 NOSIG RPVM 171500Z 22006KT 9999 FEW020 OVC090 27/25 Q1010 RERA RMK A2983 LSZL 171450Z AUTO VRB02KT 9999NDV BKN055 BKN086 20/15 Q1016 RMK WHT LSZR 171520Z 26005KT 230V320 CAVOK 23/17 Q1011 NOSIG RMK L LSZS 171520Z 23013KT 190V260 9999 BKN042 12/10 Q1019 MMAA 171525Z 17012KT 7SM SCT005CB BKN015 OVC090 25/24 A2994 RMK 8/96/ PCPN 2-3 QUADS RAE15 FXMM 171500Z 27010KT 9999 BKN080 27/M02 Q1019 NOSIG YELD 171500Z AUTO 10003KT //// // ////// 21/20 Q1014 CAHR 171500Z AUTO 25012G17KT 17/09 RMK AO1 PK WND 25017/1454 SLP125 T01680089 50001 BIRK 171500Z 07005KT 9999 FEW024 OVC029 10/05 Q1021 GOOD 171500Z 18004KT 8000 TS SCT013 FEW030CB BKN130 26/24 Q1011 MMAN 171440Z 05003KT 4SM SCT005 BKN015 24/23 A3001 RMK SLP119 52001 991 8/500 HZY BKN V OVC YFBS 171500Z AUTO 00000KT //// // ////// 03/01 Q1019 GOOG 171500Z 00000KT 9999 FEW013 SCT020TCU BKN130 33/24 Q//// MMAS 171445Z 03006KT 10SM FEW040 19/12 A3028 RMK 8/500 ISOL AC CI MMCB 171444Z 00000KT 20SM SCT025 BKN080 OVC220 21/16 A3019 RMK 8/537 BINOVC LUKK 171500Z 06009KT 020V110 CAVOK 22/02 Q1020 R08/CLRD65 NOSIG GOOK 171500Z 28006KT 9999 RERA NSC 27/23 Q1013 FYGB 171500Z AUTO 33005KT //// // ////// 32/00 Q1015 YFDF 171500Z AUTO 30008KT 9999 // NCD 26/M01 Q1016 MMCE 171442Z 20005KT 7SM SCT080 BKN250 28/24 A2996 RMK SLP144 52012 912 8/038 HZY SC CBBC 171500Z AUTO 16003KT 9SM OVC014 13/11 A2984 RMK SLP107 FYGF 171500Z AUTO 16002KT //// // ////// 33/M01 Q1015 YEML 171500Z AUTO 23008KT 9999 // NCD 19/04 Q1016 MMBT 171440Z 00000KT 7SM BKN070 25/19 A3002 RMK 8/030 HZY MMCL 171440Z 00000KT 10SM SCT100 BKN230 28/26 A2985 RMK SLP097 52010 950 8/034 MMCM 171441Z 10005KT 7SM SCT020TCU 29/25 A2995 RMK SLP143 5//// 961 8/200 RTS MMCN 171443Z 12007KT 10SM BKN200 27/23 A2980 RMK SLP091 8/008 HZY ISOL CU AC MMCP 171443Z 12008KT 7SM SCT025 SCT300 28/26 A2995 RMK SLP143 52011 962 8/101 NCMH 171500Z AUTO 08011KT //// ////// 27/22 Q1010 GOOY 171500Z 33008KT 270V360 9999 SCT009 30/24 Q1010 BECMG 3000 TSRA BKN009 SCT030CB BKN130 MMCS 171450Z 06008KT 7SM FEW030 BKN100 OVC200 20/19 A3005 RMK SLP075 52022 976 8/578 BR MSGTX MMMY MMCT 171440Z 10007KT 8SM BKN015 28/26 A3000 RMK 8/500 HZY MSGTX MMMD MMCU 171444Z 00000KT 10SM BKN035TCU BKN080 BKN200 21/17 A3012 RMK SLP101 52006 914 60006 8/272 MMCV 171440Z 11008KT 10SM SCT200 26/20 A2997 RMK SLP142 52003 990 8/006 LWR ST NW MMDO 171440Z 05003KT 14SM BKN200 18/13 A3024 RMK SLP106 52015 970 8/004 TCU S/SW RTS MMCZ 171448Z 00000KT 8SM BKN015TCU 27/25 A2999 RMK SLP164 52031 964 8/200 CI RTS BIVM 171500Z 08022KT 9999 SCT012 BKN020 09/08 Q1021 MMEP 171449Z 18002KT 6SM SCT007 BKN100 OVC140 23/20 A3001 RMK SLP141 52009 964 8/87/ GOSM 171500Z 18004KT CAVOK 32/24 Q1010 GOSP 171500Z 00000KT 9999 SCT013 SCT230 36/23 Q1009 GOSS 171500Z 30006KT 9999 SCT015 SCT130 32/25 Q1009 GOTK 161800Z 04004KT 9999 TS SCT015 SCT018TCU FEW030CB BKN230 29/25 Q1010 MMGL 171451Z 00000KT 3SM HZ BKN020 OVC090 20/16 A3018 RMK SLP118 52014 956 8/57/ BINOVC MMGM 171441Z 18006KT 6SM SCT020 BKN090 29/24 A2974 RMK 8/490 HZY FYKM 171100Z 00000KT CAVOK 34/14 Q1015 MMIA 171440Z 00000KT 8SM BKN100 23/20 A2999 RMK 8/060 YERN 171500Z AUTO 07006KT //// // ////// 15/03 Q1022 GOTT 171500Z VRB02KT 9999 SCT015 SCT130 BKN230 29/25 Q1009 FYKT 171500Z 29017KT 9999 FEW040CB 29/M00 Q1011 MMHO 171452Z 16010KT 2SM RA BKN020 OVC050 25/24 A2979 RMK SLP079 52010 969 60035 8/7// NCPY 171500Z AUTO 12006KT //// ///// 27/24 Q1009 NCRG 171600Z METAR NCAI 171600Z AUTO METAR NCMH 171600Z AUTO METAR NCPY 171600Z AUTO FYML 171500Z AUTO 26011KT //// // ////// 34/01 Q1013 YESP 171500Z AUTO 05013KT 9999 // SCT068 OVC100 14/10 Q1019 MMIO 171440Z 00000KT 6SM SCT200 25/09 A3018 RMK 8/008 HZY SC YGBI 171500Z AUTO 07004KT //// // ////// 25/22 Q1015 FYLZ 171500Z AUTO 27010KT //// // ////// 30/21 Q1015 MMIT 162140Z 00000KT 5SM BKN010 OVC020 27/23 A2991 RMK 8/7// HZ ST LWR OVR MT FYOA 171500Z AUTO 08003KT //// // ////// 37/01 Q1010 YGAY 171500Z AUTO 25004KT //// // ////// 18/M01 Q1016 YFLI 171500Z AUTO 24025KT 9999 // SCT031 09/04 Q1010 MNBL 171500Z 28004KT 9999 TS FEW016CB BKN019 25/24 Q1015 CB/E/SE YGDH 171500Z AUTO 22008KT //// // ////// 12/01 Q1018 FYOO 171500Z AUTO 27003KT //// // ////// 37/M00 Q1012 MNCH 171500Z 36004KT 9999 FEW025 SCT300 28/22 Q1013 MMMA 171440Z 18004KT 7SM FEW020 OVC200 27/26 A2997 RMK SLP142 51006 971 8/107 HZY DSNT CB 1 2 QUAD MMLM 171450Z 00000KT 10SM BKN220 26/22 A2985 RMK SLP108 8/008 MMMD 171448Z 12008KT 7SM FEW010 28/24 A2999 RMK SLP160 52007 900 8/500 HZY MMLO 171442Z 00000KT 10SM BKN030 OVC120 17/16 A3030 RMK SLP131 52010 956 8/57/ FYOW 171500Z AUTO 27007KT //// // ////// 33/14 Q1014 MMLP 171404Z RTD 19005KT 5SM BKN200 ///// A2987 RMK 8/002 HZY MSGTX MMMZ YGEL 171500Z AUTO 18006KT 9999 // NCD 17/15 Q1016 MMML 171450Z 00000KT 10SM FEW100 30/23 A2975 RMK SLP078 5//// 977 8/070 MMMM 171447Z 00000KT 5SM SCT008 BKN090 BKN230 18/16 A3025 RMK SLP081 57004 969 8/538 HZY MMMT 171444Z 18010KT 10SM SCT007 BKN100 26/20 A2994 RMK SLP214 52001 954 8/170 MMNL 171443Z 18005KT 4SM OVC005 25/24 A2995 RMK SLP169 53018 980 8/6// HZ YGFN 171500Z AUTO 20005KT 9999 // OVC110 12/09 Q1016 MMMV 171448Z 00000KT 8SM FEW050 25/20 A2997 RMK 8/500 HZY SKBG 171500Z 13003KT 9999 FEW015 BKN200 23/19 A3009 MMMX 171522Z 01002KT 10SM SCT020 BKN080 18/10 A3037 NOSIG RMK 8/530 HZY FYRN 171100Z 09008KT CAVOK 34/04 Q1015 MMMY 171449Z 00000KT 8SM BKN012 BKN015 23/22 A2997 RMK SLP140 52011 987 8/500 HZ SKAR 171500Z 22003KT 9999 BKN020 23/18 A3019 MMMZ 171441Z 02006KT 12SM FEW017TCU SCT230 26/24 A2984 RMK SLP105 52020 964 8/202 ISOL AC HZY MMPA 171450Z 00000KT 4SM SCT020 BKN080 BKN280 27/24 A3004 RMK 8/138 HZY SKCC 171500Z 04006KT 9999 FEW023 SCT200 28/22 A3001 MMPB 171447Z 00000KT 7SM SCT020 BKN025 OVC080 20/17 A3040 RMK 8/52/ HZY SKBO 171500Z 24003KT 9999 VCSH BKN020 SCT200 16/07 A3041 RMK VCSH/S SKCG 171500Z 17003KT 9999 FEW015 SCT100 31/26 A2989 MMPG 171440Z 12006KT 8SM BKN007 OVC030 26/23 A2997 RMK 8/6// HZY BINOVC SKBQ 171500Z 17005KT 9999 FEW015 SCT200 28/25 A2991 SKCL 171500Z 00000KT 9999 FEW015 BKN200 25/20 A3009 MMPN 171442Z 00000KT 12SM BKN050 OVC090 19/17 A3018 RMK 8/57/ HZY MMOX 171442Z 19002KT 10SM BKN018 BKN100 20/16 A3029 RMK SLP134 53011 955 8/130 ISOL CI MMPQ 171447Z 00000KT 5SM FEW015 BKN070 BKN200 27/24 A2986 RMK 8/137 HZY MSGTX MMMD MMPR 171447Z 00000KT 15SM BKN250 28/24 A2987 RMK SLP106 52007 906 8/008 DSNTS TCU 3-QUAD MMPS 171456Z RTD 12007KT 7SM BKN070 OVC200 26/21 A3008 RMK SLP132 57017 967 8/066 RA VC YHBA 171500Z AUTO 07003KT 9999 // NCD 17/16 Q1015 SKEJ 171500Z 00000KT 9999 SCT010 BKN200 27/23 A2991 YFRT 171500Z AUTO 09012KT //// // ////// 12/06 Q1022 MMQT 171445Z 11006KT 6SM BKN020 OVC120 17/15 A3033 RMK 8/57/ HZY BKPR 171530Z 01010KT 9999 SCT045 SCT070 19/09 Q1017 NOSIG FYWB 171500Z 22009KT 9999 OVC018 16/12 Q1016 MMSD 171442Z 00000KT 13SM OVC200 28/23 A2987 RMK 8/007 BINOVC FYWE 171500Z 28010KT 9999 VCSH FEW040CB BKN050 28/02 Q1018 MNJG 171500Z 00000KT 9999 SCT019 22/20 Q1015 YGLA 171500Z AUTO 20004KT 9999 // NCD 17/15 Q1015 YGLB 171500Z AUTO 28013KT //// // NCD 06/02 Q1015 TAPA 171500Z 05011KT 9999 SCT022 30/24 Q1015 NOSIG FYWH 171500Z 28014KT CAVOK 30/M01 Q1017 NOSIG GQNI 170900Z 08008KT CAVOK 29/23 Q1015 MMTB 162145Z VRB02KT 7SM SCT015 BKN070 BKN180 24/21 A2989 RMK 8/559 MMTC 171448Z 00000KT 9SM SCT100 BKN200 25/16 A3009 RMK SLP090 52014 980 8/032 HZY YHAY 171500Z AUTO 21007KT //// // ////// 06/M01 Q1022 MMRX 171441Z 19004KT 8SM SCT220 27/22 A2995 RMK SLP138 52007 973 8/008 HZY GQNN 171500Z 26007KT 230V290 8000 NSC 33/23 Q1009 NOSIG YGLI 171500Z AUTO 27003KT //// // ////// 04/M01 Q1018 MMTG 171445Z 00000KT 5SM FEW007 BKN080 22/20 A3005 RMK SLP149 52010 952 8/670 BCFG ARND VSBY 2SM S MMSP 171343Z 00000KT 6SM FEW005 SCT015 OVC020 16/13 A3025 RMK 8/5// HZY BINOVC MMTJ 171446Z 11004KT 10SM FEW050 31/14 A2977 RMK SLP077 52009 956 8/500 GQPA 171500Z 22008KT 8000 NSC 40/20 Q1014 MNJU 171500Z 09006KT 9999 FEW020 SCT080 30/24 Q1014 MMTM 171443Z 30007KT 10SM SCT010 27/23 A2998 RMK SLP152 57025 975 8/100 YFTZ 171500Z AUTO 30004KT 270V360 //// // ////// 25/03 Q1013 MMTO 171442Z 18010KT 8SM FEW012 BKN070 15/08 A3041 RMK SLP114 52014 952 8/130 FYWW 171500Z 30009KT 9999 FEW050TCU SCT060 28/01 Q1018 MMTP 171452Z 00000KT 10SM BKN150 27/24 A2998 RMK SLP139 52006 960 8/050 YGLS 171500Z AUTO 10010KT //// // ////// 21/M02 Q1018 SKIB 171500Z 15003KT 9999 FEW030 SCT100 BKN200 25/19 A3018 MMVA 171446Z 00000KT 7SM SCT004 BKN015 OVC100 26/24 A3000 RMK SLP153 52020 904 8/62/ MMUN 171440Z 13006KT 7SM SCT015TCU 30/25 A2999 RMK SLP148 52010 970 8/200 CI K04V 171511Z AUTO 31013G16KT 10SM CLR 14/02 A3033 RMK AO2 K06D 171515Z AUTO 04010KT 10SM OVC002 07/07 A3004 RMK AO2 K04W 171521Z AUTO 24003KT 10SM CLR 15/11 A2995 RMK AO2 MNMG 171500Z 12006KT 9999 FEW021 SCT070 28/24 Q1013 A2993 NOSIG GQPP 171500Z 32018KT 8000 FEW005 27/21 Q1011 NOSIG SKIP 171500Z 09004KT 9999 FEW020 BKN200 14/06 A3054 GQPZ 171500Z 04010KT 9999 FEW050 40/07 Q1011 MMVR 171446Z 33003KT 7SM BKN100 OVC250 27/24 A2996 RMK SLP119 52008 976 8/057 HZY BINOVC K08D 171515Z AUTO 08008KT 10SM CLR 14/08 A2998 RMK AO2 LWOH 171400Z 05008KT 9999 BKN050 BKN080 20/11 Q1015 SLCA 171500Z 00000KT 9999 FEW036 27/12 Q1015 SLCB 171500Z 18006KT 9999 FEW030 24/00 Q1025 SKLC 171500Z 18007KT 9999 BKN015 BKN200 28/25 A2993 LXGB 171450Z 24014KT 9999 FEW024 SCT140 26/17 Q1010 NOSIG MNPC 171500Z 32004KT 7000 SCT016 29/26 Q1013 HZ NFFN 171500Z 11003KT 9999 FEW030 22/20 Q1014 NOSIG YHID 171500Z AUTO 11012KT 9999 // NCD 24/19 Q1014 SKMD 171500Z 00000KT 9999 SCT020 BKN080 23/15 A3020 MMZC 171442Z 00000KT 10SM SCT080 16/08 A3030 RMK 8/030 SLCO 171500Z VRB02KT 9999 FEW020 30/23 Q1014 SLCP 171500Z 34010KT 9999 FEW017 30/21 Q1017 MMZH 171445Z 05006KT 3SM -RA SCT008 BKN010 OVC030 25/24 A2989 RMK SLP/// 5//// 9// 60605 8/7// SKLT 171500Z 25003KT CAVOK 30/24 A2993 MMZO 171446Z 00000KT 10SM SCT100 BKN250 27/24 A2983 RMK 8/039 HZY RTS SKMR 171500Z 00000KT 9999 FEW010 SCT018 BKN100 25/23 A2990 K11R 171515Z AUTO 00000KT 10SM SCT008 SCT013 BKN018 27/25 A2999 RMK AO2 T02710253 YGTE 171500Z AUTO 00000KT 7000 // NCD 19/18 Q1014 YGTH 171500Z AUTO 21010KT 9999 // NCD 08/01 Q1021 K12N 171454Z AUTO 06003KT 18/08 A3008 RMK AO1 SLP184 T01780078 58000 SKMZ 171500Z 29006KT 9000 SCT010 BKN080 17/XX A3041 RMK HZ/W YHLC 171500Z AUTO 03002KT //// // ////// 23/02 Q1016 MNRS 171500Z 07006KT 9999 FEW018 SCT070 28/23 Q1013 SLET 171500Z 32020G30KT 9999 NSC 31/16 Q1012 TBPB 171500Z 07011KT 9999 SCT014TCU 31/25 Q1014 NOSIG SKPC 171500Z 11004KT 9999 SCT017 BKN070 28/24 A2992 LWSK 171500Z 36007KT 330V030 9999 SCT060 22/12 Q1015 NOSIG YGTN 171500Z AUTO 13003KT //// // ////// 18/02 Q1017 SKNV 171500Z 00000KT 9999 FEW040 BKN200 30/17 A2998 SKPE 171500Z VRB02KT 9999 VCSH SCT015 BKN080 21/17 A3021 RMK VCSH/NE/SE/S LYBE 171500Z 08006KT CAVOK 18/11 Q1018 NOSIG MPBO 171500Z VRB02KT 9999 SCT018 BKN090 Q1016 SKPS 171500Z 34004KT 9999 FEW028 SCT200 22/10 A3026 YHML 171500Z AUTO 28005KT 9999 // BKN036 OVC041 06/05 Q1022 MPDA 171500Z 00000KT 9999 FEW020 BKN250 29/24 Q1013 LYBT 171500Z 09006KT CAVOK 19/12 Q1018 NOSIG SKPV 171500Z 08004KT 9999 -TSRA FEW015CB BKN070 24/23 A////RMKCB/N SKRG 171500Z 12004KT 9999 SCT010 SCT080 18/13 A3040 SKRH 171500Z 10011KT 9999 FEW020 BKN200 30/24 A2992 K14Y 171520Z AUTO 00000KT 10SM SCT039 15/11 A2995 RMK AO2 NFNA 171500Z 00000KT 9999 BKN022 BKN048 24/21 Q1015 K0A9 171515Z AUTO 00000KT 10SM SCT034 20/16 A3001 RMK SLJE 171500Z 03006KT 9999 NSC 34/18 Q1017 SKSM 171500Z 18004KT 9999 FEW020 BKN200 29/25 A2989 YHOO 171500Z AUTO 33003KT //// // ////// 22/05 Q1016 SLJO 171500Z 32008KT 8000 FEW080 BKN200 31/22 Q1013 SKSP 171500Z 02007KT 9999 -DZ FEW016 OVC080 26/24 A2995 YHOT 171500Z AUTO 26008KT 9999 // ////// M01/M04 Q1014 SKUC 171500Z VRB02KT 9999 SCT023 30/24 A2996 K19A 171515Z AUTO 00000KT 10SM BKN021 BKN029 26/20 A2997 RMK AO2 TDCF 171500Z 24005KT 9999 FEW024 30/22 Q1014 SKUI 171500Z 26005KT 9999 FEW015 BKN200 26/23 A2995 NGFU 171700Z 10013KT 9999 VCSH SCT018CB OVC100 28/26 Q1010 K0E0 171515Z AUTO 17004KT 10SM RA SCT006 SCT027 SCT035 14/13 A3026 RMK AO2 T01430125 K21D 171512Z AUTO 21003KT 10SM CLR 16/11 A2997 RMK AO2 SLMG 171500Z 17010KT 8000 FEW020 BKN080 31/23 Q1014 SLLP 171500Z 23005KT 9999 FEW015 13/M03 Q1039 YJAB 171500Z AUTO 34004KT //// // ////// 24/18 Q1015 K20U 171515Z AUTO 13010KT 10SM 15/11 A2997 RMK AO2 K20V 171515Z AUTO 00000KT 10SM SCT110 08/01 A3036 RMK AO2 K0F2 171515Z AUTO 00000KT 10SM CLR 27/22 A3000 RMK AO2 T02650223 SKVP 171500Z 09006KT 9999 VCSH FEW007 BKN070 25/24 A2995 REDZ RMK VCSH E K0CO 171514Z AUTO 34008G14KT 310V020 10SM CLR 07/06 A3064 RMK AO2 YHSM 171500Z AUTO 25007KT //// // SCT043 05/03 Q1022 SKVV 171500Z 00000KT 9999 FEW027 SCT090 30/21 A3001 HKEL 171500Z VRB02KT 9999 FEW021CB SCT090 BKN280 19/11 Q1021 HKEM 171200Z 09006KT 9999 SCT024 25/14 YHUG 171500Z AUTO 16005KT //// // ////// 18/M06 Q1018 NFTF 171500Z 00000KT 9999 FEW018 21/17 Q1017 SLOR 171500Z 01007KT 9999 FEW015 15/M03 Q1036 HKGA 171400Z 17009KT 9999 SCT032 33/18 Q1009 K24J 171515Z AUTO 00000KT 10SM CLR 26/25 A2997 RMK AO1 NFTL 171200Z 12006KT 9999 FEW020 23/19 Q1016 SLPO 171500Z 01006KT 9999 FEW020 13/01 Q1036 SLPS 171500Z 09006KT 9999 NSC 31/22 Q1013 SLRB 171500Z 36015KT 9999 NSC 31/21 Q1017 NFTV 171500Z 00000KT 9999 FEW017 BKN040 22/21 Q1015 LYKV 171500Z 02004KT 340V060 9999 BKN037 18/12 Q1018 NOSIG MPMG 171500Z 32004KT 9999 FEW018CB SCT080 30/25 Q1014 NOSIG K0J4 171458Z AUTO 00000KT 10SM CLR 28/23 A2999 RMK AO2 SLP150 T02780228 51004 $ SLRI 171500Z 00000KT 5000 FU FEW017 BKN080 BKN200 27/23 Q1014 K1A5 171515Z AUTO 00000KT 10SM 21/14 A3002 RMK AO2 T02060141 SLSA 171500Z 32008KT 9999 FEW023 31/22 Q1014 K1A6 171515Z AUTO 00000KT 10SM CLR 19/14 A3002 RMK AO2 T01890137 K1A9 171515Z AUTO 00000KT 10SM CLR 27/22 A2997 RMK AO2 T02670216 SLRQ 171500Z 36008KT 9999 NSC 32/24 Q1014 SLSI 171500Z 33008KT 9999 NSC 30/20 Q1015 LYNI 171500Z 05009KT 9999 FEW033 20/11 Q1016 NOSIG K1B7 171450Z VRB02KT 10SM SKC 28/23 A2998 SLRY 171500Z 34004KT 9999 NSC 32/22 Q1015 SMJP 171500Z 14007KT 9999 SCT035 32/22 Q1012 NOSIG SLTJ 171500Z 00000KT 9999 BKN100 19/09 Q1018 MPPA 171500Z 00000KT 9999 SCT020 Q1014 SLSU 171500Z 04011KT 9999 FEW017 20/05 Q1028 K28J 171515Z AUTO 27004KT 10SM CLR 27/24 A2995 RMK AO2 HKJK 171500Z 08018KT 9999 SCT026 SCT280 23/12 Q1019 NOSIG LYPG 171500Z 21003KT 140V310 9999 FEW040 26/12 Q1013 NOSIG SLTR 171500Z 33010KT 7000 NSC 32/21 Q1014 HKKG 171000Z 25004KT 9999 FEW025TCU 27/18 HKKI 171500Z 27008KT 9999 FEW019CB SCT020 BKN080 22/17 Q1015 ZBAA 171500Z VRB01MPS 8000 NSC 15/12 Q1021 NOSIG HKMA 171000Z 23008KT 9999 SCT030 34/16 HKKS 171100Z 00000KT 9999 FEW022CB BKN023 26/16 LZIB 171500Z 18007KT 140V200 9999 SCT045 22/12 Q1018 NOSIG SLVM 171500Z 12004KT 9999 NSC 28/12 Q1012 HKKT 171400Z 00000KT 9999 FEW022CB BKN023 22/14 K1F0 171515Z AUTO 00000KT 10SM CLR 26/21 A2998 RMK AO2 HKME 171000Z 18003KT 9999 SCT020 21/14 HKLO 171000Z 09008KT 9999 FEW031 SCT300 33/16 SLVR 171500Z 33017G29KT 9999 NSC 31/16 Q1013 HKLU 171100Z 16012KT 9999 BKN027 30/22 HKNC 171500Z 08011KT 9999 SCT022 BKN250 22/11 Q1020 HKML 171500Z 16010KT 9999 FEW024 BKN270 26/21 Q1013 HKMO 171500Z 17008KT 9999 FEW024 BKN250 26/21 Q1014 NOSIG GUCY 171500Z 17006KT 9999 BKN015 BKN110 27/25 Q1010 NOSIG SLYA 171500Z 00000KT 9999 FEW070 26/14 Q1013 YJLC 171500Z AUTO 17009KT //// // ////// 19/M05 Q1017 HKNI 171300Z 14006KT 9999 FEW024CB SCT025 22/14 TDPD 171500Z 11007KT 9999 SCT023 31/25 Q1015 HKNK 171500Z 00000KT 9999 FEW021CB SCT022 BKN100 19/13 HKMU 171300Z 11006KT 9999 BKN028 28/16 K1H2 171515Z AUTO 17003KT 10SM +RA SCT095 15/11 A3007 RMK AO2 T01490112 CERM 171500Z AUTO 28006KT 11/M00 RMK AO1 SLP141 T01111004 51009 HKNO 171300Z 13004KT 9999 FEW024CB SCT025 BKN270 25/09 HKMY 171500Z 17002KT 9999 SCT022 25/16 K33V 171515Z AUTO 00000KT 10SM CLR 11/01 A3034 RMK AO2 HKNW 171300Z 07015KT 9999 BKN026 25/11 Q1017 MPTO 171500Z 00000KT 9999 FEW020TCU BKN080 30/25 Q1013 NOSIG NGTT 171500Z 08006KT 9999 FEW019 27/24 Q1009 YIVO 171500Z AUTO 21006KT //// // ////// 09/00 Q1022 LYTV 171500Z VRB02KT 9999 FEW030 24/16 Q1014 NOSIG LZKZ 171500Z 11003KT 070V130 CAVOK 22/09 Q1019 NOSIG LYUZ 171500Z 07003KT 040V110 9999 FEW015 BKN020 13/11 Q1019 LYVR 171500Z VRB02KT 9999 SCT033 21/10 Q1018 NOSIG K1II 171515Z AUTO 17003KT 10SM CLR 13/12 A3008 RMK AO2 K1L0 171515Z AUTO 34003KT 10SM SCT014 27/24 A2998 RMK AO2 T02720236 GVAC 171500Z 02013KT 9999 BKN014 30/21 Q1013 NOSIG K36U 171515Z AUTO 00000KT 10SM CLR 12/07 A3014 RMK AO2 SOCA 171500Z AUTO 10007KT 040V150 9999 BKN029/// BKN042/// 31/23 Q1012 GVBA 171500Z 01012KT 9999 SCT015 BKN200 30/21 Q1013 NOSIG K2C8 171515Z AUTO 36011G15KT 1 1/2SM BR OVC002 07/07 A3003 RMK AO2 K40B 171516Z AUTO VRB06KT 13/06 A2993 RMK AO1 SLP143 T01290055 50003 ZBHH 171500Z 07002MPS 9999 FEW040 13/10 Q1023 NOSIG K1M4 171456Z AUTO 01005KT 10SM CLR 22/16 A3005 RMK AO2 53001 T02220161 SLP187 K0V4 171515Z AUTO 10SM SCT055 OVC080 21/15 A3004 RMK AO1 T02140147 K2D5 171515Z AUTO 01007KT 10SM 16/12 A2997 RMK AO2 K40J 171515Z AUTO 05004KT 10SM CLR 25/22 A2996 RMK AO2 YKII 171500Z AUTO 23016KT 9999 -SHRA SCT028 SCT038 SCT043 08/05 Q1018 LZPP 171500Z 14006KT CAVOK 21/14 Q1018 K0VG 171515Z AUTO 00000KT 10SM FEW015 18/14 A3004 RMK AO2 YLBD 171500Z AUTO 28003KT 9999 // SCT006 23/23 Q1014 K42J 171515Z AUTO 00000KT 10SM 27/23 A2996 RMK AO1 TSNO MSAC 171450Z 26006KT 9999 FEW033 28/24 Q1011 A2988 K1P1 171515Z AUTO 00000KT 10SM CLR 12/12 A3000 RMK AO2 T01180118 TFFF 171500Z AUTO 04011KT 9999 FEW033 31/23 Q1014 HKVO 171400Z 14020KT 9999 FEW024 SCT270 27/18 K2G4 171510Z AUTO 12005KT 10SM BKN025 13/09 A3009 RMK AO1 K2DP 171456Z AUTO M 10SM FEW050 FEW065 BKN085 24/18 A2997 RMK AO2 SLPNO T02380178 50003 $ HKWJ 171300Z 17008KT 9999 BKN034 33/17 LZSL 171500Z 19004KT 9999 SCT038 21/13 Q1019 TFFR 171500Z 08008KT 030V110 9999 SCT021 31/24 Q1014 NOSIG MRLB 171500Z 18002KT 9999 FEW020 BKN120 28/23 A2991 K2I0 171515Z AUTO 13003KT 2SM BR OVC003 14/14 A3006 RMK AO2 T01350135 YLEC 171500Z AUTO 13005KT //// // ////// 10/M01 Q1024 K1R7 171515Z AUTO 10004KT 8SM CLR 28/23 A3001 RMK AO2 LZTT 171500Z 12005KT 070V170 9999 FEW050 19/08 Q1020 NOSIG MRLM 171500Z 32005KT 9999 SCT020 BKN130 28/23 A2998 YKMP 171500Z AUTO 23003KT //// // ////// 09/06 Q1015 SMZO 171500Z 14007KT 9999 SCT035 33/22 Q1012 NOSIG K46D 171515Z AUTO 10SM CLR 14/10 A2999 RMK AO2 YLEO 171500Z AUTO 10007KT 9999 // NCD 21/03 Q1014 YKNT 171500Z AUTO 12013KT //// // ////// 26/M01 Q1017 MROC 171500Z 11008KT CAVOK 25/18 A3007 NOSIG YKOW 171500Z AUTO 10001KT //// // NCD 21/17 Q1015 YLHI 171500Z AUTO 26014KT 9999 // SCT032 18/12 Q1013 K1V4 171454Z AUTO 09/08 A3000 RMK AO1 SLP161 T00940083 58003 K1V6 171510Z AUTO 28018KT 10SM CLR 23/05 A3012 RMK AO2 SPCL 171500Z VRB02KT 9999 BKN013 OVC070 25/23 Q1016 RMK BIRD HAZARD RWY 02/20 PP000 YLHR 171500Z AUTO 00000KT //// // SCT023 16/15 Q1016 LZZI 171500Z VRB02KT 9999 FEW047 SCT070 20/16 Q1018 YKSC 171500Z AUTO 25005KT 9999 // OVC049 08/05 Q1025 MRPV 171500Z 10011KT CAVOK 25/17 A3009 NOSIG YMBA 171500Z AUTO 00000KT //// // ////// 12/06 Q1018 YLIS 171500Z AUTO 24007KT 9999 // BKN100 15/03 Q1015 ZBSJ 171500Z 00000MPS 2500 BR NSC 12/12 Q1022 NOSIG OAHR 171455Z 18004KT 8000 NSC 29/M03 Q1012 RMK SKC VIS MIN 8000 BLU YMBD 171500Z AUTO 23011KT //// // ////// 07/03 Q1025 YKRY 171500Z AUTO 15001KT //// // ////// 09/00 Q1017 ZBTJ 171500Z 27002MPS 3500 BR NSC 16/12 Q1022 NOSIG YMAV 171500Z AUTO 29013KT 9999 // NCD 07/05 Q1019 OAKB 171450Z 10005KT 9000 NSC 25/05 Q1013 NOSIG RMK BLU BLU YLLE 171500Z AUTO 14011KT //// // ////// 15/M01 Q1022 YMAY 171500Z AUTO 25007KT 9999 // NCD 07/02 Q1018 GVNP 171500Z 16007KT 130V210 9999 FEW022 SCT025 29/25 Q1014 NOSIG OBBI 171500Z 01004KT CAVOK 34/24 Q1003 NOSIG K54J 171515Z AUTO 07003KT 10SM SCT012 26/22 A2997 RMK AO2 T02580222 SPGM 171500Z /////KT 9999 SCT030 BKN100 24/19 Q1019 RMK BIRD HAZARD RWY 19 PP000 YMCO 171500Z AUTO 27011KT //// // ////// 09/02 Q1013 NIUE 170300Z 17012KT 9999 SCT018 BKN030 25/20 Q1014 YMDG 171500Z AUTO 26007KT //// // NCD 08/01 Q1018 K3I2 171515Z AUTO 00000KT 10SM CLR 21/12 A3005 RMK AO2 OAKN 171455Z 27008KT 9000 SKC 30/M10 Q1008 RMK A2977 DA5964 BLU SPHI 171500Z 25004KT 180V300 9999 FEW020 22/17 Q1017 RMK PP000 SPHO 171500Z /////KT 9999 FEW033 BKN070 17/10 Q1030 RMK WIND RWY 02 VRB02KT PP000 MSLP 171450Z 15003KT 110V210 9999 FEW030 29/24 Q1013 A2993 YMEK 171500Z AUTO 27007KT 9999 // NCD 24/02 Q1015 K4A6 171515Z AUTO 23004KT 10SM BKN031 22/16 A3000 RMK AO2 K3J7 171515Z AUTO 24003KT 10SM CLR 23/18 A2994 RMK AO2 MSLU 171450Z 05006KT CAVOK 26/24 Q1012 A2991 YMEN 171500Z AUTO 28011KT 9999 // SCT064 07/05 Q1019 SPIM 171500Z 18008KT 9999 SCT010 OVC017 17/14 Q1018 NOSIG RMK BIRD HAZARD RWY 15 PP000 K4A9 171515Z AUTO 27005KT 10SM SCT030 22/13 A2998 RMK AO2 K1YT 171456Z AUTO 06001KT 10SM BKN150 17/08 A2978 RMK AO2 SLPNO T01690076 58001 SPHY 171500Z 01007KT 9000 SCT013 SCT050 12/00 Q1036 RMK PP000 K3K3 171515Z AUTO 27007KT 10SM CLR 21/13 A2999 RMK AO2 YMER 171500Z AUTO 28009KT 9999 // NCD 09/01 Q1014 YMES 171500Z AUTO 27014KT 9999 // SCT028 SCT037 07/04 Q1017 SPJI 171500Z /////KT 9999 BKN030 27/24 Q1024 RMK PP000 YMGB 171500Z AUTO 09005KT //// // ////// 25/20 Q1014 OAMS 171450Z 15006KT 9999 SKC 33/M02 Q1004 BLU+BLU+ SPJL 171500Z 35007KT 9999 SCT020 14/01 Q1039 RMK PP000 SPJR 171500Z 13003KT CAVOK 19/10 Q1031 RMK PP000 YMHB 171500Z 24015KT 9999 FEW025 BKN040 08/03 Q1010 ZBYN 171500Z 08001MPS 4000 BR NSC 13/11 Q1024 NOSIG YMIA 171500Z AUTO 23005KT 9999 // NCD 07/01 Q1024 K2V5 171515Z AUTO 09003KT 10SM CLR 22/11 A3000 RMK AO2 T02160110 YLRE 171500Z AUTO 20007KT 9999 // NCD 18/M04 Q1019 SPME 171500Z 04003KT 9999 BKN017 25/20 Q1015 RMK BIRD HAZARD RWY 32/14 PP000 SPLO 171500Z VRB02KT 5000 BR OVC015 17/14 Q1016 RMK PP000 GVSV 171500Z 04015KT 9999 FEW020 31/20 Q1014 NOSIG K3LF 171515Z AUTO 17008KT 10SM SCT080 BKN110 14/11 A3006 RMK AO2 T01430114 K2W6 171512Z AUTO 00000KT 10SM CLR 21/11 A3006 RMK AO1 K3N8 171515Z AUTO 06004KT 10SM CLR 15/10 A2995 RMK AO2 T01520099 YMIN 171500Z AUTO 12008KT //// // ////// 04/02 Q1025 SPMS 171500Z 00000KT 9999 BKN015 28/23 Q1016 RMK PP000 MSSA 171450Z 25001KT CAVOK 25/21 Q1020 A3014 YNAR 171500Z AUTO 23006KT //// // ////// 07/03 Q1020 YLST 171500Z AUTO 04008KT 9999 // NCD 23/03 Q1014 YLTN 171500Z AUTO 07014KT //// // ////// 21/02 Q1016 MSSM 171450Z 02002KT CAVOK 28/23 Q1012 A2990 DAAD 171500Z 00000KT 6000 FEW030 BKN200 39/03 Q1008 YNBR 171500Z AUTO 00000KT //// // ////// 07/02 Q1019 DAAE 171500Z 14014KT 6000 NSC 29/22 Q1009 YMMB 171500Z AUTO 28010KT 9999 // BKN067 09/05 Q1019 DAAG 171500Z 35010KT CAVOK 30/20 Q1008 MSSS 171450Z 35004KT CAVOK 26/23 Q1016 A3002 YLTV 171500Z AUTO 28016KT 9999 // SCT041 BKN051 BKN065 07/07 Q1017 DAAJ 171500Z 15017KT CAVOK 36/09 Q1018 DABB 171500Z 05008KT 020V080 6000 NSC 32/25 Q1006 DABC 171500Z 24014KT 8000 FEW040 BKN100 36/06 Q1012 MUCF 171450Z VRB02KT 9999 FEW020 29/24 Q1016 K4I3 171516Z AUTO 10004KT 10SM SCT027 18/11 A3005 RMK AO2 K2WX 171456Z AUTO 08006KT 16/10 A2990 RMK AO1 SLP112 T01560100 50001 DAAP 171500Z 16015KT 090V180 8000 SCT046 40/06 Q1013 YMLT 171500Z AUTO 29005KT 250V320 9999 // BKN058 03/M00 Q1010 YMML 171500Z 27012KT 9999 FEW040 07/04 Q1020 FM1500 MOD TURB BLW 5000FT K4I7 171515Z AUTO 00000KT 10SM CLR 15/11 A3006 RMK AO2 K3R7 171515Z AUTO 33003KT 10SM SCT014 27/23 A2999 RMK AO2 T02670234 YMNE 171500Z AUTO 13006KT 9999 // NCD 23/01 Q1015 MUCL 171451Z 04006KT 9999 FEW018TCU 30/23 Q1015 DAAS 171500Z 22013KT 7000 FEW026 SCT100 33/04 Q1015 DAAT 171500Z 10009KT 040V140 CAVOK 33/03 Q1019 MUCM 171451Z VRB03KT 9000 SCT020 30/21 Q1016 YMNG 171500Z AUTO 22005KT 9999 // NCD 03/01 Q1020 DAAV 171500Z 30010KT 8000 NSC 31/19 Q1008 TGPY 171500Z 13014KT 9999 FEW020 31/25 Q1013 NOSIG DAAY 171500Z 26018KT 2000 BLSA SCT030 33/08 Q1015 AZUH 171250Z 30006KT 9999 FEW035CB SCT040 25/09 Q1012 SPQT 171500Z VRB04KT 9999 SCT015 SCT100 30/23 Q1014 NOSIG RMK BIRD HAZARD PP000 K65S 171515Z AUTO 00000KT 10SM CLR 10/08 A2989 RMK AO2 SPQU 171500Z 21005KT 150V280 CAVOK 20/M03 Q1027 NOSIG RMK PP000 YNEN 171500Z AUTO 08006KT 9999 // NCD 27/20 Q1014 DABS 171500Z 26010KT 7000 FEW033CB SCT040 BKN230 34/07 Q1014 MUCU 171451Z 21005KT 170V240 9000 SCT020 30/22 Q1015 DABT 171500Z 22014KT 9999 FEW030 BKN200 35/11 Q1014 YMOG 171500Z AUTO 31009KT //// // ////// 23/01 Q1014 K3T5 171515Z AUTO 00000KT 10SM SCT007 SCT014 BKN036 27/25 A2996 RMK AO2 T02670254 K66R 171515Z AUTO 18003KT 10SM BKN008 BKN014 BKN031 26/25 A2997 RMK AO2 T02620249 SPRU 171500Z 18008KT CAVOK 19/14 Q1016 RMK PP000 K5C1 171515Z AUTO 00000KT 10SM SCT006 BKN031 OVC050 25/22 A3002 RMK AO1 SPSO 171500Z 28005KT 240V330 5000 BR FEW008 OVC013 17/15 Q1018 RMK BIRD HAZARD RWY 22/04 PP000 YMOR 171500Z AUTO 00000KT 9999 // NCD 09/01 Q1018 DAEF 171500Z 17016KT 9999 FEW040 SCT233 41/02 Q1013 SPST 171500Z 19002KT 9999 FEW020 SCT100 26/21 Q1015 RMK BIRD HAZARD RWY 17/35 PP000 SPTN 171500Z 23007KT 200V270 9999 BKN015 16/12 Q1015 RMK PP000 DAEN 171200Z 20020KT 8000 DRSA NSC 42/// Q1012 YMRB 171500Z AUTO 36008KT 9999 // NCD 14/03 Q1017 YNHL 171500Z AUTO 24004KT //// // ////// 04/01 Q1023 DAFH 171500Z /////KT CAVOK 39/06 Q1012 MUHA 171455Z 10003KT 030V180 9000 FEW020 30/21 Q1016 SPTU 171500Z 27003KT CAVOK 30/23 Q1014 RMK BIRD HAZARD RWY 01/19 PP000 K4M9 171515Z AUTO 11004KT 9SM 16/14 A3006 RMK AO2 MUGM 171456Z 06004KT 9999 SCT030 BKN280 31/24 A2997 RMK SLP149 T03060239 50002 MUHG 171451Z 11005KT 040V150 9999 SCT025 BKN300 30/21 Q1015 K4O4 171515Z AUTO 08004KT 4SM OVC004 22/20 A3001 RMK AO2 YMRY 171500Z AUTO 26007KT 9999 // OVC083 11/04 Q1014 YMTG 171500Z AUTO 22006KT 9999 // SCT032 SCT037 OVC046 09/04 Q1022 YMTI 171500Z AUTO 26007KT //// // ////// 24/22 Q1015 K4MR 171520Z AUTO 26004KT 8SM BKN006 19/17 A3016 RMK AO2 K5H4 171515Z AUTO 08006KT 10SM CLR 14/08 A2998 RMK AO2 SPZA 171530Z VRB02KT 9999 SCT090 21/13 Q1018 SPYL 171500Z 16020KT CAVOK 23/17 Q1016 RMK PP000 DBBB 171500Z 22013KT 9999 SCT012 FEW025CB BKN110 27/26 Q1010 TEMPO TS SPZO 171500Z VRB04KT 9999 SCT050 SCT150 16/02 Q1034 NOSIG RMK PP000 K6A2 171515Z AUTO 35005KT 10SM CLR 24/18 A2999 RMK AO2 UAAA 171500Z 15002MPS 5000 FU SCT100 21/02 Q1010 R88/CLRD65 NOSIG K6B0 171515Z AUTO 20006KT 10SM SCT028 16/08 A3001 RMK AO2 T01550076 UAAH 171100Z 21005MPS 9999 FEW043 26/04 Q1007 R23/0///60 NOSIG RMK QFE717/0956 DAMH 171500Z 16016KT CAVOK 43/05 Q1011 UACC 171500Z 31005MPS 9999 SCT050CB OVC100 14/06 Q1001 R22/0/0070 NOSIG RMK QFE720/0960 DAOB 171500Z 30010KT 9999 SCT026 SCT216 28/15 Q1013 TJBQ 171450Z 06009KT 10SM SCT030 30/22 A3003 RMK RWY 8 - ATIS U DAOF 171500Z 28016KT 9999 FEW046 SCT100 38/06 Q1011 YNRC 171500Z AUTO 27006KT //// // ////// 07/05 Q1023 UACK 171130Z 32006MPS 5000 -SHRA OVC009CB 05/04 Q1002 R20/190060 NOSIG RMK QFE728/0971 DAOI 171500Z 32015KT 9999 SCT026 BKN233 31/16 Q1007 K79J 171456Z AUTO 00000KT 10SM CLR 31/22 A2997 RMK AO2 SLP143 T03060222 50004 UADD 171500Z 00000MPS 9999 NSC 20/05 Q1006 R31/0///65 NOSIG RMK QFE697/0930 K5M9 171515Z AUTO 00000KT 10SM CLR 15/13 A3005 RMK AO2 T01500130 UACP 171130Z 29005MPS 9999 BKN022CB 06/04 Q1001 R23/1/0156 NOSIG RMK QFE738/0985 DAON 171500Z 36011KT 9999 FEW026 BKN233 31/17 Q1010 DAOO 171500Z 36013KT CAVOK 28/19 Q1009 YPAD 171500Z 12004KT CAVOK 05/02 Q1025 NOSIG DAOR 171500Z 24020KT 2000 DRSA FEW030TCU SCT033 BKN100 38/10 Q1012 YPAG 171500Z AUTO 21005KT //// // NCD 09/06 Q1025 DAOV 171400Z 36012KT 8000 BKN030 30/17 Q1012 YNSM 171500Z AUTO 08013KT //// // ////// 18/07 Q1017 OEAB 171500Z 19006KT 9999 SCT020 FEW022CB 21/19 Q1021 NOSIG MUSC 170437Z 14004KT 100V190 8000 BKN020 23/22 Q1017 OEAH 171500Z 34008KT CAVOK 39/01 Q1004 NOSIG YPCC 171500Z AUTO 11015KT 9999 // SCT033 SCT043 BKN067 27/21 Q1014 OEBA 171500Z 15004KT 9999 FEW025CB SCT030 29/10 Q1017 NOSIG YOLD 171500Z AUTO 17005KT 140V200 9999 // NCD 10/M00 Q1023 YNTN 171500Z AUTO 23007KT //// // ////// 22/18 Q1015 YPBO 171500Z AUTO 31006KT 9999 // NCD 24/04 Q1017 K82V 171515Z AUTO 00000KT 10SM CLR 20/06 A3009 RMK AO2 OEAO 171500Z 35010KT CAVOK 36/03 Q1011 OEBH 171500Z 06010KT 9999 SCT030 35/05 Q1011 NOSIG OEAR 171500Z 29014KT 9999 FEW030 37/12 Q1006 NOSIG MWCB 171500Z 01001KT 9999 FEW020 30/27 Q1015 YPEA 171500Z AUTO 17004KT 9999 // NCD 15/11 Q1016 YPED 171500Z AUTO 36004KT 9999 // NCD 04/02 Q1025 K5R8 171515Z AUTO 34003KT 10SM OVC008 25/24 A2999 RMK AO2 T02530242 YOLW 171500Z AUTO 23011KT //// // ////// 22/18 Q1016 YPDN 171500Z 36005KT 9999 SCT036 BKN045 26/21 Q1015 DAUA 171500Z 18005KT 6000 NSC 44/// Q1008 DAUB 171500Z 18010KT 9999 SCT040 40/07 Q1007 TJIG 171448Z 11012KT 10SM SCT045 BKN120 30/23 A3002 RMK RWY09 IN USE ATIS E DATM 171200Z 16006KT 2000 HZ NSC 39/12 Q1012 OEDF 171500Z 02007KT CAVOK 37/08 Q1002 NOSIG DAUE 171500Z /////KT CAVOK 41/13 Q1010 UAII 171500Z 12003MPS 8000 NSC 23/04 Q1005 R10/0///70 NOSIG RMK QFE718/0958 MWCR 171500Z VRB03KT 9999 BKN018 30/26 Q1015 NOSIG DAUG 171500Z 20013KT CAVOK 41/// Q1010 DAUH 171500Z 18010KT CAVOK 43/10 Q1009 YOOD 171500Z AUTO 11008KT //// // ////// 16/M00 Q1022 DAUI 171500Z 18006KT 6000 NSC 43/// Q1009 YNWN 171500Z AUTO 26006KT //// // NCD 26/01 Q1016 OEDM 171500Z 03010KT CAVOK 36/M03 Q1011 DAUK 171400Z 00000KT CAVOK 43/12 Q1009 DAUL 171500Z 23018KT 6000 FEW030 SCT200 39/02 Q1011 DAUO 171500Z /////KT 9999 FEW040 43/// Q1007 OEDR 171500Z 06008KT CAVOK 35/20 Q1001 NOSIG MUVR 171451Z 11005KT 020V160 9999 SCT020 30/22 Q1017 UBBB 171500Z 36013KT CAVOK 23/14 Q1015 88CLRD70 NOSIG YOOM 171500Z AUTO 12005KT //// // ////// 12/M04 Q1022 UAKD 171400Z 23005MPS 7000 SCT060 OVC100 23/M05 Q1001 R040///65 NOSIG RMK QFE718/0957 DAUT 171500Z ///06KT 7000 NSC 43/// Q1008 ZGGG 171500Z 11002MPS 080V140 CAVOK 28/26 Q1014 NOSIG DAUU 171500Z 21012KT 8000 NSC 44/// Q1008 UBBG 171500Z 10007KT 9999 SCT100 24/14 Q1012 R12/CLRD70 NOSIG K6L4 171515Z AUTO 00000KT OVC024 14/13 A3004 RMK AO2 ZGHA 171500Z 32004MPS 300V360 4000 -RA BR BKN006 OVC050 22/19 Q1016 NOSIG TIST 171053Z 00000KT 10SM CLR 27/23 A2996 RMK AO2 SLP147 T02670228 DAUZ 171500Z 14007KT 9999 FEW046 SCT230 39/02 Q1014 UAKK 171500Z 20004MPS CAVOK 16/M02 Q1002 R23/0///70 NOSIG RMK QFE705/0941 UBBL 171500Z VRB02KT 9999 OVC030 21/18 Q1015 R33/CLRD60 NOSIG RMK MT OP UBBN 171500Z 28005KT 9999 SCT050CB BKN100 26/06 Q1010 R14R/ CLRD60 NOSIG RMK MT OP QFE683 TISX 171453Z 09012KT 10SM SCT027 SCT035 31/24 A3000 RMK AO2 SLP156 T03060239 50004 K5SM 171519Z AUTO 00000KT 10SM CLR 14/00 A3053 RMK AO2 UBBQ 171500Z 07005KT 9999 SCT030CB BKN040 23/13 Q1014 R16/CLRD70 NOSIG RMK MT OBSC YPGV 171516Z AUTO 00000KT 6000 // NCD 20/19 Q1014 YORG 171500Z AUTO 24009KT 9999 // NCD 05/00 Q1017 OEGN 171500Z 30008KT 9999 TS SCT030 FEW035CB BKN100 33/27 Q1005 NOSIG K7BM 171514Z AUTO 13004KT 10SM CLR 15/00 A3045 RMK AO2 UBBY 171500Z 14008KT 9999 FEW100 24/14 Q1016 R33/////// NOSIG RMK MT OP OEGS 171500Z 34008KT CAVOK 37/11 Q1010 OEGT 171500Z 06006KT CAVOK 33/07 Q1009 NOSIG K5W8 171515Z AUTO 07006KT 10SM BKN017 BKN075 23/18 A3000 RMK AO2 T02260184 OEHL 171500Z 03010KT CAVOK 32/05 Q1014 NOSIG UBEE 171400Z 18011KT CAVOK 27/16 Q1012 R30/CLRD70 NOSIG YPKA 171500Z AUTO 27015KT 9999 // NCD 23/20 Q1015 YPKG 171500Z AUTO 12009KT 9999 // BKN110 20/00 Q1017 TJMZ 171450Z 27006KT 10SM SCT040 BKN060 30/22 A3000 TJNR 171508Z AUTO 12008KT 10SM SCT024 31/24 A3002 RMK AO2 T03110239 PWINO $ YPJT 171500Z AUTO 18005KT 9999 // NCD 14/12 Q1016 YPLC 171500Z AUTO 32004KT 9999 // NCD 04/03 Q1025 ZHCC 171500Z 01003MPS 3000 -RA BR SCT004 OVC020 14/14 Q1022 NOSIG ZGKL 171500Z 00000MPS 3500 -RA BR BKN026 OVC040 25/24 Q1013 NOSIG UAOO 171500Z 21004MPS 180V250 9999 OVC033CB 28/05 Q1000 NOSIG RMK QFE738/0985 OEJN 171500Z 29010KT 9999 FEW040 33/20 Q1005 NOSIG YPKS 171500Z AUTO 12001KT //// // ////// 01/M00 Q1019 YPKT 171500Z AUTO 00000KT //// // ////// 22/19 Q1013 YPKU 171500Z AUTO 13001KT 0400 // SCT114 23/18 Q1013 OEKJ 171500Z 35008KT CAVOK 38/M01 Q1008 OEKK 171400Z 36011KT CAVOK 36/14 Q1008 NOSIG YPLM 171500Z AUTO 21011KT 9999 // NCD 20/17 Q1016 OEKM 171500Z 22010KT 9999 BKN022 FEW025CB 22/16 Q1020 NOSIG K6R3 171515Z AUTO 00000KT 7SM OVC004 26/25 A2999 RMK AO2 T02580253 K6R6 171453Z AUTO 10006KT 26/22 A3002 RMK AO1 SLP129 T02610217 51008 TJPS 170650Z 00000KT 10SM FEW030 24/22 A2992 OEMA 171500Z 30006KT CAVOK 39/M06 Q1010 NOSIG K8A0 171515Z AUTO 31006KT 10SM CLR 22/18 A3000 RMK AO2 K96D 171515Z AUTO 01012G16KT 10SM 08/08 A3004 RMK AO2 YPMQ 171500Z AUTO 27002KT 9999 // NCD 10/08 Q1015 SUAA 171400Z 02010KT 9999 BKN013 14/11 Q1020 OEMK 171500Z 03002KT CAVOK 38/16 Q1006 ZGNN 171500Z 10002MPS 9999 FEW023 SCT040 27/26 Q1010 NOSIG OEMN 171500Z 36008KT CAVOK 36/13 Q1007 SUAG 162100Z 00000KT 9999 FEW020 22/12 Q1016 OENG 171500Z 08008KT 9999 SCT030 34/06 Q1011 NOSIG UARR 171500Z 34007MPS CAVOK 10/M04 Q1019 R88/////// NOSIG RMK QFE761/1014 TJSJ 171456Z 05009KT 10SM FEW030 SCT075 BKN100 31/24 A2999 RMK AO2 SLP155 60001 T03060244 50001 UASK 171500Z 11004MPS 9999 FEW033 BKN110 13/02 Q1010 R12/010060 NOSIG RMK QFE732/0976 YPPD 171500Z AUTO 00000KT 9999 // NCD 19/19 Q1015 YPPF 171500Z AUTO 00000KT 9999 // NCD 06/03 Q1025 UATE 171500Z 03010MPS CAVOK 17/00 Q1016 R30/0///70 NOSIG RMK QFE760/1014 K7L2 171515Z AUTO 00000KT 10SM CLR 14/11 A2997 RMK AO2 YPPH 171500Z 21007KT CAVOK 15/12 Q1016 NOSIG UATG 171500Z 36005MPS CAVOK 13/M08 Q1018 R32/CLRD70 NOSIG RMK QFE765/1021 UASP 171500Z 13006MPS CAVOK 17/03 Q1001 R21/0///70 NOSIG RMK QFE740/0987 SUCA 171500Z 04010KT CAVOK 18/09 Q1018 UASS 171030Z 23003MPS 9999 BKN040CB OVC100 24/02 Q1008 R26/0///60 NOSIG RMK QFE738/0984 OEPA 171500Z 32008KT CAVOK 38/17 Q1006 NOSIG ZGOW 171500Z VRB01MPS CAVOK 27/26 Q1015 NOSIG ZHHH 171500Z 04002MPS 360V080 9999 SCT020 19/16 Q1018 NOSIG K8D3 171456Z AUTO 03007KT 17/13 A2993 RMK AO1 SLP129 T01670128 51010 UATT 171500Z 32007MPS CAVOK 09/M03 Q1013 R31/CLRD70 NOSIG RMK QFE739/0986 CMGB 171515Z AUTO 25006KT 15/08 RMK AO1 SLP151 T01490077 50000 CMFM 171500Z AUTO 21003KT 08/01 RMK AO1 SLP149 T00790011 51009 UAUU 171500Z 29004MPS CAVOK 02/M02 Q1008 R33/CLRD70 NOSIG RMK QFE741/0988 OERF 171500Z 31006KT CAVOK 35/03 Q1008 SUDU 171500Z 09006KT 9999 OVC010 13/11 Q1020 OERK 171500Z 33007KT CAVOK 37/M01 Q1009 NOSIG OESH 171500Z 03007KT 9999 SCT035 SCT080 37/10 Q1007 NOSIG OERR 171500Z 30008KT CAVOK 34/08 Q1009 NOSIG OETB 171500Z 33008KT CAVOK 33/M02 Q1012 NOSIG OESK 171500Z 29013KT CAVOK 33/02 Q1012 NOSIG YPTN 171500Z AUTO 01004KT 9999 // NCD 27/06 Q1014 UCFM 171500Z 13002MPS 7000 NSC 24/03 Q1008 R26/CLRD70 NOSIG UCFO 171500Z 17002MPS 5000 NSC 21/07 Q1009 R12/CLRD70 NOSIG OETF 171500Z 28015KT 9999 FEW030 31/08 Q1016 NOSIG ZGSZ 171500Z 11003MPS 9999 FEW020 28/25 Q1014 NOSIG OERY 171500Z 33010KT CAVOK 37/04 Q1009 TKPK 171500Z 05011KT 9999 SCT020 31/24 Q1015 TKPN 171400Z 06009KT 9999 BKN022 30/23 Q1015 K7R3 171445Z 05004KT 5SM HZ BKN008 27/25 A3000 RMK DA013 K7R4 171245Z 00000KT 7SM SCT025 22/16 A2998 OETR 171500Z 29008KT CAVOK 30/09 Q1012 SVAC 171500Z 070//KT 9999 SCT020 ///// Q1015 YREN 171500Z AUTO 26005KT //// // ////// 05/01 Q1024 OEWD 171500Z 11006KT 9999 SCT030 40/15 Q1006 NOSIG YPWR 171500Z AUTO 13008KT 9999 // NCD 12/01 Q1023 OEWJ 171500Z 29014KT CAVOK 33/25 Q1006 NOSIG YPXM 171500Z AUTO 13013KT 9999 // BKN019 23/19 Q1016 SVBC 171500Z 02010KT 9999 SCT010 32/27 Q1014 SVBI 171500Z 11006KT 9999 SCT020 SCT080 30/23 Q1014 SVCB 171500Z 07004KT 9999 SCT013 32/// Q1012 SVBM 171500Z 11005KT 9999 BKN016 28/19 Q1018 MYGF 171500Z 25003KT 9999 VCSH FEW018TCU SCT250 30/25 A2996 RMK TCU/VCSH SW/N  SVBS 171500Z 16005KT 9999 SCT013 29/25 Q1016 HTAR 171400Z 10015KT 9999 FEW030 SCT280 24/16 Q1017 K9D7 171515Z AUTO 04008KT 10SM OVC004 09/08 A3002 RMK AO2 SVCN 171500Z 00000KT 9999 SCT030 ///// Q1029 SUME 171300Z 09010KT CAVOK FEW030 10/09 Q1019 OEYN 171500Z 25016KT CAVOK 33/20 Q1004 NOSIG K7W4 171515Z AUTO 09003KT 10SM BKN070 21/13 A3005 RMK AO1 T02120126 SVCR 171500Z 12015KT 9999 FEW013 33/20 Q1012 SULS 171500Z 03005KT 9999 FEW020 15/08 Q1021 SVCU 171500Z 07011KT 9999 FEW013 32/21 Q1013 HTDA 171400Z 12014KT 9999 FEW025 SCT220 29/17 Q1014 NOSIG HTBU 171400Z 00000KT 9999 SCT019 FEW021CB BKN090 23/20 Q1014 K9F2 171257Z 04006KT 7SM SCT015 26/25 A2997 SUMU 171500Z 06005KT CAVOK 16/11 Q1021 NOSIG HTDO 171400Z 09012KT 9999 FEW027 SCT260 28/08 Q1015 NOSIG YSBK 171500Z AUTO 00000KT 9999 // NCD 12/01 Q1015 YSCB 171500Z AUTO 32004KT 9999 // BKN057 08/M01 Q1015 TLPC 171500Z 06006KT 9999 SCT024 31/24 Q1014 NOSIG SVFM 171500Z 09004KT 9999 FEW040 SCT300 00/00 Q1018 SVGD 171500Z 02002KT 9999 FEW020 SCT070 31/21 Q0000 YRMD 171500Z AUTO 15010KT //// // ////// 18/M05 Q1017 TLPL 171500Z 10013KT 9999 FEW018CB SCT028 31/25 Q1014 NOSIG YSCN 171500Z AUTO 27002KT 9999 // NCD 13/01 Q1015 YSCO 171500Z AUTO 31005KT //// // ////// 11/01 Q1017 YSCR 171500Z AUTO 11007KT //// // ////// 18/03 Q1015 SVGU 171500Z /////KT 9999 FEW017 SCT070 31/22 Q1013 MZBZ 171500Z 09005KT 9999 BKN021 30/27 A2996 Q1014 NOSIG YSDU 171500Z AUTO 25007KT 9999 // NCD 05/00 Q1019 HRYR 171530Z 03006KT 9999 FEW023CB SCT025 22/17 Q1017 NOSIG SVJC 171500Z 12020KT 9999 SCT013 XX/XX Q1014 YROM 171500Z AUTO 04004KT 9999 // NCD 11/M00 Q1019 YSGE 171500Z AUTO 25005KT //// // ////// 09/00 Q1019 SVJM 171500Z /////KT 9999 FEW020 BKN100 31/23 Q1015 SUSO 171500Z 07008KT CAVOK 21/12 Q1018 K9L2 171455Z AUTO 02003KT 10SM CLR 23/05 A2987 RMK AO2 SLP093 T02280050 53006 $ MYNN 171500Z 09003KT 9999 FEW016TCU BKN220 31/25 A3000 RMK TCU/SCTALQDS TNCA 171500Z 09015KT 060V120 9999 FEW025 32/24 Q1012 A2991 NOSIG HTIR 171400Z 06009KT 9999 FEW024 25/07 Q1018 TNCB 171400Z 09012KT 060V140 9999 SCT016TCU 29/25 Q1014 HTKA 171400Z 27010KT 9999 FEW023 FEW025CB BKN300 29/12 Q1014 TNCC 171400Z 12011KT 9999 SCT019 32/24 Q1014 NOSIG TNCE 171400Z AUTO 07010KT //// ////// ///// Q1016 SVLF 171500Z 00000KT 9999 SCT040 XX/XX Q1014 DFFD 171500Z 23006KT 180V270 9999 SCT020 BKN100 30/23 Q1012 NOSIG YSHK 171500Z AUTO 20011KT //// // ////// 19/15 Q1017 ZJHK 171500Z 12002MPS 090V170 7000 SHRA FEW040CB BKN040 26/25 Q1010 BECMG -SHRA SVMC 171500Z /////KT 9999 OVC013 29/24 Q1014 HTKJ 171400Z 09012KT 9999 FEW030 29/11 Q1014 NOSIG HSSS 171500Z 24009KT CAVOK 34/13 Q1009 NOSIG SVMD 171500Z 20005KT 9999 SCT027 BKN090 23/19 Q1023 TNCM 171400Z 08009KT 050V120 9999 SCT025 31/23 Q1015 A2998 NOSIG K8W2 171515Z AUTO 03004KT 10SM OVC060 18/11 A3007 RMK AO1 T01810111 SVMG 171500Z /////KT 9999 FEW010 32/26 Q1013 NOSIG SVMI 171500Z 02003KT 9999 FEW016 30/25 Q1011 NOSIG YSHT 171500Z AUTO 25006KT //// // ////// 05/02 Q1020 YSHW 171500Z AUTO 24007KT 9999 // NCD 12/02 Q1015 HTMB 171400Z 16010KT 9999 FEW026 26/09 Q///// SVMN 171500Z 11005KT 9999 FEW013 BKN100 29/// Q1013 UEEE 171500Z 28004MPS 9999 FEW050CB OVC100 05/01 Q1022 NOSIG RMK QFE757 2309//60 HTMG 171400Z 00000KT 9999 SCT026 BKN100 27/15 Q1013 SVMT 171400Z 02007KT 9999 -DZ BKN013 28/25 Q1009 OIAA 171300Z 36006KT CAVOK 40/12 Q1003 K9MN 171512Z AUTO 17003KT 10SM CLR 16/09 A2999 RMK AO1 T01610085 YTAR 171500Z AUTO 18007KT //// // ////// 12/05 Q1024 YRTI 171500Z AUTO 18019KT //// // ////// 18/14 Q1016 OIAG 171400Z 25012KT CAVOK 40/14 Q1002 OIAH 171300Z 27008KT CAVOK 39/03 Q1008 SVPA 171500Z /////KT 5000 +RA OVC013 24/23 Q1015 OIAI 171300Z 25008KT CAVOK 39/08 Q1004 OIBA 171500Z 28006KT CAVOK 33/28 Q1001 SVPC 171300Z 00000KT 9999 SCT040 29/XX Q1015 OIBB 171500Z 27006KT CAVOK 33/25 Q1002 A2959 HTMT 171400Z 04009KT 9999 FEW023 28/18 Q1014 DGAA 171455Z 22014KT 9999 BKN013 FEW030CB 26/23 Q1011 TEMPO -RA HTMU 171400Z 31012KT 9999 FEW024 FEW026CB 27/17 Q1014 OIAM 171500Z 28006KT CAVOK 38/14 Q1002 HTMW 171400Z 30010KT 9999 FEW025 FEW026CB BKN110 25/18 Q1013 NOSIG HUEN 171300Z 18003KT 9999 FEW022 FEW24CB BKN200 25/18 Q1015 OIBJ 171500Z 21008KT CAVOK 31/21 Q1008 OIBK 171500Z 27008KT 7000 SKC 33/26 Q1001 SVPM 171500Z 00000KT 9999 SCT045 XX/XX Q1018 OIBL 171500Z 24006KT 5000 HZ SKC 33/25 Q1001 OICC 171500Z 29012KT CAVOK 28/03 Q1014 A2995 NOSIG OIAW 171500Z 29010KT CAVOK 38/10 Q1002 YSMI 171500Z AUTO 24008KT //// // ////// 05/04 Q1015 OIBP 171500Z 30008KT 8000 6000SE HZ SKC 34/27 Q1003 A2962 SVPR 171500Z 04010KT 9999 SCT035 ///// Q1014 OIBQ 171500Z 28010KT 8000 SKC 32/28 Q1002 OICI 171500Z 25010KT CAVOK 27/03 Q1014 A2996 OICJ 171250Z 21018KT CAVOK 29/M01 Q1015 OIBS 171500Z 22008KT CAVOK 34/27 Q1002 OICK 171250Z 25006KT 9999 FEW040 33/M02 Q1012 YTEE 171500Z AUTO 20005KT 9999 // NCD 17/M06 Q1020 KMG 171500Z AUTO 23014KT //// // BKN049 04/04 Q1019 YSNF 171522Z AUTO 03005KT 6000 // SCT008 BKN011 OVC028 17/16 Q1017 YTEF 171500Z AUTO 29014KT //// // ////// 28/01 Q1015 OIBV 171300Z 21010KT 5000 HZ SKC 34/25 Q1001 SVSA 171500Z /////KT 9999 SCT020 SCT090 30/20 Q1015 OICS 171330Z 18008KT 9999 FEW040 31/M01 Q1012 YTEM 171500Z AUTO 21005KT //// // ////// 05/02 Q1019 SVSE 161900Z 00000KT 9999 BKN045 ///// Q//// CPBT 171400Z AUTO 25006KT 09/06 RMK AO1 T00860059 UDSG 171500Z 10003MPS 060V160 9999 SCT033CB BKN100 19/08 Q1015 R02/CLRD70 NOSIG YSNW 171500Z AUTO 27015KT 9999 // NCD 12/01 Q1014 SVSP 171500Z 04010KT 9999 BKN060 XX/XX Q1016 SVSR 171400Z /////KT 9999 BKN016 30/00 Q1014 SVST 171500Z 00000KT 9999 BKN040 ///// Q1017 HUJI 171100Z 18003KT 9999 BKN022 FEW024CB 27/17 CPEH 171400Z AUTO 31005KT 07/05 RMK AO1 T00710053 YTGM 171500Z AUTO 19007KT //// // ////// 15/M01 Q1021 HUKA 171200Z 17002KT 9000 TS BKN022 FEW024CB OVC120 26/19 OIFK 171300Z 00000KT CAVOK 36/09 Q1009 HTTB 171400Z 09005KT 9999 FEW026 32/10 Q1014 OIFM 171500Z 04006KT CAVOK 27/M05 Q1013 A2991 SVSZ 171500Z 00000KT 9999 SCT025 XX/XX Q1013 HTSO 171400Z 11012KT 9999 FEW024 27/09 Q1017 OIGG 171500Z 07006KT 7000 FEW015CB SCT020 BKN080 25/19 Q1013 YTIB 171500Z AUTO 21003KT //// // ////// 11/M03 Q1023 SVVA 171500Z 11006KT 9999 FEW016 BKN100 29/21 Q1016 OIFS 171500Z 19008KT CAVOK 22/M03 Q1018 CPFI 171400Z AUTO 24003KT 08/06 RMK AO1 T00750058 OIGK 171254Z 05014KT 9999 FEW020 FEW040TCU 15/12 Q1019 K9V9 171515Z AUTO 06003KT 10SM CLR 16/15 A2994 RMK AO2 T01550146 HTSU 171400Z 06005KT 9999 FEW024 BKN230 25/01 Q1020 SVVG 171500Z 00000KT 9999 FEW017 BKN100 29/21 Q1012 YSRI 171500Z AUTO 30004KT 9999 // NCD 11/02 Q1015 OIHH 171254Z 25016KT 9999 FEW040 28/00 Q1015 HULI 171200Z 03005KT 9999 BKN020 FEW022CB 30/XX SVVL 171500Z 31005KT 9999 SCT027 SCT300 28/21 Q1018 YSRN 171500Z AUTO 13004KT 110V170 9999 // SCT032 SCT045 BKN055 05/02 Q1014 OIHM 171300Z 27006KT 9999 FEW030 28/M01 Q1016 OIIE 171500Z 34006KT CAVOK 30/M01 Q1009 NOSIG OIII 171500Z 33004KT CAVOK 30/M02 Q1010 A2985 HUMI 171500Z 25002KT TSRA BKN017 FEW019CB OVC100 18/17 OIIK 171500Z 02004KT 9999 FEW040 25/09 Q1012 PAAD 171515Z AUTO 29006KT M1/4SM FG OVC002 02/02 A2955 RMK AO2 YSTH 171500Z AUTO 20006KT //// // ////// 07/00 Q1008 OIIP 171500Z 32006KT 9999 FEW040 28/01 Q1011 OJAI 171500Z 21006KT 7000 NSC 31/08 Q1011 NOSIG PABA 171515Z 28008KT 1/2SM FG OVC002 02/02 A2954 RMK VIA PHONE OIIS 171300Z 18010KT 9999 FEW035 34/04 Q1010 OIKB 171500Z 17010KT 5000 HZ SKC 32/27 Q1002 A2959 NOSIG PAAK 171516Z 29011KT 10SM FEW031 SCT048 BKN080 09/07 A2956 RMK AO1 OJAM 171500Z 29008KT 5000 HZ NSC 31/06 Q1012 NOSIG YSSY 171500Z 27013KT CAVOK 14/00 Q1015 FM1500 MOD TURB BLW 5000FT ZJSY 171500Z 11002MPS 9999 BKN017 28/26 Q1010 NOSIG PABE 171453Z 01009KT 10SM FEW100 SCT180 07/06 A2927 RMK AO2 SLP911 T00670061 56017 PAAP 171451Z 00000KT 1/8SM FG OVC000 08/08 A2975 RMK FG OVC000 NO SPECI OJAQ 171500Z 21010KT 7000 NSC 36/11 Q1005 NOSIG PAAQ 171453Z AUTO 08008KT 10SM CLR 08/04 A2946 RMK AO2 SLP977 T00830039 56030 TSNO PABI 171453Z 11011KT 10SM FEW120 BKN200 06/00 A2950 RMK AO2 SLP996 T00610000 56016 CPIR 171400Z AUTO 26007KT 07/06 RMK AO1 T00670058 OIKK 171500Z 02008KT 9999 FEW040 29/M05 Q1015 A2998 YSTW 171500Z AUTO 24007KT 9999 // NCD 08/M01 Q1018 PABL 171516Z AUTO 00000KT 5SM OVC070 05/03 A2945 RMK AO1 PACD 171518Z 33009KT 10SM FEW007 BKN049 OVC065 10/09 A2922 RMK AO2 T01000094 PABN 171445Z 25005KT 20SM BKN050 BKN080 01/M01 A2964 RMK NOSPECI OIKO 171250Z 24004KT CAVOK 36/21 Q1002 OIKQ 171500Z 21012KT 5000 HZ SKC 33/26 Q1001 OIKR 171400Z 36008KT 9999 FEW040 32/M03 Q1014 A2995 PABR 171522Z 07010KT 2 1/2SM R07/4500VP6000FT -RA BR OVC003 02/02 A2956 RMK AO2 P0000 T00220022 $ HTZA 171400Z 14014KT 9999 FEW020 28/19 Q1013 NOSIG OIMB 171500Z 04008KT CAVOK 28/M13 Q1013 PABT 171453Z 35003KT 10SM FEW000 FEW080 01/00 A2951 RMK AO2 SLP002 FGBANK VC N-E AND VC W T00110000 56010 OIMC 171400Z 28010KT CAVOK 33/12 Q1008 YTMO 171500Z AUTO 15009KT //// // ////// 20/01 Q1020 OIMD 171400Z 10004KT CAVOK 35/M07 Q1006 PABV 171516Z AUTO 00000KT 9SM FEW085 SCT110 07/07 A2943 RMK AO1 PACM 171519Z AUTO 00000KT 10SM -RA BKN009 OVC046 09/09 A2941 RMK AO2 TSNO P0000 $ YTNG 171500Z AUTO 00000KT 9999 // NCD 10/02 Q1017 PADE 170602Z 22005KT 10SM OVC210 08/06 A2949 RMK DA -200 TSNO VIA PHONE YSWG 171500Z AUTO 26009KT 9999 // NCD 05/02 Q1018 YSWH 171500Z AUTO 23006KT //// // ////// 03/01 Q1022 PADG 171515Z 08003KT 5SM -RA BR SCT005 BKN007 OVC010 07/07 A2946 UDYZ 171500Z VRB01MPS 9999 SCT040CB BKN100 24/09 Q1011 R09/000070 NOSIG YTNK 171500Z AUTO 09012KT 9999 // NCD 24/M06 Q1018 OINB 171300Z 33010KT 9999 FEW022CB SCT025 BKN090 28/18 Q1011 PADK 171516Z 26012G15KT 10SM FEW050 BKN075 09/06 A2968 RMK AO1 PAEC 171446Z 00000KT 2SM BR OVC018 06/05 A2948 RMK NOSPECI PADL 171516Z 01008KT 10SM OVC021 10/09 A2914 RMK AO1 OIMM 171500Z 09006KT CAVOK 27/07 Q1012 A2988 PACV 171453Z 06006KT 10SM -RA SCT029 BKN045 OVC060 09/07 A2961 RMK AO2 RAE14B30 SLP027 P0000 60003 T00890067 56021 PADM 171456Z AUTO 06012KT OVC060 07/06 RMK AO2 PWINO TSNO 5//// T00720061 SLPNO $ PAED 171458Z AUTO 00000KT 10SM SCT080 BKN100 09/07 A2943 RMK AO2 SLP962 T00890070 57030 OINE 171500Z 21010KT 9999 FEW030CB FEW035 BKN100 27/19 Q1011 OIMN 171500Z 28008KT 9999 FEW040 22/14 Q1015 OING 171500Z 24012KT 9999 FEW025CB SCT035 BKN090 26/20 Q1014 PAEG 171453Z AUTO 00000KT 10SM CLR M03/M05 A2957 RMK AO2 SLP018 I1000 I3000 T10331050 56011 TSNO $ OIMQ 171400Z 25004KT CAVOK 35/M08 Q1010 PADQ 171453Z 18003KT 10SM FEW005 SCT024 BKN055 09/08 A2918 RMK AO2 SLP880 T00890078 58009 PAEH 171504Z AUTO 01012KT 10SM SCT027 BKN055 BKN110 10/08 A2920 RMK AO2 SLP891 PACZ 171455Z AUTO 35015KT 230V040 10SM BKN006 09/09 A2937 RMK AO2 SLP946 T00940086 57009 PAEI 171458Z AUTO 00000KT 10SM CLR 02/00 A2947 RMK AO2 SLP985 T00160003 56017 $ NSFA 171500Z 19005KT 9999 FEW030 23/22 Q1012 PAFA 171453Z 11003KT 10SM FEW070 SCT140 BKN200 04/02 A2947 RMK AO2 SLP986 T00390017 56016 $ OIMT 171200Z 17006KT CAVOK 41/M03 Q1004 OINK 171300Z 21008KT 9999 FEW030 FEW030CB SCT100 30/18 Q1010 PAFB 171455Z 09005KT 13SM FEW070 BKN140 03/01 A2947 RMK SLP985 56017 PAEL 171456Z 00000KT 10SM FEW001 BKN022 BKN080 09/09 A2973 RMK SEA 0 SWELL 2 SW NOSPECI PADU 171456Z 36012G17KT 10SM -RA BKN019 BKN026 OVC033 10/08 A2937 RMK AO2 SLP952 P0000 60000 T01000078 58006 PAEM 171516Z AUTO 36005KT 10SM BKN060 OVC065 08/04 A2938 RMK AO1 OINN 171500Z VRB02KT 9999 BKN026 BKN090 25/21 Q1012 PAEN 171453Z 06009KT 10SM CLR 08/06 A2938 RMK AO2 SLP952 T00830056 56028 PAFE 171516Z AUTO 00000KT 1/2SM OVC005 11/10 A2979 RMK AO1 OINR 171500Z 23008KT 9999 FEW025CB SCT030 OVC090 22/20 Q1012 PAGA 171458Z AUTO 01003KT 10SM BKN070 OVC080 06/05 A2943 RMK AO2 SLP975 6//// T00560050 56014 PNO $ PAFM 171516Z AUTO 02004KT 10SM BKN042 OVC070 08/06 A2950 RMK AO1 HUSO 170600Z 18002KT CAVOK 27/19 Q1017 OINZ 171500Z 36004KT 9999 SCT030CB SCT035 BKN090 26/20 Q1012 PAGH 171457Z AUTO 10006KT 10SM OVC075 08/07 A2947 RMK AO2 SLP009 T00780067 56015 SYCJ 171500Z 16006KT 9999 BKN022 31/25 Q1012 NOSIG PAFS 171456Z AUTO 03006KT 10SM OVC100 08/03 A2936 RMK AO2 TSNO 56020 T00830033 SLP950 $ PAGK 171453Z AUTO 16006KT 10SM OVC100 07/04 A2958 RMK AO2 SLP023 T00720039 56019 TSNO YTRE 171500Z AUTO 26006KT //// // NCD 11/07 Q1015 PAGL 171516Z AUTO 00000KT 10SM FEW014 BKN028 OVC065 06/06 A2942 RMK AO1 PAHC 171456Z AUTO 00000KT 10SM -RA BKN048 OVC100 08/06 A2933 RMK AO2 TSNO 56017 60000 T00830055 P0000 SLP937 $ PAGM 171516Z AUTO 36022G27KT 10SM BKN022 OVC030 06/01 A2956 RMK AO1 PAGN 171456Z AUTO 6SM BR OVC004 10/10 A2975 RMK AO2 TSNO 56008 T01000100 SLP076 $ PAGS 171409Z AUTO 00000KT 9SM OVC002 10/08 A2974 RMK VIA PHONE PAHL 171516Z AUTO 08006KT 10SM FEW060 SCT065 BKN110 06/04 A2944 RMK AO1 PAHN 171454Z AUTO 00000KT 9SM OVC006 09/09 A2975 RMK AO2 CIG 003V008 SLP076 T00940089 58003 TSNO PAHO 171453Z 07007KT 10SM -RA FEW042 FEW049 OVC060 12/05 A2932 RMK AO2 RAB12 SLP927 P0000 60000 T01170050 56029 PAGY 171517Z AUTO 19005KT 10SM OVC009 11/09 A2974 RMK AO2 CIG 009V014 T01060089 TSNO PAHP 171516Z AUTO 36012KT 10SM OVC060 10/08 A2938 RMK AO1 PAIG 171456Z AUTO 07019G24KT 5SM RA BR FEW005 SCT024 BKN032 10/08 A2916 RMK AO2 TSNO 56021 60001 T01000083 BKN V SCT P0000 PK WND 06030/1427 SLP877 $ PAII 171516Z AUTO 17005KT 10SM BKN070 BKN110 08/07 A2913 RMK AO1 OISA 171254Z 21004KT CAVOK 30/M04 Q1017 NTAA 171500Z AUTO VRB02KT 9999 NCD 21/18 Q1013 PAIK 171501Z AUTO 11005KT 9SM -RA BKN075 08/07 A2948 RMK AO2 RAE1408B1459 SLP022 6//// T00780072 56009 PNO $ PAIL 171453Z 06016G24KT 10SM -RA OVC055 09/07 A2923 RMK AO2 SLP898 P0002 60012 T00940072 56028 PAJC 171516Z AUTO 00000KT 10SM SCT080 09/06 A2912 RMK AO1 PAIM 171455Z AUTO 31003KT 10SM CLR 03/03 A2947 RMK AO2 SLP985 T00300025 57014 PAIN 171516Z AUTO 00000KT 10SM OVC050 08/03 A2947 RMK AO1 OISF 171250Z 21006KT 9999 FEW040 34/02 Q1009 PAHX 171456Z AUTO 01004KT 10SM -RA OVC045 07/06 A2936 RMK AO2 RAB12E24B54 SLP945 P0000 60000 T00720061 56017 YTTI 171500Z AUTO 26007KT //// // ////// 26/25 Q1015 PAHY 171516Z AUTO 00000KT 10SM SCT019 SCT034 OVC047 12/08 A2976 RMK AO1 YTST 171500Z AUTO 25004KT 9999 // NCD 24/22 Q1014 OISL 171500Z 27006KT CAVOK 35/04 Q1005 PAJN 171521Z 00000KT 1/2SM R08/4000VP6000FT FG SCT002 BKN028 08/08 A2976 RMK AO2 VIS NW-N 10 T00830083 PAIW 171458Z AUTO 35017G23KT 5SM -RA BR OVC009 06/05 A2947 RMK AO2 CIG 006V014 SLP981 P0001 60001 T00610050 57019 DIAD 171300Z 00000KT 8000 SCT013 BKN100 27/24 Q1012 NOSIG PAKF 171510Z AUTO 28012G19KT 5SM RA BR FEW019 BKN026 OVC060 11/09 A2925 RMK AO2 SLP996 P0011 60011 T01110089 55013 $ CPRO 171400Z AUTO 23001KT 03/03 RMK AO1 T00290028 OISR 170900Z 32006KT CAVOK 40/20 Q1005 PAKI 171456Z AUTO 34010KT 10SM CLR 08/07 A2929 RMK AO2 TSNO 56013 T00770072 SLP919 $ ZLLL 171500Z 00000MPS 4000 BR NSC 12/10 Q1025 NOSIG OISS 171500Z 26008KT CAVOK 30/M01 Q1013 A2992 OITK 171000Z 34006KT 9999 SCT035CB 27/06 Q1012 OKBK 171500Z 36011KT CAVOK 39/10 Q1004 NOSIG PAKK 171516Z AUTO 03004KT 10SM OVC070 08/05 A2937 RMK AO1 OITL 1713250Z 09019KT 9999 3000SE BR PRFG OVC005 15/14 Q1017 OITM 171500Z 00000KT 9999 FEW030 26/01 Q1013 SYGO 171500Z 07010KT 9999 BKN018 31/23 Q1013 NOSIG PAKN 171454Z 07006KT 10SM FEW038 BKN065 08/08 A2910 RMK AO2 SLP855 60010 T00780078 56016 OISY 171500Z 00000KT CAVOK 23/04 Q1017 PAKP 171516Z AUTO 00000KT 4SM CLR M01/M04 A2947 RMK AO1 PALG 171456Z AUTO 07005KT OVC039 09/06 RMK AO2 PWINO TSNO 5//// T00940061 SLPNO $ PALH 171453Z 31005KT 10SM BKN070 OVC110 09/07 A2945 RMK AO2 SLP974 T00940067 56026 PAJZ 171456Z AUTO 08015KT 3SM -RA BR SCT020 BKN031 OVC039 08/07 A2923 RMK AO2 TSNO 56016 60000 T00830066 P0000 SLP889 YTWB 171500Z AUTO 23004KT 9999 // NCD 12/01 Q1019 CPRY 171400Z AUTO 24005KT 07/05 RMK AO1 T00710054 OITR 171500Z 01004KT 9999 FEW035CB SCT040 23/06 Q1013 TEMPO TSRA DIAP 171500Z 23012KT 200V260 8000 SCT012 BKN040 27/24 Q1010 NOSIG PALJ 171457Z 05016KT 7SM OVC050 12/09 A2923 RMK FIRST NOSPECI OITT 171500Z 30004KT 9999 FEW035TCU SCT180 25/03 Q1014 A2995 PAKT 171453Z 16005KT 3/4SM R11/2400V3000FT BR VV002 12/12 A2978 RMK AO2 SLP084 T01170117 56006 $ PAKU 171445Z VRB03KT 5/8SM R06/3500FT BR VV003 02/02 A2958 OITU 171250Z 35012KT 9999 FEW030CB FEW035 21/07 Q1014 PAMC 171453Z 27004KT 10SM OVC085 08/06 A2936 RMK SLP946 T00780056 56020 VIA AUTODIAL CPST 171500Z AUTO 22003KT 11/07 RMK AO1 T01070067 PAKV 171453Z AUTO 22003KT 10SM FEW055 BKN070 BKN080 04/03 A2944 RMK AO1 SLP973 T00390033 56017 TSNO PAMD 171516Z 14018G22KT 10SM SCT018 BKN032 OVC038 11/08 A2951 RMK AO1 P0001 PAKW 171453Z AUTO 00000KT 10SM OVC005 11/11 A2976 RMK AO2 SLP076 T01110111 56007 TSNO CPSV 171500Z AUTO 21007KT 13/10 RMK AO1 T01260097 PALP 171448Z 01006KT 1/2SM BR BKN001 OVC006 02/01 A2955 OITZ 171500Z 07019KT 9999 SCT030 FEW030CB 21/08 Q1014 PAMH 171516Z AUTO 00000KT 10SM 06/04 A2939 RMK AO1 PANA 171456Z AUTO 02008KT 10SM CLR 06/06 A2925 RMK AO2 SLP906 T00610056 56016 PAMK 171456Z AUTO 11005KT 10SM CLR 08/05 A2938 RMK AO2 TSNO 56013 T00770050 SLP953 $ PANC 171453Z 32004KT 10SM SCT065 BKN110 09/06 A2944 RMK AO2 SLP970 T00890061 56026 PALU 171512Z AUTO 07010KT 10SM BKN008 05/05 A2952 RMK AO2 SLP995 PAMM 171516Z AUTO 00000KT 1SM OVC003 11/10 A2979 RMK AO1 DIBU 171300Z 00000KT 9999 BKN013 27/22 Q1012 NOSIG PAMO 171456Z AUTO 01007KT 10SM OVC050 08/07 A2938 RMK AO2 TSNO 56014 T00830066 SLP838 $ PAMR 171453Z 30006KT 10SM FEW025 SCT060 OVC110 09/07 A2943 RMK AO2 SLP967 T00940067 56030 PANI 171516Z AUTO 02003KT 10SM OVC047 09/06 A2930 RMK AO1 UHBB 171500Z 23002MPS CAVOK 07/06 Q1020 NOSIG RMK QFE747/0996 36090060 DIDK 171300Z ///// 9999 SCT013 SCT100 32/25 Q//// NOSIG DIDL 171300Z ///// 9999 BKN013 SCT100 29/24 Q01012 NOSIG PANN 171453Z AUTO 08006KT 10SM CLR 07/03 A2944 RMK AO2 SLP974 T00720028 56015 TSNO PAMY 171516Z 03011KT 10SM FEW046 SCT060 OVC070 11/04 A2934 RMK AO1 PAOH 171456Z AUTO 00000KT M1/4SM FG OVC005 06/06 A2977 RMK AO2 TSNO 56010 T00610061 SLP083 $ PAPB 171523Z AUTO 34013G19KT 10SM SCT011 BKN018 OVC085 10/08 A2942 RMK AO2 T01000083 TSNO $ PANT 171520Z 15005KT 3/4SM BR VV002 11/11 A2977 RMK AO2 T01110111 PAOM 171453Z 34004KT 10SM OVC015 07/06 A2942 RMK SLP962 60001 T00670056 56012 VIA AUTODIAL PANV 171516Z AUTO 03006KT 10SM SCT036 OVC046 08/05 A2935 RMK AO1 PANW 171456Z AUTO 08011G19KT OVC008 09/09 RMK AO2 PWINO TSNO 5//// 60003 T00880088 CIG 005V011 P0001 SLPNO $ UGKO 171500Z 26008KT CAVOK 25/15 Q1009 R25/09//70 NOSIG PAOO 171456Z AUTO 35013KT 10SM SCT055 08/07 A2934 RMK AO2 TSNO 56011 T00770066 SLP935 $ PAPG 171516Z 00000KT 1/2SM VV002 11/09 A2975 RMK AO1 WEA PAPH 171516Z AUTO 21017G20KT 3SM OVC006 09/06 A2912 RMK AO1 P0005 PAOR 171453Z AUTO 09003KT 10SM CLR 00/M01 A2956 RMK AO2 SLP024 I1000 I3001 T00001006 56013 TSNO OIZB 171500Z 36004KT CAVOK 32/02 Q1003 PAOT 171453Z 16005KT 10SM BKN008 OVC013 09/08 A2944 RMK AO2 SLP968 T00890083 57009 DIGA 171300Z 28006KT 9999 BKN013 31/26 Q1011 NOSIG PAOU 171521Z AUTO 31017G23KT 2SM -RA BR CLR 11/11 A2916 RMK AO2 TSNO P0000 $ PAPM 171456Z AUTO 10SM FEW049 SCT060 BKN095 09/08 A2920 RMK AO2 TSNO 57014 60000 T00940083 RAB1359E44 P0000 SLP889 $ CPXL 171500Z AUTO 19004KT 11/08 RMK AO1 T01140082 PAPN 171456Z AUTO 00000KT 6SM BR SCT003 BKN024 OVC030 09/08 A2913 RMK AO2 PWINO TSNO 56013 T00880083 BKN V OVC SLP865 $ PAPO 171516Z AUTO 04006KT 10SM BKN024 OVC039 07/05 A2947 RMK AO1 OIZH 171500Z 10010KT 9999 FEW040 32/M08 Q1012 A2990 NOSIG PAQH 171456Z AUTO 32008KT 10SM SCT110 05/04 A2922 RMK AO2 SLP895 T00500044 56015 OIZI 171500Z 26008KT 9999 FEW045 38/06 Q1004 OIZJ 171500Z 16004KT 6000 SKC 31/26 Q1002 PAPT 171455Z 13009KT 10SM -RA BKN018 OVC040 07/07 A2941 RMK NO SPECI PARC 171516Z AUTO 00000KT 10SM FEW100 05/04 A2944 RMK AO1 OIYY 171500Z 31004KT CAVOK 33/M07 Q1011 PASA 171516Z AUTO 03011KT 7SM SCT010 BKN017 OVC027 06/03 A2955 RMK AO1 PAQT 171453Z AUTO 00000KT 1/2SM FG VV003 02/02 A2957 RMK SLP013 T00220022 56006 TSNO VIA AUTODIAL PASC 171511Z 32004KT 1SM R05/6000VP6000FT BR VV006 02/02 A2954 RMK AO2 T00220017 PASD 171516Z 27006KT 10SM SCT031 BKN048 11/09 A2919 RMK AO1 WEA YWCA 171500Z AUTO 24006KT //// // ////// 08/00 Q1022 PASH 171516Z AUTO 34007KT 5SM OVC008 09/08 A2945 RMK AO1 PASI 171519Z 00000KT 10SM FEW006 SCT009 09/09 A2975 RMK AO2 T00890089 YWBL 171500Z AUTO 22012KT //// // ////// 09/06 Q1021 OLBA 171500Z 03007KT 360V060 CAVOK 29/20 Q1008 PATA 171452Z 35005KT 10SM FEW060 SCT120 01/00 A2947 RMK AO2 SLP983 T00060000 56016 PARS 171456Z AUTO 00000KT 10SM OVC036 08/07 A2933 RMK AO2 TSNO 56015 60000 T00830066 RAB09E28 P0000 SLP935 $ PASK 171516Z AUTO 07008KT 10SM FEW055 OVC065 07/06 A2946 RMK AO1 PASL 171516Z AUTO 00000KT 10SM FEW050 OVC090 08/01 A2934 RMK AO1 PATC 171505Z AUTO 02021KT 2SM -RA BR BKN007 05/05 A2944 RMK AO2 SLP970 PASM 171516Z AUTO 02004KT 10SM OVC050 06/04 A2935 RMK AO1 PASN 171453Z 32009KT 10SM BKN013 BKN041 09/08 A2943 RMK AO2 SLP965 T00940083 56009 $ PATE 171458Z AUTO 22004KT 10SM -RA OVC010 05/04 A2944 RMK AO2 CIG 007V013 SLP981 P0001 60004 T00500044 56016 PASO 171453Z AUTO 00000KT 6SM RA BR FEW047 OVC055 08/08 A2928 RMK AO2 SLP915 P0004 60007 T00830083 56034 TSNO YWBR 171500Z AUTO 12008KT //// // ////// 23/05 Q1017 PATG 171516Z AUTO 01010KT 10SM BKN060 OVC095 09/08 A2915 RMK AO1 PARY 171456Z AUTO 09008KT 10SM BKN060 OVC080 07/06 A2943 RMK AO2 TSNO 56016 60000 T00660055 RAE25 P0000 SLP972 $ MSV 171500Z AUTO 21006KT 9999 // NCD 06/M01 Q1015 PATK 171453Z AUTO 35003KT 10SM BKN110 08/07 A2949 RMK AO2 SLP988 60000 T00830067 56028 TSNO PATL 171509Z AUTO 09004KT 10SM OVC065 07/05 A2938 RMK AO2 SLP950 PASV 171455Z 00000KT 10SM OVC070 07/03 A2927 RMK AO2A RAE1445 SLP914 5//// MUI 171500Z AUTO 24008KT 9999 // NCD 10/00 Q1018 PASW 171455Z 00000KT 10SM PRFG FEW006 BKN030 BKN070 07/06 A2949 RMK PRFG ALQDS FIRST NOSPECI PATO 171453Z AUTO 14013G34KT 120V190 10SM -RA BKN031 BKN038 OVC049 10/07 A2949 RMK AO2 PK WND 11034/1446 SLP987 P0005 60024 T01000067 56025 TSNO $ PASX 171516Z AUTO 07009KT 10SM FEW075 BKN120 A2935 RMK AO1 UHHH 171500Z METAR 30003MPS 9999 SCT033CB BKN100 11/10 Q1012 NOSIG PASY 171456Z AUTO 35008KT 10SM FEW012 BKN050 OVC055 10/08 A2989 RMK AO2 SLP120 T01000078 52005 TSNO $ PATQ 171523Z AUTO 08007KT 1 1/4SM BR OVC004 02/02 A2953 RMK AO2 TSNO $ PAVA 171457Z AUTO 01007KT 10SM -RA OVC050 08/08 A2942 RMK AO2 RAB46 SLP964 P0000 60000 T00830078 56010 PAVC 171456Z AUTO 25010KT 5SM -RA BR 10/09 A2921 RMK AO2 TSNO 56016 60001 T01000088 RAB50 P0000 SLP892 $ NSTU 171454Z 10007KT 10SM SCT018 SCT040 BKN100 26/25 A2989 RMK SHRAE40 SLP124 60002 8/850 T02610250 57003 PAVD 171516Z 00000KT 6SM FEW001 BKN040 OVC060 07/06 A2961 RMK AO1 1447Z WEA PAUN 171516Z AUTO 07009KT 10SM BKN070 OVC100 07/04 A2938 RMK AO1 UIAA 171500Z 00000MPS 9999 SKC 08/M00 Q1019 NOSIG RMK QFE706 29CLRD70 UGSB 171500Z 00000KT 9999 FEW030 24/19 Q1012 R13/CLRD70 NOSIG PAUT 171515Z AUTO 30017G20KT 10SM SCT004 BKN025 OVC034 08/08 A2933 RMK AO2 T00820082 PAVL 171518Z AUTO 05004KT 10SM BKN014 OVC037 08/08 A2945 RMK AO2 T00830078 TSNO PAWD 171453Z AUTO 14005KT 10SM -RA BKN043 OVC049 09/08 A2944 RMK AO2 SLP970 P0002 60016 T00940078 58032 TSNO PAWG 171516Z 00000KT 1/2SM VV003 12/09 A2978 RMK AO1 WEA PAWI 171523Z AUTO 04006KT 3SM BR OVC014 03/02 A2952 RMK AO2 TSNO UIBB 171500Z 09001MPS P5000 SKC 06/02 Q1016 NOSIG RMK QFE719/0959 30CLRD60 UGTB 171500Z 11007KT 9999 SCT050CB 24/12 Q1014 R13R/CLRD80 NOSIG PAWM 171520Z AUTO 36006KT 10SM BKN012 OVC065 06/05 A2941 RMK AO2 PAWN 171516Z AUTO 36003KT 10SM BKN010 OVC018 08/07 A2947 RMK AO1 YWHA 171500Z AUTO 35001KT 9999 // OVC064 10/06 Q1025 PAYA 171453Z 00000KT 10SM SCT025 OVC080 08/08 A2971 RMK AO2 SLP061 T00830078 56014 $ PAWS 171516Z AUTO 07007G15KT 10SM OVC120 09/02 A2943 RMK AO1 ZLXY 171500Z 02002MPS 350V060 4000 BR OVC070 16/16 Q1022 BECMG TL1640 2500 BR UHMA 171500Z 35003MPS 9999 SKC 01/M00 Q1008 RMK QFE752/1003 YWGT 171500Z AUTO 27005KT //// // ////// 06/02 Q1019 YVRD 171500Z AUTO 00000KT //// // ////// 22/07 Q1014 UHMD 170430Z 31007MPS 9999 BKN036 BKN100 08/02 Q1004 RMK QFE752/1003 PAZK 171516Z AUTO 02008KT 10SM CLR 02/00 A2948 RMK AO1 UHMM 171500Z 00000MPS 0300 R10/0300V0325D FG VV002 01/01 Q1015 RMK QFE747 QBB080 YWIS 171500Z AUTO 00000KT //// // ////// 16/15 Q1016 OMAA 171500Z 34011KT CAVOK 34/27 Q1002 A2959 NOSIG OMAD 171500Z 34009KT 8000 NSC 34/27 Q1002 A2960 NOSIG ZMUB 171530Z VRB02MPS 9999 SCT100 13/M05 Q1016 NOSIG RMK QFE654.8 31 NT OMAL 171500Z 34014KT 7000 NSC 36/21 Q1004 A2967 NOSIG YWLG 171500Z AUTO 21006KT 9999 // NCD 11/M01 Q1020 TQPF 171500Z 10012KT 9999 FEW020 31/24 Q1015 YWLM 171500Z AUTO 29007KT 9999 // NCD 10/03 Q1015 DITB 171300Z 00000KT 2000 RADZ SCT003 OVC013 24/24 Q1013 NOSIG UHPP 171400Z 00000MPS 9999 BKN020 08/06 Q1018 NOSIG RMK QFE760/1013 SC070 EBBE 171425Z 07007KT 9999 FEW038 SCT250 25/13 Q1010 BLU BLU DISP 171300Z 18008KT 9999 BKN013 SCT100 27/24 Q1013 NOSIG OMDB 171500Z 34008KT 310V050 8000 NSC 34/26 Q1003 NOSIG DISS 171300Z VRB02KT 9999 BKN015 27/24 Q1012 NOSIG EBBL 171455Z 08006KT 9999 FEW040 25/13 Q1011 BLU BLU EBAW 171520Z 07008KT CAVOK 25/13 Q1010 NOSIG UIII 171500Z VRB01MPS CAVOK 12/08 Q1016 NOSIG RMK QFE717/0957 30CLRD60 EBCI 171520Z 11005KT 070V160 9999 FEW049 25/15 Q1010 NOSIG EBBR 171520Z 07006KT CAVOK 25/13 Q1010 NOSIG VAAH 171510Z 00000KT 4000 HZ SCT020 30/25 Q1006 NOSIG VABB 171510Z 29005KT 4000 HZ FEW020 SCT025 BKN100 29/24 Q1007 NOSIG OMDW 171500Z 34009KT CAVOK 33/26 Q1003 NOSIG EBCV 171425Z AUTO 08007KT 9999 NCD 26/13 Q1009 BLU UHSS 171400Z 02002MPS 5000 BR SCT033CB 09/09 Q1007 RMK MT OBSC QFE753/1005 OMFJ 171500Z 10004KT 6000 SCT020 31/26 Q1003 A2963 EBDT 171425Z 09005KT 9999 FEW250 25/13 Q1010 BLU EBFN 171455Z 03012KT 6000 FEW200 22/17 Q1010 WHT WHT TEMPO GRN EBFS 171455Z 08006KT 9999 FEW040 SCT250 24/15 Q1010 BLU BLU DIYO 171400Z 22006KT 9999 BKN013 BKN100 31/23 Q1011 NOSIG YWUD 171500Z AUTO 04003KT //// // ////// 03/02 Q1025 YWTN 171500Z AUTO 20006KT //// // ////// 16/M06 Q1019 UHWW 171500Z 00000MPS 9999 FEW100 07/06 Q1017 NOSIG RMK QFE762/1016 57CLRD70 TRPG 171500Z 11009KT 9999 SCT022 SCT250 29/24 Q1015 EBLB 171425Z 15005KT 9999 FEW045 23/12 Q1012 BLU EBLG 171520Z VRB03KT CAVOK 25/12 Q1010 NOSIG YWWL 171500Z AUTO 22008KT //// // ////// 07/01 Q1020 UKBB 171500Z 05004MPS CAVOK 19/03 Q1024 88CLRD95 NOSIG YWYM 171500Z AUTO 00000KT //// // ////// 24/15 Q1013 CTNK 171500Z AUTO 24003KT 14/09 RMK AO1 SLP141 T01360090 58008 UKDD 171500Z 06006MPS CAVOK 18/05 Q1021 08090070 NOSIG UKDE 171500Z 04005MPS 360V070 CAVOK 20/03 Q1021 02CLRD70 NOSIG YWYY 171500Z AUTO 26016KT 9999 // NCD 04/04 Q1013 TTCP 171500Z 10007KT 9999 VCSH SCT018 30/24 Q1014 NOSIG UIUU 171500Z 28002MPS 240V310 9999 FEW043 BKN100 14/00 Q1014 NOSIG RMK QFE716/0955 26CLRD60 EBOS 171520Z 03011KT 6000 NSC 22/15 Q1010 NOSIG UKDR 171500Z 07005MPS 020V120 CAVOK 20/02 Q1021 3609//70 NOSIG OMRK 171500Z 36004KT CAVOK 34/24 Q1003 A2963 CTRA 171500Z AUTO 06006KT 04/02 RMK AO1 SLP174 T00390023 51016 VANP 171510Z 33002KT 5000 HZ FEW100 29/23 Q1006 NOSIG OMSJ 171500Z 03004KT CAVOK 34/26 Q1003 EDAC 171520Z 13006KT 090V170 CAVOK 22/13 Q1014 EDAH 171520Z 11006KT CAVOK 22/10 Q1018 EDBC 171520Z 12010KT CAVOK 23/14 Q1014 UKHH 171500Z 06005MPS CAVOK 16/M01 Q1024 070///65 NOSIG PFCL 171456Z AUTO 06009KT 10SM -RA FEW008 OVC015 09/09 A2913 RMK AO2 RAB05 SLP868 P0005 60007 T00940089 56016 YYNG 171500Z AUTO 00000KT //// // ////// M00/M01 Q1018 ULAA 171500Z VRB01MPS 9999 BKN046 10/08 Q1025 TEMPO 2000 SHRA BR BKN005CB RMK QFE767/1023 SC070 EDDB 171520Z 10012KT 9999 FEW049 23/13 Q1016 NOSIG EDDC 171520Z 13009KT CAVOK 22/12 Q1015 NOSIG EDDE 171520Z 10006KT 9999 FEW030 22/13 Q1014 NOSIG EDDF 171520Z 11007KT 9999 FEW045 SCT300 25/15 Q1011 NOSIG EDDG 171520Z 09008KT CAVOK 24/14 Q1012 NOSIG EDDH 171520Z 07010KT CAVOK 23/14 Q1015 NOSIG KAAA 171515Z AUTO 20003KT 10SM OVC090 16/12 A3004 RMK AO2 T01570122 KC09 171515Z AUTO 00000KT 10SM CLR 16/10 A3004 RMK AO2 T01580102 PFEL 171458Z AUTO 33004KT 10SM SCT044 OVC065 09/08 A2942 RMK AO2 SLP967 T00890078 56011 EDDK 171520Z 14006KT 9999 FEW045 25/14 Q1011 NOSIG EDDL 171520Z 15005KT 9999 FEW046 25/13 Q1011 NOSIG EDDM 171520Z 07008KT 040V110 CAVOK 22/14 Q1013 NOSIG KAAF 171453Z AUTO 06006KT 10SM CLR 28/22 A2995 RMK AO2 SLP143 T02830222 50004 EDDN 171520Z 11004KT 050V200 9999 FEW043 23/14 Q1013 NOSIG VCBI 171510Z 20013KT 9999 SCT016 27/24 Q1009 NOSIG EDDP 171520Z 13013KT CAVOK 24/12 Q1014 NOSIG KAAI 161553Z AUTO 16008KT 10SM OVC060 07/07 A2954 RMK SLPNO T00720072 TSNO VIA AUTODIAL UKKK 171500Z 06004MPS CAVOK 19/05 Q1024 08CLRD70 NOSIG EDDR 171520Z 12006KT 040V170 CAVOK 25/13 Q1011 NOSIG UKKM 171500Z 02003MPS CAVOK 20/05 Q1024 EDDS 171520Z 08007KT 9999 FEW040 SCT300 23/15 Q1012 NOSIG EDDT 171520Z 08012KT 9999 FEW045 24/12 Q1016 NOSIG ZPPP 171500Z 04006MPS 2500 RA BR SCT005 SCT016 OVC033 13/13 Q1019 BECMG TL1630 4000 -SHRA KABE 171451Z 05003KT 10SM CLR 18/09 A3007 RMK AO2 SLP183 T01830089 58001 EDDV 171520Z 09012KT 9999 FEW032 24/13 Q1013 NOSIG EDFE 171520Z 09006KT CAVOK 25/13 Q1011 EDDW 171520Z 09012KT 9999 FEW040 24/13 Q1013 NOSIG KAAO 171454Z AUTO 22009KT 10SM CLR 24/19 A2991 RMK AO2 SLP117 T02440189 51005 UKLI 171500Z 11004MPS CAVOK 20/07 Q1022 NOSIG EDFH 171520Z 12007KT 9999 FEW027 SCT260 22/15 Q1012 KABI 171452Z 22006KT 10SM CLR 27/21 A3003 RMK AO2 SLP139 60000 T02670206 51004 UKLL 171500Z 14006MPS CAVOK 19/04 Q1022 13CLRD80 NOSIG KACB 171515Z AUTO 26004KT 10SM CLR 17/10 A2998 RMK AO2 T01660098 KAAT 171455Z AUTO 00000KT 10SM CLR 12/M01 A2995 RMK AO2 SLP108 T01221011 50002 KC29 171515Z AUTO 26004KT 10SM OVC085 17/09 A3002 RMK AO1 T01670086 UKLN 171500Z 00000MPS CAVOK 20/04 Q1022 15//99// NOSIG EDFM 171520Z 13004KT 070V170 CAVOK 26/12 Q1011 UKLR 171500Z 13003MPS 9999 FEW033 SCT200 19/05 Q1023 12090070 NOSIG KC35 171515Z AUTO 00000KT 10SM SCT075 OVC090 13/10 A3001 RMK AO2 T01330101 KABQ 171452Z 26003KT 10SM -RA FEW025 FEW040 BKN090 OVC150 17/14 A3019 RMK AO2 RAB16 SLP165 MTNS OBSC SE P0000 60000 T01670144 51007 KABR 171453Z AUTO 02004KT 10SM CLR 12/11 A2996 RMK AO2 SLP146 T01220111 51008 UKLU 171500Z 20001MPS 9999 FEW200 24/07 Q1019 10090070 NOSIG KACJ 171515Z AUTO 03004KT 10SM CLR 27/21 A2998 RMK AO2 KACK 171453Z 16007KT 10SM CLR 19/13 A3001 RMK AO2 SLP163 T01940133 53003 KADC 171514Z AUTO 36003KT 10SM CLR 14/11 A2994 RMK AO2 KADF 171456Z AUTO 00000KT 6SM BR OVC008 21/19 A3002 RMK AO2 51008 T02050188 OVC V BKN SLP179 $ KADG 171453Z AUTO 27005KT 10SM CLR 14/07 A3006 RMK AO2 SLP184 T01390072 58006 KABY 171453Z 06006KT 10SM CLR 28/22 A2998 RMK AO2 SLP148 T02780217 50003 KACP 171515Z AUTO 00000KT 10SM OVC004 24/23 A3000 RMK AO2 T02370228 KACQ 171515Z AUTO 19006KT 10SM SCT070 16/07 A2998 RMK AO2 KADH 171515Z AUTO 19005KT 10SM CLR 26/23 A2998 RMK AO2 EDHI 171520Z 08008KT 040V130 9999 FEW040 BKN130 24/14 Q1014 EDGS 171520Z 13007KT 9999 FEW026 20/14 Q1013 KACT 171458Z 20005KT 10SM OVC011 25/22 A2999 RMK AO2 CIG 007V012 T02500222 EDHK 171520Z 08015KT CAVOK 18/12 Q1017 KACV 171523Z AUTO 00000KT 9SM SCT002 13/13 A2974 RMK AO2 T01330133 EDHL 171520Z 05010KT 020V080 CAVOK 22/14 Q1016 RMK ATIS WHI KADM 171455Z 14003KT 5SM BR SKC 25/23 A2997 KACY 171454Z 05004KT 10SM CLR 21/07 A3005 RMK AO2 SLP174 T02110072 58001 KAEG 171448Z 00000KT 10SM DZ OVC090 16/14 A3022 KADS 171447Z 21007KT 13SM SCT100 BKN140 27/21 A2999 KAEJ 171515Z AUTO 00000KT 10SM CLR 16/01 A3034 RMK AO2 T01560011 DNAA 171000Z 16005KT 140V200 9999 BKN009 FEW019CB 26/21 Q1016 NOSIG EDJA 171520Z 08007KT CAVOK 21/15 Q1013 UKON 171500Z 06008MPS CAVOK 23/02 Q1019 NOSIG KAEL 171511Z AUTO 23003KT 10SM CLR 17/11 A2996 RMK AO2 KADU 171515Z AUTO 18003KT 10SM CLR 19/13 A2997 RMK AO2 UKOO 171500Z 08003MPS 040V120 CAVOK 22/08 Q1018 16090065 NOSIG KADW 171458Z VRB03KT 10SM CLR 21/12 A3006 RMK AO2A SLP180 CWAE 171500Z 00000KT 15SM OVC080 12/08 A2983 RMK AC8 WND ESTD SLP094 DENSITY ALT 2400FT KAFF 171458Z AUTO 35004KT 10SM CLR 20/07 A3019 RMK AO2 SLP138 T02030070 51001 CWAF 170400Z AUTO 20017KT 10/08 RMK AO1 PK WND 20020/0359 T00980079 KAFJ 171515Z AUTO 00000KT 10SM CLR 17/12 A3007 RMK AO1 CWBA 171500Z AUTO 01003KT 09/06 RMK AO1 T00900060 CWAJ 171500Z AUTO 15002KT 17/09 RMK AO1 SLP168 T01660090 58005 KAFK 171515Z AUTO 16004KT 7SM OVC009 18/14 A2995 RMK AO2 T01750136 DNAK 162100Z 00000KT 5000 BR SCT010 23/22 Q1015 KAGC 171453Z 14004KT 8SM FEW049 BKN110 16/10 A3006 RMK AO2 SLP183 T01610100 58001 TTPP 171500Z 12007KT 7000 VCSH SCT014 SCT038 29/23 Q1014 NOSIG KAFN 171452Z AUTO 19006KT 10SM FEW033 16/07 A3003 RMK AO2 SLP175 T01560072 58003 DNBE 162100Z 00000KT 9999 BKN008 25/24 Q1015 CWBE 171500Z AUTO 12007KT 11/07 RMK AO1 SLP146 T01070073 58009 KAEX 171453Z 00000KT 4SM BR OVC003 22/22 A2998 RMK AO2 SLP156 T02220222 51007 KAFO 171515Z AUTO 22010G18KT 10SM CLR 12/06 A3014 RMK AO2 KC75 171515Z AUTO 00000KT 10SM OVC100 15/12 A3003 RMK AO2 T01520121 KAFP 171515Z AUTO 01005KT 7SM -RA BKN011 OVC023 21/19 A2998 RMK AO2 T02130190 CWAQ 171500Z AUTO 10001KT 13/08 RMK AO1 SLP132 T01270079 54000 PFKT 171445Z 28003KT 9SM -RA OVC035 06/05 A2946 RMK VIA PHONE CWAR 171500Z AUTO 24006KT 15/10 RMK AO1 SLP128 T01530096 56005 CWCA 171500Z CCA 21010KT 15SM FEW025 SCT200 14/06 A2959 RMK CU1CI2 TR CU SLP020 CWBK 171500Z AUTO 31007KT 17/11 RMK AO1 SLP131 T01730109 58002 PFKW 171456Z AUTO 01006KT 10SM OVC120 06/06 A2925 RMK AO2 SLP905 T00610061 56017 $ CWAV 171500Z AUTO 00000KT 07/04 RMK AO1 SLP121 T00710039 58005 KAFW 171453Z 20005KT 10SM FEW120 SCT200 BKN250 28/21 A2997 RMK AO2 SLP134 T02780211 51003 CWCF 171500Z AUTO 07004KT 03/01 RMK AO1 SLP221 T00340010 51012 CWBO 171500Z AUTO 00000KT 10/10 RMK AO1 SLP112 T00990099 51002 CWCI 171400Z AUTO 06021G26KT 06/05 RMK AO1 PK WND 06027/1342 SLP139 T00580053 50008 KAIA 171453Z AUTO 30005KT 10SM CLR 17/09 A2999 RMK AO2 SLP126 T01670089 50003 KAGS 171511Z 10004KT 10SM SCT008 24/21 A2994 RMK AO2 T02440206 CWDA 171400Z AUTO 15012KT 14/09 RMK AO1 SLP080 T01420094 58006 CWCJ 171500Z AUTO 04007KT 03/02 RMK AO1 3001 SLP169 T00290017 50008 CWBS 171500Z AUTO 28003KT 11/08 RMK AO1 T01080081 EDMA 171450Z 07005KT 010V130 CAVOK 21/15 Q1013 RMK ATIS LIM KAIB 171515Z AUTO 10003KT 10SM CLR 17/06 A3023 RMK AO2 CWBT 171500Z AUTO 24006KT 11/08 RMK AO1 SLP077 T01080075 52014 KAID 171452Z 00000KT 10SM CLR 14/12 A3007 CWBU 171500Z AUTO 09009KT 05/03 RMK AO1 SLP203 T00500027 50005 CWCL 171500Z AUTO 24004KT 9SM 11/01 A2983 RMK SLP101 CWBV 171500Z AUTO 23011KT 17/13 RMK AO1 SLP142 T01680131 58002 KAHN 171451Z 10SM FEW024 26/20 A2997 RMK AO2 SLP141 T02560200 50001 $ EDLN 171520Z 10007KT 060V130 CAVOK 25/14 Q1011 RMK ATIS T CWCO 171500Z AUTO 03002KT 15/10 RMK AO1 SLP144 T01520096 58002 KAIG 171515Z AUTO 27007KT 10SM CLR 15/09 A2997 RMK AO2 T01480088 CWBY 171500Z AUTO 28014G25KT 11/04 RMK AO1 PK WND 26026/1450 SLP087 T01080044 51020 EDLP 171520Z 13008KT 9999 FEW045 23/12 Q1013 RMK ATIS DEL KAHQ 171515Z AUTO 00000KT 10SM CLR 19/14 A2994 RMK AO2 T01900137 UMBB 171330Z 12004G07MPS CAVOK 21/09 Q1024 R11/CLRD// NOSIG CWBZ 171500Z AUTO 27007KT 15/10 RMK AO1 SLP155 T01500103 58001 KD07 171456Z AUTO 05004KT 15/11 A2996 RMK AO1 SLP140 T01500106 52009 OOMS 171450Z 07005KT 030V100 8000 FEW030 29/27 Q1004 NOSIG CWDJ 171500Z AUTO 10009KT 08/07 RMK AO1 PK WND 12017/1427 SLP158 T00830068 52013 KAIK 171535Z AUTO 04003KT 10SM OVC004 22/22 A3000 RMK AO2 PNO KBAB 171458Z AUTO 00000KT 10SM CLR 18/07 A2977 RMK AO2 SLP156 T01780068 53006 $ CWDK 171500Z AUTO 10/06 RMK AO1 SLP124 T00990062 55000 CWEB 171500Z AUTO 07006KT 13/13 RMK AO1 SLP090 T01340129 55001 CWCT 171500Z AUTO 16004KT 10/07 RMK AO1 0000 SLP123 T01030074 50002 KBAC 171515Z AUTO 03007KT 10SM CLR 16/10 A2997 RMK AO2 KBAD 171458Z AUTO 00000KT 10SM CLR 27/22 A2998 RMK AO2 SLP154 T02660219 50003 CWDM 171500Z AUTO 20011G16KT 12/11 RMK AO1 SLP067 T01220112 58008 EDLV 171520Z VRB03KT CAVOK 25/15 Q1011 PFNO 171458Z AUTO 00000KT 8SM OVC070 07/07 A2946 RMK AO2 SLP979 T00720072 58008 CWEE 171400Z AUTO 04/M00 RMK AO1 SLP156 T00371002 50008 EDLW 171520Z 13006KT 050V170 CAVOK 25/11 Q1011 RMK ATIS Y KBAF 171453Z VRB04KT 10SM CLR 19/06 A3003 RMK AO2 SLP170 T01890056 58004 KAIO 171515Z AUTO 19005KT 10SM CLR 19/15 A2995 RMK AO2 CWEF 171400Z AUTO 24018KT 15/12 RMK AO1 PK WND 24019/1357 SLP115 T01490117 CWDO 171500Z AUTO 21010G15KT 16/09 RMK AO1 PK WND 20018/1417 SLP104 T01580086 58010 EDMO 171520Z 04006KT 340V070 CAVOK 21/15 Q1013 KAJG 171515Z AUTO 11008KT 10SM CLR 17/13 A3004 RMK AO2 CWDQ 171500Z AUTO 03003KT 10/03 RMK AO1 SLP157 T01030027 50004 CWEH 171500Z AUTO 11006KT 16/08 RMK AO1 SLP122 T01580075 53002 EEEI 171450Z 32005KT 9999 FEW046 18/09 Q1027 NOSIG KBAK 171450Z 00000KT 10SM SCT001 SCT032 12/12 A3007 KAIT 171514Z AUTO 00000KT 10SM CLR 17/12 A2994 RMK AO2 KBBB 171514Z AUTO 04003KT 10SM CLR 17/12 A2994 RMK AO2 NWWV 170434Z AUTO VRB02KT 8000 BKN024/// BKN029/// 25/21 Q1012 CWDT 171500Z AUTO 29008KT 04/M03 RMK AO1 SLP157 T00421026 51009 CWEK 171500Z AUTO 14006KT 10/ RMK AO1 SLP084 T0103 55004 CWEL 171500Z AUTO 15005KT 15/12 RMK AO1 SLP083 T01520115 56001 KBBD 171515Z AUTO 00000KT 25/22 A3003 RMK NWWW 171500Z AUTO 00000KT 9999 FEW015 18/16 Q1015 CWDV 171500Z AUTO 08005KT 03/03 RMK AO1 SLP179 T00290026 52016 KBAN 171452Z AUTO 24004KT CLR 13/00 A3013 RMK AO2 SLP107 T01330000 53002 $ CWFD 171500Z AUTO 14011G20KT 1/8SM CLR M00/ A2960 RMK ICG PAST HR SLP076 DNEN 171000Z 18005KT 9999 SCT010 FEW020CB 29/23 Q1014 NOSIG KAJO 171456Z AUTO 00000KT 10SM CLR 27/19 A2977 RMK AO2 51012 T02660194 SLP072 $ KBBF 171515Z AUTO 22012KT 6SM HZ CLR 30/24 A2995 RMK A01 ULLI 171500Z 31002MPS CAVOK 17/07 Q1027 NOSIG CWFF 171500Z AUTO 11007KT 05/05 RMK AO1 SLP191 T00450050 51005 KBBG 171517Z 06008KT 8SM OVC002 OVC010 19/18 A3004 RMK ONCL LTGCG N MOV SE KD25 171515Z AUTO 26003KT 10SM CLR 14/08 A2995 RMK AO2 T01440082 CWEP 171500Z AUTO 21009KT 16/11 RMK AO1 SLP128 T01580112 50002 KAIZ 171515Z AUTO 17005KT 8SM FEW037 SCT070 BKN095 18/16 A2996 RMK AO1 P0002 KAKH 171506Z AUTO 07008KT 8SM OVC006 19/17 A3001 RMK AO2 T01890167 CWDZ 171500Z AUTO 11001KT 09/06 RMK AO1 SLP110 T00850060 50000 CWEQ 171500Z AUTO 09007KT 05/03 RMK AO1 SLP213 T00490030 52013 CWER 171500Z AUTO 04010G17KT RMK AO1 PK WND 04017/1459 CWFJ 171500Z AUTO 15002KT 10/08 RMK AO1 T01030080 KALB 171451Z 00000KT 10SM FEW028 FEW050 16/08 A3005 RMK AO2 SLP176 T01610083 58005 KBCB 171515Z AUTO 07006KT 10SM SCT049 OVC055 17/13 A3010 RMK AO2 TSNO CWGB 171500Z AUTO 12007KT 16/13 RMK AO1 SLP079 T01600131 55003 CWEU 171500Z 00000KT 15SM FEW020 BKN035 M04/M06 A2999 RMK SC1SC6 SLP159 CWGD 171500Z AUTO 24009KT 16/08 RMK AO1 SLP158 T01560080 58004 KBCE 171453Z AUTO 25003KT 10SM CLR 12/08 A3028 RMK AO2 SLP155 T01220083 53007 CWEW 171500Z AUTO 24004KT 13/08 RMK AO1 SLP160 T01290075 51005 KAKO 171453Z AUTO 25016KT 10SM CLR 20/07 A3003 RMK AO2 SLP121 T02000072 55000 KBAX 171516Z AUTO 26008KT 10SM CLR 16/11 A3001 RMK AO2 T01560110 KBBP 171515Z AUTO 05003KT 10SM OVC013 22/22 A2997 RMK AO2 EDOP 171520Z 07011KT CAVOK 22/15 Q1016 EDNY 171520Z 21005KT CAVOK 22/15 Q1011 RMK ATIS Y KBAZ 171451Z 19006KT 10SM BKN010 OVC016 27/23 A2997 RMK AO2 SLP139 T02720233 53007 KAKQ 171454Z AUTO 04005KT 10SM FEW080 BKN100 23/17 A3002 RMK AO2 SLP166 T02280167 51003 TSNO KAJZ 171515Z AUTO 07003KT 5SM HZ CLR 19/05 A3017 RMK AO2 T01850054 CWFQ 171500Z AUTO 23004KT 14/09 RMK AO1 T01440091 CWEZ 171500Z AUTO 23005KT 14/12 RMK AO1 SLP083 T01380121 56007 KALI 171456Z AUTO 20008KT 10SM SCT009 SCT014 28/24 A2995 RMK AO2 T02780239 KAKR 171454Z AUTO VRB04KT 10SM CLR 17/09 A3006 RMK AO2 SLP177 T01720094 58007 KAMA 171453Z 22010KT 10SM CLR 21/17 A3009 RMK AO2 SLP143 T02110172 53003 ULMM 171500Z VRB02MPS CAVOK 14/06 Q1019 NOSIG RMK QFE757 31090070 KD39 171513Z AUTO 00000KT 10SM CLR 15/11 A2995 RMK AO2 T01520111 KALK 171456Z AUTO 10010KT 7SM -RA FEW007 OVC100 18/17 A3005 RMK AO2 SLP094 P0003 60003 T01830172 51004 TSNO KBCK 171515Z AUTO 22003KT 10SM SCT075 OVC095 13/09 A2999 RMK AO2 T01310088 CWGL 171500Z AUTO 23010KT 14/09 RMK AO1 SLP149 T01400088 58003 KALM 171515Z AUTO 00000KT 10SM SCT048 BKN070 BKN075 19/16 A3013 RMK AO2 CWGM 171500Z AUTO 20006KT 13/06 RMK AO1 T01290055 KBBW 171453Z AUTO 00000KT 10SM CLR 18/16 A2993 RMK AO2 SLP125 T01830156 58003 KBDE 171453Z AUTO 04008KT 10SM SCT010 10/07 A2999 RMK AO2 SLP161 T01000067 51021 TSNO KALN 171450Z 18010KT 8SM BKN070 OVC110 15/12 A3007 KALO 171454Z 16004KT 10SM BKN090 16/10 A2998 RMK AO2 SLP154 T01560100 56004 DNGO 171000Z 27005KT 9999 FEW010 26/21 Q1015 KAMG 171453Z AUTO 00000KT 10SM CLR 28/22 A2995 RMK AO2 SLP138 T02780222 50004 KBDG 171515Z AUTO 26005KT 10SM CLR 19/12 A3026 RMK AO1 T01900120 KBDH 171515Z AUTO 00000KT 10SM CLR 17/11 A2995 RMK AO2 OOSA 171450Z 17006KT 150V210 9000 SCT010 BKN025 27/24 Q1004 NOSIG NZAA 171500Z AUTO 35003KT 9999 NCD 09/08 Q1016 NOSIG CWHI 171400Z AUTO 02001KT 05/04 RMK AO1 T00500044 CWGR 171500Z AUTO 25013KT 17/11 RMK AO1 PK WND 24019/1400 SLP112 T01650112 51003 ZSAM 171500Z 02001MPS 9999 FEW020 28/27 Q1014 NOSIG KALS 171452Z AUTO 35005KT 10SM CLR 12/07 A3030 RMK AO2 SLP190 T01220072 53005 KBEA 171520Z AUTO 19010KT 10SM SCT015 SCT023 OVC070 28/24 A2996 RMK AO2 T02810236 KBCT 171455Z VRB00KT 10SM CLR M/M A2997 KANB 171453Z AUTO 07004KT 10SM CLR 25/19 A2998 RMK AO2 SLP145 T02500189 58005 KD50 171515Z AUTO 09011KT 10SM CLR 13/07 A2999 RMK AO2 DNIB 171000Z 23005KT 7000 BKN011 25/23 Q1015 CWGT 171500Z AUTO 12011KT 16/14 RMK AO1 SLP080 T01620138 56004 KBDL 171451Z 00000KT 10SM FEW035 FEW250 A3003 RMK AO2 SLPNO 58002 $ CWHL 171500Z AUTO 15007KT 10/10 RMK AO1 5004 SLP088 T00980096 50004 KBED 171456Z VRB04KT 10SM CLR 17/11 A3001 RMK AO2 SLP173 T01720111 58002 KAND 171519Z AUTO 06006KT 10SM OVC017 23/19 A2998 RMK AO2 T02280194 CWID 171500Z AUTO 13001KT 06/05 RMK AO1 SLP031 T00620054 56021 CWHM 171300Z AUTO 25007KT 11/08 RMK AO1 T01090084 EDQM 171520Z 12008KT 9999 FEW039 20/11 Q1015 KBDN 171515Z AUTO 00000KT 10SM CLR 15/04 A2987 RMK AO2 KALW 171453Z 09006KT 9SM CLR 21/04 A2978 RMK AO2 SLP076 T02110044 55002 KANE 171455Z 18005KT 10SM SKC 18/11 A2995 KAMN 171511Z AUTO 23005KT 10SM CLR 15/10 A3003 RMK AO2 T01530102 CWGW 171500Z AUTO 03003KT 04/03 RMK AO1 SLP164 T00420026 58002 CWHN 171300Z AUTO 10006KT 1/4SM OVC000 05/05 A2991 RMK SLP150 KALX 171515Z AUTO 00000KT 10SM OVC008 23/21 A3000 RMK AO2 T02310208 CWHO 171500Z AUTO 20017G23KT 11/06 RMK AO1 PK WND 20023/1456 SLP968 T01090059 56017 CWGX 171500Z AUTO 34009KT 01/M05 RMK AO1 SLP224 T00141050 51006 KD55 171515Z AUTO 04008KT 7SM OVC002 08/07 A3002 RMK AO2 PFSH 171458Z AUTO 02006KT 10SM BKN065 08/07 A2941 RMK AO2 SLP974 T00780067 56013 CWHP 171300Z AUTO 23018KT RMK AO1 PK WND 23022/1259 57003 CWIG 171500Z AUTO 06008KT RMK AO1 CWGY 171400Z AUTO 11008KT 09/05 RMK AO1 SLP131 T00900050 52003 KBEH 171453Z AUTO 18005KT 10SM CLR 14/09 A3004 RMK AO2 SLP173 T01440089 58009 CWGZ 171500Z 14005KT 15SM BKN020 03/M04 A2996 RMK SC6 WIND SPEED EST CALL-OUT SLP150 CWHQ 171500Z AUTO 32004KT 11/07 RMK AO1 T01120073 KBDR 171452Z 03007KT 10SM CLR 20/08 A3005 RMK AO2 SLP175 T02000078 58000 KD57 171515Z AUTO RMK AO2 PNO PWINO TSNO CWII 171500Z AUTO 10008KT 07/05 RMK AO1 T00700052 KANJ 171455Z AUTO 00000KT 10SM OVC070 09/08 A2993 RMK AO2 RAE38 SLP137 P0001 60001 T00940078 58002 CWIJ 171500Z AUTO 16014KT 01/M03 RMK AO1 PK WND 16017/1459 SLP086 T00051029 56031 KANK 171515Z AUTO 36003KT 10SM CLR 15/03 A3039 RMK AO1 T01530026 KD60 171515Z AUTO 07005G14KT 10SM CLR 14/08 A3000 RMK AO2 OPKC 171455Z 25013KT 6000 SCT020 28/21 Q1005 NOSIG CWHT 171500Z AUTO 04002KT M04/M05 RMK AO1 SLP066 T10411048 56010 CWJB 171500Z AUTO 27002KT 11/08 RMK AO1 T01130078 CWIK 171500Z AUTO 10011KT 07/07 RMK AO1 SLP179 T00730069 51008 EDSB 171520Z 01006KT CAVOK 24/15 Q1010 KBDU 171516Z AUTO 00000KT 10SM CLR 20/07 A3010 RMK AO2 CWJC 171400Z AUTO 29007KT M02/M06 RMK AO1 SLP220 T10241064 58006 ULOO 171030Z VRB02MPS P6000 NSC 18/06 Q1029 NOSIG RMK QFE767 CWIL 171500Z AUTO 30008KT M02/ A2996 RMK SLP156 KBFD 171453Z AUTO 17006KT 10SM CLR 13/07 A3007 RMK AO2 SLP185 T01280067 58005 CWHV 171500Z AUTO 25003KT 14/08 RMK AO1 SLP143 T01370075 51004 CWJD 171500Z AUTO 18002KT 06/01 RMK AO1 SLP225 T00610006 51011 UMGG 171500Z 08005MPS CAVOK 18/05 Q1026 R10/CLRD// NOSIG KAMW 171453Z AUTO VRB04KT 10SM OVC060 15/12 A2997 RMK AO2 SLP148 T01500122 53001 NZAP 171400Z 25009KT 25KM BKN035 08/06 Q1015 RMK ALT VATSIM USE ONLY KBFF 171453Z AUTO 30009KT 10SM CLR 18/09 A3001 RMK AO2 SLP130 T01780094 51010 CXAF 171500Z AUTO 12007KT 07/06 RMK AO1 T00700064 TUPJ 171445Z 10008KT 9999 SCT022 33/25 Q1016 RMK A3000 CXAG 171400Z AUTO 09006KT 06/06 RMK AO1 T00600057 CWIP 172300Z AUTO 26011G16KT 15/ RMK AO1 T0147 KAOH 171453Z AUTO 00000KT 10SM SCT045 15/10 A3006 RMK AO2 SLP181 T01500100 58004 KANQ 171515Z AUTO 00000KT 6SM CLR 17/08 A3004 RMK CWJH 171500Z AUTO 15002KT M00/M01 RMK AO1 SLP230 T10031007 57003 KBFI 171453Z 00000KT 10SM SCT140 BKN250 17/12 A2978 RMK AO2 SLP084 T01720122 56005 OPLA 171455Z 16003KT 5000 FU FEW100 31/25 Q1003 NOSIG CWJI 171500Z AUTO 10005KT 14/08 RMK AO1 SLP138 T01350077 53003 KAPA 171453Z 23008KT 10SM FEW150 BKN200 22/04 A3014 RMK AO2 SLP135 T02170044 51005 PHBK 171456Z AUTO 07004KT 10SM BKN075 24/21 A2992 RMK AO2 SLP133 T02440206 55003 TSNO CXBA 171400Z AUTO 13004KT 09/07 RMK AO1 T00880070 CXAJ 171400Z AUTO 14006KT 08/07 RMK AO1 T00750068 CWIS 171500Z AUTO 14003KT 07/04 RMK AO1 SLP144 T00730043 51010 EEKA 171450Z 06005KT 030V090 9999 FEW033 SCT055 17/13 Q1027 CXAK 171400Z AUTO 18008KT 09/06 RMK AO1 T00900055 KAPC 171454Z AUTO 26005KT 10SM FEW014 14/14 A2982 RMK AO2 SLP090 T01440139 53008 KBFL 171454Z 15005KT 10SM CLR 24/12 A2980 RMK AO2 SLP083 T02440117 51008 KBGD 171451Z AUTO 23010G17KT 10SM CLR 23/16 A3004 RMK AO2 SLP135 T02280161 50005 KBFM 171453Z 04005KT 10SM CLR 27/23 A2998 RMK AO2 SLP151 T02720228 50001 CWKD 171400Z AUTO 28010KT 02/M03 RMK AO1 17 0013 SLP145 T00181029 KANW 171455Z AUTO 08003KT 10SM CLR 19/15 A2994 RMK AO2 T01900153 KBGE 171515Z AUTO 05007KT 10SM CLR 30/24 A2996 RMK AO2 CWIW 171500Z AUTO 10010KT 07/06 RMK AO1 SLP169 T00660063 53006 KAPF 171453Z 19005KT 10SM CLR 29/23 A2998 RMK AO2 SLP152 T02890233 51006 EEKE 171450Z 15008KT CAVOK 17/13 Q1027 KAOO 171453Z AUTO 00000KT 10SM FEW050 16/10 A3008 RMK AO2 SLP188 T01560100 58002 $ KBGF 171515Z AUTO 31006KT 10SM BKN017 18/15 A3003 RMK KAPG 171454Z 04006KT 7SM SKC 21/13 A3006 CWIX 171400Z AUTO 30014KT 07/M00 RMK AO1 T00671004 CWJO 171500Z AUTO 32007KT 06/M00 RMK AO1 1010 SLP171 T00631002 50010 NZCH 171507Z VRB03KT 30KM MIFG FEW030 01/01 Q1012 RMK VATSIM USE ONLY NZCI 171400Z 17002KT 30KM BKN070 08/07 Q1014 RMK ALT NZNR VATSIM USE ONLY CWIY 171500Z AUTO 32003KT 11/06 RMK AO1 SLP140 T01080060 50009 CWKG 171500Z AUTO 20005KT 17/10 RMK AO1 SLP152 T01710101 50002 CWKH 171500Z AUTO 15/10 RMK AO1 SLP078 T01500102 55003 CWIZ 171500Z AUTO 25007KT 15/08 RMK AO1 T01520083 EDRZ 171520Z VRB03KT CAVOK 24/16 Q1011 CWJR 171500Z AUTO 07002KT 12/08 RMK AO1 SLP126 T01220075 53003 CXBI 171500Z AUTO 27009KT 15/08 RMK AO1 SLP159 T01460081 58004 CXCA 171500Z AUTO 02005KT 04/02 RMK AO1 SLP183 T00410023 53010 KBHB 171515Z AUTO 25006KT 8SM CLR 18/07 A2997 RMK AO1 NZCM 171455Z 17004KT 9000 -SN OVC025 M22/M29 A2955 RMK SNB25 SLP011 CWKK 171400Z AUTO 12009KT 04/03 RMK AO1 SLP181 T00420033 51010 CXAT 171400Z AUTO 07009KT M04/M09 RMK AO1 SLP140 T10431094 50005 CXBK 171500Z AUTO 09013KT 08/08 RMK AO1 PK WND 09017/1425 SLP149 T00790076 51014 CWJT 171500Z AUTO 21001KT 12/08 RMK AO1 SLP152 T01180084 54000 CWLB 171500Z AUTO 14008KT 08/06 RMK AO1 SLP118 T00770064 58007 KBHC 171515Z AUTO 00000KT 10SM CLR 28/23 A2994 RMK AO2 EDTL 171520Z 34004KT 320V020 9999 FEW030 24/17 Q1010 CWJU 171500Z AUTO 35002KT 12/11 RMK AO1 SLP081 T01170110 56008 CWLC 171500Z AUTO 14007KT 10/ RMK AO1 T0103 KBGM 171453Z 28005KT 10SM CLR 14/09 A3007 RMK AO2 SLP183 T01390094 50002 CXCD 171400Z AUTO 34002KT 06/05 RMK AO1 T00590053 CWJV 171500Z AUTO 09002KT 12/06 RMK AO1 T01210055 CWKM 171500Z AUTO 29013KT 02/ A2953 RMK SLP007 KAPN 171454Z AUTO 24007KT 10SM CLR 15/09 A2996 RMK AO2 SLP148 T01500089 58006 KBFW 171514Z AUTO 06008KT 10SM CLR 12/11 A2992 RMK AO2 CWLE 171500Z AUTO 08009KT 08/07 RMK AO1 SLP148 T00780074 51006 CWJW 171500Z AUTO 20003KT 05/04 RMK AO1 SLP132 T00500040 58004 VCRI 171510Z 24015KT 9999 SCT016 26/22 Q1009 NOSIG CWJX 171500Z AUTO 10007KT 12/06 RMK AO1 SLP123 T01170064 53002 CWKO 171500Z AUTO 17006KT 15/08 RMK AO1 3PAST HR 3003 SLP141 P0001 T01450077 50003 CXBO 171500Z AUTO 26003KT RMK AO1 UMII 171500Z 06003MPS CAVOK 17/05 Q1028 R05/CLRD// NOSIG UNAA 171500Z 14004MPS 8000 BKN200 13/07 Q1013 NOSIG RMK QFE737 20090065 CWKP 171500Z AUTO 14014G19KT 02/ A2951 RMK SLP018 CXCH 171500Z AUTO 16/11 RMK AO1 T01600107 KBGR 171453Z 25006KT 10SM FEW035 18/08 A2998 RMK AO2 SLP151 T01780078 58002 CXBR 171500Z AUTO 30006KT 14/06 RMK AO1 T01380063 CWLI 171500Z AUTO 05010KT 03/ A2942 RMK SLP972 KARA 171453Z 11004KT 10SM CLR 27/23 A3000 RMK AO2 SLP157 T02720228 53007 KARB 171453Z 29003KT 10SM CLR 14/06 A3005 RMK AO2 SLP174 T01440056 58006 KBHK 171451Z AUTO 12007KT 10SM BKN120 15/09 A2996 RMK AO2 SLP137 T01500094 50002 CXCK 172300Z AUTO 27004KT 17/05 RMK AO1 SLP078 T01710054 57011 CXDB 171400Z AUTO 25006KT 11/06 RMK AO1 T01130061 NZDN 171400Z 06007KT 10KM VCDZ SCT000 03/03 Q1011 RMK ALT VATSIM USE ONLY KBHM 171453Z 09003KT 10SM FEW010 25/17 A3002 RMK AO2 SLP156 T02500172 58002 KBID 171515Z AUTO 31004KT 10SM CLR 18/09 A3003 RMK AO1 CWLM 171500Z AUTO 06003KT 13/12 RMK AO1 SLP087 T01320122 56005 KBIE 171515Z AUTO 05003KT 5SM BR OVC006 18/17 A2994 RMK AO2 T01830171 CXBW 171400Z AUTO 24005KT 06/05 RMK AO1 T00600053 CXDE 171300Z AUTO M00/M00 RMK AO1 SLP044 T10041001 58009 CWME 171500Z AUTO 23005KT 13/11 RMK AO1 SLP090 T01260106 53002 CWKW 171500Z AUTO ///// 02/ A2935 RMK SLP963 EDVE 171520Z 12010KT CAVOK 23/13 Q1014 KAQO 171515Z AUTO 00000KT 10SM FEW026 SCT033 28/22 A3003 RMK AO2 KBIF 171508Z AUTO 07006KT 8SM SCT012 BKN080 OVC150 21/18 A3009 RMK AO2 CIG 013 RWY03 $ CWKX 171500Z AUTO 00000KT 05/04 RMK AO1 SLP087 T00510043 55003 KAQP 171515Z AUTO 01004KT 10SM CLR 18/12 A2993 RMK AO2 KARG 171515Z AUTO 00000KT 10SM BKN025 17/13 A3006 RMK AO1 KD95 171514Z AUTO 27004KT 10SM CLR 15/05 A3004 RMK AO2 T01460048 OPNH 171500Z 13512KTS 7000M NSC 32/22 1002 KAPY 171515Z AUTO 13005KT 10SM CLR 27/22 A2995 RMK AO2 T02780228 CXCP 171500Z AUTO 11001KT 12/07 RMK AO1 T01190070 CWLP 171500Z AUTO 13007KT 10/10 RMK AO1 SLP084 T01030099 57006 EDTY 171520Z 09009KT CAVOK 21/14 Q1013 KBIH 171456Z AUTO 34003KT 10SM CLR 18/06 A2999 RMK AO2 SLP106 T01780061 53010 UNBB 171500Z 14004MPS CAVOK 13/07 Q1009 NOSIG RMK QFE735/0980 24CLRD66 KAQR 171515Z AUTO 16005KT 10SM CLR 26/21 A2999 RMK AO2 CXDI 171500Z AUTO 23005KT 16/07 RMK AO1 SLP160 T01560070 58009 OPMT 171455Z 00000KT 5000 FU NSC 33/25 Q1001 NOSIG KBIJ 171515Z AUTO 02003KT 10SM CLR 30/23 RMK AO2 CXCS 171400Z AUTO 10005KT 09/06 RMK AO1 T00890056 CXEA 171500Z AUTO 04006KT 03/02 RMK AO1 SLP202 T00300015 51016 CWLS 171500Z AUTO 24008KT 14/08 RMK AO1 SLP162 T01430080 58005 CWMJ 171500Z AUTO 19002KT 11/07 RMK AO1 SLP149 T01110066 58002 CWNB 171400Z AUTO RMK AO1 CXDK 171500Z AUTO 00000KT 05/04 RMK AO1 SLP037 T00460042 57010 KBJC 171447Z VRB04KT 70SM FEW090 BKN200 20/05 A3013 KBIL 171453Z 21011KT 10SM SCT080 SCT150 19/08 A2995 RMK AO2 SLP111 VIRGA NE-E DSNT S CB E MOV E T01890078 53001 EDVK 171520Z 09008KT 9999 FEW044 23/15 Q1013 RMK ATIS X KE11 171515Z AUTO 19004KT 10SM SCT065 SCT075 22/19 A3009 RMK AO2 T02200192 CWNC 171500Z AUTO 26005KT 16/11 RMK AO1 SLP155 T01640109 58004 CXEC 171500Z AUTO 10/ RMK AO1 T0096 KASD 171453Z AUTO 36005KT 10SM CLR 27/22 A2998 RMK AO2 SLP152 T02720222 51008 KCAD 171515Z AUTO 23008KT 10SM CLR 15/08 A3000 RMK AO2 T01560091 KAQV 171456Z AUTO 00000KT 10SM OVC002 23/23 A2998 RMK AO2 SLP151 T02330228 51006 KARM 171515Z AUTO 00000KT 10SM SCT015 SCT021 BKN031 28/25 A2997 RMK AO2 T02800251 DNMM 171000Z VRB02KT 8000 TS BKN009 FEW019CB 25/25 Q1015 NOSIG CWND 172022Z M01/M02 RMK 7007 T10081015 CWMM 171500Z AUTO 00000KT 15/14 RMK AO1 SLP090 T01490137 55005 KASE 171453Z 00000KT 10SM CLR 12/03 A3031 RMK AO2 SLP125 T01220033 $ KAQW 171452Z AUTO 00000KT 10SM FEW042 14/08 A3004 RMK AO2 SLP176 T01440083 58007 KCAE 171456Z 12004KT 10SM FEW030 26/19 A2995 RMK AO2 SLP138 T02560189 50003 DNMN 171000Z 19008KT 9999 BKN011 26/23 Q1013 CWNE 171500Z AUTO 25015KT 14/10 RMK AO1 PK WND 25019/1428 SLP120 T01440102 52010 KASG 171448Z 23007G15KT 9SM FEW030 23/21 A3002 CWLX 171500Z AUTO 10013KT 01/ A2970 RMK SLP072 KCAG 171453Z AUTO 00000KT 10SM CLR 12/04 A3021 RMK AO2 SLP186 T01170044 CXDP 171500Z AUTO 12007KT 08/07 RMK AO1 T00760073 CXEG 171500Z AUTO 10/09 RMK AO1 T01000088 CWLY 171500Z AUTO 00000KT 9SM BKN170 16/10 A2979 RMK SLP085 DENSITY ALT 1100FT KASH 171451Z 00000KT 10SM CLR 17/08 A3002 RMK AO2 58002 T01720083 SLP415 KE16 171515Z AUTO 00000KT 10SM CLR 15/12 A2985 RMK AO2 UMKK 171500Z 12004MPS CAVOK 20/05 Q1023 NOSIG RMK QFE766/1022 CWNH 171500Z AUTO 34003KT 09/01 RMK AO1 SLP151 T00880010 50010 CWMQ 171500Z AUTO 07002KT 13/10 RMK AO1 SLP119 T01330100 58001 ZSHC 171500Z 09003MPS 9999 FEW030 25/21 Q1015 NOSIG KARR 171452Z 00000KT 9SM CLR 16/08 A3004 RMK AO2 SLP174 T01560083 56006 KBJI 171509Z AUTO 00000KT 10SM CLR 15/09 A2995 RMK AO2 T01470087 KBIS 171452Z 00000KT 10SM R31/3500VP6000FT CLR 12/08 A2998 RMK AO2 SLP157 6//// T01170078 52009 PNO $ KBJJ 171456Z AUTO 23004KT 10SM CLR 17/08 A3007 RMK AO2 SLP183 T01670078 58009 TSNO VECC 171520Z 12003KT 3500 HZ SCT020 31/26 Q1002 NOSIG KASJ 171515Z AUTO 08005KT 10SM CLR 22/17 A3001 RMK AO2 T02180171 KCAK 171451Z 00000KT 10SM FEW040 SCT220 17/08 A3006 RMK AO2 SLP179 T01670083 58006 KBKB 171516Z AUTO 00000KT 10SM SCT008 25/23 A2998 RMK AO2 T02500228 KART 171456Z AUTO 24007KT 10SM CLR 18/09 A3001 RMK AO2 SLP162 T01830089 58005 CWMT 171500Z AUTO 09003KT 05/03 RMK AO1 SLP035 T00460033 56013 CWNK 171500Z AUTO 03011KT 07/05 RMK AO1 T00670046 CWOB 171519Z AUTO 04015KT 02/ A2941 KASL 171515Z AUTO 00000KT 10SM CLR 27/23 A3001 RMK AO1 T02650231 CWNL 171400Z AUTO 24009KT 12/10 RMK AO1 SLP143 T01190095 55002 CWOC 171300Z AUTO 28011G20KT 12/09 RMK AO1 PK WND 29020/1253 SLP104 T01210094 51011 KBIV 171453Z AUTO 18007KT 10SM OVC055 16/09 A3004 RMK AO2 SLPNO T01610094 58008 KARV 171515Z AUTO 26004KT 10SM CLR 15/09 A2996 RMK AO2 T01490086 KBKD 171515Z AUTO 00000KT 5SM HZ CLR 28/20 A2999 RMK AO2 T02750202 CWOD 171500Z AUTO 35004KT 06/M01 RMK AO1 SLP147 T00621009 51003 CWNM 171500Z AUTO 09001KT 11/08 RMK AO1 SLP118 T01100080 55003 ZSFZ 171500Z 02002MPS 8000 FEW011 27/25 Q1015 NOSIG KARW 171515Z AUTO 00000KT 7SM BKN015 BKN020 26/23 A2993 RMK AO2 KBKE 171453Z AUTO 00000KT 10SM CLR 12/06 A2989 RMK AO2 SLP101 T01170061 56001 TSNO $ KCBE 171514Z AUTO 00000KT 10SM CLR 20/10 A3011 RMK AO1 KASN 171515Z AUTO 00000KT 10SM CLR 28/20 A2999 RMK AO2 T02760203 CXDW 171500Z AUTO 03011KT 07/05 RMK AO1 T00730050 CWOE 171500Z AUTO 08007KT 15/07 RMK AO1 SLP115 T01520070 51004 KCAO 171455Z AUTO 23009KT 10SM CLR 19/14 A3011 RMK AO2 SLP140 T01890139 51008 KCBF 171515Z AUTO 14004KT 10SM CLR 19/16 A2993 RMK AO2 KBIX 171458Z 04005KT 10SM CLR 25/23 A2998 RMK A02 SLP153 T02520225 51006 KBKF 171458Z 22007KT 10SM SCT110 BKN220 20/06 A3013 RMK AO2A SLP135 T02020055 52007 KCBG 171515Z AUTO 00000KT 10SM CLR 18/11 A2993 RMK AO2 CWNP 171500Z AUTO 35001KT 12/09 RMK AO1 SLP118 T01150092 50000 CWNQ 171500Z AUTO 25003KT 11/09 RMK AO1 SLP148 T01140090 50003 CWMZ 171400Z AUTO 26014KT 14/10 RMK AO1 PK WND 28017/1308 SLP146 T01400098 54000 KCAR 171511Z AUTO 34007KT 10SM FEW017 SCT022 BKN030 12/07 A2993 RMK AO2 T01220072 KCCA 171515Z AUTO 00000KT 8SM OVC012 19/17 A3004 RMK AO2 KAST 171455Z AUTO 15003KT 10SM -RA FEW075 BKN110 14/13 A2974 RMK AO2 RAB47 SLP071 P0000 60000 T01440133 58008 KCBK 171515Z AUTO 36004KT 10SM CLR 22/16 A2999 RMK AO2 CXET 171500Z AUTO 23007KT 16/09 RMK AO1 SLP154 T01580087 58007 KBKL 171453Z 20009KT 10SM CLR 17/08 A3004 RMK AO2 SLP171 T01720083 58009 KATL 171452Z 01006KT 10SM CLR 25/17 A2999 RMK AO2 SLP145 T02500167 58000 EFET 171520Z AUTO 21006KT CAVOK 09/06 Q1020 CWPC 171500Z AUTO 26008KT RMK AO1 58004 KCAV 171515Z AUTO 17007KT 10SM 18/11 A2997 RMK AO2 KCBM 171458Z AUTO VRB03KT 10SM SCT012 23/19 A3001 RMK AO2 SLP163 T02280187 50004 $ CXFM 171400Z AUTO 18004KT 07/06 RMK AO1 T00720057 CWPD 171500Z AUTO 03003KT 06/01 RMK AO1 SLP127 T00570005 50008 UMMG 171500Z 12004MPS 9999 SCT040 BKN200 18/09 Q1024 NOSIG KBKN 171515Z AUTO 21010KT 10SM CLR 27/20 A2992 RMK AO2 KASW 171515Z AUTO 00000KT 10SM BKN043 15/10 A3005 RMK AO2 CWPE 171500Z AUTO 21005KT 17/12 RMK AO1 SLP145 T01660115 50002 KBLF 171523Z AUTO 15007KT 10SM BKN022 BKN028 BKN034 17/11 A3007 RMK AO2 T01720111 KASX 171453Z AUTO 03004KT 10SM CLR 14/08 A2996 RMK AO2 SLP147 T01390078 51007 CWPF 171515Z AUTO 17002KT 14/12 RMK AO1 T01390119 KAUG 171453Z AUTO 30005KT 10SM CLR 17/08 A2999 RMK AO2 SLP157 T01720078 58001 KATP 171515Z AUTO 00000KT 8SM FEW025 FEW030 29/23 A3001 RMK A01 KBLH 171452Z AUTO 00000KT 10SM FEW110 27/22 A2978 RMK AO2 SLP078 T02720222 51009 KAUH 171455Z AUTO 00000KT 10SM CLR 17/13 A2994 RMK AO2 T01680126 PHHI 171458Z AUTO 31003KT 10SM CLR 23/20 A2994 RMK AO2 SLP126 60000 T02260202 56010 $ NZGS 171400Z 31002KT 10KM SHRA BKN065 07/06 Q1015 RMK ALT VATSIM USE ONLY OPPS 171500Z 05010KT 4000 HZ SKC 31/21 Q1002.8 CWNZ 171500Z AUTO 02/M01 RMK AO1 SLP188 T00201014 58002 CXGH 171500Z AUTO 03009KT 07/05 RMK AO1 T00700046 KBLI 171453Z 00000KT 10SM OVC100 14/13 A2978 RMK AO2 RAE1358 SLP090 P0000 60000 T01440128 56008 NZHK 171400Z 10004KT 45KM BKN014 09/08 Q1013 RMK ALT VATSIM USE ONLY CXFR 171500Z AUTO 09004KT 10/09 RMK AO1 T00980090 ULWC 171500Z 02001MPS CAVOK 10/03 Q1028 NOSIG RMK QFE761/1015 SC060 KBKS 171515Z AUTO 16010KT 10SM SCT015 22/18 A2995 RMK AO1 T02220176 KE38 171515Z AUTO 00000KT 10SM CLR 22/16 A3020 RMK AO2 T02160160 PFYU 171516Z 18003KT 10SM CLR 01/00 A2950 RMK AO1 CXHA 171500Z AUTO 28007KT 15/07 RMK AO1 SLP170 T01490072 UMMM 171500Z 10003MPS CAVOK 18/05 Q1026 R12/CLRD60 NOSIG RMK QFE749 EFHA 171520Z AUTO VRB02KT CAVOK 15/08 Q1026 KATT 171500Z AUTO 00000KT 10SM BKN011 BKN028 27/24 A2999 RMK AO2 T02670239 KBKT 171515Z AUTO 04010KT 10SM CLR 22/13 A3004 RMK AO1 T02220132 UNEE 171500Z 13002MPS CAVOK 08/06 Q1011 NOSIG RMK QFE735 23CLRD60 CWPK 171500Z AUTO 29002KT 05/01 RMK AO1 SLP160 T00520011 50001 KCDC 171453Z AUTO 19003KT 10SM CLR 19/09 A3012 RMK AO2 SLP125 T01890094 53007 KAVC 171515Z AUTO 03006KT 10SM SCT026 SCT050 23/16 A3007 RMK AO2 KBMC 171515Z AUTO 34005KT 10SM CLR 17/09 A3000 RMK AO1 T01740088 NZHN 171400Z 18003KT 20KM SCT009 09/07 Q1016 RMK ALT NZTG VATSIM USE ONLY KBKV 171509Z 00000KT 10SM FEW007 24/22 A2998 RMK AO2 T02390222 KBLM 171515Z AUTO 00000KT 10SM FEW040 19/09 A3005 RMK AO1 KAUM 171515Z AUTO 18004KT 10SM CLR 15/11 A2997 RMK AO2 KCDD 171510Z AUTO 36007KT 10SM SCT017 SCT027 10/08 A2998 RMK AO2 CXHD 171400Z AUTO 25002KT 06/05 RMK AO1 T00580052 KBKW 171512Z AUTO 16007KT 10SM SCT018 SCT044 17/12 A3006 RMK AO2 T01720117 TSNO KAUN 171515Z AUTO 12006KT 4SM FEW008 BKN120 20/06 A2984 RMK AO1 KATW 171445Z 25008KT 10SM FEW090 13/08 A3000 EDXW 171520Z 08018KT CAVOK 20/11 Q1017 RMK ATIS PAP KAUO 171515Z 09003KT 10SM CLR 26/19 A3001 RMK AO1 KCCO 171515Z AUTO 03006KT 10SM CLR 25/20 A2999 RMK AO2 T02520195 DNPO 171500Z 28003KT 9999 BKN013 FEW023CB 32/24 Q1010 NOSIG CWPO 171500Z AUTO 05010KT 07/05 RMK AO1 SLP187 T00660050 51015 CXHF 171500Z AUTO 12/09 RMK AO1 T01150090 KBMG 171453Z 14005KT 10SM CLR 15/09 A3007 RMK AO2 SLP180 T01500094 56004 EFHF 171520Z 18004KT 150V210 CAVOK 16/08 Q1027 KATY 171453Z AUTO 00000KT 10SM CLR 16/12 A2994 RMK AO2 SLP138 T01560117 51008 CWOY 171500Z AUTO 12014G20KT 06/05 RMK AO1 PK WND 12019/1451 SLP177 T00630049 51007 UMMS 171500Z 08003MPS 050V110 CAVOK 18/05 Q1026 R13/CLRD// NOSIG KCDH 171515Z AUTO 00000KT 5SM -RA OVC004 23/19 A3001 RMK AO2 NZHS 171400Z 17002KT 30KM BKN070 08/07 Q1014 RMK ALT NZNR VATSIM USE ONLY CWQH 171500Z AUTO 21006KT 15/09 RMK AO1 T01480089 KCCR 171453Z 23005KT 10SM CLR 17/13 A2981 RMK AO2 SLP080 T01670133 53007 $ KBMI 171456Z 20004KT 10SM CLR 16/11 A3005 RMK AO2 55005 T01550105 SLP176 NZHT 171400Z 12005KT 10KM VCDZ SCT002 07/06 Q1012 RMK ALT VATSIM USE ONLY CWPR 171500Z AUTO 00000KT 11/04 RMK AO1 SLP091 T01060037 56005 KAUS 171453Z 00000KT 10SM SCT009 BKN014 OVC026 26/24 A2998 RMK AO2 SLP142 T02610239 51007 KBNA 171453Z 05003KT 4SM BR OVC005 16/14 A3006 RMK AO2 SLP176 T01560139 53003 KCDJ 171452Z AUTO 08004KT 17/15 A2997 RMK AO1 SLP146 T01720150 50001 CWPS 171400Z AUTO 16/08 RMK AO1 SLP167 T01610078 50000 CWRA 171500Z AUTO 06004KT 15/ RMK AO1 SLP131 T0154 55001 KAVK 171515Z AUTO 24010KT 10SM CLR 26/18 A2993 RMK AO2 CXIB 171500Z AUTO 22003KT 17/10 RMK AO1 SLP123 T01740100 58002 CWQK 171500Z AUTO 26005KT 14/13 RMK AO1 SLP086 T01400128 56004 KBML 171452Z AUTO 21006KT 10SM SCT029 15/08 A3000 RMK AO2 SLP164 T01500078 58003 KBLU 171513Z AUTO 15006KT 3SM HZ BKN013 18/01 A3005 RMK AO2 T01780011 KAVL 171512Z 17007KT 10SM SCT014 BKN032 OVC042 21/17 A3003 RMK AO2 T02110167 EFHK 171520Z 19006KT 9999 FEW037 16/08 Q1027 NOSIG KCCU 171516Z AUTO 21003KT 10SM CLR 13/M01 A3060 RMK AO2 KCEC 171456Z AUTO 16007KT 5SM BR CLR 14/13 A2976 RMK AO2 SLP079 T01390133 53001 EEPU 171250Z 22005KT 170V270 9999 FEW020 19/09 Q1027 OPRN 171500Z 13006KT 6000 HZ FEW040 30/24 Q1006.0/29.70 KBLV 171458Z AUTO VRB01KT 10SM FEW013 SCT035 BKN080 15/13 A3008 RMK AO2 SLP189 T01460133 51023 CXHM 171500Z AUTO 23003KT 17/08 RMK AO1 SLP156 T01650076 58008 PGRO 170950Z 20006KT 7SM -RA FEW020 SCT060 BKN100 25/22 A2993 RMK LAST KCDN 171515Z AUTO 04004KT 10SM OVC008 21/18 A2998 RMK AO2 TSNO KAUW 171454Z AUTO 20006KT 10SM CLR 13/08 A2997 RMK AO2 SLP156 T01280083 58004 KCEF 171458Z AUTO VRB04KT 10SM CLR 17/06 A3003 RMK AO2 SLP175 T01740064 58004 CHINO RWY05 $ PHJH 170350Z 04012KT 15SM VCSH FEW025 FEW045 SCT060 27/22 A2992 RMK VCSH LAST CWQO 171500Z AUTO 23004KT 09/04 RMK AO1 T00940035 CWRF 171500Z AUTO ///// M05/ A2977 RMK SLP116 CWPX 171500Z AUTO 11018KT M02/ A2985 RMK SLP129 KAVP 171454Z 32004KT 9SM CLR 14/09 A3008 RMK AO2 SLP184 T01440089 58002 KCCY 171515Z AUTO VRB04KT 10SM CLR 15/10 A3000 RMK AO2 KAWG 171515Z AUTO 16005KT 8SM OVC070 16/14 A3000 RMK AO2 CXHP 171400Z AUTO 17001KT 03/03 RMK AO1 T00310029 CWQP 171500Z AUTO 25013KT 17/11 RMK AO1 PK WND 23018/1408 SLP162 T01730114 58001 KBMQ 171503Z AUTO VRB03KT 10SM BKN016 27/22 A3003 RMK AO2 T02670217 CWPZ 171500Z AUTO 29001KT 01/01 RMK AO1 SLP103 T00140005 55000 CWRH 171500Z AUTO ///// 00/ A2944 RMK SLP997 KCDR 171453Z AUTO 25004KT 6SM HZ CLR 17/10 A2998 RMK AO2 SLP139 T01670100 51007 CXHR 171500Z AUTO 17007KT 14/07 RMK AO1 T01390072 CWQR 171100Z AUTO 26019KT 07/ RMK AO1 PK WND 23021/1030 T0073 OPSK 171500Z 00000KT 4000 HZ NSC 34/26 Q0999 RH62 PC KCDS 171453Z AUTO 30003KT 10SM CLR 24/20 A3003 RMK AO2 SLP143 T02440200 53004 KAXA 171515Z AUTO 18004KT 10SM BKN050 17/12 A2996 RMK AO2 CWQS 171500Z AUTO 03001KT 13/ RMK AO1 SLP078 T0127 58006 CWRJ 171500Z AUTO 08011KT 09/08 RMK AO1 SLP143 T00870084 51005 CWSA 171500Z AUTO 32008KT 9SM CLR 18/09 A2995 RMK SLP142 DENSITY ALT 300FT EGAA 171520Z 07008KT CAVOK 18/13 Q1014 KBMT 171515Z AUTO 03005KT 10SM SCT033 SCT044 OVC065 27/25 A2998 RMK AO2 T02650245 CWRK 171500Z AUTO 24004KT 15/09 RMK AO1 SLP151 T01460093 58006 KBNL 171515Z AUTO 00000KT 10SM CLR 26/21 A2995 RMK AO2 EGAC 171520Z 02007KT 9999 FEW016 18/13 Q1014 UMOO 171500Z 09003MPS CAVOK 17/03 Q1027 R13/CLRD// NOSIG KAWM 171517Z AUTO 07005KT 10SM BKN028 21/16 A3002 RMK AO2 T02110161 PGSN 171454Z 08004KT 10SM FEW075 25/24 A2993 RMK AO2 SLP155 T02500239 58005 KCFD 171515Z AUTO 00000KT 10SM SCT010 OVC020 A2998 RMK AO2 CYAD 171518Z 24012KT 4SM -SHRASN BKN008 BKN020 BKN210 RMK SF6SC1CI1 CWRM 171500Z AUTO 00000KT 08/06 RMK AO1 SLP110 T00830055 58004 CWSD 171500Z AUTO 24009KT 18/10 RMK AO1 PK WND 26017/1413 SLP126 T01830097 50002 CWQV 171500Z AUTO 28013KT 08/01 RMK AO1 PK WND 28020/1401 T00830009 KCDW 171453Z 10SM CLR 18/06 A3006 RMK AO2 SLP186 T01830061 58001 KCFE 171515Z AUTO 20003KT 10SM SCT065 16/11 A2996 RMK AO2 T01580106 EGAE 171520Z 04010KT 7000 BKN044 18/14 Q1013 CWRN 171500Z AUTO 33006KT 16/ RMK AO1 T0158 KAVX 171451Z AUTO 18006KT 10SM CLR 30/13 A2983 RMK AO2 SLP060 T03000133 53009 KBNO 171453Z AUTO 27004KT 10SM CLR 14/M02 A2995 RMK AO2 SLP116 T01391017 53008 $ KAWO 171515Z AUTO 00000KT 10SM CLR 14/11 A2979 RMK AO1 CWSF 171500Z AUTO 28013G21KT 10/04 RMK AO1 PK WND 26026/1402 SLP112 T00980039 51031 CWRO 171500Z AUTO 17004KT 12/12 RMK AO1 SLP082 T01210118 56002 NZKI 171400Z 03001KT 20KM BKN080 08/06 Q1014 RMK ALT VATSIM USE ONLY CWSG 171500Z AUTO 25022KT 09/04 RMK AO1 PK WND 25025/1425 SLP125 T00920040 51024 PHJR 171453Z AUTO VRB03KT 10SM OVC065 25/21 A2993 RMK AO2 SLP141 T02500211 55005 TSNO KAXH 171515Z AUTO 28004KT 10SM SCT015 SCT021 29/27 A2997 RMK AO2 T02940269 ORBI 171500Z 30011KT CAVOK 36/08 Q1006 NOSIG CYAH 171516Z AUTO 23014KT 1SM -SN FEW008 BKN013 BKN033 OVC050 01/M00 A2982 RMK ICG SLP115 KBOI 171453Z 00000KT 10SM CLR 21/06 A2986 RMK AO2 SLP084 T02110056 53011 PGUA 171458Z AUTO 00000KT 10SM SCT150 25/23 A2992 RMK AO2 SLP122 T02460232 57008 $ NZKK 171438Z 34005KT 30KM FEW035 08/07 Q1016 RMK NZAA VATSIM USE ONLY OPST 171500Z 00000KT 4000 FU NSC 30/24 Q1004 NOSIG RH72 CXKA 171500Z AUTO 30003KT 02/01 RMK AO1 3PAST HR 3001 SLP177 P0001 T00220008 50003 EFKA 171520Z AUTO 23009KT CAVOK 17/10 Q1025 KBOK 171456Z AUTO 14006KT 10SM CLR 14/12 A2976 RMK AO2 56003 60000 T01440116 SLP078 CYBB 171500Z 28010G16KT 6SM -SN VCSH OVC011 M03/M04 A2985 RMK ST8 SLP111 CWRT 171500Z AUTO 32001KT 05/05 RMK AO1 T00450045 CWSK 171500Z AUTO 08002KT 14/11 RMK AO1 SLP083 T01420107 53001 EGBB 171520Z 03008KT 360V070 9999 FEW029 21/14 Q1012 KCEU 171454Z AUTO 07005KT 10SM OVC012 30/18 A2999 RMK AO2 SLP143 T03000183 50002 KBPC 171515Z AUTO 23012G17KT 10SM CLR 25/16 A3001 RMK AO2 KCGC 171515Z AUTO 00000KT 10SM SCT012 SCT019 BKN048 26/23 A2996 RMK AO2 PWINO CYBC 171500Z AUTO 30009G18KT 9SM FEW046 11/M02 A2992 RMK SLP133 CWRU 171500Z AUTO 12016KT 15/13 RMK AO1 PK WND 11019/1429 SLP075 T01460128 56003 CWSL 171500Z AUTO 17001KT 10/08 RMK AO1 SLP101 T01010080 57001 CYBD 171500Z VRB02KT 15SM OVC180 10/10 A2980 RMK AS8 HZ TCU EMBD SLP091 KCGE 171512Z AUTO 03005KT 10SM CLR 22/09 A3004 RMK AO1 VDPP 171500Z 19006KT 9000 SCT015 BKN040 26/24 Q1010 CYAM 171500Z 08003KT 15SM FEW065 OVC076 10/09 A2994 RMK SC2AC6 SF TR SLP142 KCEW 171453Z AUTO 10004KT 10SM CLR 27/23 A2998 RMK AO2 SLP150 T02670233 50003 EFIV 171520Z AUTO 23012KT CAVOK 12/07 Q1019 KAXN 171453Z AUTO 29003KT 10SM CLR 16/11 A2995 RMK AO2 SLP145 T01610111 51007 PHKO 171453Z AUTO 11005KT 10SM CLR 25/19 A2990 RMK AO2 SLP125 T02500189 55003 TSNO KBNW 171515Z AUTO 17004KT 10SM BKN055 17/13 A2996 RMK AO2 KAXO 162120Z 24014KT 7SM SCT018BKN040 29/24 A300 RMK LAST KCGF 171445Z 24008KT 20SM FEW040 SCT250 16/11 A3006 EGBE 171520Z 06008KT 030V110 9000 SCT032 22/14 Q1011 CXKE 171500Z AUTO 25003KT 14/10 RMK AO1 SLP153 T01360096 58002 EFKE 171520Z 20006KT 170V230 9999 SCT012 13/11 Q1022 CWRX 171500Z AUTO 32013KT M02/ A2976 EFJO 171520Z 26002KT CAVOK 15/06 Q1025 KBPG 171515Z AUTO 17007KT 10SM CLR 26/22 A3009 RMK AO2 T02610216 KCEY 171515Z AUTO 13003KT 10SM SCT013 17/13 A3006 RMK AO1 CWRY 171500Z AUTO 29006KT 13/07 RMK AO1 SLP120 T01260068 53001 CWTG 172200Z AUTO 27011KT 10/07 RMK AO1 SLP082 T00970071 55002 CWSP 171500Z AUTO 25001KT 15/14 RMK AO1 SLP087 T01540135 56005 ZSNB 171500Z 13002MPS 9999 BKN020 26/23 Q1015 NOSIG CYBG 171500Z 28007KT 25SM SCT028 SCT240 08/M01 A3000 RMK SC3CI1 SLP165 KCEZ 171453Z AUTO 00000KT 10SM CLR 16/10 A3020 RMK AO2 SLP163 T01610100 51004 PHLI 171453Z 30004KT 10SM FEW021 SCT029 23/21 A2995 RMK AO2 SLP138 T02330206 55002 CWRZ 171500Z AUTO 30012G19KT 14/05 RMK AO1 0PAST HR 3005 PK WND 30019/1456 SLP094 P0004 T01410053 50010 KBPI 171453Z AUTO 04010KT 10SM -TSRA FEW041 BKN100 12/04 A3027 RMK AO2 LTG DSNT W-N RAB52 TSB52 SLP168 P0000 60000 T01170044 50016 KCGI 171453Z 14003KT 10SM CLR 16/13 A3006 RMK AO2 SLP177 T01610128 53009 CXKI 171500Z AUTO 03/02 RMK AO1 SLP172 T00300018 50003 CWSR 171500Z AUTO 12011KT 04/04 RMK AO1 SLP149 T00420038 58004 EFKI 171520Z 21003KT 9999 BKN039 15/10 Q1024 KCHA 171453Z 03007KT 10SM BKN028 21/14 A2999 RMK AO2 SLP150 T02060144 58006 KBOS 171454Z VRB05KT 10SM FEW050 18/09 A3001 RMK AO2 SLP161 T01830089 58003 KCFS 171515Z AUTO 24009KT 10SM CLR 16/11 A3002 RMK AO2 T01600108 KAXS 171515Z AUTO 21005KT 10SM CLR 27/20 A3001 RMK AO2 T02710195 NZMC 171400Z 12005KT 10KM VCDZ SCT002 07/06 Q1012 RMK ALT NZHT VATSIM USE ONLY CYAS 171500Z 05010KT 15SM FEW008 BKN025 OVC070 04/03 A2930 RMK SF2SC5AS2 SLP929 EGBJ 171520Z 04009KT CAVOK 22/14 Q1010 CWSS 171500Z AUTO 23005KT 18/09 RMK AO1 SLP142 T01760090 58003 KBPK 171453Z AUTO VRB04KT 8SM OVC012 17/15 A3002 RMK AO2 LTG DSNT NW-NE SLP158 T01720150 53009 KE80 171515Z AUTO 13003KT 10SM DZ BKN006 OVC011 16/16 A3019 RMK AO2 T01600155 CXLB 171500Z AUTO 28009KT 17/11 RMK AO1 SLP146 T01680113 58005 CWST 171500Z AUTO 03007KT 11/02 RMK AO1 SLP146 T01090015 51011 CYCB 171500Z 12010KT 15SM FEW040 BKN180 BKN210 M02/M04 A2994 RMK SC1AC2CI2 SF TR FROIN SLP143 CYBK 171500Z 32012KT 20SM BKN018 M02/M07 A3006 RMK SC7 SLP181 PGUM 171454Z 00000KT 10SM CLR 25/24 A2993 RMK AO2 SLP127 T02500239 58009 EFKK 171520Z 24005KT 190V270 9999 FEW027 SCT032 18/12 Q1024 KAZC 171515Z AUTO 08003KT 10SM CLR 23/13 A3011 RMK AO2 T02290127 CYBL 171500Z 00000KT 20SM BKN140 OVC220 13/12 A2978 RMK AC6CI2 SLP086 KCHD 171447Z 00000KT 35SM FEW040 BKN090 BKN120 26/23 A2982 EGCC 171520Z 07009KT 7000 FEW017 SCT034 18/14 Q1013 KCFV 171452Z AUTO 19011KT 7SM CLR 24/21 A2993 RMK AO2 SLP129 T02440211 51005 KAXV 171510Z AUTO 00000KT 10SM CLR 16/07 A3006 RMK AO2 NZMF 171400Z 00000KT 30KM SCT009 03/01 Q1012 RMK ALT NZQN VATSIM USE ONLY VEGY 170300Z 00000KT 3000 BR BKN018 BKN100 28/25 Q1003 CYCD 171500Z 00000KT 20SM BKN100 OVC150 14/12 A2979 RMK AC6AC2 SLP086 DENSITY ALT 100FT CXKM 171500Z AUTO 14005KT 11/08 RMK AO1 T01060077 KBOW 171447Z 23006KT 10SM -DZ SCT008 BKN038 23/ A3000 KAZE 171515Z AUTO 00000KT 10SM CLR 28/24 A2994 RMK AO2 T02820237 CYAW 171500Z 27012KT 15SM FEW032 18/10 A2996 RMK CU2 DA687FT SLP147 CWSW 171500Z 02004KT 20SM FEW210 BKN230 04/03 A2997 RMK CI1CS2 LGT HZ CONTRAILS SLP162 CWTN 171500Z AUTO 07012KT 12/08 RMK AO1 PK WND 08018/1449 SLP144 T01170077 51013 CYBN 171500Z AUTO ///// 9SM BKN063 BKN070 BKN084 17/11 A2998 RMK SLP156 EETN 171520Z 05005KT CAVOK 16/08 Q1027 NOSIG KAXX 171515Z AUTO 00000KT 10SM CLR 10/07 A3036 RMK AO2 T01030066 ZSNJ 171500Z 05004MPS 020V080 9000 SCT026 22/19 Q1016 NOSIG CYCG 171500Z VRB02KT 15SM SCT160 BKN270 10/09 A2988 RMK AC3CI4 SLP121 EFJY 171520Z AUTO 23004KT CAVOK 16/09 Q1026 CYAY 171500Z AUTO 23019KT 9SM CLR 15/08 A2973 RMK SLP070 DENSITY ALT 200FT CYAZ 171500Z 01003KT 320V020 10SM FEW020 SCT035 BKN080 BKN120 BKN230 13/13 A2978 RMK SC1SC2AC2AC1CI1 SHLW FG PTCHS SLP086 CYBQ 171500Z AUTO 29005KT 230V320 9SM OVC030 00/M06 A3016 RMK SLP232 TVSC 171300Z 08010KT 9999 FEW018 30/24 Q1015 CYBR 171500Z 06012KT 15SM OVC008 06/05 A3008 RMK ST8 SLP200 KCGS 171510Z AUTO 04003KT 10SM CLR 21/12 A3006 RMK AO1 KAYS 171515Z AUTO 00000KT 10SM CLR 29/25 A2994 RMK AO2 T02870249 PHMK 171454Z AUTO 07004KT 10SM CLR 22/21 A2994 RMK AO2 SLP139 60002 T02170206 55002 TSNO $ VEIM 171100Z 25003KT 6000 FEW020 31/23 Q1002 BECMG 5000 HZ CYDA 171500Z 10003KT 040V110 20SM FEW055 FEW150 SCT220 00/M00 A2963 RMK SC1AC1CI3 SC TR AC TR SLP050 EFMA 171520Z 19005KT 9999 FEW016 16/13 Q1026 EFKS 171520Z AUTO 23005KT 9999 BKN041 13/07 Q1022 KBPT 171453Z 03004KT 10SM FEW032 OVC065 28/25 A2997 RMK AO2 SLP147 T02830250 51006 KBQK 171515Z AUTO 35003KT 10SM CLR 28/21 A2994 RMK AO1 CWTT 171500Z AUTO 25009KT 14/08 RMK AO1 T01370080 ZSOF 171500Z 06003MPS 2200 -RA BR BKN006 OVC030 20/20 Q1016 NOSIG CXKT 171500Z AUTO 24007KT 18/09 RMK AO1 SLP141 T01760091 50002 CYCK 171500Z AUTO 22005KT 170V280 9SM CLR 17/10 A3004 RMK SLP172 DENSITY ALT 900FT CYDB 171500Z 14008KT 30SM FEW100 SCT140 04/00 A2961 RMK AC2AC1 SLP050 EFKT 171520Z AUTO 20003KT 9999 FEW025 12/09 Q1021 KCIC 171455Z 00000KT 40SM FEW100 SCT180 18/07 A2979 CYDC 171500Z 00000KT 15SM SCT090 BKN110 11/04 A2984 RMK AC4AS3 HZ W SLP096 DENSITY ALT 2400FT CXLL 171500Z AUTO 02002KT 05/05 RMK AO1 5000 SLP027 T00520051 50002 CWTU 171500Z AUTO 17030KT 08/ A2945 RMK SLP990 CYBU 171500Z AUTO 06011KT 9SM OVC016 05/03 A3009 RMK SLP206 EETU 171450Z 13005KT CAVOK 18/07 Q1027 KCID 171452Z 14003KT 10SM OVC075 13/12 A3000 RMK AO2 SLP161 T01280117 55000 EFKU 171520Z AUTO 20003KT CAVOK 15/07 Q1025 KBRD 171453Z AUTO 00000KT 10SM CLR 14/09 A2995 RMK AO2 SLP148 T01390094 52006 CYBV 171500Z 06005KT 15SM FEW007 FEW015 04/01 A3016 RMK ST1SC1 SLP225 CXMD 171500Z AUTO 03011KT 07/05 RMK AO1 SLP178 T00650052 52017 CWVD 171500Z AUTO 00000KT 01/ A2968 RMK SLP091 CYBW 171500Z AUTO 31004KT 9SM CLR 07/05 A2989 RMK SLP137 EGCN 171520Z 02006KT 2500 -DZ SCT003 OVC007 17/16 Q1014 KAZO 171453Z 18005KT 10SM CLR 15/08 A3005 RMK AO2 SLP179 T01500078 58009 KCHO 171453Z 08006KT 10SM BKN070 20/10 A3007 RMK AO2 SLP176 T02000100 50003 PHNG 171457Z 00000KT 9SM BKN023 25/23 A2993 RMK AO2 SLP130 T02500233 53000 $ CWVF 171500Z AUTO 12005KT 15/14 RMK AO1 T01510135 CYDF 171500Z 21013G21KT 15SM SCT040 BKN150 21/11 A2982 RMK SC4AC1 SLP098 DENSITY ALT 800FT CYBX 171500Z 24012KT 15SM FEW006 13/11 A2973 RMK CU2 SLP069 CYCO 171500Z 08005KT 15SM -RA FEW011 OVC070 02/01 A2965 RMK SF1AC8 TR SF SLP044 KBQP 171515Z AUTO 12003KT 10SM SCT008 26/22 A3001 RMK AO2 T02600215 KF05 171455Z AUTO 23003KT 10SM CLR 27/20 A3000 RMK AO1 T02670202 CYCP 171519Z 00000KT 15SM FEW002 SCT075 BKN150 OVC250 RMK ST1AC3AC3CS1 HALO CXMG 171400Z AUTO 14006KT 05/05 RMK AO1 T00510046 CWTY 171500Z AUTO 02004KT 11/08 RMK AO1 SLP149 T01140075 51003 CWUP 171500Z AUTO ///// M00/ A2971 RMK SLP088 EFLP 171520Z AUTO 24002KT 9999 BKN045 16/09 Q1026 KCGZ 171515Z AUTO 10007KT 10SM CLR 26/21 A2983 RMK AO1 CYCQ 171500Z 00000KT 35SM BKN040 OVC050 07/06 A2972 RMK SC7SC1 DIST FU W SLP077 CWVH 171500Z AUTO 28007KT 03/ A2941 RMK SLP977 CWVI 171500Z AUTO 14004KT 10/08 RMK AO1 SLP103 T00970079 58003 CXMI 171500Z AUTO 27008KT 20/11 RMK AO1 SLP144 T01970109 58001 ZSPD 171500Z 08004MPS CAVOK 23/18 Q1016 NOSIG EFMI 171520Z AUTO 27002KT CAVOK 14/10 Q1026 KCHS 171456Z 01005KT 10SM FEW025 SCT250 29/22 A2993 RMK AO2 SLP134 60001 T02890217 53002 KDAA 171458Z VRB01KT 10SM CLR 21/12 A3006 RMK A02 SLP182 T02130131 56003 CYCS 171500Z 32015KT 15SM BKN035 M01/M05 A2998 RMK SC5 SLP154 CWWA 171500Z AUTO 00000KT 17/12 RMK AO1 1PAST HR 5004 SLP091 P0000 T01660124 50001 CWUS 171500Z AUTO 29003KT 15/02 RMK AO1 SLP089 T01500024 56003 KDAB 171453Z 24008KT 10SM FEW038 SCT055 BKN120 BKN250 26/23 A2995 RMK AO2 SLP140 TCU DSNT NE T02610228 50003 PHNL 171453Z 35003KT 10SM FEW028 SCT065 26/22 A2992 RMK AO2 SLP130 T02560217 55005 $ CWWB 171500Z AUTO 24005KT 17/08 RMK AO1 SLP162 T01670078 58008 KBRL 171453Z AUTO 17006KT 10SM -RA OVC070 14/12 A3001 RMK AO2 RAB49 SLP164 P0000 60000 T01440122 53002 EGEC 171520Z 29004KT 250V350 CAVOK 17/12 Q1014 EGDM 171450Z 07012KT CAVOK 20/14 Q1010 BLU NOSIG CXMM 171500Z AUTO 13013KT 04/03 RMK AO1 PK WND 14019/1447 SLP123 T00400027 57012 CYED 171500Z AUTO 09004KT 9SM CLR 08/02 A2980 RMK SLP106 KCIN 171515Z AUTO 00000KT 10SM CLR 18/13 A2995 RMK AO2 NZNP 171400Z 14004KT 25KM BKN032 07/06 Q1015 RMK ALT VATSIM USE ONLY CWVN 171500Z AUTO 05003KT 12/09 RMK AO1 SLP131 T01230088 52003 CWWE 171500Z AUTO 19007KT 19/14 RMK AO1 SLP150 T01860137 58002 CWUW 171519Z AUTO 09016KT 9SM BKN017 BKN053 OVC063 M00/ A2969 CYDN 171521Z AUTO 11007KT 9SM -RA OVC007 05/04 A3012 RMK SLP212 KBRO 171453Z 21005KT 10SM FEW013 28/26 A2996 RMK AO2 SLP144 T02830261 53012 PHOG 171454Z AUTO 08004KT 10SM CLR 23/20 A2993 RMK AO2 SLP139 T02330200 55002 TSNO $ NZOH 171400Z 08003KT 45KM BKN021 09/08 Q1014 RMK ALT NZPM VATSIM USE ONLY CXMO 171400Z AUTO 00000KT 07/05 RMK AO1 T00680053 CWWF 171500Z AUTO 12012KT 10/08 RMK AO1 SLP158 T01020075 53013 CWUX 171500Z AUTO 29006KT 08/01 RMK AO1 SLP159 T00780011 51008 CYCX 171500Z 25007KT 220V290 15SM FEW015 17/10 A2993 RMK CU1 DA526FT SLP137 VDSR 171500Z 25011KT 9000 FEW020 SCT150 27/23 Q1009 KDAG 171450Z AUTO 11003KT 10SM CLR 26/17 A2987 RMK AO2 SLP084 T02610167 53010 TSNO NZNR 171400Z 17002KT 30KM BKN070 08/07 Q1014 RMK ALT VATSIM USE ONLY VEJS 171200Z 00000KT 4000 HZ FEW020 SCT100 29/25 Q1000 CYDP 171500Z 07003KT 15SM OVC025 08/05 A2939 RMK SC7 SLP952 ORER 171500Z 28004KT CAVOK 32/02 Q1006 CWVP 171500Z AUTO 14005KT 16/06 RMK AO1 1003 SLP119 T01630059 50002 CYCY 171500Z 00000KT 1 3/4SM -SN BR OVC010 01/M00 A2986 RMK ST8 SLP115 CYEG 171500Z VRB02KT 15SM FEW100 FEW250 09/08 A2981 RMK AS1CI2 AS TR SLP104 DENSITY ALT 2400FT NZNS 171400Z 18002KT 25KM BKN038 10/08 Q1014 RMK ALT VATSIM USE ONLY CWVQ 171500Z AUTO 26005KT 13/09 RMK AO1 SLP154 T01270088 50001 CYDQ 171500Z AUTO 00000KT 8SM 07/05 A2970 RMK CLD MISG SLP073 KCIR 171515Z AUTO 00000KT 10SM CLR 17/16 A3007 RMK AO2 T01700155 UNKL 171500Z 00000MPS 0800 R29/0450VP1500D PRFG FEW007 BKN170 05/04 Q1014 TEMPO 0500 FG RMK QFE735 29////65 ZSQD 171500Z 33002MPS 6000 NSC 16/14 Q1021 NOSIG PGWT 170955Z 22005KT 7SM FEW015 SCT050 BKN120 26/24 A2989 RMK LAST EGDR 171450Z 08022G34KT 4000 HZ FEW040 BKN140 19/15 Q1006 GRN TEMPO 3500 YL01 KBTA 171455Z AUTO 00000KT 10SM CLR 19/14 A2993 RMK AO2 T01880142 TVSV 171500Z 10008KT 9999 BKN017 30/24 Q1015 CWXA 171500Z AUTO 24011G20KT 08/01 RMK AO1 PK WND 26024/1411 SLP127 T00840008 58005 KCKB 171453Z 00000KT 10SM CLR 15/12 A3007 RMK AO2 SLP175 T01500117 58002 NZNV 171400Z 07005KT 30KM SCT003 05/04 Q1009 RMK ALT VATSIM USE ONLY CWWK 171500Z AUTO 00000KT 15/14 RMK AO1 SLP088 T01540138 56005 CWVT 171500Z AUTO 13009KT 03/01 RMK AO1 SLP177 T00270014 58011 CYEK 171500Z 32013KT 15SM SCT046 00/M03 A3008 RMK SC3 SLP188 CYFB 171500Z 25007KT 20SM FEW030 SCT080 05/03 A2952 RMK SC2AC1 SLP000 KDAL 171453Z VRB04KT 10SM FEW140 SCT190 BKN250 28/22 A2997 RMK AO2 SLP142 T02780217 51001 KCIU 171515Z AUTO 26004KT 10SM BKN070 OVC090 11/10 A2993 RMK AO1 KCKC 171514Z AUTO 06006KT 3/4SM BR OVC001 05/03 A2996 RMK AO2 CWXC 171500Z AUTO 01002KT 07/M01 RMK AO1 SLP144 T00681011 53006 CWWL 171500Z AUTO 15004KT 11/10 RMK AO1 SLP082 T01080095 58006 CWVU 171500Z AUTO 25005KT 15/10 RMK AO1 SLP170 T01520103 50004 CYFC 171500Z AUTO 25006KT 200V330 9SM CLR 17/10 A2993 RMK SLP136 DENSITY ALT 300FT CXNM 171500Z AUTO 29010KT 14/09 RMK AO1 T01360089 KDAN 171453Z AUTO 03010KT 10SM FEW044 OVC080 22/16 A3003 RMK AO2 SLP161 T02170156 50002 CYEN 171500Z 08008KT 8SM OVC005 08/07 A3000 RMK ST8 FG SLP173 KCKF 171515Z AUTO 00000KT 10SM SCT019 29/22 A2997 RMK AO2 T02850223 PHNY 171456Z AUTO 10004KT 10SM CLR 22/19 A2999 RMK AO2 TSNO 55003 T02160188 SLP131 $ EGEO 171450Z 30004KT 9999 FEW028 20/13 Q1014 EGDX 171450Z 07015KT 9999 FEW040 BKN100 21/14 Q1009 BLU EGFF 171520Z 06015KT CAVOK 21/14 Q1009 CXMY 171500Z AUTO 19/12 RMK AO1 T01890118 CXNP 171500Z AUTO 25005KT 18/09 RMK AO1 SLP140 T01760093 51003 EGDY 171450Z 06014KT 9999 HZ FEW035 SCT150 BKN250 24/14 Q1009 BLU NOSIG KCKI 171455Z AUTO 02003KT 10SM SCT017 25/21 A2996 RMK AO2 KCJR 171515Z AUTO 00000KT 10SM SCT070 21/12 A3007 RMK AO2 CWXI 171500Z AUTO 23018KT 14/10 RMK AO1 PK WND 23021/1447 SLP066 T01360101 58002 CYER 171521Z AUTO 29011G17KT 9SM SCT018 03/M01 A3002 RMK SLP166 KDCA 171452Z 00000KT 10SM FEW035 SCT080 22/12 A3007 RMK AO2 SLP181 T02220117 58001 CWWS 171400Z AUTO 08010KT 04/M02 RMK AO1 SLP218 T00351016 51014 CXPA 171500Z AUTO 09004KT 08/08 RMK AO1 T00790078 NZPM 171400Z 08003KT 45KM BKN021 09/08 Q1014 RMK ALT VATSIM USE ONLY CYET 171500Z AUTO 25004KT 9SM CLR 07/05 A2982 RMK SLP107 KBTL 171453Z 22005KT 10SM CLR 14/08 A3005 RMK AO2 SLP178 T01440078 58007 CWWU 170800Z 16005KT 15SM FEW100 SCT150 BKN250 09/07 A2992 RMK AC1AC2CI0 SLP133 CXOL 171400Z AUTO 23008KT 08/05 RMK AO1 T00840046 CXPC 171500Z AUTO 15/10 RMK AO1 SLP132 T01500101 58004 CWXL 171500Z AUTO 19002KT 11/08 RMK AO1 T01130078 KBTM 171453Z AUTO 00000KT 10SM CLR 07/04 A3007 RMK AO2 SLP152 T00720044 53003 KCKM 171515Z AUTO 11004KT 10SM CLR 24/18 A3002 RMK AO1 CYEV 171500Z 28006KT 2SM -DZ BR OVC004 04/03 A2944 RMK FG4ST4 SLP974 EGGD 171520Z 05013KT CAVOK 20/13 Q1010 KDAW 171451Z AUTO 00000KT 10SM CLR 18/07 A3000 RMK AO2 SLP154 T01780072 58002 KCLE 171451Z 20008KT 10SM FEW050 SCT250 16/09 A3008 RMK AO2 SLP185 T01610094 57008 KCKN 171515Z AUTO 36007KT 10SM 14/08 A2997 RMK AO2 PM KDBN 171515Z AUTO 00000KT 10SM CLR 26/21 A2997 RMK AO2 NZPP 171400Z 32003KT 25KM BKN035 08/04 Q1014 RMK ALT VATSIM USE ONLY CYGE 171500Z 30004KT 15SM PRFG FEW090 06/05 A2995 RMK FG1AS1 HALO SLP154 KBUF 171454Z 25011KT 10SM FEW030 SCT060 SCT300 16/08 A3003 RMK AO2 SLP169 T01610083 58006 CYFO 171500Z 11005KT 080V140 15SM FEW035 02/M02 A3017 RMK SC1 SLP232 CWWX 171500Z AUTO 28007KT 14/11 RMK AO1 SLP136 T01360108 58006 KBTP 171515Z AUTO 25007KT 10SM CLR 17/09 A3008 RMK AO1 KDAY 171456Z 36003KT 9SM OVC036 14/11 A3008 RMK AO2 SLP186 T01390106 56004 KCKP 171515Z AUTO 00000KT 10SM CLR 17/13 A2995 RMK AO2 T01730133 KDBQ 171453Z 23003KT 10SM OVC095 14/09 A3002 RMK AO2 SLP168 T01390094 55003 CYGH 171500Z 18008KT 25SM BKN040 05/04 A2953 RMK SC3 SLP006 CWWZ 171400Z AUTO 16/09 RMK AO1 SLP169 T01580094 50001 KBTR 171453Z 05004KT 10SM SCT010 26/22 A3000 RMK AO2 SLP157 T02610222 53009 KCLI 171515Z AUTO 26005KT 10SM CLR 16/08 A2998 RMK AO2 CYFR 171500Z 15010G17KT 15SM FEW003 FEW120 BKN280 06/04 A2970 RMK SF1AC2CS3 SLP065 CWXR 171500Z AUTO 12011KT 01/ A2961 RMK SLP037 KCMA 171455Z 20004KT 7SM CLR 22/16 A2974 RMK AO2 SLP077 T02170161 NZRC 171400Z 07005KT 30KM SCT003 05/04 Q1009 RMK ALT NZNV VATSIM USE ONLY CYHA 171500Z 10017G22KT 1/2SM FG VV003 02/02 A2937 RMK FG8 SLP948 DNZA 171000Z 18010KT 9999 BKN010 25/21 Q1017 CWZA 171500Z AUTO 35002KT 14/13 RMK AO1 SLP086 T01440130 57010 CWYJ 171500Z AUTO 00000KT 14/12 RMK AO1 SLP085 T01380122 56004 CYFS 171500Z CCA 29003KT 10SM BKN030 05/04 A2960 RMK SC6 FU SLP033 KCLK 171455Z AUTO 23007KT 10SM CLR 25/17 A2998 RMK AO2 CYFT 171500Z 23014KT 15SM BKN025 13/05 A2946 RMK CU7 SLP979 CYGK 171500Z 24008KT 15SM SCT030 SCT120 BKN250 17/11 A3001 RMK CU3AC1CI1 SLP162 DENSITY ALT 500FT CWYK 171500Z AUTO 14017KT 04/ A2928 RMK SLP944 KDDC 171452Z AUTO 24007KT 9SM CLR 21/16 A2995 RMK AO2 SLP116 T02110161 52004 KCLL 171520Z 00000KT 10SM BKN010 BKN020 26/24 A2999 RMK AO2 CIG 005V013 T02610239 NZQN 171400Z 00000KT 30KM SCT009 03/01 Q1012 RMK ALT VATSIM USE ONLY CXPL 171400Z AUTO 07004KT 08/06 RMK AO1 T00820056 CYGL 171500Z 25009KT 2SM -SHSN SCT005 OVC020 01/M00 A2987 RMK SF4SC4 VIS VRB 1-3 SLP129 KCKV 171524Z AUTO 12003KT 2 1/2SM BR OVC002 13/13 A3005 RMK AO2 T01330128 EFOU 171520Z AUTO 24006KT 9999 SCT018/// BKN035/// 15/12 Q1023 KCLM 171453Z AUTO 00000KT 9SM 15/13 A2979 RMK AO2 SLP087 T01500133 55006 TSNO $ KBTV 171454Z 20005KT 10SM FEW035 16/08 A3001 RMK AO2 SLP164 T01560078 50001 KCMD 171515Z AUTO 35004KT 10SM SCT021 22/16 A3003 RMK AO2 T02180157 KDCM 171515Z AUTO 04007KT 10SM SCT012 OVC018 23/20 A3003 RMK AO2 CWYM 171500Z AUTO 09026G33KT 00/ A2951 RMK SLP032 CYHD 171500Z AUTO 05010KT 9SM BKN008 OVC013 04/03 A3005 RMK SLP191 KBVE 171451Z AUTO 00000KT 10SM CLR 28/22 A2998 RMK AO2 SLP151 T02830222 50002 EGHE 171520Z 10024KT 6000 -SHRA FEW009 BKN040 18/16 Q1006 CYHE 171500Z AUTO 09003KT 9SM SCT140 SCT160 15/12 A2979 RMK SLP088 DENSITY ALT 200FT KF44 171515Z AUTO 17004KT 7SM OVC006 23/22 A2999 RMK AO2 DNYO 162100Z 12005KT 9999 BKN009 23/23 Q1015 CXOX 171500Z AUTO 15012G17KT 05/02 RMK AO1 PK WND 15021/1407 SLP200 T00470022 58004 EFPO 171520Z AUTO VRB05KT CAVOK 17/11 Q1026 CXOY 171500Z AUTO 17006KT 15/07 RMK AO1 T01500069 CWZG 171500Z AUTO 23004KT 05/01 RMK AO1 SLP159 T00460012 58004 CYGP 171500Z 26009G17KT 240V310 15SM FEW030 SCT140 14/06 A2981 RMK SF2AC1 SLP096 EGGP 171520Z 09011KT 070V150 9999 FEW028 21/14 Q1012 KCMH 171451Z 00000KT 10SM OVC042 17/10 A3006 RMK AO2 SLP176 T01720100 58004 KDDH 171454Z AUTO VRB03KT 10SM BKN041 14/07 A3004 RMK AO2 SLP173 T01440067 58003 KF46 171515Z AUTO 22004KT 10SM CLR 27/23 A2997 RMK AO2 T02700225 CYHH 171500Z 24012KT 15SM BKN014 05/M00 A2996 RMK SC6 SLP157 KBVI 171447Z 00000KT 10SM CLR 17/09 A3007 CYGQ 171500Z 02005KT 15SM SCT008 BKN030 01/M00 A3006 RMK SF3SC3 SLP197 EGHH 171520Z 06013KT 9000 NSC 22/15 Q1008 KBUR 171453Z 00000KT 10SM CLR 28/15 A2976 RMK AO2 SLP063 T02830150 53008 KCMI 171453Z 00000KT 10SM CLR 16/12 A3006 RMK AO2 SLP180 T01610122 55001 $ CYHI 171500Z 09020G26KT 15SM FEW005 BKN160 OVC250 M00/M03 A2974 RMK SF1AC5CI2 SLP073 CYGR 171500Z 25014KT 20SM FEW020 18/12 A2987 RMK SC2 CU ASOCTD SLP115 DENSITY ALT 400FT EGHI 171520Z 04009KT 010V070 CAVOK 19/14 Q1009 KCLS 171515Z AUTO 00000KT 9SM FEW005 13/13 A2980 RMK AO2 KCLT 171508Z 02007KT 3SM BR OVC005 19/17 A3001 RMK AO2 SFC VIS 6 KCNB 171514Z AUTO 36006KT 10SM CLR 17/13 A2995 RMK AO2 T01660125 CYGT 171500Z 03008KT 15SM FEW007 FEW014 FEW040 FEW150 M03/M06 A2982 RMK CF0SC1SC1AS1 CF TR SLP102 CXRB 171500Z AUTO 02006KT M04/M05 RMK AO1 SLP130 T10391050 56002 CYHK 171500Z 34012KT 15SM OVC013 M03/M05 A2994 RMK SC8 SLP142 KDCU 171453Z AUTO 36006KT 10SM CLR 22/13 A3001 RMK AO2 SLP158 T02220133 58003 KDEC 171454Z 20003KT 10SM BKN095 16/12 A3006 RMK AO2 SLP177 T01560117 55004 KCNC 171515Z AUTO VRB05KT 10SM SCT050 19/15 A2997 RMK AO2 KBUU 171515Z AUTO 24004KT 10SM CLR 16/08 A3002 RMK AO2 T01590082 CWZL 171500Z AUTO 13006KT 13/12 RMK AO1 SLP089 T01270124 55004 KDED 171515Z AUTO 27004KT 10SM BKN041 26/23 A2997 RMK AO1 KBWD 171515Z AUTO 20003KT 10SM FEW013 25/22 A3002 RMK AO2 NZRO 171400Z 18003KT 20KM SCT009 09/07 Q1016 RMK ALT NZTG VATSIM USE ONLY CYHM 171500Z 26009KT 15SM FEW025 16/09 A3002 RMK CU1 SLP166 DENSITY ALT 1000FT CYGV 171500Z AUTO 25014G21KT 9SM CLR 12/08 A2974 RMK SLP070 KBVN 171515Z AUTO 00000KT 10SM CLR 17/13 A2994 RMK AO2 T01670129 KCLW 171515Z AUTO 28004KT 4SM RA SCT008 SCT019 OVC100 22/22 A2996 RMK AO2 P0009 PHSF 171456Z AUTO 02002KT 10SM CLR 10/08 A3029 RMK AO2 SLP143 T01010075 56005 CWZN 171400Z AUTO 14/10 RMK AO1 SLP127 T01440095 58001 CYGW 171500Z AUTO 27006KT 9SM FEW049 04/M01 A2981 RMK SLP096 KBVO 171453Z AUTO 22007KT 10SM CLR 27/22 A2994 RMK AO2 SLP129 T02720222 51003 EGGW 171520Z 04009KT 6000 BKN017 18/15 Q1011 CWZO 171500Z AUTO 23002KT RMK AO1 CYGX 171503Z 33012KT 15SM -SN OVC020 RMK SC7 ZSSS 171500Z 11005MPS CAVOK 24/18 Q1016 NOSIG KBWG 171453Z AUTO 00000KT 6SM BR OVC005 14/12 A3006 RMK AO2 CIG 004V009 SLP177 T01440122 53003 KBUY 171454Z AUTO 06007KT 10SM FEW018 22/16 A3001 RMK AO2 SLP155 T02170156 58003 KDCY 171515Z AUTO 12005KT 10SM SCT022 16/11 A3006 RMK AO2 T01570113 CWYY 171500Z AUTO 25001KT 15/11 RMK AO1 SLP084 T01490109 57001 KDEH 171515Z AUTO 00000KT OVC090 15/10 A3000 RMK AO2 EGHQ 171520Z 10014KT 9999 FEW025 21/15 Q1007 CWZQ 171520Z AUTO 23009KT 18/12 RMK AO1 T01790124 CXRH 171500Z AUTO 23009G15KT 17/11 RMK AO1 20 T01720107 50008 UNNT 171500Z 14004MPS CAVOK 13/06 Q1008 25090070 16090070 NOSIG RMK QFE746/0995 KBWI 171454Z 10005KT 10SM FEW028 SCT060 SCT250 21/11 A3006 RMK AO2 SLP178 T02060106 58001 KCNI 171515Z AUTO 32003KT 10SM CLR 23/13 A2999 RMK AO2 KBVS 171515Z AUTO 00000KT 10SM CLR 15/14 A2979 RMK A01 P000 KBXA 171515Z AUTO 00000KT 10SM SCT006 27/22 A3000 RMK AO2 T02670220 EGJA 171520Z 08020KT 3000 HZ FEW005 19/17 Q1007 CWZS 171500Z AUTO 32009G18KT 08/01 RMK AO1 PK WND 32019/1423 SLP134 T00840011 51022 EFSA 171520Z 22001KT 9999 FEW025 SCT065 16/10 Q1026 KCNK 171459Z AUTO 06005KT 3SM BR OVC002 18/18 A2992 RMK AO2 T01830183 CYIK 171500Z 35019G25KT 15SM FEW012 FEW026 BKN033 BKN250 00/M03 A2967 RMK CF1SC2SC2CS1 SLP050 EGJB 171520Z 06011KT 6000 NSC 20/18 Q1006 KBVU 171515Z AUTO 00000KT 10SM CLR 27/17 A2991 RMK AO2 CXSC 171500Z AUTO 09004KT 13/08 RMK AO1 T01250079 50005 UNOO 171500Z 29008G11MPS 8000 -SHRA BKN007 BKN033CB 07/06 Q1001 25290050 NOSIG RMK QFE742 CXRL 171500Z AUTO 06/06 RMK AO1 T00640063 CYHU 171500Z AUTO 24009KT 9SM BKN085 14/09 A2998 RMK SLP153 KCNM 171453Z AUTO 00000KT 5SM BR CLR 21/21 A3007 RMK AO2 SLP136 T02110211 51005 $ KCOD 171515Z AUTO 23005KT 10SM CLR 18/07 A3005 RMK AO1 CWZV 171500Z AUTO 07005KT 12/11 RMK AO1 SLP081 T01180112 56007 KDEN 171453Z 23008KT 10SM SCT110 SCT220 21/06 A3011 RMK AO2 SLP125 T02060061 51007 $ KCOE 171515Z AUTO 10003KT 10SM CLR 14/08 A2985 RMK AO1 NZTG 171400Z 18003KT 20KM SCT009 09/07 Q1016 RMK ALT VATSIM USE ONLY NZSP 171150Z 07010KT 6000 BR SCT050 M67/ A2885 RMK CLN AIR 06009KT ALL WNDS GRID CXSE 171500Z AUTO 11003KT M05/M06 RMK AO1 SLP147 T10461062 57012 CWZW 171500Z AUTO 35001KT M00/M00 RMK AO1 SLP083 T10011003 56005 CYIN 171500Z AUTO 11003KT 060V130 9SM 08/04 A2983 RMK CLD MISG SLP104 DENSITY ALT 3800FT KCMX 171521Z AUTO 09005KT 10SM BKN010 OVC080 11/08 A2993 RMK AO2 T01060083 KCNO 171453Z 00000KT 10SM CLR 29/19 A2978 RMK AO2 SLP077 T02890194 53012 KBVX 171515Z AUTO 12005KT 10SM OVC020 18/15 A3004 RMK AO1 KCOF 171458Z AUTO 27011KT 10SM CLR 28/24 A2995 RMK AO2 SLP146 60000 T02780235 53000 CYJF 171500Z 23009KT 2SM BR VCFG SCT005 BKN020 OVC080 07/06 A2960 RMK FG1SF2SC2AC3 VIS N 5 MI SLP032 CYIO 171500Z 16003KT 30SM BKN065 OVC078 M02/M06 A2989 RMK SC5AS3 -2.1/-7.2/0/ONE LOOSE SLP129 KBVY 171453Z 31003KT 10SM CLR 19/10 A3000 RMK AO2 SLP154 T01890100 58003 EFRO 171520Z AUTO 19008KT 9999 BKN028 13/09 Q1022 KCMY 171515Z AUTO 21003KT 10SM SCT075 OVC100 14/10 A3001 RMK AO2 T01440097 KBWP 171510Z AUTO 35005KT 10SM CLR 14/09 A2995 RMK AO1 ZUCK 171500Z 18002MPS 2800 RA BR SCT001 SCT004 OVC046 21/20 Q1015 NOSIG CYHY 171500Z 16009G15KT 15SM FEW050 FEW100 BKN200 07/05 A2963 RMK SC1AC2CS5 SC TR SLP042 KDEQ 171514Z AUTO 08003KT 2 1/2SM BR OVC004 21/21 A3000 RMK AO2 T02110206 CXSH 171500Z AUTO 36002KT 10/06 RMK AO1 SLP149 T00950060 50005 CWZZ 171500Z AUTO 16004KT 06/ A2935 RMK SLP960 CYHZ 171500Z 25007KT 240V310 15SM BKN032 17/09 A2996 RMK CU5 SLP147 DENSITY ALT 700FT KDFI 171453Z AUTO 20004KT 10SM CLR 16/08 A3006 RMK AO2 SLP180 T01560083 58008 EFSI 171520Z AUTO 24004KT 180V310 CAVOK 16/10 Q1025 EGKA 171520Z 04011KT 7000 FEW018 22/17 Q1009 CYKA 171500Z 09007KT 40SM BKN130 OVC160 13/05 A2981 RMK AC6AC2 SLP097 DENSITY ALT 1200FT EGJJ 171520Z 07019KT CAVOK 22/18 Q1006 NOSIG KDET 171453Z AUTO 25005KT 10SM CLR 15/05 A3005 RMK AO2 SLP176 T01500050 58006 KF70 171515Z AUTO 00000KT 10SM CLR 27/19 A2982 RMK AO1 KBXK 171515Z AUTO 12004KT 10SM FEW095 27/20 A2982 RMK AO1 EGKB 171520Z 07010KT 5000 SCT015 19/14 Q1011 KCNU 171452Z AUTO 23013KT 9SM CLR 25/21 A2992 RMK AO2 SLP123 T02500211 51003 EHAK 171455Z AUTO 10023KT 9999 SCT004/// 17/16 Q1015 KCPC 171515Z AUTO 00000KT 7SM BKN013 23/19 A2995 RMK AO2 T02320193 CXSL 171500Z AUTO 12006KT 08/07 RMK AO1 T00780071 KCOM 171455Z AUTO 00000KT 10SM SCT006 25/21 A3003 RMK AO2 T02460209 CYKD 171500Z 32008G16KT 4SM -RA BR BKN006 OVC030 04/04 A2946 RMK ST6SC2 BLN CIG CIG RAG VIS NW 2 SLP978 KCNW 171451Z 20004KT 10SM BKN009 OVC012 25/23 A2998 CXTD 171500Z AUTO 27004KT 17/10 RMK AO1 SLP143 T01670103 50000 CYIV 171500Z 32003KT 15SM FEW015 FEW050 05/M03 A3017 RMK SC1SC1 WND ESTD SLP231 PHTO 171453Z 24006KT 10SM FEW025 22/16 A2993 RMK AO2 SLP132 T02170161 53001 $ KCON 171451Z AUTO 00000KT 10SM CLR 17/09 A3001 RMK AO2 SLP164 T01670089 58003 KDEW 171453Z AUTO 00000KT 10SM CLR 13/08 A2984 RMK AO2 SLP099 T01280078 58000 EHAM 171525Z 06007KT 030V100 9999 FEW048 24/16 Q1011 NOSIG CZBF 171500Z 27009G17KT 15SM SCT028 14/07 A2989 RMK SC3 SLP122 CYKF 171500Z AUTO 26010KT 200V280 9SM CLR 16/08 A3002 RMK SLP167 DENSITY ALT 1300FT KBYG 171453Z AUTO 19003KT 10SM -RA CLR 21/06 A3005 RMK AO2 RAB09 SLP122 P0000 60000 T02110061 52004 KCNY 171453Z AUTO 14006KT 10SM CLR 22/06 A3006 RMK AO2 SLP125 T02170061 51013 KBYH 171451Z 00000KT 10SM OVC028 18/14 A3005 CXSP 171400Z AUTO 10008KT 07/06 RMK AO1 T00680055 KCOQ 171517Z AUTO 34004KT 10SM CLR 15/08 A2995 RMK AO2 CXTH 171400Z AUTO 11008KT 08/06 RMK AO1 T00760064 KBYI 171453Z AUTO 08004KT 10SM CLR 16/09 A2996 RMK AO2 SLP110 T01610089 51010 VEPT 171450Z 00000KT 3500 HZ FEW020 SCT100 29/26 Q1001 NOSIG CXSR 171500Z AUTO 24007KT 16/03 RMK AO1 SLP060 T01570027 56009 KCOS 171454Z 35003KT 10SM FEW100 BKN250 24/04 A3017 RMK AO2 SLP121 T02390044 51002 NZTU 171400Z 02003KT 1500 DZ SCT001 03/03 Q1013 RMK ALT VATSIM USE ONLY CYLA 171500Z 00000KT 15SM SCT011 OVC030 07/05 A2930 RMK SC4SC4 SLP926 CYKJ 171500Z AUTO 17011G16KT 9SM OVC011 M00/M01 A3004 RMK SLP203 KCOT 171514Z AUTO 15004KT 7SM -RA SCT007 SCT042 OVC055 A2996 RMK AO2 RAB00 P0000 KCPK 171455Z AUTO 06010G15KT 10SM SCT031 SCT070 BKN095 25/17 A3001 RMK AO2 KCQB 171515Z AUTO 23009KT 10SM CLR 27/25 A2995 RMK AO2 CYJT 171500Z 24013KT 15SM BKN020 17/12 A2985 RMK SC6 SLP109 KCQC 171453Z AUTO 31006KT 10SM -RA OVC085 14/12 A3027 RMK AO2 SLP177 P0000 60000 T01390122 53012 EGKK 171520Z 04012KT 8000 FEW022 21/16 Q1010 KCOU 171445Z AUTO A2997 RMK AO2 PWINO $ EHBK 171525Z AUTO 07008KT 030V090 9999 NSC 25/15 Q1010 NOSIG CYLC 171500Z 08010KT 15SM FEW050 FEW120 SCT350 08/01 A2946 RMK SC1AC1CI2 SLP980 CYKL 171507Z AUTO 29017G31KT 9SM -SN OVC025 00/M03 A2956 RMK SLP034 EGLC 171520Z 06008KT 9000 SCT020 21/15 Q1011 CYLD 171500Z 10004KT 15SM -SN OVC004 01/01 A2997 RMK SC8 SLP168 KDFW 171453Z 19006KT 10SM FEW140 SCT200 BKN250 28/21 A2997 RMK AO2 SLP140 T02780211 51003 KCQF 171515Z AUTO 04004KT 10SM CLR 27/22 A2996 RMK AO2 CYKO 161600Z 01017KT 15SM SCT012 SCT220 02/M03 A2965 RMK SC3CI1 LAST OB NEXT / 191200 UTC SLP041 EGLF 171520Z 05009KT 020V080 7000 BKN020 19/15 Q1010 CXTO 171500Z AUTO 17/09 RMK AO1 SLP161 T01710090 58008 CXTP 171500Z AUTO 23006KT 18/08 RMK AO1 SLP116 T01800075 58009 OSDI 171500Z 25011KT CAVOK 32/10 Q1010 EFTP 171520Z AUTO VRB00KT CAVOK 18/08 Q1027 CYKQ 171500Z 26004KT 15SM FEW008 BKN015 05/03 A2999 RMK CF1SC6 SLP157 CYLH 171500Z AUTO 36006KT 310V020 9SM OVC055 04/M05 A3008 RMK SLP198 KCPR 171453Z 28007KT 10SM CLR 18/03 A3008 RMK AO2 SLP126 T01780033 55004 NZWB 171400Z 18002KT 25KM BKN038 10/08 Q1014 RMK ALT NZNS VATSIM USE ONLY KCPS 171453Z 16005KT 7SM -RA SCT037 OVC060 15/12 A3006 RMK AO2 RAB44 SLP178 P0001 60001 T01500122 53009 KBYS 171455Z AUTO 35004KT 10SM CLR 26/16 A2990 RMK AO2 SLP070 T02620158 52012 $ CYLJ 171500Z 12010KT 15SM BKN007 OVC020 05/03 A2995 RMK SC7SC1 SLP159 CYMA 171500Z 01006KT 20SM VCFG FEW008 FEW080 02/01 A2965 RMK ST1AC1 ST TR AC TR VIS N 1 ALL CLDS TR SLP061 EFVA 171520Z AUTO 22007KT CAVOK 16/09 Q1025 KCPT 171515Z AUTO 18006KT 10SM CLR 26/24 A3000 RMK AO2 CYLK 170000Z 11007KT 15SM SKC 06/M07 A3010 RMK 6.0/0.0/0 LAST OB/NEXT 171400Z SLP204 CZDB 171500Z AUTO 24010G15KT 16/11 RMK AO1 1001 SLP144 T01620111 50002 ORMM 171500Z 30010KT CAVOK 36/11 Q1004 NOSIG CYLL 171500Z 13015KT 1SM BR OVC003 07/07 A2989 RMK ST8 SLP137 EGMC 171520Z 07008KT 6000 FEW014 20/16 Q1011 EFTU 171520Z AUTO 25004KT 220V280 9999 FEW044/// 17/10 Q1026 EGLL 171520Z 05007KT 010V080 7000 FEW021 20/15 Q1011 NOSIG KCQM 171514Z AUTO 01003KT 10SM BKN100 12/08 A2995 RMK AO2 EGMD 171520Z 05013KT 6000 NSC 22/18 Q1010 CXTV 171500Z AUTO 28006KT 04/03 RMK AO1 SLP964 T00350032 56005 KCRE 171453Z 36007KT 10SM CLR 26/18 A2993 RMK AO2 SLP137 T02560183 58001 KDGW 171453Z AUTO 33003KT 10SM CLR 17/04 A3008 RMK AO2 RAB1356E05 SLP132 P0000 60000 T01720044 51005 KDHN 171453Z 03004KT 10SM CLR 27/23 A3000 RMK AO2 SLP154 T02720228 50004 KCPW 171519Z AUTO 05009KT 10SM OVC090 08/02 A3057 RMK AO2 KBZN 171456Z 00000KT 10SM CLR 13/09 A3003 RMK AO2 SLP146 T01280089 53004 KCRG 171453Z 33005KT 10SM CLR 27/22 A2993 RMK AO2 SLP136 60000 T02670222 50002 KBYY 171515Z AUTO 27012KT 7SM +RA SCT018 SCT024 BKN044 27/26 A2997 RMK AO2 T02900276 KCRH 171515Z AUTO 16005KT 1SM BR BKN004 OVC017 25/24 A2998 RMK A01 CYKY 171500Z 10006KT 2SM BR BKN004 08/07 A2991 RMK SC7 SLP138 ORNI 171500Z 33007KT CAVOK 37/05 Q1006 NOSIG CZCP 171508Z AUTO 09019KT 5SM RA SCT013 02/ A2950 CYKZ 171500Z 25006KT 15SM FEW035 FEW240 17/08 A3001 RMK CU1CI1 CU TR SLP163 CYMH 171500Z 21013G23KT 15SM BKN042 BKN065 16/05 A2969 RMK CU5SC2 SLP054 DENSITY ALT 300FT NZWK 171400Z 18003KT 20KM SCT009 09/07 Q1016 RMK ALT NZTG VATSIM USE ONLY CZCR 171500Z AUTO 27008KT 12/07 RMK AO1 SLP124 T01180067 53011 KDIJ 171456Z AUTO 17005KT 10SM CLR 18/06 A3013 RMK AO2 50005 60000 T01770061 SLP123 CYMJ 171519Z 12008KT 3SM BR OVC002 RMK ST8 CYNA 171500Z AUTO 26009G15KT 9SM FEW033 OVC060 11/08 A2975 RMK SLP073 KCQT 171447Z AUTO 00000KT 10SM CLR 27/17 A2973 RMK AO2 SLP063 T02670172 53008 KDHT 171453Z AUTO 24011KT 10SM CLR 19/16 A3009 RMK AO2 SLP141 T01940156 51004 KDIK 171456Z AUTO 12004KT 10SM CLR 14/09 A2996 RMK AO2 SLP144 T01440094 53005 CYLT 171500Z 22008KT 15SM FEW070 FEW210 M09/M12 A2998 RMK AC1CI1 ACSL ASOCTD SLP157 EFUT 171520Z AUTO 33001KT CAVOK 15/09 Q1026 CYLU 171500Z 17003KT 15SM SCT025 BKN030 10/04 A2933 RMK SC3SC4 VIA CZNB SLP935 CYNC 171500Z 29010G16KT 15SM BKN025TCU BKN120 06/M00 A2993 RMK TCU5AS2 SLP135 EGNC 171520Z 08008KT 030V110 9999 SCT020 SCT025 19/14 Q1014 NZWN 171500Z AUTO 07002KT 9999 OVC070/// 10/06 Q1014 NOSIG TXKF 171455Z 24008KT 200V270 9999 -SHRA SCT013TCU BKN035 BKN090 BKN300 27/24 Q1012 RMK TCU E WND EST  EHDL 171455Z AUTO 08006KT 9999 FEW040 24/15 Q1011 BLU CYND 171500Z VRB02KT 15SM BKN070 13/10 A2998 RMK AC7 SLP154 CXVM 171400Z AUTO 13005KT 08/07 RMK AO1 T00770067 CYMM 171500Z AUTO 13011G18KT 8SM OVC007 04/03 A2989 RMK SLP136 KCQW 171515Z AUTO 00000KT 20/19 A2998 RMK AO2 NZWP 171438Z 34005KT 30KM FEW035 08/07 Q1016 RMK NZAA VATSIM USE ONLY CXVN 171500Z AUTO 24008KT 18/08 RMK AO1 SLP155 T01800077 58007 CYNE 171500Z AUTO VRB02KT 9SM CLR 03/M01 A3019 RMK SLP238 CYLW 171500Z AUTO VRB02KT 9SM FEW140 BKN160 BKN190 11/08 A2980 RMK SLP095 KCQX 171502Z AUTO 22004KT 10SM SCT030 SCT036 22/13 A3002 RMK AO2 T02220128 CYMO 171500Z AUTO 29009KT 9SM OVC070 05/M00 A3003 RMK SLP168 KCSG 171451Z 07007KT 10SM CLR 27/20 A2996 RMK AO2 SLP141 T02720200 50002 KCRP 171451Z 19013KT 10SM SCT012 SCT018 BKN250 28/25 A2995 RMK AO2 SLP141 TCU DSNT NE E T02830250 51008 NZWR 171438Z 34005KT 30KM FEW035 08/07 Q1016 RMK NZAA VATSIM USE ONLY KCRQ 171453Z AUTO 00000KT 7SM CLR 26/21 A2974 RMK AO2 SLP068 T02560206 53012 TSNO NZWS 171400Z 12005KT 10KM SHRA BKN020 08/08 Q1013 RMK ALT VATSIM USE ONLY EGNH 171520Z 08011KT 9999 FEW027 21/15 Q1013 EHEH 171455Z AUTO 09008KT 9999 FEW045 25/14 Q1010 BLU 10008KT CAVOK EFVR 171520Z AUTO 25003KT CAVOK 15/08 Q1026 KCRS 171453Z AUTO VRB06KT 10SM OVC012 26/22 A3000 RMK AO2 SLP151 T02610217 52002 NZWU 171400Z 08003KT 45KM BKN021 09/08 Q1014 RMK ALT NZPM VATSIM USE ONLY CYOA 171507Z 15017KT 6SM -RAPL OVC050 RMK SC8 CZFA 171500Z 14003KT 30SM FEW080 FEW240 M01/M01 A2966 RMK AC1CI1 AC TR CI TR SLP071 EGNJ 171520Z 02008KT 2000 BR BKN003 OVC007 17/16 Q1013 KCTB 171456Z AUTO 31003KT 10SM CLR 16/07 A2991 RMK AO2 SLP105 T01560067 58001 KDKB 171515Z AUTO 21003KT 10SM BKN085 15/08 A3004 RMK AO2 T01500079 CYMT 171500Z 30004KT 260V360 15SM SCT030 OVC100 03/M03 A2999 RMK CU4AS4 SLP172 CYOC 171500Z 25004KT 35SM BKN015 OVC030 07/06 A2948 RMK ST6SC2 VIS N 2 1/2 SLP995 CYMU 171500Z 35005KT 15SM -SHSN FEW012 SCT025 SCT230 03/M00 A2977 RMK ST0SC3CI0 SLP088 CZEL 171500Z AUTO 15/08 RMK AO1 SLP168 T01450076 58006 KCSM 171453Z 23012KT 10SM CLR 26/18 A3000 RMK AO2 SLP135 T02610183 53002 CXWM 171400Z AUTO 26005KT 08/05 RMK AO1 T00750052 CYOD 171500Z 11008KT 10SM OVC005 07/06 A2990 RMK ST8 CIG VRB 3-7 SLP139 CYNM 171509Z AUTO 00000KT 9SM OVC010 02/00 A3001 RMK SLP178 EGNM 171520Z 02006KT 350V050 6000 BKN006 15/14 Q1014 EHDV 171455Z AUTO 10016KT 5000 NCD 17/16 Q1013 EHFD 171455Z AUTO 09020KT 9999 FEW012/// 18/16 Q1015 KCRW 171454Z 00000KT 8SM FEW002 OVC008 15/13 A3005 RMK AO2 SLP174 T01500133 $ CXVW 171400Z AUTO 18011KT 08/06 RMK AO1 T00810055 CXWN 171500Z AUTO 04005KT 06/04 RMK AO1 SLP188 T00590038 51021 KCRX 171515Z AUTO 03003KT 10SM CLR 22/14 A3003 RMK AO2 EGNO 171320Z 09007KT 9999 FEW030 21/14 Q1013 CYMX 171500Z 23004KT 200V290 45SM BKN060 10/08 A2999 RMK SC7 SLP158 KEBG 171455Z AUTO 18009KT 10SM CLR 29/23 A2996 RMK AO2 T02900229 KCSQ 171515Z AUTO 15007KT 10SM FEW020 FEW046 19/15 A2996 RMK AO2 UNTT 171500Z 14003MPS CAVOK 08/05 Q1010 NOSIG RMK QFE742 KEAR 171515Z AUTO 02004KT 10SM CLR 17/13 A2995 RMK AO1 EGNR 171520Z 10008KT 9999 SCT032 21/14 Q1012 KCTJ 171515Z AUTO 02006KT 10SM CLR 25/17 A2999 RMK AO2 CYOJ 171500Z 13007KT 3SM BR OVC003 06/06 A2968 RMK ST8 SLP063 KCUB 171453Z AUTO 00000KT 10SM CLR 26/19 A2996 RMK AO2 SLP144 T02610189 50005 EGPA 171520Z 12010KT 1900 BR BKN001 BKN002 15/14 Q1017 EGNS 171520Z 07008KT 040V100 CAVOK 19/12 Q1013 NOSIG CYPA 171523Z 11012G17KT 5SM BR OVC007 05/05 A3004 RMK ST8 CIG RAG SLP190 KDKK 171453Z AUTO 22007KT 10SM OVC070 17/09 A3004 RMK AO2 SLP172 T01670094 58003 KEAT 171455Z AUTO 00000KT 10SM CLR 19/08 A2977 RMK AO2 SLP073 T01890078 53004 EGPB 171520Z 11012KT 9999 FEW007 15/14 Q1019 NOSIG EGNT 171520Z 04006KT 9999 SCT008 BKN013 16/14 Q1014 KEAU 171456Z 20007KT 10SM BKN065 BKN080 14/09 A2997 RMK AO2 SLP151 T01390094 58001 CYPC 171500Z 17010G17KT 15SM BKN015 OVC030 05/03 A2948 RMK SC6SC1 SLP985 ZUGY 171500Z 03002MPS 7000 -RA FEW010 BKN020 OVC036 20/20 Q1017 NOSIG EGPC 171520Z 11008KT 0150 FG VV/// 13/13 Q1017 KCSV 171517Z AUTO 07004KT 10SM SCT014 17/11 A3003 RMK AO2 T01720111 CZFM 171500Z 33005KT 1/4SM -DZ FG VV003 07/07 A2945 RMK FG8 SLP975 CZEV 171500Z AUTO 29006KT 03/03 RMK AO1 2PAST HR 5003 SLP974 P0001 T00330026 50008 EGOM 171450Z 08007KT 9999 SCT020 18/13 Q1014 WHT CYPD 171500Z AUTO 31009G16KT 260V330 9SM CLR 16/11 A2993 RMK SLP136 DENSITY ALT 600FT EGPD 171450Z 11005KT 060V170 1300 R16/1000 BR OVC001 14/14 Q1016 NOSIG EGNV 171520Z 04007KT 7000 FEW009 BKN013 16/14 Q1014 CZFN 171500Z 36005KT 30SM FEW040 FEW090 SCT250 03/03 A2961 RMK SC2AC1CI1 9.5/3.5/0 SLP033 CYPE 171500Z 18003KT 15SM FEW100 BKN170 OVC220 09/09 A2971 RMK AC1AC6CI2 AC TR SLP073 KDLF 171503Z AUTO 12005KT 10SM SCT011 BKN028 26/24 A2998 RMK AO2 CIG 010V029 $ EGPE 171520Z 05006KT 9000 2000S FEW002 SCT004 BKN008 14/13 Q1016 CYOO 171500Z AUTO 21006KT 180V260 9SM CLR 17/09 A3000 RMK SLP161 DENSITY ALT 600FT EGNX 171520Z 03009KT 8000 FEW013 SCT020 18/15 Q1012 EGPF 171520Z 07010KT 050V110 9999 SCT019 BKN025 17/13 Q1015 KECG 171454Z 04015KT 10SM FEW042 BKN085 23/16 A2999 RMK AO2 SLP156 T02330161 53003 CYPG 171500Z 04006KT 15SM OVC011 07/05 A3010 RMK SC8 SLP199 EGOP 171450Z AUTO 06013KT 9999 // FEW140/// 23/14 Q1009 EHGG 171525Z AUTO 09008KT 060V130 9999 NCD 24/14 Q1012 NOSIG KDLH 171455Z 33006KT 10SM FEW090 15/07 A2994 RMK AO2 SLP142 T01500072 50005 VISNO RWY 27 KCUH 171455Z AUTO 20010G16KT 10SM CLR 25/22 A2995 RMK AO2 CXYH 171500Z AUTO 01002KT 05/05 RMK AO1 SLP014 T00530049 56008 CYPH 171522Z AUTO 36013G20KT 7SM -RA FEW025 BKN039 BKN048 02/M01 A2974 RMK SLP073 EGPH 171520Z 05007KT 8000 FEW009 OVC021 15/13 Q1015 KDKR 171510Z AUTO 00000KT 9SM OVC006 26/25 A3002 RMK AO2 KDMA 171458Z AUTO 16002KT 10SM CLR 23/21 A2990 RMK AO2 RAB1434DZB1402E1434 SLP085 P0001 60001 T02250212 52008 $ KEBS 171515Z AUTO VRB04KT 10SM OVC050 16/12 A2997 RMK AO2 EGPI 171520Z 25007KT 9999 FEW048 17/13 Q1014 CZFS 171500Z AUTO 31002KT 05/04 RMK AO1 SLP033 T00530037 57008 EGOS 171450Z 08010KT 9999 FEW028 BKN250 20/12 Q1012 BLACKBLU NOSIG CYQA 171523Z AUTO 23006KT 9SM BKN018 BKN140 BKN200 15/11 A2996 RMK SLP152 DENSITY ALT 1000FT KCVB 171515Z AUTO 00000KT 7SM SCT013 BKN021 BKN027 26/24 A2999 RMK AO2 P0001 T02590239 EHFS 171455Z AUTO 09008KT 9999 NCD 24/15 Q1010 CYQB 171500Z 33003KT 290V040 30SM FEW018 FEW030 OVC060 11/06 A2996 RMK SC1SC1SC6 SLP149 EGPK 171520Z 04008KT 360V070 9999 FEW048 20/13 Q1014 KCVC 171515Z AUTO 34004KT 10SM CLR 27/18 A2997 RMK AO2 KCUL 171515Z AUTO 08004KT 10SM SCT018 18/13 A3005 RMK AO2 T01800133 KEDC 171515Z AUTO 00000KT 9SM SCT011 OVC035 26/24 A2999 RMK AO2 KDLL 171515Z AUTO 24005KT 10SM BKN070 BKN090 15/07 A3002 RMK AO2 T01480073 CYPL 171500Z VRB02KT 12SM FEW005 SCT040 02/M01 A3010 RMK SF2SC2 BR SLP211 CXZC 171500Z AUTO 29006KT 05/02 RMK AO1 8002 SLP167 T00450015 50011 EGPL 171450Z 04007KT 9999 FEW025 19/13 Q1016 VGEG 171450Z 21003KT 6000 LT FEW018 FEW030CB SCT120 29/26 Q1001 TEMPO TS CYQD 171500Z 10005KT 15SM BKN040 03/M01 A3017 RMK SC6 SLP230 EGPM 171520Z 14020KT 9000 FEW008 SCT011 15/13 Q1019 NOSIG KDLN 171453Z AUTO 23006KT 6SM HZ CLR 12/06 A3006 RMK AO2 SLP142 T01170061 53005 EGOV 171450Z 05015KT CAVOK 21/14 Q1011 BLU NOSIG KEDE 171455Z AUTO 05007KT 10SM SCT026 BKN035 OVC065 24/18 A2999 RMK AO2 T02360183 EGPN 171520Z 12002KT 9999 BKN011 16/14 Q1015 CYOW 171500Z 25004KT 15SM FEW025 BKN076 11/09 A2999 RMK CU1AC7 CU TR SLP158 CYQF 171500Z 19003KT 15SM SCT250 09/07 A2984 RMK CI3 SLP120 DENSITY ALT 3000FT KCVG 171452Z 01004KT 10SM OVC032 14/11 A3007 RMK AO2 SLP177 T01440106 56007 KCTY 171453Z AUTO 03004KT 28/23 A2995 RMK AO1 SLP141 P0097 60098 T02780228 50004 EGPO 171520Z 05011KT 9999 3000E PRFG FEW000 16/13 Q1016 KECP 171453Z VRB03KT 10SM SCT009 28/23 A2996 RMK AO2 SLP155 60001 T02780228 50005 KDLP 171515Z AUTO 36005KT 10SM CLR 28/24 A2998 RMK A01 CYQG 171500Z 26008KT 15SM FEW020 FEW280 15/06 A3004 RMK CF1CI1 TR CF SLP174 CYOY 171500Z AUTO 28003KT 220V320 9SM OVC059 OVC088 11/05 A2995 RMK SLP148 KCVH 171510Z AUTO 00000KT 10SM CLR 15/13 A2984 RMK AO1 KDMH 171454Z AUTO 21/09 A3007 RMK AO1 SLP181 T02060089 58001 KCTZ 171515Z AUTO 07004KT 10SM OVC016 24/21 A2996 RMK AO2 T02350207 CYPQ 171500Z AUTO 23007KT 170V290 9SM CLR 17/08 A2999 RMK SLP157 DENSITY ALT 900FT CYQH 171500Z 28003KT 30SM BKN040 08/06 A2966 RMK SC6 SLP058 EHFZ 171455Z AUTO 10015KT 7000 NCD 18/16 Q1014 CYQI 171500Z 26009KT 15SM FEW016 FEW025 16/12 A3000 RMK CF1SC1 CF TR SLP158 DENSITY ALT 200FT CYPR 171519Z AUTO 10004KT 080V140 1/4SM FG VV003 10/10 A2979 RMK SLP089 KDLS 171453Z AUTO 00000KT 10SM CLR 17/11 A2974 RMK AO2 SLP070 T01720106 56002 KCWA 171452Z 22006KT 10SM SKC 13/11 A2999 KECS 171515Z AUTO 10SM CLR 20/02 A3002 RMK AO2 EHGR 171455Z AUTO 11006KT 9999 NCD 25/13 Q1010 BLU CYRA 171500Z 15007KT 15SM BKN070 07/03 A2962 RMK AC7 SLP043 KCUT 171453Z AUTO 00000KT 10SM FEW100 17/02 A3009 RMK AO2 SLP135 T01720022 50003 EGQK 171350Z AUTO 01007KT 9999 FEW013/// BKN023/// BKN032/// 14/13 Q1016 CYRB 171500Z 01006KT 12SM -SN SCT014 BKN024 M04/M05 A2992 RMK SC2SC3 SLP140 CYQK 171500Z 06006KT 040V100 10SM -DZ OVC007 04/03 A3005 RMK SF8 SLP189 KCWC 171455Z AUTO 25006KT 10SM CLR 27/20 A2999 RMK AO2 T02700203 KECU 171510Z AUTO 14005KT 10SM SCT016 BKN021 26/21 A3006 RMK AO2 CYQL 171500Z 24005KT 25SM FEW250 12/08 A2987 RMK CI1 SLP118 DENSITY ALT 3400FT EGQL 171450Z 11004KT 0900 -DZ SCT002 OVC003 14/13 Q1015 AMB KEED 171456Z AUTO 00000KT 10SM CLR 28/21 A2982 RMK AO2 SLP069 T02780206 50009 EGPU 171450Z AUTO 01008KT 080V140 9999 NCD 17/13 Q1015 CYQM 171500Z 22011KT 15SM FEW035 17/08 A2991 RMK CU1 SLP130 DENSITY ALT 500FT KDMN 171453Z AUTO 05013KT 10SM FEW041 SCT050 20/18 A3010 RMK AO2 SLP130 60010 T02000178 53006 KCVN 171515Z AUTO 23009KT 10SM 19/17 A3016 RMK AO1 KEDN 171515Z AUTO 00000KT 10SM CLR 26/22 A2997 RMK AO2 EGQM 171450Z AUTO 33008KT 8000 BR SCT003/// BKN009/// 15/14 Q1015 CYPW 171500Z 13006KT 20SM FEW080 BKN110 OVC220 16/13 A2980 RMK AC2AC5CI1 SLP090 DENSITY ALT 700FT KDMO 171519Z AUTO 15006KT 4SM -RA BR OVC004 18/17 A2995 RMK AO2 CIG 002V007 P0002 T01830172 KCVO 171515Z AUTO 00000KT 10SM CLR 14/11 A2976 RMK AO1 KCWF 171510Z 12003KT 10SM SCT006 26/23 A2999 CYPX 171500Z 32014G19KT 15SM FEW035 SCT055 01/M01 A2968 RMK SC2SC2 SLP053 CYPY 171400Z AUTO 15006G15KT 120V200 9SM RMK CLD MISG PCPN MISG KDLZ 171517Z AUTO 00000KT 10SM OVC041 15/10 A3007 RMK AO2 CYQQ 171500Z 32003KT 20SM BKN120 15/14 A2978 RMK AC7 SLP085 KCWI 171515Z AUTO 19003KT 10SM CLR 15/11 A3005 RMK AO1 CYQR 171524Z 11014KT 12SM OVC005 09/08 A2999 RMK SC8 SLP169 KCVS 171458Z 24007KT 7SM -DZ FEW008 BKN021 OVC027 19/18 A3014 RMK AO2A RAB1449DZB1432 SLP159 P0000 60000 50004 $ CYRJ 171500Z 32006KT 300V040 40SM BKN025 BKN120 06/00 A3001 RMK SC6AC1 SLP167 EGQS 171515Z 05005KT 4000 0700NW BCFG FEW002 BKN003 OVC010 13/13 Q1016 RED TEMPO BKN002 RED EHJA 171455Z AUTO 06014KT 5000 FEW008/// 20/17 Q1013 CYSB 171500Z 08007KT 20SM FEW011 SCT030 OVC082 07/05 A2993 RMK SC2SC2AC4 PRESFR SLP145 CYQT 171500Z 04008KT 10SM -DZ OVC011 05/04 A3002 RMK SF8 -DZ INTMT SLP175 OTBD 171500Z 08005KT CAVOK 35/23 Q1003 NOSIG KDNL 171453Z AUTO 00000KT 5SM HZ CLR 25/21 A2996 RMK AO2 SLP140 T02500211 53001 KEDU 171515Z AUTO 18006KT 10SM CLR 18/13 A2978 RMK AO1 CYRL 171500Z 04004KT 15SM OVC016 03/02 A3010 RMK SC8 CIG RAG VIA CYPL SLP212 CXZU 171500Z AUTO 00000KT 08/06 RMK AO1 SLP100 T00760059 58002 CYQU 171500Z CCA 22007KT 15SM SCT080 BKN220 07/07 A2974 RMK FU4CI3 BR FU ALF SLP083 EGSC 171520Z 02007KT 340V060 7000 FEW015 BKN019 BKN024 20/16 Q1011 CYSC 171509Z AUTO 25003KT 9SM BKN025 13/08 A2997 RMK SLP154 KEFD 171450Z 21003KT 10SM BKN020TCU BKN180 28/25 A2998 RMK TCU N CYSD 162200Z 16007KT 25SM FEW230 26/09 A2988 RMK CI1 DA4518FT SLP115 EGSD 171520Z 02006KT 350V060 2300 BR SCT004 OVC006 18/17 Q1012 CXZV 171100Z AUTO 28004KT 07/06 RMK AO1 3016 SLP067 T00670058 50007 CYQV 171500Z AUTO 12012KT 9SM OVC008 06/04 A3007 RMK SLP197 KDMW 171515Z AUTO 24004KT 10SM SCT035 BKN055 18/11 A3007 RMK AO2 KEEN 171515Z AUTO 00000KT 10SM CLR 14/06 A3003 RMK AO1 KCVW 171515Z AUTO 08004KT 10SM SCT013 28/25 A3001 RMK A01 KCXE 171515Z AUTO 07006KT 10SM BKN050 OVC085 23/15 A3003 RMK AO1 T02270154 KDNN 171515Z AUTO 00000KT 10SM CLR 21/17 A2999 RMK AO2 KEDW 171458Z 04003KT 80SM FEW120 23/06 A2986 RMK AO2A SLP085 T02260058 53006 KCWN 171456Z AUTO VRB02KT 10SM CLR 23/03 A3020 RMK AO2 SLP130 T02280029 53004 CYQW 171509Z AUTO 11015G20KT 3SM BR OVC005 06/05 A2997 RMK SLP163 KEEO 171453Z AUTO 00000KT 10SM CLR 14/04 A3022 RMK AO2 SLP166 T01440044 50004 KCVX 171515Z AUTO 25012KT 10SM SCT120 17/12 A3000 RMK AO2 T01740121 CYSF 171500Z AUTO 09005KT 9SM CLR 01/M01 A3004 RMK SLP189 CYQX 171500Z 24007KT 20SM FEW045 BKN110 17/04 A2987 RMK CU1AC4 SLP116 DENSITY ALT 900FT CZHY 171500Z AUTO 18008KT 07/04 RMK AO1 SLP034 T00680035 58025 CYQY 171500Z 28009KT 15SM FEW030 BKN045 17/10 A2991 RMK CU2CU4 SLP131 DENSITY ALT 400FT CYRQ 171500Z AUTO 03004KT 9SM OVC034 11/08 A2998 RMK SLP152 CYQZ 171500Z AUTO 08003KT 310V120 7SM SCT110 SCT130 08/08 A2981 RMK SLP107 EGSH 171520Z 02005KT 350V060 6000 SCT009 SCT011 19/16 Q1012 KDPA 171452Z 22004KT 10SM CLR 16/08 A3003 RMK AO2 SLP171 T01610078 56006 KDNS 171515Z AUTO 00000KT 10SM CLR 18/14 A2994 RMK AO2 CYSJ 171500Z 25005KT 210V300 15SM FEW025 18/07 A2996 RMK CU2 SLP146 DENSITY ALT 700FT KEET 171453Z AUTO VRB03KT 6SM BR OVC005 22/20 A3000 RMK AO2 SLP154 T02220200 51004 KEFK 171515Z AUTO 26009KT 10SM CLR 15/08 A3000 RMK AO2 T01500077 CYSK 171500Z 26015KT 15SM BKN014 03/00 A2980 RMK SC6 SLP092 CYRT 171500Z 35013KT 15SM SCT030 M02/M09 A3001 RMK SC4 SLP167 EGTC 171520Z 05010KT 4000 HZ FEW018 BKN024 20/17 Q1011 KCWV 171455Z AUTO 00000KT 10SM BKN009 26/25 A2995 RMK AO2 KDNV 171515Z AUTO 00000KT 7SM CLR 15/12 A3003 RMK AO2 T01520115 CYSM 171515Z 14015G20KT 15SM OVC005 RMK ST8 CIG RAG CYRV 171500Z AUTO 00000KT 3SM BR CLR 07/06 A2989 RMK SLP127 KEGE 171459Z 00000KT 10SM FEW200 09/04 A3032 EHKD 171525Z AUTO 05007KT 9999 NCD 22/18 Q1012 BLU 06008KT 8000 FEW020 CYSN 171500Z 29008KT 230V310 15SM FEW020 18/10 A3002 RMK CU1 TCU TOPS DIST S SLP165 DENSITY ALT 600FT CYTE 171500Z 31012G20KT 5SM -SN DRSN BKN015 OVC028 M01/M03 A2960 RMK SC6SC2 SLP028 EGTE 171520Z 06011KT 9999 FEW030 22/15 Q1008 KCXO 171509Z 00000KT 10SM OVC005 25/24 A2999 RMK AO2 CIG 003V006 T02500244 CYSP 171500Z 05004KT 12SM FEW007 BKN016 BKN090 01/01 A3001 RMK SC2SC3AC2 SLP179 CYTH 171500Z 13002KT 15SM FEW030 02/M04 A3020 RMK SC1 SLP242 KEGI 171455Z 06003KT 10SM FEW010 FEW250 26/26 A2996 RMK AO2A SLP146 T02580256 50003 $ EHJR 171455Z AUTO 07015G16KT //// ///////// 18/17 Q1012 W18/H10 KEHA 171508Z AUTO 26005KT 21/16 RMK AO1 PK WND 07 000 T02110156 OSLK 171500Z 24006KT CAVOK 28/20 Q1008 EGSS 171520Z 04005KT 020V080 5000 HZ OVC018 19/16 Q1011 CYUA 171500Z AUTO 30016KT 1 3/4SM OVC045 03/ A2950 RMK SLP993 KEFT 171515Z AUTO 19005KT 10SM BKN090 16/08 A3002 RMK AO2 EGTK 171520Z 08010KT 050V110 9000 SCT028 21/16 Q1011 CYUB 171500Z 01003KT 1/4SM FG VV002 04/03 A2943 RMK FG8 SLP966 EGUB 171450Z 04009KT 9999 FEW030 BKN250 21/14 Q1010 BLU NOSIG KDPL 171455Z AUTO 05003KT 10SM OVC019 24/19 A2997 RMK AO2 T02350190 KEHC 171515Z AUTO VRB04KT 10SM CLR 29/23 A2998 RMK A01 CYTL 171500Z AUTO 33009G15KT 9SM OVC043 02/M06 A3011 RMK SLP208 KDOV 171458Z AUTO 00000KT 10SM CLR 21/11 A3004 RMK AO2 SLP176 T02130108 50003 KCXY 171456Z 00000KT 10SM FEW025 19/09 A3007 RMK AO2 SLP183 T01890089 58002 CYSY 171500Z 11017KT 10SM BKN080 M00/M03 A2966 RMK AC6 SLP053 KDQH 171515Z AUTO 00000KT 10SM CLR 30/21 A2997 RMK AO2 VGHS 171450Z 00000KT 4000 HZ FEW015 SCT100 29/24 Q1000 NOSIG CYTQ 171500Z 30023G30KT 12SM -DZ BKN008 BKN060 OVC200 04/01 A2934 RMK SF5SC2CS0 CIG ESTD DUE STG WND SLP939 CYTR 171500Z 23009KT 15SM FEW030 FEW080 18/10 A3000 RMK CU1AC1 SLP159 KCYS 171453Z 00000KT 10SM CLR 20/04 A3014 RMK AO2 SLP124 T02000039 51005 KDRA 171452Z AUTO 07005KT 10SM CLR 25/12 A2995 RMK AO2 SLP089 T02500122 53008 CYTS 171500Z 01002KT 1 1/2SM -SN VV003 01/01 A3001 RMK SN8 SLP176 EHMA 171455Z AUTO 08015KT 9999 NSC 20/17 Q1013 EGVA 171458Z AUTO 06012KT 9999 CLR 21/14 A2984 RMK AO2 SLP106 T02140139 56014 EICK 171500Z 09016KT CAVOK 19/13 Q1009 NOSIG CYUL 171500Z 22008KT 30SM FEW020 BKN084 14/08 A2999 RMK SC1AC6 SLP154 CYVC 171500Z 14012G20KT 15SM OVC010 05/02 A3008 RMK SC8 SLP204 KEGV 171515Z AUTO 28005KT 10SM CLR 15/06 A2995 RMK AO2 T01500061 EGUL 171518Z AUTO 36007KT 9999 SCT016 19/19 A2987 RMK AO2 CZMD 171500Z AUTO 31007KT 270V010 9SM OVC046 03/M05 A3013 RMK SLP219 EHKV 171455Z AUTO 09016KT 6000 NCD 19/17 Q1012 KEHO 171455Z AUTO 02005KT 10SM BKN016 OVC024 20/16 A3001 RMK AO2 T01960161 EGUN 171508Z AUTO 02006KT 9999 SCT015 SCT021 BKN160 19/19 A2987 RMK AO2 CIG 015 RWY29 EGUO 171450Z 05010KT 6000 HZ NSC 21/14 Q1011 WHT EHMG 171455Z AUTO 08024KT 9000 NSC 20/17 Q1013 CYTZ 171500Z AUTO 20008KT 9SM CLR 17/10 A3000 RMK SLP161 DENSITY ALT 400FT KEHR 171515Z AUTO 10007KT 10SM FEW018 16/12 A3005 RMK AO1 KDRI 171515Z AUTO 00000KT 4SM BR OVC003 24/23 A3002 RMK AO2 T02360228 CZMJ 171500Z AUTO 11009KT 08/07 RMK AO1 SLP163 T00800073 51011 CYUS 171500Z AUTO 31020KT 9SM OVC011 M04/ A2988 RMK SLP124 CYWA 171500Z AUTO 07003KT 030V100 9SM BKN017 OVC042 OVC050 OVC067 14/10 A2994 RMK SLP143 KEIK 171515Z AUTO 00000KT 10SM CLR 21/08 A3009 RMK AO2 T02120077 KCZT 171515Z AUTO 13005KT 10SM SCT006 BKN012 OVC070 26/24 A2995 RMK AO2 CYUT 171519Z 34011KT 15SM SCT020 BKN075 M02/M05 A2986 RMK SC4AC1 SLP112 EIDL 171500Z 09007KT CAVOK 20/14 Q1014 EGWC 171450Z 06012KT 9999 SCT032 21/13 Q1013 BLU KDRM 171515Z AUTO 23003KT 10SM OVC010 13/12 A2993 RMK AO2 T01330116 CYVM 171500Z 04004KT 12SM HZ SCT070 OVC083 03/02 A2976 RMK AC4AS4 SUN DIMLY VISBL ST FU TR SLP078 CYWE 171519Z AUTO 17008KT 9SM BKN019 OVC037 05/01 A2964 RMK SLP058 KDRO 171453Z AUTO 00000KT 10SM CLR 14/08 A3024 RMK AO2 SLP169 T01440083 51003 EGVN 171450Z 06011KT 9999 FEW030 BKN250 21/13 Q1011 NOSIG EGUW 171450Z 02007KT 7000 HZ BKN016 20/16 Q1011 WHT NOSIG EHLW 171455Z AUTO 08009KT 9999 NCD 24/15 Q1012 BLU 10010KT 9999 FEW036 KFAF 171458Z AUTO 07006KT 10SM SCT030 BKN070 23/14 A3001 RMK AO2 SLP165 T02310139 50003 $ CYUX 171500Z 05009KT 15SM FEW015 FEW040 FEW130 FEW200 M01/M05 A2982 RMK CF1SC1AC1CS1 SC TR AC TR CS TR SLP098 KEHY 171515Z AUTO 27009KT 10SM CLR 21/01 A3020 RMK AO2 EGVO 171450Z 05011KT 8000 HZ FEW020 BKN250 19/14 Q1010 BLU NOSIG CYVO 171526Z 06005KT 340V100 15SM OVC011 03/01 A2999 RMK SC8 SLP170 EGUY 171350Z 03008KT 6000 HZ OVC013 18/15 Q1013 GRN EGVP 171450Z 05012KT 8000 HZ FEW050 BKN230 20/14 Q1010 BLU NOSIG CYWG 171500Z 06011KT 15SM OVC007 06/04 A3009 RMK ST8 SLP196 CYUY 171500Z VRB02KT 15SM BKN005 OVC015 03/01 A3001 RMK SF7SC1 SLP176 CYVP 171522Z 27010G17KT 10SM -SHRA VCFG SCT015 BKN025 OVC040 05/03 A2937 RMK SF4SC2SC2 VIS LWR SW SLP946 KCZZ 171452Z AUTO 08006KT 24/16 A2986 RMK AO1 SLP075 T02390156 51008 CYWH 171500Z 00000KT 15SM BKN100 BKN120 14/13 A2979 RMK AC6AC2 SLP086 CYVQ 171500Z 35003KT 350V100 30SM PRFG FEW002 SCT100 M01/M01 A2960 RMK ST1AC2 VIS W-NW 1/2 SLP030 KEIR 171515Z AUTO VRB06KT 9SM 25/23 A3001 RMK A01 CYVR 171500Z 10005KT 15SM FEW085 SCT097 BKN110 OVC120 16/14 A2979 RMK AC1AC3AC2AC2 SLP087 DENSITY ALT 200FT KDTA 171515Z AUTO 16005KT 10SM CLR 23/08 A3005 RMK AO1 T02310082 CYWJ 171500Z 33003KT 1/8SM FG OVC070 02/01 A2960 RMK FG7AC1 SLP036 KDRT 171519Z AUTO 15004KT 10SM FEW014 SCT029 27/23 A2996 RMK AO2 T02670228 CZMT 171500Z 16002KT 15SM SCT015 BKN020 BKN095 OVC200 09/09 A2978 RMK SC4SC2AC1CS1 SLP085 CYVT 171500Z 14010G15KT 15SM BKN006 OVC012 02/01 A2996 RMK ST5SC3 SLP166 CYWK 171514Z 30016G26KT 15SM BKN045 02/M06 A2970 RMK SC5 SLP082 KH21 171515Z AUTO 12003KT 10SM -RA SCT008 BKN080 OVC100 18/17 A2997 RMK AO2 LTG DSNT SE THRU W CZMU 171400Z AUTO 09003KT 04/04 RMK AO1 T00350042 CYXC 171500Z 28003KT 200V300 25SM FEW200 BKN240 10/05 A2993 RMK CI1CI5 SLP134 DENSITY ALT 3200FT CYWL 171500Z 00000KT 15SM BKN090 BKN130 OVC220 12/03 A2981 RMK AC5AC2CI1 SLP098 DENSITY ALT 3500FT KDSM 171454Z 14004KT 10SM BKN060 17/13 A2997 RMK AO2 SLP146 T01670128 52004 KFAM 171515Z AUTO 13005KT 110V170 7SM BKN016 BKN044 13/11 A3008 RMK AO1 LTG DSNT S P0002 EGXC 171510Z 04006KT 6000 HZ FEW006 BKN008 17/15 Q1012 GRN BECMG SCT006 YLO1 CYVV 171500Z 24011KT 15SM FEW045 SCT080 BKN250 15/11 A2997 RMK SC2AC2CC2 SLP151 CYXD 171500Z AUTO 00000KT 9SM CLR 10/07 A2981 RMK SLP100 EGXD 171450Z 35010KT 7000 HZ BKN016 16/14 Q1014 WHT TEMPO BKN010 GRN EGXE 171450Z 02008KT 9999 OVC010 16/14 Q1014 GRN NOSIG CYXE 171500Z 11009KT 4SM BR OVC003 09/08 A2999 RMK ST8 SLP171 EIDW 171500Z 06011KT 7000 SCT008 BKN013 16/13 Q1013 BECMG BKN020 KFBG 171458Z AUTO 05007KT 10SM OVC015 23/19 A2997 RMK AO2 OVC V BKN SLP150 T02270193 52005 $ CYXH 171500Z VRB02KT 30SM FEW250 11/08 A2986 RMK CI1 SLP114 DENSITY ALT 2400FT KFAR 171453Z 02003KT 10SM CLR 16/09 A2994 RMK AO2 SLP142 T01560094 51012 $ KDUA 171515Z AUTO 00000KT 10SM CLR 26/23 A2999 RMK AO2 CYXJ 171500Z 17003KT 15SM BKN230 08/07 A2969 RMK CI7 SLP067 KFAT 171453Z 29003KT 10SM FEW090 SCT180 22/13 A2979 RMK AO2 SLP085 MTNS OBSC FU HZ DSNT N-E-S T02220128 53009 KDUB 171515Z AUTO 07004G17KT 10SM SCT100 SCT120 13/06 A3019 RMK AO2 LTG DSNT SW CYYB 171500Z 07006KT 30SM BKN018 OVC080 10/07 A2993 RMK SC6AC2 SLP142 KFBL 171514Z AUTO 20004KT 10SM BKN049 17/09 A2997 RMK AO2 KDTL 171515Z AUTO 04005KT 10SM CLR 15/11 A2996 RMK AO2 KDUC 171455Z AUTO 00000KT 10SM CLR 27/22 A2998 RMK AO2 KEKM 171450Z 19004KT 10SM CLR 15/08 A3005 RMK AO2 CZOL 171400Z AUTO 00000KT 02/02 RMK AO1 T00230018 CYXL 171500Z 07004KT 330V120 12SM SCT005 OVC010 03/03 A3007 RMK SF4SF4 CIG RAG SLP197 CZPC 171500Z AUTO 31006KT 9SM FEW250 10/05 A2990 RMK SLP126 DENSITY ALT 4100FT CYYC 171500Z 19004KT 30SM FEW190 SCT300 10/04 A2987 RMK AC1CI3 SLP122 DENSITY ALT 3900FT EGWU 171450Z 07010KT 9999 SCT023 BKN250 20/14 Q1011 BECMG FEW025 KELD 171515Z AUTO 00000KT 6SM HZ FEW005 24/21 A3001 RMK AO2 T02440211 KDSV 171454Z AUTO 12004KT 10SM SCT065 16/10 A3005 RMK AO2 SLP186 T01610100 58007 EGYD 171450Z 03008KT 5000 HZ OVC007 17/15 Q1013 GRN BECMG 4000 BR BKN004 YLO2 CYYD 171500Z 00000KT 25SM BCFG SCT140 BKN210 04/04 A2980 RMK AC3CI4 SLP097 KEKN 171451Z AUTO 00000KT 10SM CLR 15/10 A3009 RMK AO2 SLP191 T01500100 58006 TSNO KDTN 171453Z 00000KT 10SM CLR 27/22 A2998 RMK AO2 SLP150 T02670222 51002 CYXN 171500Z 32013G20KT 15SM SCT015 M01/M06 A3003 RMK SC3 SLP171 EGYE 171150Z 04007KT 9999 SCT010 OVC020 ///// Q1013 GRN CYYE 171500Z 00000KT 1/4SM FG SKC 04/04 A2965 RMK FG7 SLP052 KDTO 171453Z 21007KT 10SM CLR 28/21 A2997 RMK AO2 SLP140 T02780211 51003 KEKO 171456Z AUTO 00000KT 10SM CLR 12/01 A3004 RMK AO2 SLP127 T01220006 51009 CYYF 171500Z VRB02KT 15SM FEW100 BKN150 BKN220 15/06 A2979 RMK AC1AC4CI2 SLP090 DENSITY ALT 1500FT OTHH 171500Z AUTO 09006KT CAVOK 35/22 Q1002 NOSIG KFAY 171453Z 06007KT 10SM OVC014 23/19 A2996 RMK AO2 SLP139 T02280194 51004 KDUG 171456Z AUTO 10007KT 10SM BKN055 21/18 A3003 RMK AO2 SLP108 T02110178 53007 CYWY 171500Z 00000KT 3SM -DZ OVC009 05/05 A2965 RMK SC8 SLP047 CYXP 171500Z 09007G15KT 15SM FEW040 OVC070 07/01 A2963 RMK SC2AS6 SLP035 EGXP 171450Z 03008KT 1800 BR OVC003 16/16 Q1013 YLO2 CYYG 171500Z 23008KT 200V290 15SM FEW025 17/09 A2991 RMK CU1 SLP129 DENSITY ALT 400FT KDUH 171515Z AUTO 24005KT 10SM CLR 15/07 A3005 RMK AO2 KEKQ 171512Z AUTO 04005KT 10SM FEW022 SCT029 19/12 A3005 RMK AO2 EHPG 171455Z AUTO /////KT //// // ///////// ///// Q//// RE// CYXQ 162200Z 35005KT 30SM FEW045 FEW075 16/M01 A2970 RMK CU1AC1 CLIMAT 16.5/1.0/0/LAST OBS/NEXT 171600UTC SLP072 EGYH 171350Z 05012KT 3000 BR BKN010 17/16 Q1012 YLO1 CYYH 171500Z 34012KT 15SM FEW012 BKN020 BKN070 M03/M06 A2987 RMK SC2SC3AC0 SLP118 KFCI 171455Z AUTO 05007KT 10SM FEW070 SCT080 23/M11 A3005 RMK AO1 54000 KFBR 171515Z AUTO 35004KT BKN110 16/04 A3023 RMK AO2 LTG DSNT NE AND E T01560044 PWINO CYXR 171524Z AUTO 02009KT 9SM -RA FEW019 SCT029 OVC039 05/02 A3000 RMK SLP169 KDTS 171453Z AUTO VRB04KT 10SM CLR 27/23 A2997 RMK AO2 SLP147 T02670228 51004 TSNO KDUJ 171453Z AUTO 26006KT 10SM CLR 14/09 A3006 RMK AO2 SLP180 T01440089 58005 EGXS 171450Z 35011KT 0200 FG VV/// 16/16 Q1013 RED CYYJ 171500Z VRB02KT 20SM SCT089 BKN110 BKN140 14/12 A2979 RMK AC3AC4AC1 AC TR SLP087 CYXS 171500Z AUTO 19004KT 9SM FEW150 07/06 A2979 RMK SLP102 KELK 171515Z AUTO 23010KT 10SM CLR 27/20 A3004 RMK AO2 CYXT 171500Z 00000KT 20SM VCFG BKN210 07/06 A2979 RMK CI7 SLP093 EGXT 171450Z AUTO 05007KT 9999 OVC013/// 18/15 Q1012 EGXU 171450Z 33006KT 9999 7000W HZ OVC015 17/14 Q1013 WHT NOSIG CYXU 171500Z 25009G16KT 15SM FEW039 FEW250 16/09 A3003 RMK CU2CI1 CI TR SLP170 DENSITY ALT 1100FT CYYL 171400Z AUTO 15002KT 9SM CLR M03/M03 A3017 RMK SLP241 KELM 171453Z VRB03KT 10SM CLR 17/09 A3006 RMK AO2 SLP178 T01670089 58006 KFCM 171453Z 21003KT 10SM CLR 17/11 A2994 RMK AO2 SLP140 T01670111 52001 KDTW 171453Z 24007KT 10SM FEW220 15/07 A3005 RMK AO2 SLP177 T01500067 58006 KELN 171453Z AUTO 00000KT 9SM CLR 14/09 A2979 RMK AO2 SLP080 T01440094 53001 EGXV 171450Z AUTO 02008KT 4500 BR OVC004/// 16/16 Q1013 EGYM 171450Z 02005KT 6000 HZ FEW007 OVC009 18/16 Q1012 GRN NOSIG CYZE 171500Z AUTO 21011KT 9SM BKN016 OVC075 13/10 A2993 RMK SLP137 CYYN 171500Z AUTO 11004KT 8SM CLR 14/09 A2990 RMK SLP123 DENSITY ALT 3100FT KELO 171513Z AUTO 35003KT 10SM SCT022 BKN100 12/08 A2995 RMK AO2 EGXW 171450Z 03007KT 3500 -DZ OVC004 16/15 Q1013 YLO2 TEMPO 2000 -DZ YLO2 EHQE 171455Z AUTO 08015KT 9999 NSC 20/17 Q//// CYZF 171500Z 17019G25KT 15SM OVC008 06/04 A2966 RMK SC8 SLP056 CYXX 171500Z 00000KT 15SM -RA BKN060 OVC100 15/14 A2980 RMK SC7AC1 SLP091 DENSITY ALT 400FT KELP 171451Z COR 03007KT 10SM FEW010 BKN040 BKN110 21/18 A3008 RMK AO2 RAE1359 SLP127 CLDS TPG MTNS W AND PTLY OBSCD NW P0000 60000 T02060178 50008 CYZG 171500Z 35015G23KT 2 1/2SM -SN DRSN VCBLSN OVC020 M01/M04 A2956 RMK SC8 VIA CZNB SLP028 CYXY 171500Z 19002KT 40SM VCFG FEW240 M00/M01 A2969 RMK CI1 SLP078 EGYP 171450Z 30030KT 9999 FEW040 BKN200 11/01 Q0993 BLU NOSIG CYXZ 171500Z CCA 04006KT 4SM -SN OVC008 01/00 A2998 RMK ST8 /S02/ SLP167 EGXZ 171450Z AUTO 35009KT 7000 HZ FEW010/// BKN017/// 17/14 Q1014 CYYQ 171500Z 32012G19KT 15SM OVC030 00/M05 A3014 RMK SC8 SLP207 CYZH 171500Z AUTO 10011G16KT 3/4SM BR OVC003 07/07 A2979 RMK SLP100 CYYR 171500Z 26017G26KT 15SM -SHRA FEW027 SCT040 BKN067 09/05 A2958 RMK SC1SC2AC4 DA-72FT G32 PAST HR SLP018 KFCS 171458Z AUTO 31003KT 10SM CLR 21/06 A3014 RMK AO2 SLP149 T02070058 53003 CZPS 171400Z AUTO 21006KT 10/06 RMK AO1 0PAST HR M P0004 T01010055 50010 KFDK 171448Z 00000KT 10SM SKC 22/13 A3010 KDVK 171515Z AUTO 00000KT 10SM OVC007 13/12 A3007 RMK AO2 KEMK 171515Z AUTO 21009KT 9SM FEW025 29/24 A2997 RMK A01 CYYT 171500Z 27011KT 15SM FEW020 FEW100 17/08 A2992 RMK SC1AC1 SLP134 DENSITY ALT 700FT KDVL 171515Z AUTO 03009KT 10SM CLR 12/06 A2998 RMK AO1 CYYU 171500Z 01003KT 320V020 15SM FEW020 BKN040 OVC120 02/00 A3005 RMK SC2SC5AC1 SLP187 KEMM 171515Z AUTO 01005KT 10SM -RA SCT033 SCT045 BKN100 13/06 A3022 RMK AO2 KEND 171455Z 21009KT 10SM SCT200 BKN250 26/23 A2993 RMK AO2A SLP125 55001 KDVN 171452Z AUTO 17005KT 10SM OVC090 16/11 A3002 RMK AO2 SLP168 T01610106 55002 $ EHRD 171525Z AUTO 08008KT 060V130 9999 NSC 25/15 Q1010 NOSIG KDUX 171455Z AUTO 23012KT 10SM CLR 20/17 A3007 RMK AO2 T01970168 KDVO 171455Z AUTO 00000KT 10SM CLR 15/14 A2983 RMK AO2 KELY 171453Z AUTO 16005KT 10SM CLR 17/04 A3015 RMK AO2 SLP120 T01670044 51009 KEMP 171453Z AUTO 03004KT 7SM CLR 23/20 A2991 RMK AO2 SLP123 T02330200 51010 KDVP 171514Z AUTO 00000KT 10SM BKN038 BKN046 BKN055 16/12 A2996 RMK AO2 T01630116 CYYY 171500Z 28010KT 30SM FEW020 09/02 A2996 RMK CF1 SLP147 CYZP 171500Z AUTO 11010KT 5SM BR OVC005 13/13 A2978 RMK SLP083 KDWH 171516Z 00000KT 10SM BKN011 28/25 A2997 RMK AO2 KELZ 171456Z AUTO 19007KT 10SM FEW034 15/06 A3007 RMK AO2 SLP186 T01500061 58004 CYYZ 171500Z 23011KT 15SM FEW030 FEW100 FEW250 17/08 A3001 RMK CF1AC1CI1 CF TR AC TR SLP163 DENSITY ALT 800FT KFDR 171453Z AUTO 25006KT 10SM CLR 26/21 A2996 RMK AO2 SLP129 T02610211 53005 CYZR 171500Z AUTO 23005KT 170V270 9SM CLR 17/08 A3002 RMK SLP168 DENSITY ALT 700FT KFFA 171515Z AUTO 05008G14KT 010V090 10SM SCT090 24/17 A2997 RMK AO2 T02440169 KEMT 171445Z 00000KT 10SM CLR 28/17 A2976 CYZS 171400Z 36018KT 15SM BKN025 M00/M05 A2978 RMK SC7 SLP091 EHSA 171455Z AUTO 05010G11KT 5000 ///////// 19/17 Q1011 W18/H7 KDVT 171453Z 06007KT 10SM CLR 27/18 A2983 RMK AO2 SLP076 60000 T02720178 55000 CYZT 171500Z 14003KT 130V190 1/8SM FG VV002 11/11 A2980 RMK FG8 SLP090 KFFC 171453Z AUTO 34005KT 10SM CLR 26/18 A2999 RMK AO2 SLP150 T02560178 50000 KENL 171515Z AUTO 14004KT 10SM SCT085 14/11 A3007 RMK AO2 T01440107 CYZU 171515Z 33003KT 8SM SCT006 OVC200 05/05 A2981 RMK SC3CI5 SLP108 EHSC 171455Z AUTO 05012G13KT 8000 ///////// 20/17 Q1010 W19/H5 KEMV 171515Z AUTO 02005KT 10SM OVC055 22/16 A3003 RMK AO2 CYZV 171500Z 28017G25KT 30SM FEW040 10/M05 A2982 RMK CU2 SLP099 KFDW 171515Z AUTO 36004KT 10SM OVC003 21/20 A2998 RMK AO1 KEOE 171515Z AUTO 03005KT 10SM OVC009 22/21 A3000 RMK AO2 CYZW 171500Z 00000KT 30SM SCT030 01/00 A2970 RMK SC4 SLP082 CYZX 171500Z 25008KT 15SM SCT040 18/11 A2997 RMK CU3 WNDY HILL 26005KT SLP149 KFDY 171453Z AUTO 00000KT 10SM CLR 17/09 A3006 RMK AO2 SLP174 T01670094 58005 KFEP 171515Z AUTO 00000KT 10SM SCT090 16/11 A3004 RMK AO2 T01550113 CZRP 171500Z AUTO 05005KT M04/M05 RMK AO1 SLP159 T10371054 58009 CYZY 171500Z AUTO 15004KT 9SM BKN120 OVC140 08/07 A2976 RMK SLP090 KDYA 171455Z AUTO 00000KT 10SM CLR 27/20 A2999 RMK AO2 T02650203 KDYB 171515Z AUTO 36004KT 10SM SCT018 27/22 A2995 RMK AO1 CZSJ 171500Z AUTO 01003KT 320V090 9SM FEW044 04/M06 A3014 RMK SLP223 KEOK 171515Z AUTO 12006KT 8SM OVC060 14/12 A3000 RMK AO2 KFET 171455Z AUTO 00000KT 10SM CLR 19/15 A2994 RMK AO2 T01870147 CZTB 171500Z AUTO 05010KT 05/03 RMK AO1 1021 SLP173 T00500034 50005 KDWU 171515Z AUTO 00000KT 10SM CLR 17/11 A3003 RMK AO1 KFFL 171515Z AUTO 14005KT 10SM OVC050 15/12 A3000 RMK AO2 KENV 171515Z AUTO 05008KT 10SM CLR 21/03 A2998 RMK AO1 KFFM 171514Z AUTO 00000KT 10SM CLR 16/10 A2994 RMK AO2 CZSM 171500Z AUTO 12005KT 05/03 RMK AO1 PK WND 14017/1411 SLP094 T00480032 58024 KENW 171453Z 23003KT 10SM CLR 16/08 A3003 RMK AO2 SLP170 T01610083 58008 KFEW 171456Z AUTO 15004KT 10SM CLR 17/04 A3011 RMK AO2 SLP137 T01680044 51004 VHHH 171500Z 12006KT 090V170 9999 FEW012 SCT040 29/25 Q1014 NOSIG KDWX 171515Z AUTO 13006KT 10SM CLR 16/05 A3023 RMK AO2 T01610051 KFFO 171458Z 04002KT 10SM OVC038 13/10 A3007 RMK AO2A SLP186 T01330103 PLCH 172300Z 14010KT 9999 FEW020 30/24 Q1010 CZSP 171500Z AUTO 24008KT 18/08 RMK AO1 SLP132 T01780082 51001 KEPH 171453Z AUTO 03005KT 10SM CLR 17/04 A2978 RMK AO2 SLP078 T01670044 53006 ZUUU 171500Z 24002MPS 210V270 9999 -SHRA FEW007 SCT040 20/17 Q1018 NOSIG KDXR 171453Z VRB04KT 10SM CLR 18/07 A3007 RMK AO2 SLP180 T01780072 58001 KH78 171050Z 28012KT 12SM BKN010 27/23 A2997 RMK SEAS 2-3 KEQA 171515Z AUTO 24009KT 10SM CLR 27/20 A2991 RMK AO2 KFHB 161855Z AUTO 00000KT M1/4SM TS OVC005 26/24 A3000 RMK AO1 LTG DSNT NW THRU SE KFFT 171453Z AUTO 01004KT 10SM BKN035 15/12 A3005 RMK AO2 SLP173 T01500117 56007 KDZB 171515Z AUTO 00000KT 10SM SCT009 OVC013 25/24 A3001 RMK AO2 T02510243 CZST 171500Z 00000KT 15SM FEW025 FEW140 OVC250 08/08 A2979 RMK SC1AC2CS6 FG OVR INLET S SLP089 KDYL 171454Z AUTO 00000KT 10SM CLR 19/09 A3006 RMK AO2 SLP178 T01890089 50001 FABL 171500Z 23006KT CAVOK 28/02 Q1014 NOSIG KFGN 171514Z AUTO 03013KT 10SM OVC011 07/04 A3003 RMK AO2 KDXX 171514Z AUTO 02005KT 10SM CLR 18/13 A2994 RMK AO2 KFFX 171512Z AUTO 00000KT 10SM SCT030 SCT040 16/10 A3001 RMK AO2 T01630099 EIKN 171500Z 10010KT 060V130 9999 SCT013 BKN250 18/14 Q1012 NOSIG KFFZ 171447Z 03010KT 40SM FEW050 SCT100 BKN140 26/20 A2981 KDYR 171515Z 00000KT 10SM BKN025 OVC033 17/09 A3006 RMK AO1 PKMJ 170658Z 23005KT 15SM FEW015 SCT050 BKN120 OVC300 28/24 A2978 KDYS 171458Z AUTO 22005KT 10SM SCT200 27/20 A3001 RMK AO2 SLP116 T02730200 50002 $ KDYT 171513Z AUTO 16005KT 10SM CLR 13/09 A2994 RMK AO2 EIME 171500Z 09010KT 6000 BKN013 16/14 Q1012 KFGX 171515Z AUTO 07003KT 10SM CLR 16/12 A3006 RMK AO2 T01600115 KFIG 171454Z AUTO 20005KT 10SM CLR 13/09 A3008 RMK AO2 SLP188 T01330089 58004 EIKY 171500Z 09010KT 9999 FEW024 SCT032 21/16 Q1008 PKMR 171450Z 28015KT 12SM -SHRA SCT014TCU BKN045 BKN110 OVC300 27/25 A2981 RMK SHRAB35 TCU OHD SLP098 60001 8/878 T02700252 57012 KERI 171451Z 20010KT 10SM FEW070 17/08 A3005 RMK AO2 SLP174 T01720083 58005 KFHR 171453Z AUTO 00000KT 10SM BKN100 13/12 A2979 RMK AO2 SLP089 60000 T01330122 56009 FACT 171500Z 31014KT 8000 -RA FEW022 BKN040 15/13 Q1008 TEMPO 3000 BKN013 KESC 171515Z AUTO 29005KT 10SM CLR 16/07 A2996 RMK AO1 EHVK 171455Z AUTO 07007KT 9999 NCD 25/15 Q1011 BLU KFHU 171455Z 11011KT 10SM -RA FEW007 FEW040 BKN110 OVC200 19/18 A3004 RMK SLP120 60002 53007 CZVL 171500Z AUTO 11004KT 9SM CLR 08/06 A2980 RMK SLP104 KGAD 171515Z 32005KT 10SM FEW025 24/16 A2999 RMK AO1 EHVL 171455Z AUTO 07013KT 9999 NCD 22/18 Q1012 BLACKBLU RMK TS INFO NOT AVBL KESF 171502Z AUTO 00000KT 10SM FEW005 26/22 A2999 RMK AO2 T02560222 KGAF 171515Z AUTO 36014G18KT 7SM OVC003 08/08 A3000 RMK AO2 VIAR 171500Z 00000KT 3500 HZ FEW040 30/25 Q1003 KGAG 171453Z AUTO 23011KT 10SM CLR 25/18 A2996 RMK AO2 SLP121 T02500178 58002 KEQY 171453Z AUTO 05006KT 6SM BR OVC005 19/18 A2999 RMK AO2 SLP161 T01940178 51005 KI16 171515Z AUTO 10SM OVC018 18/15 A3009 RMK AO2 T01810151 KGAI 171515Z AUTO 00000KT 10SM FEW033 20/12 A3010 RMK AO1 KFKA 171516Z AUTO 20007KT 10SM SCT065 15/12 A3000 RMK AO2 T01530122 KFIT 171452Z AUTO VRB03KT 10SM CLR 19/07 A3003 RMK AO2 SLP169 T01890072 58002 KETB 171515Z AUTO 26008KT 10SM CLR 16/06 A3001 RMK AO2 VIBN 171430Z 00000KT 4000 HZ SCT028 31/27 Q1002 KETC 171515Z AUTO 05003KT 10SM BKN020 OVC050 23/18 A3000 RMK AO2 T02300182 KGBD 171515Z AUTO 27005KT 10SM CLR 23/17 A2992 RMK AO1 KERV 171515Z AUTO 00000KT 10SM SCT014 SCT021 BKN035 26/23 A3002 RMK AO2 T02610226 FAEL 171500Z 03012KT 9999 FEW008 20/17 Q1005 KESN 171453Z 07005KT 10SM FEW250 22/12 A3009 EINN 171500Z 06011KT 9000 FEW040 SCT130 BKN250 21/12 Q1010 NOSIG FAEO 170756Z 29007KT CAVOK 25/M01 Q1025 KERY 171514Z AUTO 26007KT 10SM BKN100 13/09 A2993 RMK AO2 T01320086 KGBG 171515Z AUTO 14003KT 10SM SCT075 OVC095 15/13 A3003 RMK AO2 T01490126 EHWO 171455Z AUTO 09006KT 9999 NCD 25/14 Q1010 BLU FADY 171431Z 27006KT 9999 TS FEW070CB BKN120 20/08 Q1011 KETH 171516Z AUTO 30004KT 10SM CLR 14/11 A2996 RMK AO2 KEST 171452Z AUTO 19006KT 10SM BKN045 13/11 A2995 RMK AO2 SLP142 T01330106 58001 KGBK 171515Z AUTO 27005G14KT 1/4SM HZ OVC004 26/23 A3001 RMK A01 KGCC 171453Z AUTO 26008KT 10SM BKN110 21/06 A3000 RMK AO2 SLP128 T02060061 53004 KFKL 171515Z 24004KT 10SM CLR 16/06 A3007 RMK AO1 FAGC 171500Z AUTO 01007KT //// // ////// 27/M05 Q1018 KFLD 171453Z AUTO 24006KT 10SM CLR 14/08 A3001 RMK AO2 SLP164 T01440083 58006 KGCD 171515Z AUTO 10008KT 10SM CLR 16/01 A2989 RMK AO2 T01550010 KFKN 171515Z AUTO A3002 RMK AO1 KEUF 171458Z AUTO 00000KT 10SM CLR 28/21 A2995 RMK AO2 SLP139 T02830211 50001 KEUG 171454Z 00000KT 10SM BKN190 OVC250 15/12 A2976 RMK AO2 SLP074 T01500117 55003 KFLG 171510Z 01003KT 3SM -RA BR FEW007 SCT043 OVC055 14/12 A3024 RMK AO2 P0000 T01390122 KI35 171515Z AUTO 10SM CLR 20/12 A3002 RMK AO1 FAGG 171500Z 22011KT 9999 FEW015 BKN035 16/14 Q1007 KFKR 171515Z AUTO 00000KT 10SM CLR 17/12 A3006 RMK AO2 T01680120 KFKS 171516Z AUTO 23004KT 10SM CLR 17/10 A3000 RMK AO2 T01670104 KEVB 171447Z 27008KT 10SM FEW012 BKN045 27/22 A2995 KGCK 171516Z 21005KT 10SM CLR 21/17 A2996 RMK AO2 T02060167 KGDB 171513Z AUTO 33004KT 10SM CLR 17/12 A2995 RMK AO2 T01660117 KI39 171515Z AUTO 06006KT 10SM CLR 17/12 A3004 RMK AO2 KFLL 171453Z VRB05KT 10SM FEW030 BKN300 31/22 A2998 RMK AO2 SLP150 T03060217 52005 KEUL 171455Z AUTO 00000KT 10SM CLR 16/08 A2988 RMK AO1 52017 KGCM 171515Z AUTO 20010KT 10SM SCT007 25/21 A2998 RMK AO2 FAGM 170800Z 33012KT CAVOK 25/M02 Q1024 VIDP 171500Z 32005KT 4000 HZ NSC 31/22 Q1003 NOSIG KFME 171512Z AUTO 36004KT 10SM CLR 20/11 A3008 RMK AO1 KGCN 171454Z 00000KT 10SM BKN100 16/11 A3021 RMK AO2 SLP137 T01560111 52006 KFLO 171453Z 02004KT 10SM OVC010 21/18 A2998 RMK AO2 SLP148 T02110183 51016 KFLP 171515Z AUTO 13003KT 10SM OVC014 18/14 A3001 RMK AO1 LTG DSNT NW KFMH 171515Z AUTO 27010KT 10SM CLR 20/11 A3001 RMK AO2 KGDJ 171515Z AUTO 22003KT 10SM CLR 29/21 A2999 RMK AO2 T02900214 CZZJ 171500Z AUTO 25004KT 06/04 RMK AO1 SLP107 T00630037 57003 KFNB 171453Z AUTO 11004KT 2 1/2SM BR OVC004 18/17 A2994 RMK AO2 SLP132 60000 T01780167 53008 KEWB 171453Z 27006KT 10SM CLR 19/10 A3001 RMK AO2 SLP161 T01940100 58002 URFF 171500Z 06009MPS CAVOK 20/11 Q1016 01010065 NOSIG KGED 171454Z AUTO 09011KT 10SM CLR 22/08 A3006 RMK AO2 SLP177 T02220083 51000 KEVM 171511Z AUTO 29003KT 10SM CLR 14/07 A2994 RMK AO2 KFMM 171515Z AUTO 25007KT 10SM CLR 14/07 A3006 RMK AO2 T01410072 KFMN 171453Z 07004KT 10SM CLR 18/09 A3017 RMK AO2 SLP163 T01830094 51007 KGDP 171451Z AUTO 14006KT 8SM CLR 21/16 A3021 RMK AO2 SLP160 T02060156 51008 KGEG 171453Z 09005KT 10SM SCT100 SCT150 BKN250 15/07 A2984 RMK AO2 SLP089 ACSL DSNT N-E T01500072 57000 KFLY 171515Z AUTO 00000KT 10SM CLR 25/02 A3022 RMK AO2 T02450015 KFOA 171510Z AUTO 13003KT 10SM CLR 15/11 A3007 RMK AO2 T01510111 KGFA 171456Z AUTO 06003KT 10SM FEW100 16/10 A2992 RMK AO2 SLP123 T01570096 53004 KEWK 171515Z AUTO 23008KT 10SM CLR 24/18 A2993 RMK AO1 FAJB 171500Z AUTO 34002KT //// // ////// 27/M06 Q1019 KFNL 171515Z AUTO 00000KT 10SM CLR 19/08 A3010 RMK AO1 KGDV 171515Z AUTO 01005KT 10SM CLR 13/08 A2996 RMK AO1 KEVV 171514Z 09007KT 10SM BKN019 16/11 A3006 RMK AO2 T01610106 KFOD 171515Z AUTO 12003KT 10SM CLR 16/12 A2998 RMK AO1 DRRM 171500Z 36004KT 9999 FEW033CB SCT140 29/22 Q1012 KEVW 171453Z AUTO 17006KT 10SM CLR 14/03 A3020 RMK AO2 SLP136 T01440033 53005 KFOE 171453Z 00000KT 4SM BR FEW004 OVC010 19/18 A2993 RMK AO2 SLP129 T01940183 51013 KEWN 171518Z 08009KT 10SM BKN024 26/20 A2997 RMK AO2 DRRN 171500Z 21006KT 160V270 9999 SCT030 FEW040TCU 35/18 Q1009 NOSIG KFMY 171522Z 24005KT 10SM CLR 28/23 A2996 RMK AO2 T02830228 EISG 171500Z 09007KT 070V150 7000 FEW020 19/15 Q1012 KEWR 171451Z 35008KT 10SM FEW050 SCT250 21/05 A3005 RMK AO2 SLP176 T02060050 58002 EKAH 171520Z AUTO 07008KT 9999NDV NCD 18/12 Q1021 FAIR 170841Z 32006KT CAVOK 26/M00 Q1022 KFOK 171453Z 01007KT 10SM CLR 20/07 A3006 RMK AO2 SLP177 T02000072 50000 KFNT 171453Z 24006KT 10SM CLR 15/06 A3005 RMK AO2 SLP175 T01500061 58009 KGFK 171453Z 35008KT 10SM FEW010 12/09 A2997 RMK AO2 SLP152 T01220094 51013 KI69 171514Z AUTO 05004KT 10SM OVC035 15/11 A3006 RMK AO1 KGEU 171453Z 02003KT 20SM SCT080 SCT120 BKN180 28/20 A2982 DRRT 171500Z 28004KT 9999 SCT030 FEW050CB SCT300 34/21 Q1011 KGFL 171453Z AUTO 16005KT 10SM CLR 16/08 A3002 RMK AO2 SLP169 T01560083 58005 KGEV 171515Z AUTO 13003KT 10SM OVC012 16/13 A3008 RMK AO2 T01590129 KEYE 171453Z AUTO 00000KT 10SM CLR 16/10 A3005 RMK AO2 SLP174 T01610100 58009 KGGE 171515Z AUTO 04005KT 10SM CLR 25/20 A2995 RMK AO2 KEYF 171515Z AUTO 09004KT 7SM OVC007 22/20 A2996 RMK AO2 T02170204 KGEY 171453Z AUTO 14003KT 10SM CLR 14/08 A3000 RMK AO2 SLP139 T01440083 53007 KGGG 171453Z VRB03KT 10SM FEW010 27/22 A2998 RMK AO2 SLP145 T02720222 50003 KI75 171515Z AUTO 16005KT 10SM CLR 20/15 A2996 RMK AO2 T01950151 KGEZ 171453Z AUTO 00000KT 10SM CLR 16/11 A3006 RMK AO2 SLP179 T01560111 58006 KGGI 171515Z AUTO 12004KT 10SM OVC065 15/12 A2999 RMK AO2 T01500122 EKBI 171520Z 08012KT 9999 FEW030 BKN230 19/14 Q1019 FALA 171500Z 34008KT CAVOK 29/M05 Q1018 NOSIG KFPK 171515Z AUTO 25003KT 10SM CLR 16/07 A3002 RMK AO2 T01620069 KFOT 171515Z AUTO 19007KT 10SM CLR 14/13 A2976 RMK AO1 KGHB 171520Z AUTO 33003KT 10SM FEW095 FEW120 29/23 A2999 RMK A01 KFQD 171515Z AUTO 08003KT 10SM BKN017 OVC034 21/17 A3002 RMK AO2 T02070168 FAKM 171500Z 17006KT CAVOK 28/02 Q1012 EKAV 171520Z AUTO VRB02KT 9999NDV NCD 18/13 Q1021 FALE 171500Z 17006KT 130V200 9999 FEW016 23/19 Q1011 NOSIG FAKN 171500Z 05010KT CAVOK 31/M05 Q1014 NOSIG KEXX 171510Z AUTO 04004KT 10SM OVC017 20/17 A3000 RMK AO2 T02010168 KEZF 171515Z AUTO 07005KT 10SM SCT033 22/13 A3004 RMK AO2 T02220130 KGHG 171450Z AUTO 04006KT 10SM CLR 18/11 A3002 RMK AO2 KGGP 171515Z AUTO 00000KT 10SM CLR 16/10 A3006 RMK AO2 KFOZ 171501Z AUTO 00005KT 10SM SCT120 14/08 A2995 RMK AO2 WAAA 171500Z 33006KT 8000 NSC 28/25 Q1012 NOSIG KFPR 171453Z 28009KT 10SM CLR 28/22 A2997 RMK AO2 SLP149 T02780217 53005 EKCH 171520Z 09011KT CAVOK 19/11 Q1021 NOSIG PKWA 171520Z AUTO 01005KT 10SM VCTS CLR 26/23 A2983 KGIC 171455Z AUTO 00000KT 10SM CLR 15/02 A2991 RMK AO1 T01500020 KEZM 171515Z AUTO 01003KT 10SM CLR 28/22 A2998 RMK AO2 T02840224 FALM 171300Z VRB03KT CAVOK 36/// Q1015 KEYW 171453Z 35003KT 10SM CLR 30/23 A3000 RMK AO2 SLP159 T03000228 52009 KGGW 171453Z AUTO 12008KT 10SM CLR 13/05 A2991 RMK AO2 SLP130 T01330050 53006 KGIF 161753Z AUTO 34005KT 10SM CLR 33/20 A3006 RMK AO2 SLP174 T03280200 10328 20250 58021 TSNO KFRG 171453Z 04005KT 10SM CLR 19/07 A3006 RMK AO2 SLP177 T01940067 58000 URKA 171500Z 07010G15MPS CAVOK 24/10 Q1013 NOSIG RMK QFE756/1008 SC070 WABB 171500Z 03003KT 8000 -RA FEW017CB BKN020 26/25 Q1011 KFRI 171508Z AUTO 00000KT 8SM OVC010 21/21 A2992 RMK AO2 KEZS 171515Z AUTO 28005KT 10SM CLR 15/10 A2999 RMK AO2 T01510095 EKEB 171520Z 08011KT CAVOK 20/15 Q1018 KFRM 171515Z AUTO 00000KT 10SM FEW050 17/10 A2995 RMK AO1 KFSD 171456Z 00000KT 10SM FEW015 FEW250 17/12 A2993 RMK AO2 SLP134 FU FEW015 T01670117 51004 VIJP 171430Z 30004KT 3000 HZ FEW040 30/22 Q1006 NOSIG KHAE 171455Z AUTO 13006KT 10SM OVC021 15/12 A3002 RMK AO2 FAMM 171500Z 36005KT CAVOK 31/M03 Q1015 NOSIG KGHW 171513Z AUTO 34004KT 10SM CLR 17/12 A2995 RMK AO2 KFSE 171515Z AUTO 00000KT 10SM CLR 16/09 A2995 RMK AO2 FALW 171500Z AUTO 32009KT //// // ////// 14/12 Q1009 KHAF 171515Z AUTO 00000KT 7SM OVC013 17/14 A2984 RMK AO2 PMDY 171456Z AUTO 05006KT 10SM CLR 27/23 A3008 RMK AO2 TSNO 56014 T02660227 SLP490 $ EIWF 171230Z 10012KT 070V130 CAVOK 20/14 Q1011 URKK 171500Z 07009G12MPS CAVOK 23/11 Q1014 NOSIG RMK QFE757 SC070 KHAI 171514Z AUTO 22003KT 10SM CLR 16/09 A3005 RMK AO2 T01550094 KFRR 171515Z AUTO 03003KT 10SM OVC065 17/11 A3006 RMK AO1 KFSI 171458Z AUTO 26005KT 10SM CLR 27/21 A2997 RMK AO2 SLP131 T02680209 52001 USCC 171500Z 28004MPS 9999 FEW033CB SCT070 02/M01 Q1008 27000070 NOSIG RMK QFE736 FAOB 171200Z 30020KT 9999 SCT025 24/// Q1005 KFSM 171453Z 04004KT 2SM HZ OVC005 22/19 A2999 RMK AO2 SLP151 T02170189 51006 KHAO 171453Z AUTO 04006KT 9SM OVC036 15/12 A3008 RMK AO2 SLP187 T01500117 56006 KFSO 171515Z AUTO 19007KT 150V220 10SM CLR 16/09 A2999 RMK AO2 T01550089 KHBG 171453Z AUTO 10SM CLR 27/22 A2999 RMK AO2 SLP152 T02720222 50005 KFTG 171459Z 23008KT 40SM SCT150 BKN200 22/07 A3012 VILK 171500Z 00000KT 4000 HZ SCT020 SCT025 BKN100 29/27 Q1002 NOSIG KHBI 171515Z AUTO 06007KT 040V100 10SM BKN015 BKN070 20/17 A3002 RMK AO2 T02030170 KGKJ 171453Z AUTO 18005KT 10SM CLR 15/09 A3006 RMK AO2 SLP179 T01500094 58005 TSNO WADD 171500Z 11006KT 070V140 9999 FEW018 26/23 Q1013 NOSIG USCM 171500Z 36006MPS 9999 SCT033CB 03/M03 Q1011 NOSIG 01090065 RMK QFE720 KGJT 171453Z 12008KT 10SM CLR 19/06 A3012 RMK AO2 SLP142 T01890061 51010 KFST 171453Z AUTO 15010KT 10SM CLR 23/19 A3007 RMK AO2 SLP138 T02280194 51008 KFTK 171513Z AUTO VRB02KT 10SM BKN031 15/12 A3006 RMK AO2 PRESRR KGLD 171453Z AUTO 00000KT 10SM CLR 21/13 A3000 RMK AO2 SLP122 T02110133 53007 EKGC 171520Z AUTO 10020KT 9999NDV 17/15 Q1017 KHCD 171513Z AUTO 00000KT 10SM CLR 17/12 A2996 RMK AO2 T01680123 KFTN 171615Z AUTO 16004KT 10SM FEW008 BKN065 27/24 A2997 RMK AO1 KFSW 171515Z AUTO 14004KT 7SM OVC060 16/13 A3001 RMK AO2 KGLE 171515Z AUTO 21006KT 10SM CLR 27/22 A3000 RMK AO2 T02700222 FAPE 171500Z 31005KT 240V360 9999 -TSRA FEW020 FEW080CB 21/18 Q1004 TEMPO TS EKGF 171520Z 10022KT CAVOK 17/15 Q1017 KGLH 171453Z AUTO VRB04KT 10SM CLR 26/19 A2999 RMK AO2 SLP161 T02560189 51003 TSNO KHBR 171453Z AUTO 23008KT 10SM CLR 27/19 A2999 RMK AO2 SLP136 T02670194 50003 URML 171500Z 03002MPS 350V070 9999 SCT040CB BKN100 21/14 Q1017 NOSIG RMK QFE762/1016 SC070 FAOR 171530Z 34008KT 310V020 CAVOK 26/M01 Q1020 NOSIG WADL 171500Z 00000KT 8000 FEW016 25/22 Q1014 NOSIG DRZA 171500Z 14014KT 4000 DU FEW040 36/18 Q1014 URMM 171500Z 08008G11MPS 9999 BKN043 21/07 Q1016 R12/CLRD70 NOSIG RMK QFE734/0979 EKHA 171520Z AUTO 10005KT 9999NDV 17/15 Q1017 KGKT 171515Z AUTO 00000KT 10SM CLR 20/15 A2998 RMK URMN 171500Z 26001MPS 9999 SCT036CB OVC110 21/06 Q1016 NOSIG RMK QFE725 SC07 FBFT 171500Z VRB01KT CAVOK 32/02 Q1012 KFUL 171453Z 00000KT 10SM CLR 28/16 A2973 RMK AO2 SLP066 6//// T02830156 53009 PNO $ KHDC 171515Z AUTO 00000KT 10SM OVC009 26/22 A3001 RMK AO2 LTG DSNT SW URMO 171430Z 03002MPS 9999 BKN040 BKN130 21/07 Q1016 NOSIG RMK QFE718/0958 KHBV 171510Z AUTO 17006KT 10SM 27/23 A2998 RMK AO2 T02690226 ZWSH 171500Z 32003MPS 4000 DU NSC 21/07 Q1017 NOSIG EKHD 171520Z AUTO 10019KT 9999NDV 16/14 Q1017 KFTW 171453Z 17005KT 10SM CLR 27/22 A2997 RMK AO2 SLP140 T02670217 51003 KFVE 171453Z AUTO 33009KT 10SM OVC032 10/01 A2993 RMK AO2 SLP138 T01000011 50013 KHDE 171515Z AUTO 00000KT 10SM CLR 17/14 A2994 RMK AO2 T01700136 KHCO 171513Z AUTO 02010KT 10SM BKN010 12/09 A3000 RMK AO2 KFTY 171453Z 00000KT 10SM CLR 24/17 A2999 RMK AO2 SLP145 T02390167 58002 KGKY 171453Z 16004KT 10SM CLR 26/22 A2998 RMK AO2 SLP142 T02560217 51001 FAPP 171500Z 32004KT CAVOK 30/M08 Q1015 NOSIG URMT 171500Z 08008G11MPS CAVOK 17/05 Q1018 NOSIG RMK QFE723 SC070 KGLR 171453Z AUTO 27011KT 10SM CLR 15/07 A2998 RMK AO2 SLP155 T01500072 58002 KGLS 171452Z 17005KT 10SM FEW020 29/24 A2997 RMK AO2 SLP150 T02890244 51008 KFWA 171454Z 00000KT 7SM BKN044 BKN250 14/12 A3007 RMK AO2 SLP183 T01390117 58006 KGMJ 171515Z AUTO 20010G17KT 10SM CLR 26/22 A2996 RMK AO2 LTG DSNT E KGNA 171456Z AUTO 07015G20KT 08/06 A2998 RMK AO1 SLP155 T00830056 53016 KFWB 171515Z AUTO 08005KT 10SM VCTS FEW010 OVC016 19/17 A3002 RMK AO2 LTG DSNT N-E KGNC 171515Z AUTO 19004KT 10SM CLR 22/19 A3011 RMK AO2 T02150189 KFWC 171515Z AUTO 00000KT 10SM CLR A3007 RMK AO2 KHDN 171515Z AUTO 11009KT 10SM CLR 14/02 A3023 RMK AO1 KGLW 171515Z AUTO 08003KT 10SM OVC009 16/12 A3005 RMK AO2 T01570121 KHDO 171511Z AUTO 17003KT 10SM SCT014 SCT020 BKN049 28/23 A2999 RMK AO2 T02780228 EKHN 171520Z AUTO 08012KT 9999NDV NCD 19/16 Q1020 KHEF 171450Z 00000KT 10SM OVC070 19/13 A3007 KGNF 171515Z AUTO 11004KT 10SM CLR 23/17 A3002 RMK AO2 KGLY 171515Z AUTO 00000KT 5SM VCTS RA BKN003 BKN011 OVC019 19/19 A2995 RMK AO2 LTG DSNT SE-SW ZYCC 171500Z 22002MPS CAVOK 11/04 Q1019 NOSIG KHEI 171453Z AUTO 00000KT 10SM CLR 15/10 A2998 RMK AO2 SLP149 T01500100 51009 DRZR 171500Z 08004KT 9999 FEW040 BKN300 33/19 Q1011 EKHR 171520Z AUTO 09012KT //// NCD 20/16 Q1018 FASB 171150Z 26009KT 9999 BKN018 13/07 Q1014 KGMU 171453Z 05007KT 10SM OVC012 21/17 A3001 RMK AO2 SLP152 T02060172 50003 KHFD 171453Z 14007KT 10SM CLR 17/08 A3005 RMK AO2 SLP174 T01670078 58002 KFXE 171453Z 28006KT 10SM SCT150 28/23 A2998 RMK AO2 SLP155 T02830233 51006 KFWN 171453Z AUTO 00000KT 10SM CLR 18/09 A3007 RMK AO2 SLP181 T01830089 58003 KHFF 171455Z 07010G14KT 10SM BKN020 23/18 A3000 RMK AO2A SLP153 WND DATA ESTMD ALSTG/SLP ESTMD $ KFVX 171515Z AUTO 03006KT 10SM OVC085 22/12 A3003 RMK AO2 KHEQ 171515Z AUTO 00000KT 10SM CLR 19/11 A2999 RMK AO2 KGNR 171456Z AUTO VRB03KT 14/07 A2994 RMK AO1 SLP145 T01390067 50001 FASI 171500Z AUTO /////KT //// // ////// 27/M03 Q1019 KFWS 171449Z 18004KT 7SM CLR 27/22 A3000 KHFJ 171515Z AUTO 23008G14KT 10SM SCT015 24/21 A2996 RMK AO2 LTG DSNT N THRU E DTKA 171400Z 09009KT 070V140 9999 FEW020 38/11 Q1008 NOSIG EKKA 171520Z AUTO 08010KT 9999NDV NCD 19/14 Q1020 KGOK 171453Z AUTO 20009KT 10SM CLR 27/21 A2994 RMK AO2 SLP128 T02670206 50001 KGNT 171516Z AUTO 18004KT 10SM DZ OVC080 14/13 A3027 RMK AO2 P0001 FCBB 171500Z 27008KT 230V310 7000 SCT018 BKN023 27/19 Q1012 NOSIG KGNV 171453Z 36005KT 10SM FEW040 27/23 A2996 RMK AO2 SLP142 T02670228 53006 KGON 171456Z 36008KT 10SM CLR 19/07 A3002 RMK AO2 SLP166 T01940072 58004 USHH 171500Z 02005G10MPS 6000 -RA BKN003 OVC080 04/03 Q0996 TEMPO 2000 RA BKN003 RMK QBB110 QFE744 06////55 FBKE 171500Z 07009KT 040V100 CAVOK 35/00 Q1013 KGOO 171515Z AUTO 12005KT 3SM CLR 23/03 A2992 RMK AO1 KHEY 171453Z AUTO 01006KT 10SM CLR 27/22 A2997 RMK AO2 SLP035 T02670217 50004 KFYG 171515Z AUTO 12007KT 9SM SCT024 OVC055 14/12 A3001 RMK AO2 KGOP 171510Z AUTO 25004KT 7SM OVC012 26/22 A3002 RMK AO2 KGPH 171515Z AUTO 09003KT 4SM BR OVC004 17/17 A2994 RMK AO2 LTG DSNT SE AND S KHEZ 171515Z AUTO 22003KT 10SM CLR 27/23 A3000 RMK AO1 KFWZ 171515Z AUTO 10SM CLR 17/02 A3023 RMK AO2 LTG DSNT W KGPI 171455Z 30003KT 10SM CLR 13/08 A2991 RMK AO2 SLP124 T01280083 53006 KFYJ 171515Z AUTO 09005KT 10SM SCT028 SCT035 25/14 A3005 RMK AO2 T02460135 KGOV 171514Z AUTO 26008G14KT 10SM CLR 17/08 A2999 RMK AO2 T01650083 KFYM 171515Z AUTO VRB05KT 10SM SCT023 19/14 A3002 RMK KGPM 171450Z 21004KTS 10SM SKC 26/21 A3000 KHHF 171515Z AUTO 25010KT 10SM CLR 26/18 A2999 RMK AO2 T02630179 KFXY 171515Z AUTO 19006KT 10SM CLR 17/11 A2996 RMK AO2 KFZG 171515Z AUTO 00000KT 10SM CLR 30/19 A2998 RMK AO2 T02950194 KHHG 171515Z AUTO 00000KT 10SM OVC043 14/13 A3005 RMK AO2 T01400129 UTAA 171500Z 29004MPS 9999 FEW050CB BKN050 OVC082 31/09 Q1010 TEMPO 30007G12MPS 3000 DRDU KHGR 171453Z 00000KT 10SM CLR 17/11 A3007 RMK AO2 SLP192 T01720111 58002 KHIB 171453Z AUTO 00000KT 10SM SCT120 14/08 A2993 RMK AO2 SLP141 T01440083 51003 KGPT 171453Z 36004KT 10SM CLR 26/22 A2997 RMK AO2 SLP149 T02560222 50005 KGRB 171453Z 23006KT 10SM CLR 15/10 A2999 RMK AO2 SLP158 T01500100 58006 DTMB 171500Z 08012KT 9999 FEW023 30/23 Q1011 NOSIG KFYV 171453Z 21011KT 10SM CLR 23/20 A3000 RMK AO2 SLP148 T02280200 53003 KGRD 171456Z AUTO 07003KT 10SM OVC011 22/19 A2999 RMK AO2 SLP149 T02220189 50004 KHIE 171452Z AUTO 31004KT 10SM CLR 15/09 A3001 RMK AO2 SLP165 T01500094 58005 KGRF 171458Z AUTO 00000KT 10SM CLR 13/13 A2977 RMK AO2 SLP084 T01320127 56008 PWINO $ KHIF 171458Z 11016KT 10SM FEW130 19/06 A3002 RMK AO2A SLP109 MIDFLD WND 080/12G18KT T01940057 53010 URRR 171500Z 07007MPS CAVOK 18/04 Q1021 04CLRD70 NOSIG FAUP 171517Z 22008KT 9999 TS FEW050 FEW060CB 29/06 Q1008 TEMPO 8000 TSRA KGPZ 171515Z AUTO 00000KT 10SM CLR 15/07 A2994 RMK AO1 UTAK 171500Z 34006MPS CAVOK 23/12 Q1013 NOSIG KGRI 171453Z VRB03KT 10SM CLR 17/12 A2995 RMK AO2 SLP135 T01670117 53002 KHHR 171453Z 00000KT 10SM CLR 26/18 A2974 RMK AO2 SLP069 T02610178 53008 KHII 171515Z AUTO 01004KT 10SM CLR 29/19 A2982 RMK AO2 ZWWW 171500Z 22003MPS CAVOK 20/01 Q1014 NOSIG UTAM 171500Z 27003MPS 6000 SKC 32/10 Q1005 NOSIG KGSB 171525Z AUTO 06006KT 10SM SCT022 BKN028 BKN170 24/21 A2995 RMK AO2 CIG 028V170 BKN028 V SCT CIG 028 RWY08 $ KIAB 171458Z AUTO 19008KT 10SM CLR 24/22 A2992 RMK AO2 SLP124 T02440215 50004 KGRK 171455Z 16003KT 7SM SCT007 OVC015 26/23 A3000 RMK SLP155 52007 FAWB 171500Z AUTO 30003KT //// // ////// 30/M05 Q1014 FAUT 171500Z 29003KT 9000 SCT100 23/15 Q1012 KIAD 171452Z 33003KT 10SM FEW030 BKN070 19/11 A3007 RMK AO2 SLP181 T01940111 58003 KHHW 171515Z AUTO 10005KT 7SM OVC005 25/22 A2999 RMK AO2 T02470215 FBMN 171500Z 28007KT CAVOK 35/03 Q1012 KHIO 171453Z 13004KT 10SM FEW120 15/13 A2973 RMK AO2 SLP066 T01500133 56012 KIAG 171453Z 22004KT 10SM FEW030 FEW100 FEW250 17/09 A3002 RMK AO2 SLP169 MDT CU SE-S T01720089 58005 KFZY 171454Z AUTO 25009KT 10SM CLR 17/09 A3004 RMK AO2 SLP172 T01670094 58002 URSS 171500Z 27002MPS 9999 FEW030 OVC230 24/17 Q1010 NOSIG RMK R06/28002G05MPS MT OBSC QFE756 02000070 06000070 ZYHB 171500Z VRB01MPS CAVOK 10/09 Q1019 NOSIG KIAH 171510Z 36003KT 10SM BKN012 BKN075 BKN150 29/25 A2997 RMK AO2 CB SHRA DSNT SW-W MOV NE KGSH 171453Z AUTO 13003KT 10SM CLR 17/09 A3005 RMK AO2 SLP175 T01670094 58009 KHJH 171515Z AUTO 06004KT 5SM BR OVC003 17/16 A2993 RMK AO2 T01720162 UTAT 171500Z 33008G13MPS 0900 R27/1100 DS VV004 24/05 Q1008 NOSIG RMK QBB 120 KGRR 171453Z 21004KT 10SM FEW060 FEW230 16/10 A3004 RMK AO2 SLP173 T01610100 58008 KHKA 171453Z AUTO 08004KT 10SM BKN027 OVC036 18/15 A3005 RMK AO2 SLP172 T01830150 53007 UTAV 171500Z 00000PS 7000 SKC 27/16 Q1004 NOSIG KGTB 171513Z 26008KT 10SM BKN035 17/08 A3001 FAWK 171500Z AUTO 36005KT //// // ////// 29/M02 Q1019 EKOD 171450Z 10011KT 070V130 CAVOK 20/11 Q1019 FAVV 171500Z AUTO 34007KT //// // ////// 26/M08 Q1019 KHJO 171453Z AUTO 29003KT 9SM CLR 21/12 A2979 RMK AO2 SLP087 T02060117 53009 KGTF 171453Z 00000KT 10SM CLR 18/09 A2991 RMK AO2 SLP106 60000 T01830089 53003 $ KGSO 171454Z 05009KT 10SM SCT025 SCT065 BKN180 20/15 A3002 RMK AO2 SLP156 T02000150 50002 KGSP 171453Z 05007KT 10SM BKN014 OVC019 21/17 A2999 RMK AO2 SLP145 T02060172 51005 KGRY 171515Z AUTO VRB05KT 9SM FEW034 SCT040 SCT046 25/21 A3001 RMK A01 WALL 171500Z 04003KT 8000 FEW018 BKN100 28/26 Q1011 NOSIG UTDD 171500Z 03001MPS 6000 SKC 25/07 Q1006 09CLRD70 NOSIG RMK QFE687/0916 KHLC 171518Z AUTO 00000KT 10SM BKN005 18/14 A2995 RMK AO2 T01780144 KGUC 171515Z AUTO 00000KT 10SM CLR 09/03 A3038 RMK AO1 KIBM 171455Z AUTO 29009KT 10SM CLR 20/05 A3004 RMK AO2 T01980046 KHLG 171453Z 10006KT 10SM FEW048 17/09 A3006 RMK AO2 SLP181 T01670089 58003 URWA 171500Z 01005MPS CAVOK 15/M07 Q1020 NOSIG RMK QFE767/1023 SC070 KGTR 171455Z 00000KT 7SM BKN012 22/18 A3002 UTDL 171500Z 00000MPS 9999 SCT110 BKN200 25/12 Q1006 NOSIG RMK QFE716/0954 88CLRD70 KIDA 171453Z 07005KT 10SM SCT090 BKN120 14/07 A3001 RMK AO2 SLP132 SHRA E MOV NE 60000 T01390072 50006 KHKS 171453Z 11004KT 10SM CLR 27/21 A3000 RMK AO2 SLP149 T02670211 53006 WAMM 171400Z 13005KT 9000 FEW021 25/22 Q1012 NOSIG KGTU 171450Z VRB03KT 10SM BKN013 26/23 A2999 KICL 171515Z AUTO VRB03KT 10SM OVC012 18/15 A2997 RMK AO2 KGUL 171515Z AUTO 9SM FEW024 29/24 A2999 RMK A01 KHME 171250Z 26006KT 9999 FEW035 36/M07 Q1009 KHLN 171453Z 00000KT 10SM CLR 12/08 A2998 RMK AO2 SLP147 T01220083 51006 KGVE 171515Z AUTO 11006KT 10SM SCT070 20/12 A3005 RMK AO1 T02030116 URWI 171500Z 05007MPS CAVOK 15/M04 Q1021 NOSIG KGUP 171453Z AUTO 16004KT 10SM BKN110 17/11 A3023 RMK AO2 SLP095 T01670106 52005 KHKY 171453Z 04008KT 10SM OVC017 19/14 A3003 RMK AO2 SLP148 T01940144 50006 UTFA 171500Z 00000MPS 5000 BR NSC 22/12 Q1007 R88/09//70 KICR 171453Z AUTO 10004KT 10SM CLR 18/14 A2993 RMK AO2 SLP127 T01830144 51007 KIDI 171515Z AUTO 22003KT 10SM FEW047 16/10 A3010 RMK A01 KHLR 171456Z 00000KT 10SM OVC016 26/23 A3000 RMK AO2 SLPNO 55000 T02610228 $ KGUR 171515Z AUTO 30005KT 10SM CLR 24/08 A3005 RMK AO2 T02420078 PWINO KGUS 171458Z AUTO 00000KT 10SM CLR 15/13 A3005 RMK AO2 SLP179 T01490126 58008 $ KICT 171453Z 20008KT 10SM SCT085 25/19 A2991 RMK AO2 SLP115 T02500194 50004 KGWB 171515Z AUTO 00000KT 10SM CLR 16/07 A3006 RMK AO2 USNN 171500Z 10006MPS 8000 -RA BKN006 OVC020 08/07 Q0998 NOSIG RMK QFE744 QBB180 03250350 KGVL 171453Z AUTO 35004KT 10SM CLR 24/17 A2999 RMK AO2 SLP142 T02390172 57007 UTFF 171500Z 00000MPS 9999 NSC 25/07 Q1007 R18/CLRD70 KHND 171456Z 00000KT 10SM CLR 26/14 A2993 RMK AO2 53010 T02610138 SLP109 KHMN 171458Z 33002KT 10SM FEW010 BKN030 19/18 A3010 RMK AO2A DZE1408 SLP138 P0000 60002 T01870181 50002 $ KHLX 171515Z AUTO 10003KT 10SM OVC015 16/12 A3008 RMK AO2 T01610121 KGUY 171453Z AUTO 24017KT 10SM CLR 23/16 A2998 RMK AO2 SLP112 T02330161 50002 KIDP 171515Z AUTO 23011G14KT 10SM CLR 26/21 A2992 RMK AO2 WBGB 171500Z 03003KT 8000 FEW016 BKN150 27/26 Q1010 KIFA 171515Z AUTO 13006KT 10SM CLR 17/11 A2999 RMK AO2 T01740110 KGXA 171455Z AUTO 08002KT 10SM CLR 26/09 A2992 RMK AO2 SLP078 T02550091 53007 TSNO $ KHOB 171450Z 13003KT 8SM FEW007 SCT043 BKN110 19/19 A3012 KGVT 171515Z AUTO 21003KT 10SM CLR 27/21 A2998 RMK AO2 URWW 171500Z 11003MPS CAVOK 12/01 Q1023 NOSIG RMK SC070 EKRK 171520Z AUTO 12010KT 9999NDV NCD 18/13 Q1020 EKSB 171350Z 09015KT CAVOK 20/13 Q1018 WAOO 171200Z 14003KT 7000 SCT018 29/24 Q1009 NOSIG WBGG 171500Z 21002KT 6000 SCT020 BKN300 27/26 Q1010 NOSIG KIEN 171452Z AUTO 26004KT 10SM CLR 16/11 A2998 RMK AO2 SLP135 T01610111 53008 KHOE 171515Z AUTO 03003KT 10SM CLR 28/24 A2995 RMK AO2 EKRN 171520Z AUTO 08015KT 9999NDV NCD 18/12 Q1020 KGWO 171453Z AUTO 06005KT 10SM CLR 26/19 A2999 RMK AO2 SLP154 T02560189 50001 TSNO KGVX 171515Z AUTO 24006KT 10SM FEW036 FEW043 FEW120 29/25 A2998 RMK A01 KGXF 171455Z 08004KT 10SM FEW120 BKN160 BKN230 27/21 A2981 RMK SLP079 60001 53004 KGWR 171515Z AUTO 01010KT 10SM CLR 16/10 A2998 RMK A01 P000 KIER 171515Z AUTO 00000KT 10SM CLR 27/23 A2999 RMK AO2 T02670229 KHNR 171515Z AUTO 15003KT 10SM CLR 19/15 A2998 RMK AO2 DTTA 171500Z 11006KT 070V140 9999 FEW026 30/22 Q1011 NOSIG KGYB 171515Z AUTO 17003KT 10SM BKN011 OVC016 26/23 A3002 RMK AO2 T02590232 FDBB 171300Z AUTO /////KT //// // ////// ///// Q1007 FBSK 171500Z 36006KT 300V030 CAVOK 34/M01 Q1012 NOSIG DTTB 171500Z /////KT 9999 FEW020 Q//// DTTD 171500Z 32008KT 270V350 CAVOK 42/02 Q1011 RMK SIROCCO WAPP 171500Z 00000KT 9999 SCT019 25/23 Q1013 USPP 171500Z 33004MPS 9999 SCT023 BKN080 03/01 Q1015 03290250 NOSIG RMK QFE750/1001 KGWW 171455Z AUTO 02008KT 10SM SCT017 BKN043 23/19 A2998 RMK AO2 T02310193 KHON 171455Z AUTO 02003KT 10SM CLR 14/11 A2994 RMK AO2 SLP137 T01440111 52010 EKSN 171350Z 09008KT 9999 SCT014 14/M11 Q1023 EKTE 171520Z AUTO 10021KT 9999NDV 17/15 Q1018 WBGR 171500Z 12001KT 9999 FEW014 SCT150 BKN300 27/26 Q1010 DTTF 171500Z 21010KT 170V250 9999 FEW030 40/09 Q1008 NOSIG KIFP 171515Z AUTO 00000KT 10SM CLR 28/20 A2983 RMK AO2 PWINO KHOP 171520Z AUTO 14002KT 10SM OVC004 15/15 A3005 RMK AO2 CIG 002V004 WBGS 171500Z 08002KT 9999 SCT018 BKN150 26/24 Q1010 DTTG 171500Z 08011KT 8000 NSC 34/18 Q1011 NOSIG FBSP 171500Z 06007KT CAVOK 35/09 Q1013 EKSP 171520Z 10010KT CAVOK 20/12 Q1018 NOSIG RMK BKN200 KGYH 171447Z 09005KT 10SM OVC009 21/21 A2999 KHNZ 171455Z AUTO 08009G14KT 10SM OVC036 21/15 A3002 RMK AO2 T02110148 KGYI 171515Z AUTO 22006KT 10SM CLR 28/22 A3000 RMK AO2 T02750216 DTTJ 171500Z 09013KT 8000 FEW030 32/24 Q1010 NOSIG KHOT 171453Z AUTO 15003KT 9SM OVC008 21/18 A3002 RMK AO2 SLP161 T02060178 50004 KHOU 171453Z 26003KT 10SM FEW020 BKN140 BKN250 28/25 A2996 RMK AO2 SLP151 60000 T02830250 53007 KGYL 171513Z AUTO 22003KT 10SM CLR 17/10 A2995 RMK AO2 T01720101 DTTK 171500Z VRB02KT 9999 SCT023 35/19 Q1011 DTTL 171500Z VRB04KT 9999 BKN020 28/24 Q1012 KIGM 171451Z AUTO 00000KT 10SM CLR 22/15 A2999 RMK AO2 SLP094 T02170150 51009 WBGY 171500Z 00000KT 6000 FEW022 BKN300 25/24 Q1010 KHPN 171456Z VRB03KT 10SM SCT040 19/07 A3005 RMK AO2 SLP175 T01890067 50001 DTTN 171500Z 06009KT 9999 SCT020 FEW026CB 37/19 Q1009 CB KGXY 171515Z AUTO 00000KT 10SM CLR 15/07 A3008 RMK AO1 KGZH 171453Z AUTO 06004KT 10SM CLR 28/22 A2997 RMK AO2 SLP146 T02830222 50003 KIGQ 171515Z AUTO 00000KT 10SM CLR 16/09 A3004 RMK AO2 T01640092 KGYR 171447Z 10006KT 10SM FEW080 BKN120 OVC180 27/21 A2982 KHQI 171515Z AUTO 22008KT M1/4SM FZFG A2999 RMK A01 DTTR 171500Z 22008KT CAVOK 42/M01 Q1012 RMK SIROCCO KIIB 171455Z AUTO 15005KT 10SM SCT100 17/10 A3000 RMK AO2 KGZL 171455Z AUTO 11006KT 7SM FEW006 23/20 A3000 RMK AO2 KHQM 171453Z AUTO 00000KT 3SM BR BKN110 14/13 A2978 RMK AO2 SLP086 T01390133 55005 EKVD 171350Z 06011KT 9999 FEW020 BKN240 18/// Q1019 WARQ 171200Z 20006KT 6000 NLC 27/21 Q1011 NSG KIGX 171506Z AUTO 05007G14KT 10SM BKN021 BKN085 22/17 A3001 RMK AO2 T02220167 TSNO WARR 171000Z 11013KT 9999 FEW020 28/21 Q1010 NSW USRR 171500Z 07005G08MPS 3100 -DZ BR OVC003 06/06 Q0996 TEMPO 2000 RA BR BKN002 RMK QBB100 OBST OBSC QFE742 07////50 DTTX 171500Z 08009KT 9999 FEW020 30/23 Q1011 NOSIG KGYY 171445Z 00000KT 10SM FEW250 16/09 A3005 WARS 171500Z 09006KT 7000 FEW022 28/22 Q1012 NOSIG EKVG 171520Z AUTO 11009KT 9999NDV BKN011/// 12/11 Q1018 RMK OVC007/// WIND 850FT 13009KT DTTZ 171500Z 26010KT 220V290 CAVOK 43/05 Q1009 NOSIG KHRI 171453Z AUTO 16004KT 10SM CLR 17/04 A2974 RMK AO2 SLP067 T01720044 55002 KHSA 171450Z 00000KT 7SM FEW008 SCT050 26/22 A2999 KHRJ 171515Z AUTO 05006KT 10SM OVC025 25/18 A2998 RMK AO2 T02460175 EKVJ 171350Z 09012KT CAVOK 20/17 Q1020 KHSB 171455Z AUTO 00000KT 7SM SCT005 14/14 A3007 RMK AO2 T01350135 KHRL 171452Z 17008KT 10SM CLR 28/26 A2995 RMK AO2 SLP141 T02830256 53010 KJAC 171455Z VRB03KT 10SM BKN120 07/06 A3020 KHQU 171515Z AUTO 00000KT 10SM BKN008 25/23 A3000 RMK AO1 T02450233 KIJD 171452Z AUTO 33006KT 10SM CLR 19/07 A3004 RMK AO2 SLP171 T01890067 58003 KHSE 171451Z AUTO 08008G18KT 10SM FEW060 BKN100 22/21 A2996 RMK AO2 SLP145 T02220206 53011 TSNO KHRO 171501Z AUTO 16007KT 7SM SCT004 BKN070 19/19 A3001 RMK AO2 LTG DSNT N T01940194 ELLX 171520Z VRB03KT 9999 FEW038 24/15 Q1011 NOSIG USSS 171500Z 30005MPS 9999 FEW020CB BKN067 02/02 Q1009 7629//40 2629//50 NOSIG RMK QFE736 KHQZ 171450Z 14003KT 10SM CLR 26/22 A2998 WBKK 171500Z 12005KT 9999 FEW014 SCT140 BKN270 27/24 Q1010 NOSIG KHSI 171453Z AUTO 05005KT 10SM CLR 17/12 A2993 RMK AO2 SLP128 T01670117 50000 WBKL 171500Z 04003KT 9999 FEW012 SCT140 BKN290 29/26 Q1010 KL18 171455Z AUTO 01004KT 10SM CLR 28/19 A2977 RMK AO2 KHRT 171458Z 05004KT 10SM FEW020 28/21 A2996 RMK AO2A SLP147 T02750213 53001 $ UUBP 171400Z 01002G05MPS 330V110 CAVOK 16/01 Q1027 NOSIG RMK QFE752 KJAN 171454Z 07005KT 10SM CLR 27/21 A2999 RMK AO2 SLP151 T02720211 53005 KHRX 171455Z AUTO 23007KT 10SM CLR 21/19 A3011 RMK AO2 T02100187 USTR 171500Z 28005G08MPS 9999 OVC026CB 04/02 Q1002 NOSIG RMK QFE742/0990 30290060 03////99 KIIY 171515Z AUTO 00000KT 10SM SCT011 26/25 A2996 RMK AO2 KHSP 171515Z AUTO 13005KT 10SM BKN025 12/02 A3013 RMK AO2 T01240021 WBKS 171500Z 00000KT 9999 FEW016 BKN290 27/25 Q1011 WATT 171500Z 10004KT 8000 FEW020 23/21 Q1014 NOSIG WBKT 171500Z 11005KT 060V170 9999 FEW015 SCT140 BKN270 28/26 Q1011 KHUA 171455Z 00000KT 7SM FEW032 22/14 A3002 KJAS 171515Z AUTO 00000KT 10SM OVC004 23/22 A3002 RMK AO2 T02310224 UUDD 171500Z 03005MPS CAVOK 11/02 Q1027 NOSIG KIKK 171515Z AUTO 00000KT 10SM CLR 15/12 A3005 RMK AO2 T01510115 KHST 171458Z AUTO VRB05KT 10SM FEW029 29/22 A2999 RMK AO2 SLP159 T02940224 UUBW 171500Z 35006MPS CAVOK 11/01 Q1028 NOSIG WBKW 171500Z 34001KT 9999 FEW017 BKN300 25/24 Q1011 KHTL 171453Z AUTO 26004KT 10SM CLR 14/09 A3000 RMK AO2 SLP163 T01440094 58003 $ KHSV 171453Z 34006KT 10SM FEW030 24/14 A3001 RMK AO2 SLP153 T02390139 58003 KILE 171515Z AUTO 00000KT 10SM FEW012 OVC020 26/21 A3000 RMK AO1 KHTO 171458Z 35007KT 10SM SKC 19/09 A3006 KHUF 171453Z 10SM CLR 16/11 A3005 RMK AO2 SLP176 T01560111 58012 KJAX 171456Z 35006KT 10SM FEW015 SCT130 BKN250 27/23 A2993 RMK AO2 SLP136 T02720233 50000 KIJX 171515Z AUTO 18004KT 10SM SCT080 SCT100 17/13 A3005 RMK AO2 T01700125 KILG 171451Z 11004KT 10SM CLR 21/09 A3007 RMK AO2 SLP181 T02060089 50001 KL35 171455Z AUTO 00000KT 10SM CLR 11/10 A3018 RMK AO2 KJBR 171453Z AUTO 08004KT 10SM OVC026 18/14 A3004 RMK AO2 SLP170 T01830144 51005 UUDL 171500Z 00000MPS 9999 OVC047 09/01 Q1027 NOSIG RMK QFE762 23000060 KHTS 171451Z 00000KT 10SM FEW015 16/12 A3004 RMK AO2 SLP169 T01560122 58007 KL38 171515Z AUTO 07003KT 10SM OVC008 25/24 A2999 RMK AO2 T02510244 KIKT 171515Z AUTO VRB03KT 10SM CLR 32/23 A2997 RMK A01 UUEE 171500Z 36004MPS CAVOK 10/03 Q1028 NOSIG KHUL 171453Z AUTO VRB06KT 10SM CLR 16/08 A2993 RMK AO2 SLP136 T01560078 50003 KILM 171453Z AUTO 03004KT 10SM FEW008 24/21 A2994 RMK AO2 SLP137 T02440206 50001 KHUM 171447Z 34003KT 7SM FEW030 28/22 A2999 RMK ATIS Y VA/36 MS KIKV 171515Z AUTO 14004KT 10SM OVC060 16/13 A2997 RMK AO2 KJDD 171455Z AUTO 17003KT 5SM HZ CLR 26/23 A2999 RMK AO2 KIKW 171513Z AUTO 22007KT 10SM CLR 17/10 A3001 RMK AO2 T01650102 KILN 171454Z AUTO 02004KT 10SM OVC034 14/09 A3007 RMK AO2 SLP186 T01390094 56005 KHVE 171515Z AUTO 00000KT 10SM CLR 20/05 A3008 RMK AO2 FCPP 171500Z 21009KT 160V240 9999 SCT013 OVC026 26/21 Q1011 NOSIG OYAA 171500Z 25010KT 7000 FEWCB018 SCT100 34/20 Q1002 KHUT 171452Z 22008KT 9SM CLR 24/19 A2990 RMK AO2 SLP106 T02440189 50001 KJCT 171451Z AUTO 00000KT 10SM CLR 25/21 A3003 RMK AO2 SLP130 T02500211 51009 UTNN 171500Z 31003MPS 3700 HZ NSC 20/07 Q1009 R33/CLRD60 NOSIG KIML 171453Z AUTO 00000KT 10SM CLR 18/12 A2997 RMK AO2 SLP133 T01780122 50003 EKYT 171520Z 09008KT 060V120 9999 BKN014 15/12 Q1022 KIMM 171515Z AUTO 00000KT 6SM CLR 30/25 A3000 RMK A01 P000 KHWD 171454Z 27004KT 10SM OVC012 19/16 A2982 RMK AO2 SLP107 T01890156 53006 KIND 171454Z 00000KT 10SM FEW018 FEW070 SCT250 15/10 A3005 RMK AO2 SLP175 T01500100 58007 KHVN 171453Z 03006KT 10SM FEW030 20/07 A3004 RMK AO2 SLP173 T02000067 58003 KJDN 171448Z AUTO 00000KT 13/10 A2990 RMK AO1 SLP122 T01280100 50002 KJEF 171453Z 11006KT 5SM BR BKN007 BKN035 OVC095 16/15 A2996 RMK AO2 RAE28 SLP136 P0010 60022 T01610150 55005 KINF 171515Z AUTO 19004KT 10SM SCT013 SCT019 SCT027 26/16 A2997 RMK AO2 ZYTL 171500Z 30002MPS CAVOK 18/14 Q1019 NOSIG KHVR 171453Z AUTO 00000KT 10SM CLR 14/09 A2988 RMK AO2 SLP115 T01390094 53004 UTNU 171500Z 31008MPS 0900 R31/P2000 DS VV006 24/04 Q1007 R31/CLRD70 TEMPO 30009G14MPS 0800 DS VV003 RMK QBB180 KHVS 171515Z AUTO 07006KT 10SM OVC010 22/17 A2999 RMK AO2 KINJ 171515Z AUTO 23003KT 10SM BKN010 27/22 A2999 RMK AO2 T02660221 KINK 171453Z AUTO 13007KT 10SM CLR 23/19 A3005 RMK AO2 SLP132 T02330194 51006 KIMT 171454Z AUTO 28007KT 10SM FEW110 15/07 A2995 RMK AO2 SLP145 T01500067 58002 TSNO KIOB 171515Z AUTO 10003KT 10SM CLR 16/11 A3006 RMK AO2 KINL 171455Z AUTO 03010KT 10SM OVC010 10/06 A2998 RMK AO2 SLP158 60000 T01000061 53018 KHXD 171450Z 00000KT 10SM SCT016 27/22 A2994 RMK CU ALQDS KHWO 171453Z 26007KT 10SM CLR 29/22 A3000 RMK AO2 SLP157 T02940217 53005 OYAR 171500Z 06004KT 9999 SCT030 23/06 Q//// KJER 171453Z AUTO 05005KT 10SM CLR 18/07 A2995 RMK AO2 SLP108 T01780072 51009 OYAT 171500Z 14012KT 9999 SCT030 32/18 Q1011 KJES 171515Z AUTO 01003KT 10SM CLR 30/24 A2994 RMK AO2 KHYA 171456Z 36006KT 10SM CLR 19/13 A3000 RMK AO2 SLP160 T01940128 55000 KINS 171513Z 12005KT CLR 24/12 A2995 KJFK 171451Z 36006KT 10SM FEW046 SCT250 20/06 A3006 RMK AO2 SLP179 T02000056 58000 $ KINT 171517Z 04007KT 10SM FEW029 BKN070 21/14 A3003 RMK AO2 T02110139 ZYTX 171500Z VRB01MPS CAVOK 12/05 Q1019 NOSIG ENAL 171520Z 01004KT 330V040 9999 SCT004 14/12 Q1023 KHWV 171456Z AUTO VRB04KT 10SM CLR 20/07 A3005 RMK AO2 SLP176 T02000072 58000 TSNO KINW 171456Z AUTO 10007KT 9SM -RA FEW035 OVC050 18/17 A3013 RMK AO2 SLP142 P0009 60013 T01780167 53008 ENAN 171520Z 31007KT 9999 -DZ FEW010 BKN025 08/06 Q1025 NOSIG KJGG 171515Z AUTO 07003KT 10SM SCT070 SCT080 SCT090 24/18 A3003 RMK AO1 KHWY 171515Z AUTO 00000KT 10SM OVC070 21/16 A3005 RMK AO2 T02060159 KHYI 171455Z 12004KT 7SM BKN012 OVC018 26/22 A2999 FDJR 171500Z AUTO 02009KT //// // ////// 26/M02 Q1014 KIPJ 171455Z AUTO 05006KT 10SM OVC010 18/16 A3002 RMK AO2 T01830157 ENAT 171450Z 25007KT 9999 SCT042 BKN051 12/03 Q1020 RMK WIND 700FT 28010KT KIPL 171453Z AUTO 29004KT 10SM CLR 29/19 A2974 RMK AO2 SLP072 T02890194 53008 FDLB 171300Z AUTO 03007KT //// // ////// 37/03 Q//// ENBL 171520Z 25005KT CAVOK 17/06 Q1021 KIOW 171452Z AUTO 14004KT 10SM OVC080 13/12 A3002 RMK AO2 SLP165 T01280117 56002 KHZE 171515Z AUTO 00000KT 10SM CLR 12/06 A2998 RMK AO2 KIPN 171515Z AUTO 30004KT 10SM 28/23 A2999 RMK A01 ENBN 171520Z 36010KT 330V030 CAVOK 14/10 Q1024 KJFX 171515Z AUTO 05004KT 9SM FEW021 26/18 A3001 RMK A02 P-128 ENBO 171520Z 07004KT 9999 BKN030 11/09 Q1025 NOSIG UTSA 171500Z 20004MPS 7000 NSC 28/03 Q1005 R25/CLRD70 NOSIG KJFZ 171515Z AUTO 00000KT 10SM BKN011 OVC015 18/15 A3005 RMK AO2 T01750145 UTSB 171500Z 00000MPS 6000 NSC 28/12 Q1005 R01/CLRD70 NOSIG WBSB 171500Z 03004KT 9999 FEW015 SCT140 BKN300 29/26 Q1011 NOSIG KHYR 171453Z AUTO VRB04KT 10SM CLR 14/09 A2996 RMK AO2 SLP149 T01440089 51001 ENBR 171520Z 34007KT CAVOK 18/08 Q1022 NOSIG RMK WIND 1200FT 30007KT KHYS 171515Z 00000KT 10SM CLR 20/16 A2993 RMK AO1 ENBS 171450Z 24008KT 9999 BKN034 11/M02 Q1018 KIPT 171454Z 00000KT 10SM SCT004 13/09 A3008 RMK AO2 SLP186 T01280089 58003 OYDM 171500Z 31006KT 9999 FEW030 23/07 Q//// KHZL 171455Z AUTO 33004KT 10SM CLR 16/06 A3011 RMK AO2 KHYW 171515Z AUTO 03007KT 7SM CLR 25/19 A2995 RMK AO2 ENBV 171120Z 24010KT CAVOK 13/00 Q1018 ENCN 171520Z 08008KT 9999 FEW027 16/10 Q1023 KHYX 171514Z AUTO 25006KT 10SM CLR 16/09 A3002 RMK AO2 UTSK 171430Z 00000MPS CAVOK 29/10 Q1005 R16/CLRD70 KHZR 171515Z AUTO 00000KT 10SM SCT012 25/23 A3000 RMK AO2 T02510228 KIRK 171455Z AUTO 11005KT 6SM BR OVC015 15/13 A3000 RMK AO2 RAB23E51 SLP161 P0000 60000 T01500133 53003 KJHW 171515Z AUTO 00000KT 10SM FEW025 13/09 A3005 RMK AO1 FDND 171400Z AUTO /////KT //// // ////// 36/00 Q//// KHZX 171506Z AUTO 35005KT 10SM CLR 15/10 A2996 RMK AO2 KHZY 171453Z AUTO 22007KT 10SM BKN042 16/09 A3007 RMK AO2 SLP182 T01560094 58004 UTSS 171500Z 00000MPS 9999 NSC 22/13 Q1008 R88/CLRD70 NOSIG UTST 171500Z 28001MPS CAVOK 27/09 Q1003 R88/CLRD70 NOSIG ENDR 171510Z 05015KT 7000 VCFG FEW014 BKN220 14/10 Q1024 KIRS 171515Z AUTO 00000KT 10SM CLR 15/08 A3004 RMK AO2 KJKA 171455Z AUTO 04004KT 10SM CLR 27/23 A2997 RMK AO2 T02670228 FDMS 171500Z 02008KT CAVOK 33/02 Q1011 NOSIG KM19 171456Z AUTO 09005KT 10SM OVC023 18/16 A3004 RMK AO2 51001 T01830155 SLP171 ENFB 171520Z AUTO 16015KT //// NCD ///// Q//// W///S/ ENEK 171450Z 09024KT 9000 OVC006 15/14 Q1017 W16/S4 KISM 171450Z 25008KT 10SM BKN085 25/23 A2997 ENDU 171520Z 23007KT 9999 -RA FEW020 BKN030 11/06 Q1023 NOSIG FDMV 171500Z AUTO 02007KT //// // ////// 34/00 Q1016 KISN 171452Z AUTO 00000KT 7SM CLR 12/06 A2996 RMK AO2 SLP153 T01220061 51007 KISO 171456Z AUTO 03008KT 10SM SCT019 SCT028 BKN050 25/19 A2997 RMK AO2 FEFF 171500Z 00000KT 9999 TS SCT023 FEW040CB BKN300 27/22 Q1010 NOSIG KM25 171515Z AUTO 00000KT 10SM SCT012 16/13 A3006 RMK AO2 KISP 171456Z VRB04KT 10SM FEW050 19/06 A3004 RMK AO2 SLP172 T01940061 50001 LBBG 171500Z 05008MPS 9999 FEW030 SCT040 22/13 Q1015 NOSIG ENFG 171520Z VRB02KT 9999 FEW040 14/05 Q1024 KISQ 171515Z AUTO 26004KT 10SM OVC100 14/08 A2994 RMK AO2 T01350084 KITH 171456Z 00000KT 10SM SCT050 16/07 A3007 RMK AO2 58002 T01610066 SLP184 UTTT 171500Z 00000MPS CAVOK 26/07 Q1005 R08R/CLRD70 NOSIG KJKJ 171515Z AUTO 03003KT 10SM CLR 15/12 A2996 RMK AO2 KM30 171515Z AUTO 10003KT 10SM CLR 17/13 A3005 RMK AO2 T01720133 KJKL 171518Z AUTO 11004KT 10SM BKN010 16/12 A3004 RMK AO2 T01610122 OYHD 171500Z 32015KT 9999 TS FEW020CB SCT060 33/25 1004 ENGC 171450Z 19011KT CAVOK 15/10 Q1022 W12/S3 ENFL 171520Z 30010KT CAVOK 16/12 Q1022 ENEV 171520Z 23008KT 190V270 9999 8000S FEW014 SCT021 BKN042 10/08 Q1025 RMK WIND 1400FT 24016KT KISW 171454Z AUTO VRB04KT 10SM BKN075 OVC090 13/09 A3001 RMK AO2 SLP169 T01280094 58001 FDNY 171300Z AUTO 03007KT //// // ////// 36/00 Q1020 OYHJ 171500Z 27004KT 9999 FEW015 FEW025CB SCT100 21/15 Q//// KITR 171453Z AUTO 29003KT 10SM CLR 23/11 A3002 RMK AO2 SLP119 T02280111 50005 OYIB 171400Z 23004KT 9999 FEW020CB SCT030 20/16 Q1017 KM40 171515Z AUTO 00000KT 8SM CLR 26/17 A3002 RMK AO2 FDOT 171300Z AUTO /////KT //// // ////// 37/M06 Q1011 UUMO 171500Z 01005MPS CAVOK 11/01 Q1028 NOSIG RMK QFE755/1007 SC060 ENHD 171520Z 36008KT CAVOK 18/10 Q1021 ENGM 171520Z 15004KT 120V190 9999 17/06 Q1023 NOSIG KJLN 171453Z 23016G24KT 8SM CLR 25/21 A2994 RMK AO2 SLP128 60000 T02500211 50006 ENHE 171516Z 06008KT 8000 SCT012 12/10 Q1025 W///S3 ENHF 171450Z 27012KT 230V300 9999 -SHRA FEW006 SCT010 BKN013 07/06 Q1019 RMK WIND 1254FT 28025KT FDPP 171500Z AUTO 04009KT //// // ////// 27/02 Q1006 UUOB 171500Z 05004MPS CAVOK 15/01 Q1024 NOSIG RMK SC060 KIWA 171447Z 09003KT 35SM SCT080 BKN110 26/22 A2984 ENHK 171420Z 31013KT 8000 -RA FEW008 BKN030 08/08 Q1021 KIWD 171515Z 26008KT 10SM CLR 14/08 A2992 RMK AO1